Now boarding.
Please wait.

menu

Important!

Any data obtained from this website should not be used in real world navigation/ flight!

Weather Service

METAR Weather Service:

GlobalOne Weather Service with live information directly from Vatsim. To get your latest METAR simply enter the ICAO of your desired destination.


Enter ICAO code to obtain METAR from Vatsim:

ICAO code:



Metar and TAF for
METAR

Please issue an ICAO code.

TAF

AGGH 141115Z 1412/1512 VRB03KT 9999 -SHDZ FEW016 SCT100 PROB40 INTER 1412/1418 5000 TSSH SCT015 FEW015CB BKN026 T 25 23 23 26 Q 1012 1010 1011 1013 AYPY 141602Z 1418/1518 00000KT 9999 SCT035 FM142200 16008KT 9999 FEW020 FM150300 17012KT 9999 SCT025 T 22 23 28 30 Q1011 1012 1014 1013 BGTL 141800Z 1418/1523 28006KT 2400 BR OVC002 QNH2958INS BECMG 1418/1419 28006KT 0800 FG VV001 QNH2959INS TEMPO 1419/1422 6000 BR BECMG 1421/1422 30006KT 6000 BR OVC003 QNH2960INS BECMG 1505/1506 28006KT 1600 BR OVC005 620303 QNH2963INS BECMG 1508/1509 29006KT 0400 FG OVC002 620303 QNH2965INS BECMG 1512/1513 30006KT 9999 NSW SCT005 BKN150 QNH2968INS TX04/1517Z TN01/1505Z LAST NO AMDS AFT 1419 NEXT 1501 BIAR 141937Z 1421/1521 16010KT 9999 -RA BKN030 OVC040 TX12/1421Z TN09/1507Z BECMG 1422/1501 32005KT 7000 RADZ BR BKN015 OVC025 BIEG 141937Z 1421/1521 01007KT 9000 -RADZ FEW018 BKN025 OVC035 TX12/1515Z TN08/1506Z TEMPO 1421/1423 5000 RADZ BKN013 OVC020 TEMPO 1423/1506 0500 DZ FG VV002 BECMG 1505/1508 12010KT 9999 -RA SCT020 OVC030 BIKF 141937Z 1421/1521 12008KT 9999 -RA FEW010 BKN015 OVC025 TX14/1517Z TN09/1506Z TEMPO 1421/1506 4000 DZ BR BKN007 OVC014 BECMG 1506/1509 02010KT NSW FEW020 SCT027 BKN034 BIRK 141937Z 1421/1521 12008KT 9999 -RA FEW018 BKN025 OVC035 TX14/1515Z TN09/1506Z TEMPO 1421/1506 4000 DZ BR BKN012 OVC022 BECMG 1506/1509 02010KT NSW FEW025 BKN040 TEMPO 1512/1518 SHRA BKN020CB BKPR 141730Z 1418/1518 VRB04KT 9999 FEW040 SCT090 TEMPO 1418/1420 4000 SHRA SCT030CB BECMG 1509/1512 01012KT TEMPO 1511/1518 VRB15G25KT 3000 TSRA SCT025CB CBBC 141838Z 1419/1505 VRB03KT P6SM FEW015 TEMPO 1419/1421 BKN015 FM142200 26006KT P6SM FEW020 SCT060 FM150200 VRB03KT P6SM BKN030 OVC060 TEMPO 1502/1505 P6SM -SHRA BKN020 OVC050 RMK FCST BASED ON AUTO OBS. NXT FCST BY 150100Z CWSA 141938Z 1420/1424 16010KT P6SM SCT080 BKN250 RMK FCST BASED ON AUTO OBS. NXT FCST WILL BE ISSUED AT 150745Z CWWU 141800Z 1418/1518 24013G21KT P6SM SKC FM150200 20010KT P6SM BKN010 FM150500 20012G18KT 6SM BR OVC008 TEMPO 1507/1512 2SM BR OVC006 FM151300 17014G20KT P6SM BKN015 RMK FCST BASED ON AUTO OBS. NXT FCST BY 150000Z CYAB 141238Z 1413/1420 VRB03KT 2SM BR SCT004 OVC015 TEMPO 1413/1417 P6SM NSW SCT015 OVC025 FM141700 30008KT P6SM SCT015 BKN030 TEMPO 1417/1420 4SM BR BKN015 OVC030 RMK NXT FCST WILL BE ISSUED AT 151245Z CYAH 141936Z 1419/1421 35005KT 3SM -DZ -RA BR OVC003 TEMPO 1419/1421 6SM BR SCT004 BKN010 OVC025 BECMG 1419/1421 04010G20KT RMK FCST BASED ON AUTO OBS. NXT FCST WILL BE ISSUED AT 151045Z CYAM 141939Z 1420/1508 VRB15G25KT 11/2SM TSRA BR BKN020CB OVC050 TEMPO 1420/1422 P6SM -SHRA BKN050 FM142200 28005KT P6SM SCT050 TEMPO 1422/1424 P6SM -SHRA BKN050 PROB30 1422/1424 VRB15G25KT 11/2SM TSRA BR BKN020CB OVC050 FM150000 30008KT P6SM SCT050 RMK NXT FCST BY 150200Z CYAS 141908Z 1419/1421 FCST CNCLD DUE NO OBS RMK NXT FCST WILL BE ISSUED AT 151345Z CYAT 141438Z 1415/1419 02015G25KT 11/2SM -RA BR BKN005 OVC010 TEMPO 1415/1418 P6SM -RA SCT005 OVC010 FM141800 01012G22KT P6SM OVC020 RMK FCST BASED ON AUTO OBS. NXT FCST WILL BE ISSUED AT 150845Z CYAW 141930Z 1419/1506 14010KT 5SM BR SCT008 BKN015 BKN030 TEMPO 1419/1423 3/4SM -SHRA BR BKN005 OVC012 FM142300 12008KT 3SM BR VCFG SCT005 BKN020 TEMPO 1501/1502 1SM BR VCFG OVC005 FM150200 07008KT 1/4SM -DZ FG VV001 TEMPO 1502/1504 1SM BR OVC005 RMK NXT FCST BY 150000Z CYAY 141938Z 1420/1508 13012KT P6SM BKN030 TEMPO 1420/1424 BKN020 FM150000 13012KT P6SM OVC025 TEMPO 1500/1506 6SM -DZ BR BKN008 OVC015 FM150600 20010KT P6SM FEW030 RMK FCST BASED ON AUTO OBS. NXT FCST BY 150200Z CYAZ 142014Z 1420/1501 20006KT P6SM SCT030 BKN250 TEMPO 1420/1423 5SM FU VV025 FM142300 27008KT P6SM SCT250 RMK NXT FCST WILL BE ISSUED AT 151445Z CYBB 141844Z 1419/1423 12010KT P6SM BKN025 TEMPO 1419/1423 BKN020 RMK NXT FCST WILL BE ISSUED AT 151345Z CYBC 141938Z 1420/1508 24010G20KT P6SM BKN250 RMK FCST BASED ON AUTO OBS. NXT FCST BY 150200Z CYBG 142030Z 1421/1518 25008KT P6SM FEW060 SCT140 BKN200 FM150800 28010KT P6SM BKN040 TEMPO 1508/1514 P6SM -SHRA FM151400 28015KT P6SM SCT030 RMK NXT FCST BY 150000Z CYBK 141842Z 1418/1506 17012KT P6SM SCT008 OVC015 TEMPO 1418/1503 3SM -SHRA BR BKN005 BECMG 1501/1503 26010KT FM150300 26010KT P6SM SCT010 BKN030 TEMPO 1503/1506 P6SM -SHRA BKN010 RMK NXT FCST BY 150000Z CYBL 141838Z 1419/1504 12006KT P6SM FEW100 BKN250 BECMG 1419/1420 04006KT FM150200 31008KT P6SM SCT250 RMK NXT FCST BY 150100Z CYBN 141730Z 1418/1506 33008KT P6SM FEW030 FEW240 BECMG 1423/1501 VRB03KT RMK FCST BASED ON AUTO OBS. NXT FCST BY 150000Z CYBR 141738Z 1418/1506 31006KT P6SM SCT040 TEMPO 1418/1424 BKN040 BECMG 1418/1420 28008KT FM150200 14006KT P6SM FEW030 RMK NXT FCST BY 150000Z CYBW 141738Z 1418/1504 32005KT P6SM SKC TEMPO 1418/1504 5SM FU HZ BECMG 1422/1424 15006KT RMK FCST BASED ON AUTO OBS. NXT FCST BY 150000Z CYBX 142045Z 1420/1508 15010G20KT 3SM BR OVC005 TEMPO 1420/1424 1SM BR OVC003 FM150000 21010KT 3SM BR OVC008 TEMPO 1500/1508 1SM -DZ BR OVC004 PROB30 1500/1508 1/2SM FG VV002 RMK NXT FCST BY 150200Z CYCA 141938Z 1420/1508 ADVISORY OFFSITE 11008KT P6SM SCT020 OVC070 TEMPO 1420/1424 BKN020 FM150000 12010KT P6SM OVC050 TEMPO 1500/1503 6SM -SHRA BKN020 OVC040 FM150400 14012KT P6SM SCT025 BECMG 1504/1506 18012KT RMK NXT FCST BY 150200Z CYCB 141838Z 1419/1507 08015KT 2SM -RA BR OVC005 TEMPO 1419/1422 6SM -RA BR SCT005 OVC015 BECMG 1420/1422 32010KT FM142200 34010KT P6SM SCT012 BKN030 TEMPO 1422/1507 6SM -RA BR BKN012 BECMG 1422/1424 31018G28KT RMK NXT FCST BY 150100Z CYCD 141738Z 1418/1504 VRB03KT 5SM FU SKC TEMPO 1418/1504 6SM FU BECMG 1418/1420 02008KT RMK NXT FCST BY 150000Z CYCG 141838Z 1419/1504 VRB03KT 4SM FU SCT060 TEMPO 1419/1504 6SM FU RMK NXT FCST BY 150100Z CYCO 141838Z 1419/1507 32015G25KT P6SM SCT015 BKN025 TEMPO 1419/1507 5SM -RA BR BKN015 OVC025 BECMG 1501/1503 33012KT RMK NXT FCST BY 150100Z CYCX 141909Z 1419/1506 VRB03KT P6SM BKN030 TEMPO 1419/1421 P6SM -SHRA BKN015 OVC030 FM142100 19008KT P6SM FEW012 BKN030 TEMPO 1421/1505 BKN012 OVC030 FM150500 20005KT P6SM SCT008 BKN012 RMK NXT FCST BY 150000Z CYCY 141844Z 1419/1507 35010KT P6SM FEW009 OVC025 TEMPO 1419/1424 4SM -DZ BR OVC020 FM150000 35006KT P6SM FEW009 OVC025 TEMPO 1500/1507 3SM -RA BR OVC008 RMK FCST BASED ON AUTO OBS. NXT FCST BY 150100Z CYDA 141738Z 1418/1503 22007KT P6SM SCT030 BKN080 TEMPO 1418/1420 P6SM -SHRA FEW008 BKN030 FM142000 22007KT P6SM SCT030 BKN080 TEMPO 1420/1503 P6SM -SHRA BKN030CB RMK NXT FCST BY 150000Z CYDB 141738Z 1418/1506 12010KT P6SM SCT050 FM150100 32008KT P6SM SCT040 BKN080 TEMPO 1501/1506 P6SM -SHRA BKN040 RMK NXT FCST BY 150000Z CYDF 141938Z 1420/1508 22012G22KT P6SM SCT040 BKN210 BECMG 1422/1424 22008KT FM150300 20006KT P6SM SCT110 RMK NXT FCST BY 150200Z CYDL 141856Z 1418/1502 24010G20KT P6SM SCT030 BKN080 TEMPO 1418/1502 4SM FU HZ BKN030 RMK FCST BASED ON AUTO OBS. NXT FCST BY 150000Z CYDN 141738Z 1418/1506 VRB03KT P6SM BKN030 BECMG 1418/1420 28008KT BECMG 1422/1424 SCT030 FM150200 VRB03KT P6SM FEW030 BECMG 1504/1506 21008KT RMK FCST BASED ON AUTO OBS. NXT FCST BY 150000Z CYDP 141938Z 1420/1423 32015KT P6SM SCT120 BKN240 RMK NXT FCST WILL BE ISSUED AT 150945Z CYDQ 141838Z 1419/1505 26020G30KT P6SM FEW140 TEMPO 1419/1505 4SM FU HZ BECMG 1502/1504 26012G22KT RMK FCST BASED ON AUTO OBS. NXT FCST BY 150100Z CYED 141730Z 1418/1506 FCST NOT AVBL DUE NO OBS RMK FCST BASED ON AUTO OBS. NXT FCST BY 150000Z CYEG 142038Z 1421/1518 28010G20KT 6SM FU FEW180 BKN240 TEMPO 1421/1501 3SM FU HZ FM150100 26008KT P6SM SCT260 TEMPO 1501/1508 4SM FU HZ BECMG 1502/1504 16005KT FM150800 11005KT P6SM SKC TEMPO 1509/1518 5SM FU RMK NXT FCST BY 150000Z CYEK 141738Z 1418/1506 20016KT P6SM FEW080 TEMPO 1420/1506 P6SM -SHRA BKN020 OVC040 RMK NXT FCST BY 150000Z CYEN 141738Z 1418/1424 VRB03KT P6SM FEW040 BECMG 1418/1420 24006KT RMK NXT FCST WILL BE ISSUED AT 151145Z CYER 141438Z 1415/1419 FCST NOT AVBL DUE NO OBS RMK FCST BASED ON AUTO OBS. NXT FCST WILL BE ISSUED AT 150845Z CYEU 141738Z 1418/1502 ADVISORY OFFSITE 26008KT P6SM SCT060 TEMPO 1418/1502 BKN060 RMK NXT FCST BY 150000Z CYEV 141838Z 1419/1507 32010KT P6SM BKN025 TEMPO 1419/1507 P6SM -SHRA BKN020 RMK NXT FCST BY 150100Z CYFB 141738Z 1418/1518 VRB03KT P6SM -RA SCT020 OVC040 TEMPO 1418/1421 4SM -RA BR OVC015 BECMG 1419/1421 14008KT FM142100 14008KT 3SM -RA BR OVC006 TEMPO 1421/1506 P6SM -RA SCT006 OVC012 PROB30 1500/1506 1SM BR FM150600 VRB03KT 2SM -RA BR OVC004 RMK NXT FCST BY 150000Z CYFC 141738Z 1418/1506 17005KT P6SM BKN040 TEMPO 1418/1506 P6SM -SHRA BKN020 PROB30 1505/1506 1SM BR BKN004 RMK FCST BASED ON AUTO OBS. NXT FCST BY 150000Z CYFS 141738Z 1418/1506 VRB03KT P6SM FEW050 BKN090 FM142100 32010KT P6SM -SHRA SCT020 BKN050 TEMPO 1421/1506 4SM -RA BR BKN020 OVC050 RMK NXT FCST BY 150000Z CYGH 141738Z 1418/1423 02005KT 6SM -RA BR OVC008 TEMPO 1418/1423 P6SM NSW OVC012 RMK NXT FCST WILL BE ISSUED AT 151415Z CYGK 141942Z 1420/1503 35010KT P6SM SCT030 BKN070 OVC120 TEMPO 1420/1423 5SM -SHRA BR BKN020 OVC080 PROB30 1420/1423 2SM TSRA BR BKN008 OVC020CB FM142300 VRB03KT P6SM SCT060 OVC140 RMK NXT FCST WILL BE ISSUED AT 151145Z CYGL 141738Z 1418/1518 03012KT 2SM -DZ BR OVC005 TEMPO 1418/1421 P6SM NSW OVC010 FM142100 01012G22KT P6SM OVC020 TEMPO 1421/1424 OVC050 FM150000 35010KT P6SM BKN070 FM150300 35006KT P6SM SKC BECMG 1510/1512 02006KT BECMG 1516/1518 08006KT RMK NXT FCST BY 150000Z CYGP 141938Z 1420/1508 18010G20KT P6SM BKN250 FM150300 25005KT P6SM SCT040 SCT150 BKN250 RMK NXT FCST BY 150200Z CYGQ 141938Z 1420/1508 35008KT P6SM BKN030 TEMPO 1420/1503 BKN020 FM150300 04005KT P6SM SCT020 RMK NXT FCST BY 150200Z CYGR 141938Z 1420/1502 21012G22KT P6SM SCT100 BKN250 RMK NXT FCST WILL BE ISSUED AT 151045Z CYGT 141844Z 1419/1421 33012KT P6SM SCT030 TEMPO 1419/1421 FEW005 BKN030 RMK NXT FCST WILL BE ISSUED AT 151045Z CYGV 141938Z 1420/1508 22010KT P6SM SKC FM150300 22006KT P6SM SCT060 PROB30 1506/1508 1SM BR RMK FCST BASED ON AUTO OBS. NXT FCST BY 150200Z CYGW 141738Z 1418/1506 01010G20KT P6SM OVC070 FM142000 01012G22KT P6SM BKN100 BKN200 FM142300 36012KT P6SM SKC RMK FCST BASED ON AUTO OBS. NXT FCST BY 150000Z CYGX 141838Z 1419/1507 24012G22KT P6SM SCT080 BKN120 OVC200 FM150200 20008KT P6SM BKN080 RMK NXT FCST BY 150100Z CYHA 141806Z 1418/1421 30012KT P6SM SCT009 OVC020 TEMPO 1418/1421 4SM -DZ BR OVC009 BECMG 1419/1421 32015KT RMK NXT FCST WILL BE ISSUED AT 151345Z CYHD 141938Z 1420/1508 36006KT P6SM SCT020 OVC040 TEMPO 1420/1503 BKN020 OVC040 FM150300 VRB03KT P6SM SCT020 RMK FCST BASED ON AUTO OBS. NXT FCST BY 150200Z CYHI 141838Z 1419/1424 31015KT P6SM BKN015 TEMPO 1419/1424 BKN025 RMK NXT FCST WILL BE ISSUED AT 151545Z CYHK 141738Z 1418/1506 13015KT P6SM FEW020 BKN030 TEMPO 1418/1421 OVC020 BECMG 1418/1420 12020KT FM142100 13022KT P6SM -RA SCT020 OVC040 TEMPO 1421/1506 4SM -SHRA BR SCT008 OVC020 RMK NXT FCST BY 150000Z CYHM 141738Z 1418/1518 24005KT P6SM FEW030 FM150100 27008KT P6SM SKC BECMG 1508/1510 21006KT BECMG 1514/1516 28010KT RMK NXT FCST BY 150000Z CYHU 141738Z 1418/1518 17006KT P6SM FEW030 BKN060 OVC100 TEMPO 1418/1424 P6SM -SHRA BKN030 OVC060 FM150000 22008KT P6SM SCT020 BKN080 TEMPO 1500/1506 P6SM -SHRA BKN020 BKN080 FM150600 24006KT P6SM FEW003 FEW060 PROB30 1506/1513 3/4SM BR BKN003 FM151300 24010KT P6SM BKN080 RMK FCST BASED ON AUTO OBS. NXT FCST BY 150000Z CYHY 141738Z 1418/1506 VRB03KT P6SM SCT150 BKN240 BECMG 1419/1421 25010KT FM142100 25010KT P6SM BKN070 TEMPO 1421/1506 P6SM -SHRA RMK NXT FCST BY 150000Z CYHZ 142039Z 1421/1518 17010KT 2SM -SHRA BR OVC003 TEMPO 1421/1423 6SM BR SCT004 OVC010 FM142300 15008KT 6SM -SHRA BR OVC005 TEMPO 1423/1503 1SM -SHRA BR OVC002 FM150300 15006KT 3/4SM -DZ BR OVC002 FM150800 22007KT 4SM BR OVC004 FM151300 22008KT P6SM BKN012 FM151700 22012KT P6SM SCT020 RMK NXT FCST BY 150000Z CYIK 141338Z 1414/1421 FCST NOT AVBL DUE NO OBS RMK NXT FCST WILL BE ISSUED AT 151345Z CYIO 141844Z 1419/1507 VRB03KT P6SM BKN050 TEMPO 1419/1507 OVC050 RMK NXT FCST BY 150100Z CYIV 142005Z 1420/1507 15005KT P6SM BKN030 TEMPO 1420/1502 BKN020 FM150200 18008KT P6SM BKN150 RMK NXT FCST BY 150100Z CYJT 141738Z 1418/1518 26015KT P6SM FEW025 BECMG 1422/1424 23010KT FM150300 16012KT P6SM BKN120 FM150900 17010KT P6SM SCT040 BKN100 FM151300 17012KT P6SM -SHRA SCT015 OVC040 FM151500 19012KT 6SM -SHRA BR BKN015 OVC030 RMK NXT FCST BY 150000Z CYKA 141838Z 1419/1507 VRB03KT 4SM FU SKC TEMPO 1419/1507 6SM FU RMK NXT FCST BY 150100Z CYKF 141938Z 1420/1508 27010KT P6SM SCT060 BECMG 1504/1506 23006KT RMK FCST BASED ON AUTO OBS. NXT FCST BY 150200Z CYKG 141908Z 1419/1421 30015G25KT P6SM SCT020 OVC030 TEMPO 1419/1421 4SM -DZ BR OVC020 RMK NXT FCST WILL BE ISSUED AT 151345Z CYKJ 141841Z 1419/1424 22015G25KT P6SM BKN120 FM142200 24015G25KT P6SM FEW070 RMK FCST BASED ON AUTO OBS. NXT FCST WILL BE ISSUED AT 150945Z CYKL 141938Z 1420/1508 VRB03KT P6SM -SHRA SCT015 OVC030 TEMPO 1420/1422 2SM -SHRA BR OVC015 FM142200 10010KT 2SM -SHRA BR OVC008 TEMPO 1422/1503 6SM -SHRA BR OVC020 PROB30 1422/1503 2SM TSRA BR BKN020CB FM150300 13006KT 3SM BR BKN005 OVC010 TEMPO 1503/1508 P6SM NSW OVC015 BECMG 1504/1506 02012KT RMK FCST BASED ON AUTO OBS. NXT FCST BY 150200Z CYKQ 141948Z 1419/1421 29015G25KT 5SM -RA -DZ BR OVC009 TEMPO 1419/1421 P6SM NSW OVC015 RMK NXT FCST WILL BE ISSUED AT 151445Z CYKZ 141738Z 1418/1506 32006KT P6SM FEW050 BKN240 RMK NXT FCST BY 150000Z CYLD 141938Z 1420/1501 24010G20KT P6SM BKN040 TEMPO 1420/1501 P6SM -SHRA PROB30 1421/1424 VRB15G25KT 2SM TSRA BR BKN040CB RMK NXT FCST WILL BE ISSUED AT 151145Z CYLK 141838Z 1419/1424 28005KT P6SM FEW020 SCT100 RMK NXT FCST WILL BE ISSUED AT 151545Z CYLL 141738Z 1418/1506 22015KT P6SM BKN260 FM142100 26015G25KT P6SM SCT250 BECMG 1501/1503 27010KT RMK NXT FCST BY 150000Z CYLT 142011Z 1418/1506 FCST CNCLD DUE END OF FLYING PROGRAM RMK NXT FCST WILL BE ISSUED AT 151015Z CYLW 141838Z 1419/1507 33008KT 3SM FU HZ SKC TEMPO 1419/1507 6SM FU RMK FCST BASED ON AUTO OBS. NXT FCST BY 150100Z CYMA 141738Z 1418/1506 VRB03KT P6SM SCT030 BKN080 TEMPO 1418/1420 P6SM -SHRA FEW004 BKN030 FM142000 25010G20KT P6SM SCT050 BKN080 TEMPO 1420/1506 P6SM -SHRA BKN050CB RMK NXT FCST BY 150000Z CYMH 141938Z 1420/1503 16008KT P6SM OVC050 FM150000 16010G20KT P6SM BKN025 TEMPO 1500/1503 BKN020 RMK FCST BASED ON AUTO OBS. NXT FCST WILL BE ISSUED AT 150845Z CYMJ 141730Z 1418/1506 22008KT P6SM FEW300 FM150100 19008KT P6SM SCT200 RMK NXT FCST BY 150000Z CYMM 141841Z 1419/1507 25008KT P6SM SKC TEMPO 1419/1422 5SM FU HZ FM142200 25010G20KT 6SM FU HZ SCT250 TEMPO 1422/1504 4SM FU HZ FM150400 25010KT P6SM FEW080 TEMPO 1504/1507 5SM FU RMK FCST BASED ON AUTO OBS. NXT FCST BY 150100Z CYMO 141738Z 1418/1506 29012G22KT P6SM BKN050 TEMPO 1418/1502 BKN015 BECMG 1420/1422 34012G22KT FM150200 34008KT P6SM FEW060 RMK FCST BASED ON AUTO OBS. NXT FCST BY 150000Z CYMT 141738Z 1418/1424 22012G22KT P6SM FEW060 FM142200 30008KT P6SM BKN030 TEMPO 1422/1424 4SM -SHRA BR BKN020 RMK FCST BASED ON AUTO OBS. NXT FCST WILL BE ISSUED AT 151145Z CYMX 141738Z 1418/1518 VRB03KT P6SM FEW030 BKN120 TEMPO 1418/1422 P6SM -SHRA BKN030 OVC110 FM142200 VRB03KT P6SM BKN060 TEMPO 1422/1503 P6SM -SHRA FM150300 VRB03KT P6SM FEW015 SCT140 FM150600 VRB03KT 6SM BR FEW004 FEW060 PROB30 1506/1513 1/2SM FG VV002 FM151300 VRB03KT P6SM BKN050 FM151700 28008KT P6SM -SHRA BKN030 OVC080 RMK NXT FCST BY 150000Z CYNA 141938Z 1420/1508 22010KT P6SM SKC FM150600 20012KT P6SM -SHRA BKN040 PROB30 1506/1508 3/4SM BR RMK FCST BASED ON AUTO OBS. NXT FCST BY 150200Z CYND 141848Z 1418/1501 VRB03KT P6SM -SHRA SCT040 BKN140 TEMPO 1419/1421 2SM TSRA BR BKN020 OVC140CB FM142100 VRB03KT P6SM FEW030 BKN180 TEMPO 1421/1422 P6SM -SHRA BKN020 RMK NXT FCST WILL BE ISSUED AT 151245Z CYNE 141838Z 1419/1507 22008KT P6SM FEW030 BKN200 FM142100 20010KT P6SM BKN150 FM150200 20008KT P6SM SCT150 RMK FCST BASED ON AUTO OBS. NXT FCST BY 150100Z CYOA 141838Z 1419/1423 32012KT P6SM OVC012 TEMPO 1419/1423 OVC007 RMK NXT FCST WILL BE ISSUED AT 151245Z CYOC 141738Z 1418/1501 06012G22KT P6SM BKN020 TEMPO 1418/1420 SCT020 FM142000 06010KT P6SM FEW020 RMK NXT FCST WILL BE ISSUED AT 151445Z CYOD 142030Z 1421/1518 24010KT 6SM FU FEW210 TEMPO 1421/1501 5SM FU FM150100 25006KT P6SM FEW120 TEMPO 1501/1515 6SM FU FM151500 25006KT P6SM BKN110 TEMPO 1515/1518 6SM FU RMK NXT FCST BY 150000Z CYOJ 141841Z 1419/1507 25005KT P6SM SCT090 BKN260 TEMPO 1419/1421 5SM FU HZ BECMG 1419/1421 27012G22KT FM142100 27015G25KT 6SM FU HZ FEW140 TEMPO 1421/1507 4SM FU HZ RMK NXT FCST BY 150100Z CYOW 142038Z 1421/1518 VRB03KT P6SM FEW040 BKN140 TEMPO 1421/1422 P6SM -SHRA BKN020 FM150400 20005KT P6SM FEW050 PROB30 1504/1512 1SM BR FM151200 28010KT P6SM BKN060 FM151600 32008KT P6SM -SHRA BKN030 RMK NXT FCST BY 150000Z CYOY 141730Z 1418/1506 16005KT P6SM FEW030 BKN150 OVC240 BECMG 1418/1420 23008KT OVC030 FM142000 23008KT P6SM OVC030 TEMPO 1420/1506 5SM -SHRA BR OVC020 BECMG 1421/1423 VRB03KT RMK FCST BASED ON AUTO OBS 150300-150600Z. NXT FCST BY 150000Z CYPA 141838Z 1419/1507 22012G22KT P6SM FEW180 BKN220 FM150300 23008KT P6SM FEW120 TEMPO 1506/1507 5SM FU RMK NXT FCST BY 150100Z CYPC 141838Z 1419/1423 32012G22KT 2SM -SN BR OVC006 TEMPO 1419/1423 P6SM NSW OVC010 RMK NXT FCST WILL BE ISSUED AT 151445Z CYPE 141841Z 1419/1507 26015G25KT 6SM FU HZ SCT240 TEMPO 1419/1421 4SM FU FM142100 26020G30KT 5SM FU HZ FEW140 SCT250 TEMPO 1421/1504 3SM FU HZ FM150400 26012G22KT P6SM SCT140 TEMPO 1504/1507 5SM FU RMK NXT FCST BY 150100Z CYPG 141730Z 1418/1506 36006KT P6SM BKN030 TEMPO 1418/1419 BKN020 FM150200 36006KT P6SM SCT030 BECMG 1502/1504 17005KT RMK NXT FCST BY 150000Z CYPH 141738Z 1418/1506 35010KT P6SM FEW030 BKN200 FM142200 34015KT P6SM SKC BECMG 1500/1502 31008KT BECMG 1505/1506 23010KT RMK FCST BASED ON AUTO OBS. NXT FCST BY 150000Z CYPL 141938Z 1420/1502 04008KT P6SM BKN030 TEMPO 1420/1502 BKN020 BECMG 1422/1424 07006KT RMK NXT FCST WILL BE ISSUED AT 151245Z CYPQ 141942Z 1420/1502 31008KT P6SM SCT080 BKN200 BECMG 1423/1501 VRB03KT RMK FCST BASED ON AUTO OBS. NXT FCST WILL BE ISSUED AT 150945Z CYPR 141917Z 1419/1507 FCST CNCLD DUE NO OBS RMK FCST BASED ON AUTO OBS. NXT FCST BY 150100Z CYPX 141738Z 1418/1506 FCST NOT AVBL DUE NO OBS RMK FCST BASED ON AUTO OBS. NXT FCST BY 150000Z CYPY 141738Z 1418/1506 27012KT P6SM FEW050 SCT110 RMK FCST BASED ON AUTO OBS. NXT FCST BY 150000Z CYQA 141942Z 1420/1502 27010KT P6SM FEW030 BECMG 1423/1501 VRB03KT RMK FCST BASED ON AUTO OBS. NXT FCST WILL BE ISSUED AT 151145Z CYQB 141738Z 1418/1518 23006KT P6SM SCT025 BKN180 TEMPO 1418/1420 BKN020 FM142000 24008KT P6SM SCT040 BKN120 TEMPO 1420/1506 P6SM -SHRA BKN040 BKN080 PROB30 1420/1423 2SM +TSRA BR BKN040 OVC120CB FM150600 VRB03KT P6SM SCT008 BKN060 BKN100 PROB30 1506/1508 BKN008 OVC060 FM150800 VRB03KT P6SM SCT005 BKN025 PROB30 1508/1513 2SM BR OVC005 FM151300 25008KT P6SM SCT015 BKN090 RMK NXT FCST BY 150000Z CYQD 141838Z 1419/1507 17012G22KT P6SM SCT030 BKN150 FM150200 18010KT P6SM SCT080 RMK FCST BASED ON AUTO OBS. NXT FCST BY 150100Z CYQF 141738Z 1418/1506 25006KT P6SM SCT260 TEMPO 1418/1506 5SM FU BECMG 1422/1424 13005KT RMK NXT FCST BY 150000Z CYQG 141738Z 1418/1518 29010KT P6SM SCT050 FM142300 28008KT P6SM SKC BECMG 1512/1514 24010KT RMK NXT FCST BY 150000Z CYQH 142034Z 1420/1506 26020G30KT P6SM SCT060 BKN090 TEMPO 1420/1503 P6SM -SHRA VCTS BKN060CB BECMG 1503/1505 26012KT RMK NXT FCST BY 150000Z CYQI 141935Z 1419/1506 19008KT 1SM -SHRA BR OVC004 TEMPO 1419/1423 4SM BR OVC010 FM142300 20006KT 1/2SM -DZ FG VV002 RMK NXT FCST BY 150000Z CYQK 141938Z 1420/1508 34008KT P6SM BKN020 TEMPO 1420/1502 BKN030 FM150200 VRB03KT P6SM SCT020 RMK NXT FCST BY 150200Z CYQL 141738Z 1418/1506 26010KT P6SM SKC TEMPO 1418/1422 5SM FU FM142200 VRB03KT P6SM SKC RMK NXT FCST BY 150000Z CYQM 141738Z 1418/1518 19010KT P6SM BKN040 TEMPO 1418/1424 BKN020 FM150000 18010KT 6SM -SHRA BR SCT008 OVC015 FM150300 17006KT 4SM -SHRA BR BKN006 OVC012 FM151300 22010KT P6SM BKN020 FM151600 22012KT P6SM SCT030 RMK NXT FCST BY 150000Z CYQQ 141739Z 1418/1518 36005KT P6SM SCT220 TEMPO 1418/1424 6SM FU BECMG 1504/1506 33006KT RMK NXT FCST BY 150000Z CYQR 141738Z 1418/1518 VRB03KT P6SM FEW270 BECMG 1419/1421 27008KT FM150200 16006KT P6SM SCT200 FM151400 25008KT P6SM SKC BECMG 1516/1518 32010KT RMK NXT FCST BY 150000Z CYQT 141938Z 1420/1508 31006KT P6SM FEW030 SCT120 BECMG 1500/1502 06005KT RMK NXT FCST BY 150200Z CYQU 141841Z 1419/1507 24010G20KT P6SM FEW080 SCT260 TEMPO 1419/1502 4SM FU BECMG 1419/1421 26020G35KT FM150200 26012G22KT P6SM SCT140 TEMPO 1502/1507 5SM FU RMK NXT FCST BY 150100Z CYQV 141738Z 1418/1506 24006KT P6SM SCT030 TEMPO 1418/1424 BKN030 FM150200 20006KT P6SM SKC RMK FCST BASED ON AUTO OBS. NXT FCST BY 150000Z CYQW 141738Z 1418/1506 22015G25KT P6SM SCT200 BECMG 1423/1501 27008KT FM150400 27006KT P6SM SKC TEMPO 1504/1506 5SM FU RMK FCST BASED ON AUTO OBS. NXT FCST BY 150000Z CYQX 141738Z 1418/1518 27012G22KT P6SM FEW050 BECMG 1422/1424 22012KT FM150000 22012KT P6SM SKC FM150900 22012KT P6SM BKN120 BECMG 1510/1512 21015G25KT FM151500 21018G28KT P6SM FEW060 BKN200 RMK NXT FCST BY 150000Z CYQY 141738Z 1418/1506 23012KT P6SM FEW230 RMK NXT FCST BY 150000Z CYQZ 141838Z 1419/1506 15008KT 11/2SM FU HZ BKN040 TEMPO 1419/1506 3SM FU HZ RMK FCST BASED ON AUTO OBS. NXT FCST BY 150100Z CYRA 141838Z 1419/1424 36008KT P6SM SCT020 BKN040 OVC080 TEMPO 1419/1424 P6SM -SHRA BKN020 OVC040 RMK NXT FCST WILL BE ISSUED AT 151545Z CYRB 141803Z 1419/1518 VRB03KT P6SM BKN010 OVC025 TEMPO 1419/1424 3SM BR BKN006 OVC010 BECMG 1422/1424 10015KT FM150000 10015KT P6SM SCT010 SCT025 BECMG 1502/1504 10020KT FM150400 10020KT 3SM BR FEW006 SCT020 FM151200 10030KT P6SM -RA SCT010 BKN060 FM151500 11035KT 3SM -RA BR BKN010 OVC060 RMK NXT FCST BY 150000Z CYRJ 141938Z 1420/1502 24010KT P6SM SCT060 RMK NXT FCST WILL BE ISSUED AT 151145Z CYRL 141938Z 1420/1502 03008KT P6SM BKN020 TEMPO 1420/1502 BKN030 BECMG 1500/1502 VRB03KT RMK NXT FCST WILL BE ISSUED AT 151045Z CYRQ 141942Z 1420/1508 22008KT P6SM SCT050 BKN110 TEMPO 1420/1422 P6SM -SHRA BKN030 BKN080 FM142200 VRB03KT P6SM FEW020 BKN080 TEMPO 1502/1505 BKN020 FM150500 VRB03KT P6SM FEW030 PROB30 1505/1508 1SM BR RMK FCST BASED ON AUTO OBS. NXT FCST BY 150200Z CYRT 141738Z 1418/1506 20010KT P6SM FEW120 SCT200 FM142200 20018KT P6SM -SHRA SCT025 BKN100 TEMPO 1422/1506 BKN020 OVC100 RMK NXT FCST BY 150000Z CYSB 141939Z 1420/1508 23012KT P6SM FEW040 FM142100 22012KT P6SM BKN040 TEMPO 1422/1503 P6SM -SHRA PROB30 1423/1502 VRB15G25KT 11/2SM TSRA BR BKN020CB FM150400 22005KT P6SM SCT040 RMK NXT FCST BY 150200Z CYSC 141738Z 1418/1503 20005KT 3SM SHRA BR OVC015 TEMPO 1418/1419 P6SM -SHRA SCT015 OVC025 FM141900 VRB03KT P6SM SCT020 OVC050 TEMPO 1419/1423 3SM -SHRA BR BKN020 OVC050 PROB30 1419/1423 2SM TSRA BR OVC020CB FM142300 VRB03KT P6SM BKN050 RMK FCST BASED ON AUTO OBS. NXT FCST BY 150000Z CYSF 141738Z 1418/1506 20010G20KT P6SM BKN100 FM142100 22010KT P6SM SCT070 TEMPO 1422/1506 BKN070 BECMG 1422/1424 25008KT RMK FCST BASED ON AUTO OBS. NXT FCST BY 150000Z CYSJ 141738Z 1418/1506 15008KT P6SM -SHRA BKN020 OVC030 TEMPO 1418/1421 P6SM NSW SCT020 OVC030 FM142100 16008KT P6SM OVC010 TEMPO 1421/1424 3SM -SHRA BR OVC004 FM150000 18001KT 1/2SM -DZ FG VV002 RMK NXT FCST BY 150000Z CYSM 141738Z 1418/1506 27008KT P6SM FEW100 FM142200 27008KT P6SM SCT070 RMK NXT FCST BY 150000Z CYSN 141938Z 1420/1501 28008KT P6SM OVC140 FM142100 25010KT P6SM SCT030 RMK NXT FCST WILL BE ISSUED AT 151245Z CYSP 141338Z 1414/1421 VRB03KT 5SM BR SCT003 BECMG 1414/1416 P6SM NSW SKC FM142000 24005KT P6SM SCT120 RMK NXT FCST WILL BE ISSUED AT 151345Z CYSY 141924Z 1419/1423 24012KT 1/2SM -SN FZFG OVC002 TEMPO 1419/1423 2SM -SN BR BKN008 OVC030 BECMG 1420/1422 29012KT RMK NXT FCST WILL BE ISSUED AT 151445Z CYTE 141844Z 1419/1507 29010KT P6SM SCT025 BKN060 TEMPO 1419/1507 5SM -RA BR BKN020 OVC050 RMK NXT FCST BY 150100Z CYTH 141838Z 1419/1507 23012G22KT P6SM SCT080 BKN140 TEMPO 1419/1501 BKN080 FM150100 20008KT P6SM BKN080 RMK NXT FCST BY 150100Z CYTL 141938Z 1420/1508 FCST NOT AVBL DUE SENSORS INOP RMK FCST BASED ON AUTO OBS. NXT FCST BY 150200Z CYTQ 141338Z 1414/1421 27015G25KT P6SM BKN020 BKN060 TEMPO 1414/1417 SCT020 BKN060 FM141700 30012KT P6SM BKN040 TEMPO 1417/1421 BKN020 RMK NXT FCST WILL BE ISSUED AT 151345Z CYTR 141823Z 1418/1518 VRB03KT P6SM FEW040 BKN090 TEMPO 1418/1421 VRB15G25KT 3SM TSRA BR BKN020 OVC030CB BECMG 1418/1420 23008KT FM142100 23008KT P6SM FEW040 BKN090 TEMPO 1421/1423 P6SM -SHRA BKN040 OVC090 BECMG 1423/1501 VRB03KT FM150100 VRB03KT P6SM SKC BECMG 1514/1516 23010KT FM151600 23010KT P6SM FEW040 RMK NXT FCST BY 150000Z CYTS 141939Z 1420/1508 27012KT P6SM BKN040 TEMPO 1420/1424 P6SM -SHRA PROB30 1420/1423 VRB15G25KT 11/2SM TSRA BR BKN020CB FM150600 35008KT P6SM SCT050 RMK NXT FCST BY 150200Z CYTZ 141938Z 1420/1520 21010KT P6SM FEW050 SCT260 FM150100 29005KT P6SM SKC FM151700 28012KT P6SM FEW050 BKN240 RMK FCST BASED ON AUTO OBS. NXT FCST BY 150200Z CYUB 141838Z 1419/1505 30018KT P6SM SCT008 OVC020 TEMPO 1419/1505 5SM -RA BR BKN008 OVC015 BECMG 1501/1503 30015KT RMK NXT FCST BY 150100Z CYUL 142038Z 1421/1518 16006KT P6SM SCT070 BKN200 TEMPO 1421/1424 P6SM -SHRA FEW030 BKN050 OVC100 FM150000 22008KT P6SM SCT020 BKN080 TEMPO 1500/1506 P6SM -SHRA BKN020 BKN080 FM150600 24007KT 6SM BR FEW003 FEW060 PROB30 1506/1513 3/4SM BR BKN003 FM151300 24008KT P6SM BKN060 RMK NXT FCST BY 150000Z CYUT 141844Z 1419/1422 12012KT P6SM FEW020 SCT030 TEMPO 1419/1422 BKN020 RMK NXT FCST WILL BE ISSUED AT 151345Z CYUX 141844Z 1419/1507 02010KT P6SM SCT012 BKN040 TEMPO 1419/1507 BKN012 OVC050 RMK NXT FCST BY 150100Z CYUY 141738Z 1418/1506 24010G20KT P6SM FEW040 FM142000 26010G20KT P6SM BKN050 TEMPO 1421/1502 P6SM -SHRA PROB40 1421/1424 VRB15G25KT 11/2SM TSRA BR BKN020CB FM150200 01008KT P6SM BKN050 RMK NXT FCST BY 150000Z CYVC 141838Z 1419/1507 18012G22KT P6SM BKN090 FM142200 21012G22KT P6SM SCT090 FM150200 22008KT P6SM FEW090 TEMPO 1506/1507 5SM FU RMK NXT FCST BY 150100Z CYVM 141844Z 1419/1507 VRB03KT P6SM FEW009 SCT012 OVC015 TEMPO 1419/1424 4SM -DZ BR SCT006 OVC010 FM150000 VRB03KT P6SM SCT006 BKN010 OVC015 TEMPO 1501/1507 2SM -RA BR OVC006 RMK NXT FCST BY 150100Z CYVO 141738Z 1418/1506 20010KT P6SM SKC BECMG 1419/1421 24010G20KT FM142100 24010G20KT P6SM BKN050 TEMPO 1422/1503 P6SM -SHRA PROB40 1422/1501 VRB15G25KT 11/2SM TSRA BR BKN040CB FM150300 35010KT P6SM BKN050 RMK NXT FCST BY 150000Z CYVP 141738Z 1418/1506 29008KT P6SM BKN030 TEMPO 1418/1506 BKN020 BECMG 1422/1424 34005KT RMK NXT FCST BY 150000Z CYVQ 141738Z 1418/1506 28010G20KT P6SM -SHRA SCT020 BKN060 TEMPO 1418/1503 3SM -SHRA BR BKN020 OVC050 FM150300 29010KT P6SM SCT007 OVC030 TEMPO 1503/1506 2SM -RA BR OVC007 RMK NXT FCST BY 150000Z CYVR 142038Z 1421/1524 28010KT P6SM FEW250 TEMPO 1421/1516 6SM FU BECMG 1508/1510 10005KT FM151600 24008KT P6SM FEW050 RMK NXT FCST BY 150000Z CYVT 141841Z 1419/1504 20010KT P6SM FEW100 SCT220 FM142200 27010KT P6SM FEW080 RMK NXT FCST BY 150100Z CYVV 141938Z 1420/1423 27008KT P6SM FEW050 RMK NXT FCST WILL BE ISSUED AT 151045Z CYWA 141730Z 1418/1506 VRB03KT P6SM FEW040 SCT240 RMK FCST BASED ON AUTO OBS. NXT FCST BY 150000Z CYWE 141838Z 1419/1501 29005KT P6SM OVC025 TEMPO 1419/1501 P6SM -SHRA OVC020 RMK FCST BASED ON AUTO OBS. NXT FCST WILL BE ISSUED AT 151245Z CYWG 141738Z 1418/1518 35008KT P6SM BKN040 FM150200 VRB03KT P6SM SCT030 FM150800 17005KT P6SM FEW030 PROB30 1508/1514 1SM BR FM151400 18012KT P6SM FEW060 RMK NXT FCST BY 150000Z CYWH 141738Z 1418/1504 VRB03KT 4SM FU FEW250 TEMPO 1418/1504 6SM FU BECMG 1418/1420 19005KT RMK NXT FCST BY 150000Z CYWJ 141738Z 1418/1423 34008KT P6SM SCT020 BKN030 TEMPO 1418/1423 P6SM -SHRA BKN020 OVC030 RMK NXT FCST WILL BE ISSUED AT 151415Z CYWK 141938Z 1420/1508 VRB03KT P6SM FEW040 BKN080 BECMG 1420/1422 23015G25KT FM142200 24015G25KT P6SM SCT070 FM150000 23012KT P6SM SCT040 FM150300 26012KT P6SM OVC040 TEMPO 1503/1508 5SM -SHRA BR BKN020 OVC040 PROB30 1503/1508 2SM TSRA BR BKN007 BKN020CB RMK NXT FCST BY 150200Z CYWL 141838Z 1419/1507 12006KT 21/2SM FU BR BKN040 TEMPO 1419/1507 4SM FU RMK NXT FCST BY 150100Z CYXC 141838Z 1419/1507 VRB03KT 4SM FU SCT210 TEMPO 1419/1507 6SM FU RMK NXT FCST BY 150100Z CYXE 141738Z 1418/1518 19012KT P6SM SKC BECMG 1418/1420 21015G25KT FM150200 24012KT P6SM SKC BECMG 1505/1507 24006KT FM150900 24006KT P6SM FEW130 TEMPO 1509/1518 5SM FU RMK NXT FCST BY 150000Z CYXH 142007Z 1420/1506 22010G20KT P6SM SKC TEMPO 1420/1503 5SM FU FM150300 18006KT P6SM SKC RMK NXT FCST BY 150000Z CYXJ 141838Z 1419/1507 23020G30KT P6SM FEW140 TEMPO 1419/1506 4SM FU BECMG 1502/1504 24012KT FM150600 33006KT P6SM BKN080 TEMPO 1506/1507 4SM FU RMK NXT FCST BY 150100Z CYXL 141938Z 1420/1508 VRB03KT P6SM BKN040 TEMPO 1420/1503 BKN020 FM150300 VRB03KT P6SM FEW030 RMK NXT FCST BY 150200Z CYXP 141844Z 1419/1422 26008KT 3SM -RA BR BKN002 OVC012 TEMPO 1419/1422 P6SM -RA SCT002 OVC010 RMK NXT FCST WILL BE ISSUED AT 151245Z CYXR 141738Z 1418/1424 21008KT P6SM SCT050 FM142000 26010G20KT P6SM BKN050 TEMPO 1421/1424 P6SM -SHRA PROB30 1421/1424 VRB15G25KT 2SM TSRA BR BKN020CB RMK FCST BASED ON AUTO OBS. NXT FCST WILL BE ISSUED AT 151145Z CYXS 141838Z 1419/1507 18012KT 11/2SM FU HZ BKN030 TEMPO 1419/1507 3SM FU HZ BECMG 1504/1506 29005KT RMK FCST BASED ON AUTO OBS. NXT FCST BY 150100Z CYXT 141838Z 1419/1507 21012KT P6SM SCT060 BKN140 TEMPO 1419/1422 P6SM -SHRA BKN060 FM142200 21012KT P6SM SCT060 TEMPO 1422/1501 BKN060 RMK NXT FCST BY 150100Z CYXU 141738Z 1418/1518 34006KT P6SM FEW040 SCT260 FM142300 28006KT P6SM SKC BECMG 1515/1517 25010KT RMK NXT FCST BY 150000Z CYXX 141738Z 1418/1518 VRB03KT 5SM FU SKC TEMPO 1418/1504 6SM FU BECMG 1418/1420 24008KT FM150400 VRB03KT 6SM FU SKC TEMPO 1504/1515 5SM FU RMK NXT FCST BY 150000Z CYXY 141738Z 1418/1518 35005KT P6SM SCT060 TEMPO 1418/1421 BKN060 BECMG 1418/1420 21012G22KT FM150400 18012KT P6SM SCT060 FM151200 16007KT P6SM -SHRA BKN060 RMK NXT FCST BY 150000Z CYXZ 141941Z 1420/1424 22008KT P6SM SCT007 TEMPO 1420/1421 BKN007 FM142100 22010KT P6SM FEW015 SCT120 BECMG 1422/1424 VRB03KT RMK NXT FCST WILL BE ISSUED AT 151245Z CYYB 141939Z 1420/1508 24012KT P6SM FEW040 FM142200 22012KT P6SM BKN040 TEMPO 1500/1504 P6SM -SHRA PROB30 1500/1503 VRB15G25KT 11/2SM TSRA BR BKN020CB FM150400 27005KT P6SM SCT040 RMK NXT FCST BY 150200Z CYYC 142038Z 1421/1518 18005KT 6SM FU FEW250 TEMPO 1421/1504 4SM FU BECMG 1422/1424 16008KT FM150400 18008KT 6SM FU SKC BECMG 1510/1512 24005KT FM151300 28006KT P6SM SKC TEMPO 1513/1518 5SM FU RMK NXT FCST BY 150000Z CYYD 141838Z 1419/1506 34008KT P6SM SCT080 BKN180 RMK NXT FCST BY 150100Z CYYE 141838Z 1419/1507 VRB03KT 4SM FU BKN090 TEMPO 1419/1507 6SM FU SCT090 BECMG 1419/1421 29012G22KT RMK NXT FCST BY 150100Z CYYF 141838Z 1419/1507 36010KT 5SM FU SKC TEMPO 1419/1507 6SM FU RMK NXT FCST BY 150100Z CYYG 141738Z 1418/1506 20010G20KT P6SM BKN060 RMK NXT FCST BY 150000Z CYYH 141738Z 1418/1506 12015KT P6SM FEW010 FEW030 TEMPO 1418/1506 BKN020 BECMG 1422/1424 12025KT RMK NXT FCST BY 150000Z CYYJ 141738Z 1418/1518 29005KT 5SM FU OVC230 TEMPO 1418/1506 6SM FU BECMG 1418/1420 09007KT FM150600 VRB03KT P6SM SKC TEMPO 1506/1518 6SM FU RMK NXT FCST BY 150000Z CYYL 141838Z 1419/1507 20012G22KT P6SM OVC100 FM150500 21008KT P6SM SCT090 RMK FCST BASED ON AUTO OBS. NXT FCST BY 150100Z CYYN 141738Z 1418/1506 24008KT P6SM SKC BECMG 1501/1503 20008KT RMK FCST BASED ON AUTO OBS. NXT FCST BY 150000Z CYYQ 141738Z 1418/1518 23012G22KT P6SM BKN250 FM142000 22018G28KT P6SM SCT080 OVC120 FM150100 22018G28KT P6SM SCT060 BKN100 TEMPO 1501/1505 P6SM -SHRA BKN060 OVC120 FM150500 22015G25KT P6SM SCT040 BKN080 TEMPO 1510/1515 P6SM -SHRA RMK NXT FCST BY 150000Z CYYR 141759Z 1418/1518 VRB03KT P6SM SCT010 BKN040 OVC140 TEMPO 1418/1422 P6SM -SHRA BKN010 OVC040 BECMG 1418/1420 06010KT FM142200 06010KT P6SM SCT015 OVC040 TEMPO 1422/1506 OVC015 BECMG 1503/1505 24010KT FM150600 24010KT P6SM FEW015 FM151300 24012KT P6SM SCT015 BKN030 TEMPO 1513/1518 P6SM -SHRA BKN015 OVC030 BECMG 1516/1518 34015G25KT RMK NXT FCST BY 150000Z CYYT 141738Z 1418/1518 27015G25KT P6SM FEW030 BECMG 1423/1501 26015KT FM150500 24015KT P6SM SKC PROB30 1508/1511 1SM BR BKN003 FM151200 23015KT P6SM BKN150 BECMG 1512/1514 24015G25KT RMK NXT FCST BY 150000Z CYYU 141939Z 1420/1508 34008KT P6SM BKN025 TEMPO 1420/1423 P6SM -SHRA BKN020 PROB30 1420/1422 VRB15G25KT 2SM TSRA BR BKN020CB FM150600 02008KT P6SM SCT025 RMK NXT FCST BY 150200Z CYYY 141938Z 1420/1508 26008KT P6SM SCT030 BKN250 RMK NXT FCST BY 150200Z CYYZ 142038Z 1421/1524 29012KT P6SM FEW070 SCT260 FM150100 29008KT P6SM SKC FM151700 28012KT P6SM FEW050 BKN240 RMK NXT FCST BY 150000Z CYZE 141938Z 1420/1422 22010G20KT P6SM FEW060 RMK FCST BASED ON AUTO OBS. NXT FCST WILL BE ISSUED AT 150945Z CYZF 141738Z 1418/1518 VRB03KT P6SM FEW030 SCT180 BKN240 FM142100 17008KT P6SM SCT050 BKN090 TEMPO 1421/1503 P6SM -SHRA BKN050 BECMG 1501/1503 14008KT FM150300 14008KT P6SM -RA SCT020 BKN040 TEMPO 1503/1509 4SM -TSRA BR SCT006 BKN020 OVC040CB BECMG 1507/1509 36020G30KT FM150900 36020G30KT P6SM SCT015 BKN025 TEMPO 1509/1512 6SM -SHRA BKN012 FM151500 36012G22KT P6SM FEW020 FEW040 SCT080 RMK NXT FCST BY 150000Z CYZG 141338Z 1414/1421 29012KT 3SM -DZ BR OVC003 TEMPO 1414/1417 P6SM NSW SCT003 OVC010 FM141700 30012KT P6SM SCT006 OVC015 TEMPO 1417/1420 4SM -DZ BR OVC006 FM142000 32012KT P6SM SCT020 TEMPO 1420/1421 BKN020 RMK NXT FCST WILL BE ISSUED AT 151345Z CYZH 141841Z 1419/1507 27015G25KT 6SM FU HZ SKC TEMPO 1419/1421 3SM FU HZ FM150400 27010KT P6SM SKC TEMPO 1504/1507 5SM FU HZ RMK FCST BASED ON AUTO OBS. NXT FCST BY 150100Z CYZP 141838Z 1419/1507 24010KT P6SM -RA SCT012 OVC025 TEMPO 1419/1423 3SM -RA BR SCT008 OVC012 BECMG 1421/1423 34008KT FM142300 34008KT P6SM SCT020 BKN030 TEMPO 1423/1507 BKN020 RMK FCST BASED ON AUTO OBS. NXT FCST BY 150100Z CYZR 141938Z 1420/1502 33007KT P6SM SCT050 RMK FCST BASED ON AUTO OBS. NXT FCST WILL BE ISSUED AT 150745Z CYZS 141844Z 1419/1507 18005KT P6SM FEW015 BKN030 OVC070 TEMPO 1419/1424 5SM -RA BR BKN010 BECMG 1419/1421 16010KT FM150000 16012KT 3SM -RA BR BKN005 OVC012 TEMPO 1500/1507 P6SM -RA SCT007 OVC012 RMK NXT FCST BY 150100Z CYZT 142009Z 1420/1507 06006KT P6SM FEW008 SCT015 TEMPO 1420/1422 5SM BR SCT007 BKN012 FM142300 33010KT P6SM FEW020 RMK NXT FCST BY 150100Z CYZU 142042Z 1420/1423 30010G20KT P6SM FU FEW260 TEMPO 1420/1423 5SM FU RMK NXT FCST WILL BE ISSUED AT 151415Z CYZV 141738Z 1418/1518 17006KT P6SM BKN250 PROB30 1506/1511 1SM BR FM151200 22010KT P6SM SCT100 RMK NXT FCST BY 150000Z CYZW 141738Z 1418/1501 25015G25KT P6SM SCT060 TEMPO 1419/1501 BKN060 RMK NXT FCST WILL BE ISSUED AT 151445Z CYZX 142013Z 1420/1518 16010KT P6SM SCT012 BKN025 TEMPO 1420/1501 6SM -SHRA BR BKN012 FM150100 VRB03KT P6SM SCT012 OVC020 TEMPO 1501/1506 5SM -SHRA BR OVC010 FM150600 24005KT 2SM -DZ BR BKN008 OVC012 FM151300 23007KT P6SM BKN015 FM151500 25010KT P6SM BKN025 TEMPO 1515/1518 P6SM -SHRA BKN020 BECMG 1516/1518 29010KT RMK NXT FCST BY 150000Z CYZY 141838Z 1419/1507 15010KT P6SM FEW040 BKN100 TEMPO 1419/1507 5SM FU HZ BKN040 BECMG 1419/1421 22010G20KT RMK FCST BASED ON AUTO OBS. NXT FCST BY 150100Z CZBF 141938Z 1420/1503 22007KT P6SM OVC070 RMK FCST BASED ON AUTO OBS. NXT FCST WILL BE ISSUED AT 150845Z CZFA 141738Z 1418/1501 31006KT P6SM SCT040 BKN100 TEMPO 1418/1420 5SM -SHRA BR BKN030 OVC060 FM142000 29010G20KT P6SM SCT040 BKN100 TEMPO 1420/1501 P6SM -SHRA VCTS BKN040CB RMK NXT FCST WILL BE ISSUED AT 151445Z CZFM 141838Z 1419/1423 34008KT P6SM SCT012 BKN040 TEMPO 1419/1423 P6SM -SHRA BKN012 OVC040 RMK NXT FCST WILL BE ISSUED AT 151445Z CZMD 141538Z 1416/1422 03008KT P6SM SCT015 BKN030 TEMPO 1416/1417 BKN015 OVC030 FM141700 04005KT P6SM SCT020 TEMPO 1417/1419 BKN020 FM141900 06005KT P6SM FEW025 RMK FCST BASED ON AUTO OBS. NXT FCST WILL BE ISSUED AT 150945Z CZMT 141838Z 1419/1424 18006KT P6SM FEW008 SCT020 OVC040 TEMPO 1419/1421 4SM -RA BR BKN008 OVC020 BECMG 1420/1421 33008KT FM142100 33010KT P6SM SCT008 BKN030 TEMPO 1421/1424 P6SM -SHRA BKN008 BKN030 RMK NXT FCST WILL BE ISSUED AT 151415Z CZSJ 141719Z 1417/1422 06008KT P6SM BKN030 TEMPO 1417/1422 BKN020 RMK FCST BASED ON AUTO OBS. NXT FCST WILL BE ISSUED AT 150945Z CZUM 141938Z 1420/1508 08005KT P6SM -SHRA SCT020 OVC040 TEMPO 1420/1505 3SM -SHRA BR OVC020 FM150500 VRB03KT P6SM BKN025 OVC090 TEMPO 1505/1508 3SM -SHRA BR BKN020 PROB30 1505/1508 2SM TSRA BR BKN007 BKN020CB RMK FCST BASED ON AUTO OBS. NXT FCST BY 150200Z CZVL 141738Z 1418/1506 26010KT P6SM FEW180 BKN240 TEMPO 1418/1501 5SM FU HZ BECMG 1418/1420 29012G22KT FM150100 26008KT 6SM FU SCT260 TEMPO 1501/1506 4SM FU HZ BECMG 1502/1504 16005KT RMK FCST BASED ON AUTO OBS. NXT FCST BY 150000Z DAAE 141700Z 1418/1518 08012KT 8000 FEW020 PROB30 TEMPO 1418/1421 FEW020TCU BECMG 1420/1422 24008KT PROB30 TEMPO 1502/1508 3000 BR BKN010 BECMG 1510/1512 06012KT DAAG 141700Z 1418/1518 02010KT 9999 FEW026 SCT100 BECMG 1419/1422 VRB02KT TEMPO 1503/1509 BKN015 BECMG 1509/1512 04012KT DAAJ 141700Z 1418/1518 20008KT 6000 NSC TEMPO 1418/1422 4000 HZ FEW046CB DAAS 141700Z 1418/1518 34014KT 9999 FEW026 TEMPO 1418/1421 FEW026TCU BECMG 1421/1423 20006KT PROB30 TEMPO 1501/1508 2000 BR BKN010 BECMG 1510/1512 32012KT DAAT 141700Z 1418/1518 26008KT 9999 SCT040 PROB30 TEMPO 1418/1424 FEW046CB BECMG 1506/1509 20010KT PROB30 TEMPO 1512/1518 5000 -TSRA FEW040TCU FEW046CB DAAV 141700Z 1418/1518 34012KT 8000 FEW020 PROB30 TEMPO 1418/1421 FEW020TCU BECMG 1420/1422 20008KT PROB30 TEMPO 1502/1508 3000 BR BKN010 BECMG 1510/1512 36012KT DABB 141700Z 1418/1518 02014KT 9999 FEW023TCU TEMPO 1421/1506 5000 -TSRA FEW026CB BECMG 1421/1423 25008KT PROB30 TEMPO 1501/1508 2000 BR BKN010 BECMG 1510/1512 04012KT DABC 141700Z 1418/1518 34014KT 9999 FEW026 TEMPO 1418/1421 FEW026TCU BECMG 1421/1423 VRB02KT PROB30 TEMPO 1501/1508 2000 BR BKN010 BECMG 1510/1512 02012KT DABS 141700Z 1418/1518 32014KT 9999 FEW033TCU PROB40 TEMPO 1418/1503 5000 -TSRA FEW030CB BECMG 1421/1424 01008KT BECMG 1510/1512 34012KT DABT 141700Z 1418/1518 30014KT 9999 FEW030TCU PROB40 TEMPO 1418/1424 5000 -TSRA FEW026CB BECMG 1421/1424 20008KT BECMG 1510/1512 28012KT DAOB 141700Z 1418/1518 32010KT CAVOK BECMG 1420/1423 VRB02KT BECMG 1509/1512 31010KT DAOI 141700Z 1418/1518 34008KT CAVOK BECMG 1419/1421 VRB02KT BECMG 1509/1512 34008KT BECMG 1515/1518 VRB02KT DAON 141700Z 1418/1518 36005KT CAVOK BECMG 1419/1421 VRB02KT BECMG 1509/1512 36008KT DAOO 141700Z 1418/1518 36010KT CAVOK BECMG 1419/1421 VRB02KT BECMG 1509/1512 34008KT DAUA 141700Z 1418/1518 06010KT 9999 FEW040 SCT046 PROB40 TEMPO 1418/1422 06022KT 4000 DRSA FEW046CB DAUB 141700Z 1418/1518 24014KT 9999 FEW033 TEMPO 1418/1422 FEW026TCU BECMG 1421/1423 06010KT BECMG 1508/1510 34012KT DAUG 141700Z 1418/1518 VRB02KT 9999 FEW033 PROB30 TEMPO 1418/1421 FEW040CB BECMG 1503/1506 02010KT DAUH 141700Z 1418/1518 36008KT CAVOK BECMG 1421/1424 10010KT BECMG 1509/1512 VRB02KT DAUI 141822Z 1418/1518 30020KT 2000 DRSA FEW040 SCT046 TEMPO 1418/1423 30020G30KT -TSRA FEW040CB BECMG 1420/1423 04008KT 6000 NSW DAUZ 141700Z 1418/1518 04012KT 8000 FEW040 SCT100 TEMPO 1418/1424 FEW046CB PROB40 TEMPO 1418/1422 06022KT 3000 DRSA DBBB 141700Z 1418/1524 22010KT 9999 SCT012= LFBL 141700Z 1418/1518 34006KT CAVOK DFFD 141700Z 1418/1524 24008KT 9999 SCT020 PROB30 TEMPO 1418/1424 4000 TSRA SCT020 SCT033CB TEMPO 1512/1524 09025G45KT 2500 SQ TSSHRA SCT020 SCT033CB DFOO 141700Z 1418/1518 22010KT 9999 SCT016 TEMPO 1418/1502 4000 TSSHRA SCT016 FEW033CB TEMPO 1514/1518 4000 TSSHRA SCT016 SCT033CB DGAA 141700Z 1418/1524 20015KT 9999 FEW015 BECMG 1422/1424 26010KT CAVOK BECMG 1505/1507 BKN012 BECMG 1510/1512 19015KT BKN025 DIAP 141700Z 1418/1524 24012KT 8000 SCT012 BECMG 1418/1422 22006KT TEMPO 1422/1504 BKN012 PROB30 1505/1508 4000 BR DIBK 141700Z 1418/1518 24006KT 8000 SCT013 TEMPO 1418/1422 BKN013 PROB30 TEMPO 1418/1424 TS BKN013 FEW025CB DIYO 141700Z 1418/1518 22006KT 8000 SCT012 TEMPO 1418/1422 BKN013 PROB30 TEMPO 1419/1424 TS BKN013 FEW022CB PROB30 1505/1507 4000 BR DNAA 141550Z 1418/1524 22007KT 9999 SCT013 FEW020CB PROB30 TEMPO 1418/1423 5000 -TSRA BKN008 FEW018CB BECMG 1423/1501 FEW007 BECMG 1508/1510 BKN010 BECMG 1512/1514 BKN012 PROB30 TEMPO 1514/1518 FEW018TCU DNCA 141530Z 1418/1524 00000KT 8000 TS BKN008 FEW018CB TEMPO 1419/1423 5000 -TSRA BECMG 1500/1502 NSW BKN007 BECMG 1508/1510 22008KT BKN010 FEW020CB DNEN 141530Z 1418/1524 20003KT 8000 BKN008 TEMPO 1423/1505 5000 -RA SCT007 BECMG 1507/1509 28007KT BKN011 DNIL 141550Z 1418/1524 18012KT 9999 SCT011 BECMG 1418/1420 12005KT FEW008 BECMG 1508/1510 26010KT BKN010 PROB40 TEMPO 1512/1518 8000 -SHRA SCT015TCU DNIM 141530Z 1418/1524 00000KT 9999 BKN009 TEMPO 1502/1507 5000 BR BECMG 1508/1510 24006KT BKN010 FEW020CB DNJO 141550Z 1418/1524 28011KT 9999 TS BKN008 FEW017CB PROB30 TEMPO 1418/1421 3000 -TSRA BKN005 FEW015CB BECMG 1421/1423 16004KT NSW FEW005 PROB40 1503/1507 5000 BR BKN003 BECMG 1508/1510 24010KT BKN010 PROB30 TEMPO 1514/1518 TS FEW019CB DNKA 141550Z 1418/1524 20005KT 9999 BKN011 FEW021CB BECMG 1418/1420 FEW008 BECMG 1508/1510 BKN010 BECMG 1512/1514 BKN012 PROB30 TEMPO 1515/1520 TS FEW020CB DNKN 141550Z 1418/1524 25010KT 9999 TS SCT012 FEW020CB TEMPO 1418/1523 5000 TSRA BKN010 FEW019CB BECMG 1502/1504 FEW010 DNKT 141550Z 1418/1524 26010KT 9999 TS BKN012 FEW020CB TEMPO 1419/1424 5000 TSRA BKN010 FEW019CB BECMG 1503/1505 FEW010 DNMA 141550Z 1418/1524 22010KT 9999 FEW012 TEMPO 1420/1424 TS FEW019CB DNMM 140950Z 1412/1518 20010KT 9999 BKN013 FEW020CB PROB30 TEMPO 1414/1418 5000 -RA BKN009 FEW019CB BECMG 1418/1420 VRB02KT FEW009 DNMN 141550Z 1418/1524 22013KT 9999 BKN011 BECMG 1418/1420 13005KT FEW008 BECMG 1508/1510 25010KT BKN010 BECMG 1512/1514 BKN012 PROB30 TEMPO 1515/1518 FEW018TCU DNPO 141715Z 1418/1524 VRB02KT 8000 TS BKN008 FEW020CB TEMPO 1422/1502 NSW BKN007 TEMPO 1503/1507 5000 -RA BR BECMG 1508/1510 28007KT BKN010 FEW020CB DNSO 141550Z 1418/1524 28012KT 9999 SCT012 TEMPO 1420/1501 5000 TSRA BKN012 FEW019CB DNSU 141540Z 1418/1524 VRB02KT 8000 SCT009 TEMPO 1504/1506 3000 BR PROB30 1505/1506 1500 BECMG 1508/1510 25010KT BKN013 DNYO 141550Z 1418/1524 21007KT 9999 TS SCT012 FEW020CB BECMG 1422/1424 FEW010 DRRN 141700Z 1418/1524 24008KT 9999 BKN016 FEW026CB PROB40 TEMPO 1418/1424 4000 TS SHRA BECMG 1500/1502 FEW013 DRZA 141700Z 1418/1518 28010KT 9999 TS FEW040CB BECMG 1422/1424 NSW NSC DRZR 141700Z 1418/1518 22008KT 9999 SCT033 TEMPO 1418/1424 4000 TS SHRA BKN020 FEW030CB DTMB 141100Z 1412/1512 11010KT CAVOK BECMG 1419/1421 19004KT BECMG 1507/1509 34010KT DTNH 141700Z 1418/1518 11013KT CAVOK BECMG 1419/1421 02006KT BECMG 1507/1509 32010KT BECMG 1512/1514 15006KT PROB40 TEMPO 1512/1518 VRB20G30KT 4000 TS RA FEW030CB DTTA 141700Z 1418/1518 35012KT 9999 FEW026 PROB30 TEMPO 1418/1421 TS -RA FEW026TCU FEW030CB BECMG 1421/1423 29010KT PROB30 TEMPO 1510/1515 -TSRA FEW026TCU FEW030CB DTTJ 141700Z 1418/1518 09008KT 9999 FEW026 DTTX 141700Z 1418/1518 11010KT 9999 FEW020 BECMG 1422/1424 23003KT BECMG 1510/1512 09010KT DTTZ 141700Z 1418/1518 25006KT 9999 SCT026 PROB30 1718/1421 -TSRA SCT026TCU BECMG 1500/1502 09010KT TEMPO 1513/1518 15004KT DXNG 141700Z 1418/1518 VRB05KT 9999 BKN006 FEW016CB TEMPO 1418/1422 TS PROB30 4000 TSRA BECMG 1420/1422 SCT006 BECMG 1502/1504 BKN006 DXXX 141700Z 1418/1524 20010KT 9999 FEW010 BECMG 1422/1424 26005KT BECMG 1508/1510 20012KT EBBR 141700Z 1418/1524 28010KT 9999 FEW020 SCT040 BECMG 1421/1423 21008KT TEMPO 1504/1508 BKN007 EBCI 141700Z 1418/1524 28010KT 9999 FEW020 SCT040 BECMG 1422/1424 22006KT TEMPO 1503/1508 BKN008 PROB30 TEMPO 1504/1507 4500 -DZ BR BKN003 EBLG 141700Z 1418/1524 28010KT 9999 FEW020 SCT040 BECMG 1422/1424 22006KT TEMPO 1505/1510 BKN008 PROB30 TEMPO 1506/1509 4500 -DZ BR BKN003 EBOS 141700Z 1418/1524 26010KT 9999 FEW018 SCT035 TEMPO 1502/1506 BKN011 PROB30 TEMPO 1508/1512 BKN013 EDDB 141700Z 1418/1518 27010KT 9999 SCT040= EDDE 141700Z 1418/1518 25008KT CAVOK EDDC 141700Z 1418/1518 28007KT 9999 SCT045 EDDE 141700Z 1418/1518 25008KT CAVOK EDDF 141700Z 1418/1524 28010KT CAVOK BECMG 1419/1422 25005KT BECMG 1518/1521 VRB03KT EDDG 141700Z 1418/1518 29010KT 9999 FEW045 BECMG 1419/1423 22004KT PROB30 TEMPO 1503/1507 BKN013 BECMG 1509/1511 24010KT EDDH 141700Z 1418/1524 29014KT 9999 SCT025 BECMG 1418/1421 28009KT PROB30 TEMPO 1419/1422 BKN014 BECMG 1515/1517 27004KT EDDK 141700Z 1418/1524 29010KT 9999 BKN040 BECMG 1421/1424 VRB03KT BECMG 1508/1510 26006KT BECMG 1518/1520 13003KT EDDL 141700Z 1418/1524 29010KT 9999 SCT045 BECMG 1420/1423 26004KT BECMG 1503/1506 20005KT BECMG 1510/1512 25010KT BECMG 1518/1521 18004KT EDDM 141700Z 1418/1524 27006KT 9999 FEW040 BECMG 1517/1519 VRB02KT EDDN 141700Z 1418/1518 28007KT 9999 SCT040 BECMG 1420/1422 VRB02KT BECMG 1508/1510 29007KT EDDP 141722Z 1418/1518 27015G25KT CAVOK BECMG 1418/1420 24008KT EDDR 141700Z 1418/1518 31008KT 9999 SCT045 BECMG 1419/1422 VRB03KT BECMG 1508/1511 26005KT EDDS 141700Z 1418/1518 31010KT CAVOK BECMG 1419/1422 VRB03KT BECMG 1509/1512 34005KT EDDT 141700Z 1418/1518 28008KT 9999 SCT040 EDDV 141700Z 1418/1518 28012KT 9999 SCT025 BECMG 1418/1420 26007KT EDDW 141700Z 1418/1518 28015G25KT 9999 SCT025 BECMG 1419/1421 24006KT EDFH 141700Z 1418/1518 28012KT CAVOK BECMG 1418/1421 28005KT EDLP 141700Z 1418/1518 26006KT 9999 BKN045 EDLV 141700Z 1418/1518 29008KT 9999 BKN040 BECMG 1421/1423 22004KT PROB30 TEMPO 1505/1508 BKN013 BECMG 1508/1510 24010KT EDLW 141700Z 1418/1518 29008KT 9999 BKN045 BECMG 1421/1424 23006KT EDNY 141700Z 1418/1518 VRB03KT 9999 FEW050 BECMG 1509/1511 23005KT BECMG 1517/1518 VRB02KT EDSB 141700Z 1418/1518 28005KT CAVOK BECMG 1418/1420 VRB03KT EEEI 141730Z 1418/1518 06007KT 9999 SCT045 PROB40 TEMPO 1421/1508 5000 SHRA BKN008 FEW030TCU EETN 141110Z 1412/1512 VRB02KT 9999 SCT040 BECMG 1420/1422 09009KT TEMPO 1420/1506 4000 SHRA SCT020CB BKN040 PROB30 TEMPO 1502/1509 TSRA PROB40 TEMPO 1506/1510 BKN010 SCT025CB EFHK 142032Z 1421/1521 VRB02KT CAVOK EFJY 142030Z 1421/1521 36003KT CAVOK PROB40 1501/1505 2000 BR PROB40 1510/1517 FEW040CB EFKU 142035Z 1421/1521 03005KT CAVOK TEMPO 1421/1521 FEW040TCU EFOU 142035Z 1421/1521 09005KT CAVOK PROB30 1423/1504 2000 BR EFRO 142035Z 1421/1521 VRB02KT CAVOK PROB30 1423/1503 2000 BR EFTP 142030Z 1421/1521 VRB01KT CAVOK PROB40 TEMPO 1509/1517 FEW050TCU EFTU 142032Z 1421/1521 VRB02KT CAVOK EFVA 142032Z 1421/1521 04004KT CAVOK EGAA 141704Z 1418/1518 23010KT 9999 SCT012 BKN025 TEMPO 1418/1509 7000 -RADZ SCT007 BKN012 PROB30 TEMPO 1503/1506 4000 DZ BKN005 BECMG 1509/1512 24017G27KT EGBB 141659Z 1418/1518 24008KT 9999 SCT020 PROB30 TEMPO 1504/1510 BKN014 PROB30 TEMPO 1514/1518 24018G28KT EGCC 141806Z 1418/1524 20005KT 9999 FEW010 SCT030 BECMG 1509/1512 22015KT TEMPO 1516/1524 6000 RA PROB30 TEMPO 1518/1524 BKN010 EGCN 141657Z 1418/1518 26008KT 9999 SCT030= EGGP 141657Z 1418/1518 28012KT 9999 FEW012 SCT030 BECMG 1421/1424 21006KT BECMG 1509/1512 22016KT EGFF 141659Z 1418/1518 28015KT 9999 BKN018 PROB40 TEMPO 1418/1514 9000 -RADZ BKN007 PROB30 TEMPO 1418/1421 27017G27KT BECMG 1506/1509 21012KT PROB30 TEMPO 1514/1518 24017G27KT BKN012 EGGD 141653Z 1418/1518 26012KT 9999 SCT020 TEMPO 1418/1510 BKN008 PROB40 TEMPO 1418/1421 27017G28KT PROB30 TEMPO 1422/1509 8000 BKN004 EGGP 142031Z 1420/1518 22006KT 9999 FEW012 SCT030 BECMG 1509/1512 22016KT EGGW 141653Z 1418/1518 27007KT 9999 SCT040 PROB30 TEMPO 1502/1509 BKN010 EGKK 141653Z 1418/1524 25008KT 9999 SCT035 PROB30 TEMPO 1503/1508 BKN012 EGLL 141653Z 1418/1524 27010KT 9999 SCT045 PROB30 TEMPO 1502/1509 BKN012 BECMG 1515/1518 21010KT EGNM 141653Z 1418/1518 26012KT 9999 SCT020 PROB40 TEMPO 1418/1424 27018G28KT PROB30 TEMPO 1418/1509 8000 BKN010 TEMPO 1508/1518 26018G28KT BECMG 1515/1518 -RA BKN010 TEMPO 1516/1518 6000 RA BKN008 EGNT 142031Z 1420/1518 24004KT 9999 BKN018 TEMPO 1420/1512 8000 -RA BKN012 BECMG 1509/1512 24014KT PROB30 TEMPO 1512/1518 6000 RA EGNX 141659Z 1418/1518 25015KT 9999 SCT035 PROB40 TEMPO 1418/1421 26018G28KT PROB30 TEMPO 1505/1510 BKN014 PROB30 TEMPO 1514/1518 24022G32KT EGPD 141654Z 1418/1518 22008KT 9999 SCT035 PROB40 TEMPO 1505/1509 7000 -RADZ BKN004 PROB30 TEMPO 1515/1518 7000 SHRA EGPF 141654Z 1418/1518 23008KT 9999 BKN016 TEMPO 1418/1511 7000 RA BKN012 PROB30 TEMPO 1418/1424 BKN007 PROB40 TEMPO 1500/1509 4000 RADZ BKN004 PROB30 TEMPO 1511/1518 7000 SHRA EGPH 141654Z 1418/1518 24010KT 9999 SCT018 TEMPO 1418/1420 7000 -RA BKN010 PROB40 TEMPO 1501/1511 4000 RADZ BKN008 PROB40 TEMPO 1509/1517 22017G27KT PROB30 TEMPO 1511/1518 8000 -SHRA EGPK 141654Z 1418/1518 22011KT 9999 SCT010 BKN020 TEMPO 1418/1511 4000 RADZ BKN008 PROB30 TEMPO 1500/1509 BKN004 PROB30 TEMPO 1506/1516 21015G25KT EGQS 141939Z 1421/1515 26012KT 9999 BKN040 PROB30 TEMPO 1507/1515 7000 RA SCT018 EGSS 141653Z 1418/1524 27008KT 9999 SCT040 PROB30 TEMPO 1502/1509 BKN012 EGUL 142003Z 1420/1602 26009KT 9999 BKN050 QNH2998INS BECMG 1422/1423 VRB06KT 9999 BKN030 QNH3000INS BECMG 1505/1506 25009KT 9999 OVC015 QNH3001INS BECMG 1510/1511 24010G15KT 9999 SCT010 BKN020 QNH2996INS TEMPO 1514/1520 24012G20KT TX24/1515Z TN12/1505Z EGUN 142002Z 1420/1602 26009KT 9999 BKN050 QNH2998INS BECMG 1422/1423 VRB06KT 9999 BKN030 QNH3000INS BECMG 1505/1506 25009KT 9999 OVC015 QNH3001INS BECMG 1510/1511 24010G15KT 9999 SCT010 BKN020 QNH2996INS TEMPO 1514/1520 24012G20KT TX24/1515Z TN12/1505Z EGVN 141918Z 1421/1521 26008KT 9999 SCT030 BECMG 1423/1502 BKN020 PROB40 1500/1509 SCT012 BECMG 1509/1512 23015KT BKN032 EGVO 141946Z 1421/1509 29008KT 9999 BKN025 BECMG 1421/1424 BKN018 TEMPO 1500/1509 SCT012 EGWU 141937Z 1421/1515 26010KT 9999 SCT045 TEMPO 1500/1511 BKN022 PROB30 TEMPO 1504/1509 SCT012 EGXC 141923Z 1421/1515 25008KT 9999 BKN048 EGXW 141915Z 1421/1515 26008KT 9999 BKN040 PROB30 TEMPO 1509/1511 SCT022 EGYP 141918Z 1421/1515 32005KT 9999 FEW012 BECMG 1421/1423 33015KT PROB40 TEMPO 1423/1506 33016G26KT BECMG 1507/1509 30007KT BECMG 1512/1515 34017G27KT 520003 EHAM 141655Z 1418/1524 26009KT 9999 FEW020 SCT024 BECMG 1418/1421 20004KT CAVOK PROB30 1502/1508 4000 BR SCT006 BKN009 BECMG 1507/1510 24012KT 9999 BKN022 BECMG 1517/1520 21006KT CAVOK EHBK 141653Z 1418/1524 28009KT 9999 BKN040 PROB30 1504/1508 6000 BKN009 BECMG 1509/1512 25010KT BECMG 1518/1521 20005KT EHEH 141759Z 1418/1524 27009KT CAVOK BECMG 1421/1423 23005KT PROB30 TEMPO 1504/1507 4000 BR SCT008 PROB30 TEMPO 1507/1509 SCT012 BECMG 1509/1511 24010G22KT SCT020 BECMG 1516/1518 26004KT EHGG 141653Z 1418/1524 30010KT 9999 SCT030 BECMG 1418/1421 22005KT PROB40 1423/1508 4000 BR BKN009 BECMG 1512/1515 25014KT BECMG 1518/1521 22006KT PROB30 1522/1524 6000 EHGR 141231Z 1413/1501 29011KT 9999 BKN035 BECMG 1418/1421 27007KT SCT040 EHKD 141235Z 1413/1501 29013KT 9999 SCT018 SCT050 EHLW 140832Z 1409/1421 30012KT 9999 SCT020 BECMG 1409/1411 28015G27KT BECMG 1415/1418 26009KT EHRD 141655Z 1418/1524 26010KT CAVOK BECMG 1418/1421 22005KT PROB40 TEMPO 1502/1507 6000 SCT006 BKN009 BECMG 1507/1510 24012KT 9999 BKN022 BECMG 1517/1520 21006KT CAVOK EHVK 140842Z 1409/1421 27006KT 9999 SCT025 PROB40 TEMPO 1410/1417 29009G19KT EHWO 140843Z 1409/1421 29007KT FEW020 SCT025 BECMG 1409/1411 28008G18KT BECMG 1417/1420 24006KT EICK 141853Z 1418/1518 25012KT 9999 BKN007 TEMPO 1419/1423 3000 -DZ BKN003 BECMG 1420/1422 22012KT TEMPO 1423/1510 1200 DZ BR OVC002 PROB40 TEMPO 1423/1509 0400 FG BKN001 TEMPO 1512/1515 23016G26KT 3000 -RADZ BKN004 BECMG 1516/1518 24016KT SCT018 BKN025 EIDW 141100Z 1412/1512 25014KT 9999 SCT015 BKN025 TEMPO 1412/1416 26016G26KT BECMG 1500/1503 22011KT TEMPO 1504/1508 -DZ BKN012 TEMPO 1510/1512 23018G30KT EIKN 141700Z 1418/1518 21012KT 4000 -RADZ OVC003 TEMPO 1418/1505 0200 -RADZ FG OVC001 BECMG 1506/1509 9999 NSW SCT008 BKN012 BECMG 1510/1512 SCT012 BKN020 TEMPO 1510/1515 22016G27KT TEMPO 1513/1517 5000 -SHRA BKN010 SCT018CB EINN 142007Z 1420/1518 22012KT 9999 SCT012 BKN020 TEMPO 1420/1422 4000 -DZ BKN008 BECMG 1422/1424 SCT008 BKN010 TEMPO 1423/1508 3000 -RADZ BKN004 BECMG 1509/1512 SCT012 BKN020 TEMPO 1510/1518 24016G27KT TEMPO 1511/1514 -RA BKN012 EKAH 141659Z 1418/1518 30006KT 9999 SCT030 TEMPO 1418/1421 BKN012 TEMPO 1421/1507 4000 BR BKN008 EKBI 141859Z 1419/1518 28008KT 9999 BKN025 TEMPO 1419/1507 4000 BR BKN008 TEMPO 1509/1513 BKN012 EKCH 141659Z 1418/1518 31010KT 9999 SCT020 TEMPO 1418/1424 -SHRA SCT020CB TEMPO 1500/1506 BKN012 BECMG 1510/1512 25010KT EKKA 142018Z 1421/1518 29008KT 9999 SCT012 BKN020 TEMPO 1421/1506 4000 BR BKN008 BECMG 1501/1504 22008KT TEMPO 1509/1516 6000 -RA BKN012 EKSP 142018Z 1421/1518 29008KT 9999 FEW008 BKN030 TEMPO 1421/1506 4000 BR BKN008 BECMG 1502/1505 22008KT TEMPO 1509/1514 6000 -RA BKN012 EKYT 142018Z 1421/1518 29008KT 9999 SCT012 BKN030 PROB40 1500/1506 4000 BR BECMG 1502/1505 23008KT TEMPO 1509/1517 6000 -RA BKN012 ELLX 141700Z 1418/1524 28007KT 9999 SCT035 TEMPO 1503/1518 BKN030 PROB40 TEMPO 1503/1508 3000 BR BKN008 ENAN 141700Z 1418/1518 04008KT 9999 FEW015 SCT020= ENDU 141700Z 1418/1518 VRB05KT 9999 FEW010 SCT035 TEMPO 1421/1507 1200 PRFG PROB30 1422/1506 0500 FG VV002 TEMPO 1512/1518 14010KT ENBO 141700Z 1418/1518 36005KT 9999 FEW020 SCT050 BECMG 1421/1423 09010KT BECMG 1508/1510 33005KT ENBR 141700Z 1418/1518 17008KT 9999 FEW030 BKN050 PROB40 TEMPO 1503/1512 -RADZ BKN012 ENDU 141700Z 1418/1518 VRB05KT 9999 FEW010 SCT035 TEMPO 1421/1507 1200 PRFG PROB30 1422/1506 0500 FG VV002 TEMPO 1512/1518 14010KT ENGC 142000Z 1421/1521 20015KT 9999 FEW010 BKN015 TEMPO 1421/1508 4000 RADZ BR BKN008 TEMPO 1518/1521 4000 RADZ BR BKN008 ENGM 141700Z 1418/1518 18005KT CAVOK PROB40 1423/1506 0500 FG VV001 PROB40 1506/1508 BKN008 ENNA 141700Z 1418/1518 36008KT 9999 FEW015 BKN030 PROB30 TEMPO 1418/1506 BKN014 ENOA 142000Z 1421/1521 20015KT 9999 FEW010 BKN015 TEMPO 1421/1508 4000 RADZ BR BKN008 TEMPO 1517/1521 4000 RADZ BR BKN008 ENOL 141700Z 1418/1518 14007KT 9999 FEW030 SCT150 ENRY 141700Z 1418/1518 09005KT 9999 SCT040 PROB30 1503/1506 0800 FG BKN002 PROB30 1506/1509 BKN012 BECMG 1510/1512 19012KT ENSB 141700Z 1418/1518 25008KT 9999 SCT003 BKN006 TEMPO 1418/1506 4000 DZ SCT002 BKN003 TEMPO 1506/1518 SCT006 BKN016 ENTC 141700Z 1418/1518 02008KT 9999 FEW010 SCT030 ENTO 141700Z 1418/1518 08005KT 9999 FEW020 PROB40 1500/1506 0800 FG VV002 PROB40 1506/1509 BKN012 BECMG 1510/1512 19010KT ENVA 141700Z 1418/1518 10005KT CAVOK BECMG 1510/1512 26010KT ENZV 141700Z 1418/1518 28010KT 9999 FEW030 BKN050 BECMG 1418/1420 14006KT TEMPO 1503/1512 -RADZ BKN012 BECMG 1509/1511 20012KT EPBY 141730Z 1418/1518 26008KT CAVOK PROB40 1503/1506 BKN010 TEMPO 1509/1518 -SHRA BKN030CB EPGD 141730Z 1418/1518 25008KT CAVOK TEMPO 1418/1422 BKN030CB TEMPO 1501/1506 BKN010 TEMPO 1509/1518 -SHRA BKN030CB EPKK 142030Z 1421/1521 VRB02KT CAVOK TEMPO 1421/1505 4000 SHRA BKN025CB BECMG 1506/1509 29010KT TEMPO 1510/1516 31015G25KT BKN030TCU BECMG 1516/1518 VRB02KT EPKT 141730Z 1418/1518 31005KT CAVOK PROB30 TEMPO 1512/1518 32015KT BKN025CB EPLL 141730Z 1418/1518 23005KT CAVOK BECMG 1506/1509 29010KT PROB40 TEMPO 1509/1518 SHRA BKN035CB EPMO 141730Z 1418/1518 26007KT CAVOK PROB40 TEMPO 1511/1518 SHRA BKN030CB EPPO 141730Z 1418/1518 28008KT CAVOK PROB40 TEMPO 1504/1508 -SHRA SCT013 BKN020CB TEMPO 1508/1514 BKN030CB EPRZ 141730Z 1418/1518 27008KT CAVOK TEMPO 1418/1509 BKN020CB PROB40 TEMPO 1418/1502 VRB20G35KT 3000 TSRA BKN014CB PROB30 TEMPO 1512/1518 SCT030CB EPSC 141730Z 1418/1518 24008KT CAVOK TEMPO 1422/1507 4500 -RA BKN006 PROB40 TEMPO 1509/1513 BKN030CB EPWA 142030Z 1421/1521 26006KT CAVOK PROB40 1502/1505 3000 BR PROB40 TEMPO 1510/1519 SHRA BKN030CB EPWR 142030Z 1421/1521 27006KT CAVOK PROB40 TEMPO 1504/1510 27015G25KT SHRA SCT013 BKN020CB ESGG 141730Z 1418/1518 01005KT 9999 SCT005 BKN015 TEMPO 1418/1421 BKN005 BECMG 1421/1423 0300 FG VV002 PROB40 1423/1506 3000 BR SCT003 BECMG 1506/1508 9999 NSW BKN008 BECMG 1508/1510 SCT030 ESKN 141730Z 1418/1518 03005KT 9999 SCT020 BKN040 PROB40 1418/1505 RA PROB40 1502/1505 2000 BR ESMS 141700Z 1418/1518 28008KT 9999 SCT025 TEMPO 1418/1502 -SHRA BKN010 SCT020CB TEMPO 1502/1506 BKN010 ESSA 141730Z 1418/1518 02005KT CAVOK PROB40 1418/1423 RA ETAD 141903Z 1419/1601 VRB06KT 9999 BKN020 QNH3003INS BECMG 1423/1424 VRB06KT 6000 BR BKN015 QNH3007INS TEMPO 1500/1504 SCT008 BKN010 BECMG 1506/1507 23006KT 9999 NSW SCT015 BKN030 QNH3009INS BECMG 1519/1520 24006KT 9999 FEW040 QNH3007INS TX23/1515Z TN12/1504Z LAST NO AMDS AFT 1420 NEXT 1504 ETAR 141802Z 1418/1524 27006KT 9999 SCT050 QNH3004INS BECMG 1423/1424 VRB06KT 6000 BR BKN020 QNH3008INS BECMG 1505/1506 27006KT 9999 NSW SCT025 BKN050 QNH3014INS BECMG 1508/1509 27009KT 9999 BKN030 QNH3012INS BECMG 1518/1519 VRB06KT 9999 SCT050 QNH3009INS TX24/1515Z TN12/1503Z ETEB 142023Z 1420/1519 28009KT 9999 BKN060 QNH2999INS BECMG 1501/1502 27006KT 6000 BR BKN020 QNH3002INS BECMG 1509/1510 VRB06KT 9000 -SHRA BKN030 QNH3016INS BECMG 1512/1513 28009KT 9999 NSW SCT040 QNH3013INS TX24/1513Z TN15/1504Z ETIC 141404Z 1414/1520 29012KT 9999 FEW040 BKN070 QNH2997INS BECMG 1420/1421 VRB06KT 9999 BKN030 QNH3006INS BECMG 1501/1502 VRB06KT 8000 BR BKN015 QNH3011INS BECMG 1507/1508 VRB06KT 9999 NSW BKN021 QNH3012INS BECMG 1511/1512 VRB06KT 8000 -SHRA BKN021 QNH3013INS BECMG 1514/1515 29012KT 9999 NSW SCT035 QNH3011INS TX24/1514Z TN12/1504Z ETIK 141301Z 1413/1519 25012KT 9999 BKN045 QNH3000INS BECMG 1501/1502 27006KT 8000 BR BKN015 QNH3002INS BECMG 1509/1510 VRB06KT 9000 -SHRA BKN027 QNH3016INS BECMG 1512/1513 28009KT 9999 NSW BKN035 QNH3013INS TX24/1513Z TN15/1504Z ETNG 142000Z 1421/1512 23005KT 9999 SCT025 BKN050 PROB30 TEMPO 1505/1509 6000 BKN012 ETNW 141325Z 1413/1511 27014G24KT 9999 NSW SCT030 BKN060 TEMPO 1413/1420 29018G30KT 3700 SHRA BKN007 SCT015TCU BECMG 1419/1421 26008KT 9999 NSW SCT020 BKN070 BY ETGL ETOU 141903Z 1419/1601 VRB06KT 9999 BKN025 QNH3003INS BECMG 1508/1509 27006KT 9999 BKN050 QNH3012INS BECMG 1519/1520 VRB06KT 9999 SCT050 QNH3009INS TX24/1515Z TN12/1504Z EVLA 142003Z 1421/1521 23006KT 9999 BKN040 TEMPO 1421/1423 SCT030CB TEMPO 1423/1503 0700 FG BKN001 TEMPO 1509/1515 SCT030CB BECMG 1509/1511 32007KT EVRA 142001Z 1421/1521 VRB02KT 9999 BKN040 TEMPO 1421/1424 4000 -TSRA BKN010 SCT040CB TEMPO 1500/1506 1500 BR BKN005 TEMPO 1509/1518 SCT040CB PROB40 TEMPO 1512/1518 -TSRA EYKA 141705Z 1418/1518 12012KT 7000 BKN025 TEMPO 1418/1421 VRB28KT 1500 TSRA BKN005 BKN020CB BECMG 1422/1423 25010KT 3000 BR BKN005 TEMPO 1423/1505 0500 FG VV002 BECMG 1506/1507 7000 BKN025 TEMPO 1510/1517 2000 SHRA BKN020CB EYPA 141711Z 1418/1518 10012KT 7000 BKN025 TEMPO 1420/1505 25028KT 1500 TSRA BKN005 BKN020CB TEMPO 1505/1508 2000 BR BKN003 TEMPO 1509/1515 3000 SHRA BKN015CB EYVI 141709Z 1418/1518 11014KT 7000 BKN025 TEMPO 1418/1422 VRB42KT 0500 +TSGR SQ BKN003 BKN015CB BECMG 1422/1423 22006KT 3000 BR BKN005 TEMPO 1423/1505 0500 FG VV002 BECMG 1506/1507 27016KT 7000 BKN025 TEMPO 1507/1509 BKN005 TEMPO 1512/1516 3000 SHRA BKN020CB FCBB 141700Z 1418/1524 25005KT 8000 BKN020 PROB30 1505/1508 4000 BR FCIN90 VAAH 141100 VAAH 141100Z 1412/1421 24006KT 5000 HZ SCT020 BKN080 BECMG 1412/1414 23005KT 4000 HZ SCT015 SCT020 BKN080 FCPP 141700Z 1418/1518 19005KT 8000 SCT010 BKN023 PROB30 1504/1508 4000 BR FEFF 141700Z 1418/1524 VRB03KT 8000 TS BKN010 FEW033CB BECMG 1420/1422 CAVOK TEMPO 1503/1506 0800 FG BKN003 BECMG 1507/1508 BKN013 BECMG 1510/1512 BKN026 FEW040CB FGBT 141700Z 1418/1518 22006KT 9999 SCT010 PROB30 1500/1508 BKN010 FGSL 141700Z 1418/1524 23006KT 9999 SCT010 FEW020CB BECMG 1422/1424 TS PROB30 TEMPO 1502/1506 4000 TSRADZ BKN008 FEW016CB BECMG 1507/1509 NSW PROB30 1511/1515 BKN010 FEW020CB FIMP 141700Z 1418/1600 11013G25KT 9999 SCT016 PROB30 TEMPO 1500/1506 7000 -SHRA FEW010 SCT015 BKN050 FIMR 141710Z 1418/1512 11015G28KT 9999 SCT016 PROB30 TEMPO 1500/1504 7000 -SHRA FEW010 SCT015 BKN050 FJDG 141700Z 1417/1523 13018G25KT 9999 FEW025 SCT050 BKN250 QNH2986INS TX29/1509Z TN26/1417Z FKKD 141700Z 1418/1524 24005KT 9999 BKN013 FEW016CB TEMPO 1500/1506 4000 TSRADZ BECMG 1509/1511 BKN016 FEW020CB FKYS 141700Z 1418/1518 VRB06KT 9999 SCT016 FEW023CB BECMG 1420/1422 BKN006 BECMG 1508/1510 BKN016 FMCH 141700Z 1418/1524 08003KT 9999 FEW020 BECMG 1504/1506 22010KT PROB40 TEMPO 1506/1509 12010KT BECMG 1515/1517 10003KT FMEE 141700Z 1418/1524 12015KT 9999 SCT030 BECMG 1504/1506 10020G30KT FMMI 141100Z 1412/1518 12015G25KT 9999 FEW020 SCT023 BECMG 1414/1416 14008KT BECMG 1504/1506 14018G28KT FMMT 141717Z 1418/1518 00000KT 9999 SCT017 SCT033 BECMG 1502/1505 14010KT PROB30 TEMPO 1506/1515 4000 SHRA FMNM 141100Z 1412/1512 12008KT 9999 FEW023= FMMT 141100Z 1412/1512 14010KT 9999 SCT017 SCT033 PROB40 TEMPO 1412/1510 4500 SHRA FNBG 141120Z 1412/1424 27010KT 9000 SCT025 OVC050 TEMPO 1413/1417 33010KT 9999 OVC030 BECMG 1418/1420 VRB03KT SCT020 FNHU 141100Z 1412/1424 07008KT CAVOK BECMG 1418/1420 VRB02KT FNKU 141230Z 1412/1424 08005KT CAVOK BECMG 1418/1420 VRB02KT FNLU 141700Z 1418/1524 19010KT 9000 OVC020 BECMG 1500/1502 18005KT 7000 FEW018 BKN020 BECMG 1506/1508 5000 BR FEW018 OVC022 BECMG 1512/1514 26010KT 9999 BKN023 TEMPO 1514/1518 CAVOK FNME 141120Z 1412/1424 09005KT 8000 FEW025 TEMPO 1413/1417 15005KT CAVOK BECMG 1418/1420 VRB03KT 9000 NSC FNSA 141100Z 1412/1424 07005KT CAVOK BECMG 1418/1420 VRB02KT 7000 NSC FNUB 141100Z 1412/1424 08010KT CAVOK BECMG 1415/1420 20005KT BECMG 1421/1424 VRB03KT FNUE 141100Z 1412/1424 08010KT CAVOK BECMG 1418/1420 VRB02KT 8000 NSC FOOG 141700Z 1418/1518 22010KT 9999 SCT010 BKN033 PROB30 TEMPO 1506/1508 3000 BR BKN006 OVC033 FOOL 141700Z 1418/1524 22006KT 9999 SCT014 PROB30 TEMPO 1505/1509 4000 RADZ BKN008 OVC030 FQBR 141000Z 1412/1518 11010KT CAVOK BECMG 1418/1420 05013KT BECMG 1500/1502 35007KT BECMG 1506/1508 04010KT BECMG 1512/1514 09013KT TX28/1413Z TN19/1503Z FQCH 141000Z 1412/1512 27007KT CAVOK BECMG 1418/1420 08007KT 9999 FEW018 BECMG 1500/1502 VRB02KT CAVOK BECMG 1507/1509 30008KT TX28/1413Z TN17/1503Z FQIN 141000Z 1412/1512 09012KT 9999 SCT025 BECMG 1418/1420 01010KT BKN020 BECMG 1500/1502 30008KT BECMG 1507/1509 01010KT FEW025 TX29/1413Z TN19/1503Z FQLC 141000Z 1412/1512 09008KT CAVOK BECMG 1418/1420 VRB03KT BECMG 1500/1502 09007KT BECMG 1506/1508 03008KT 9999 FEW020 TX25/1413Z TN15/1503Z FQMA 141000Z 1412/1518 01010KT 9999 BKN020 BECMG 1418/1420 18010KT BECMG 1506/1508 34008KT SCT020 BECMG 1512/1514 05008KT TX33/1413Z TN17/1503Z FQNC 141000Z 1412/1512 12011KT 9999 FEW020 BECMG 1418/1420 17010KT CAVOK BECMG 1500/1502 VRB03KT BECMG 1506/1508 12011KT 9999 FEW020 TX29/1413Z TN17/1503Z FQNP 141000Z 1412/1518 09011KT CAVOK BECMG 1418/1420 VRB03KT BECMG 1506/1508 11012KT TX29/1413Z TN17/1503Z FQPB 141000Z 1412/1512 12011KT 9999 FEW020 BECMG 1418/1420 17010KT CAVOK BECMG 1500/1502 VRB03KT BECMG 1506/1508 12011KT 9999 FEW020 TX28/1413Z TN18/1503Z FQQL 141000Z 1412/1512 14010KT CAVOK BECMG 1418/1420 06010KT BECMG 1500/1502 VRB03KT BECMG 1507/1509 08011KT TX30/1413Z TN20/1503Z FQTT 141000Z 1412/1512 09008KT CAVOK BECMG 1418/1420 17007KT BECMG 1500/1502 VRB01KT BECMG 1507/1509 13009KT TX34/1413Z TN19/1503Z FQVL 141000Z 1412/1512 01010KT 9999 FEW025 BECMG 1500/1502 07010KT BKN020 BECMG 1507/1509 01010KT FEW025 TX28/1413Z TN20/1503Z FSIA 141256Z 1412/1512 13015G25KT 8000 -SHRA FEW009 BKN015 TEMPO 1412/1418 5000 -SHRA SCT007 OVC012 BECMG 1418/1506 12020G30KT 8000 -SHRA FEW009 BKN016 FTTJ 141700Z 1418/1524 27006KT 9999 FEW040 TEMPO 1506/1512 4000 TSRA FWCL 140830Z 1412/1518 05015KT CAVOK FZAA 141700Z 1418/1524 26004KT 6000 NSC PROB30 TEMPO 1505/1510 4000 BR BKN014 GABS 141710Z 1418/1524 22008KT 8000 SCT020 TEMPO 1419/1502 4500 -TSRA BKN020 FEW026CB PROB30 TEMPO 1504/1507 VRB15KT 4000 +TS SHRA BKN020 FEW026CB GAGO 141715Z 1418/1518 22008KT 8000 FEW026 PROB30 TEMPO 1419/1424 VRB15KT TS BKN026 FEW033CB PROB30 TEMPO 1504/1508 VRB03KT 4000 BR GBYD 141730Z 1418/1524 31008KT 9999 SCT013 PROB40 TEMPO 1420/1424 4000 TSRA BKN013 FEW025CB GCFV 142000Z 1421/1521 02011KT CAVOK TX26/1514Z TN22/1505Z GCGM 142000Z 1421/1521 VRB03KT CAVOK TX29/1514Z TN24/1505Z= GCHI 142000Z 1421/1521 34018KT 9999 FEW020 TX27/1514Z TN22/1505Z TEMPO 1421/1521 33018G28KT GCHI 142000Z 1421/1521 34018KT 9999 FEW020 TX27/1514Z TN22/1505Z TEMPO 1421/1521 33018G28KT GCLA 142000Z 1421/1521 01010KT 9999 SCT020 TX27/1514Z TN22/1505Z GCLP 142000Z 1421/1521 36020KT CAVOK TX28/1514Z TN22/1505Z PROB30 TEMPO 1509/1521 01024G34KT GCRR 142000Z 1421/1521 36015KT CAVOK TX31/1514Z TN23/1505Z PROB30 TEMPO 1509/1521 01021G31KT GCTS 142000Z 1421/1521 04015KT CAVOK TX30/1514Z TN22/1505Z PROB40 TEMPO 1421/1509 03005KT BECMG 1510/1512 08025KT PROB30 TEMPO 1511/1521 08025G35KT GCXO 142000Z 1421/1521 30009KT CAVOK TX29/1514Z TN20/1505Z TEMPO 1518/1521 2000 BCFG BKN005 PROB40 TEMPO 1519/1521 0900 FG BKN002 GEML 142000Z 1421/1521 05004KT CAVOK TX29/1514Z TN21/1505Z PROB40 TEMPO 1519/1521 BKN010 GFLL 141700Z 1418/1524 26008KT 9999 SCT014 FEW027CB FM141900 22008KT TS SCT013 FEW026CB TEMPO 1500/1504 VRB02KT 9999 SCT012 BKN060 GGOV 141700Z 1418/1518 33006KT 8000 SCT014 PROB30 TEMPO 1421/1502 4000 TSRA SCT005 BKN014 FEW020CB GLRB 141600Z 1418/1524 22009KT 9999 BKN016 TEMPO 1421/1501 00000KT 9000 TEMPO 1503/1507 8000 RA BKN012 FEW023CB GMAD 141700Z 1418/1524 20008KT 9999 SCT026 BECMG 1510/1512 26012KT CAVOK GMFF 141700Z 1418/1524 20004KT CAVOK BECMG 1512/1516 30012KT FEW030 SCT233 GMFM 141700Z 1418/1524 33007KT CAVOK PROB30 TEMPO 1504/1509 VRB02KT 4000 BR BKN010 BECMG 1510/1514 VRB02KT CAVOK BECMG 1516/1520 FEW023 GMFO 141700Z 1418/1524 34016KT CAVOK PROB30 TEMPO 1502/1507 26006KT 2000 BR BKN006 BECMG 1514/1518 36017KT 9999 SCT033 GMME 141700Z 1418/1524 34010KT 8000 SCT015 TEMPO 1418/1506 VRB02KT GMMH 141700Z 1418/1524 23012KT 6000 BKN010 PROB40 1421/1509 1200 BR OVC006 PROB40 TEMPO 1500/1508 0500 FG OVC006 GMMI 141700Z 1418/1524 36012KT 8000 NSC GMML 141700Z 1418/1524 04018KT CAVOK BECMG 1518/1521 BKN016 GMMN 141700Z 1418/1524 34014KT CAVOK BECMG 1422/1501 07005KT BKN010 PROB30 1502/1506 3000 BR BKN005 BECMG 1510/1514 34015KT CAVOK GMMW 141700Z 1418/1524 03008KT CAVOK BECMG 1510/1512 FEW020 GMMX 141700Z 1418/1524 34015KT 8000 SCT033 FEW040CB TEMPO 1419/1421 TS BECMG 1422/1501 24005KT 8000 NSC GMMZ 141700Z 1418/1524 24012KT 9999 BKN040 FEW050TCU PROB30 TEMPO 1419/1421 TSRA FEW050CB BECMG 1501/1504 VRB02KT SCT040 TEMPO 1518/1523 30013KT GMTA 141700Z 1418/1524 35008KT CAVOK BECMG 1510/1512 SCT016 GMTT 141700Z 1418/1524 28010KT 9999 FEW016 BECMG 1422/1424 22005KT PROB40 TEMPO 1423/1508 3000 BR BKN008 BECMG 1510/1514 28015KT BECMG 1517/1520 22012KT GOBD 141730Z 1418/1524 31008KT 9999 SCT013 GOGS 141730Z 1418/1518 33008KT 9999 SCT013 PROB40 TEMPO 1419/1423 4000 TSRA BKN013 FEW025CB GOOY 141730Z 1418/1524 31008KT 9999 SCT013= GBYD 141730Z 1418/1524 31008KT 9999 SCT013 PROB40 TEMPO 1420/1424 4000 TSRA BKN013 FEW025CB GOSS 141730Z 1418/1518 30008KT 9999 SCT012 GQNO 141700Z 1418/1524 30010KT 7000 FEW010 PROB30 TEMPO 1510/1517 4000 TSRA SCT035CB GQPP 141700Z 1418/1518 29010KT 7000 NSC PROB40 TEMPO 1502/1508 3500 BR BKN005 GUCY 141700Z 1418/1524 28008KT 9999 SCT015 SCT110 PROB30 TEMPO 1424/1504 18010KT 6000 TSRA BKN013 FEW023CB OVC090 BECMG 1504/1508 24006KT 8000 -RA BKN012 OVC100 GVAC 141700Z 1418/1524 VRB03KT 9999 SCT014 BECMG 1506/1508 36010KT GVBA 141100Z 1412/1518 02006KT 9999 SCT015 BECMG 1414/1416 VRB06KT BKN015 GVNP 141700Z 1418/1524 08005KT 9999 SCT016 BECMG 1507/1509 02010KT GVSV 141700Z 1418/1524 VRB05KT 9999 SCT022 BECMG 1509/1511 07010KT HAAB 140930Z 1412/1518 32005KT 9999 BKN025 SCT070 FM1420 TL1506 8000M SHRA/-RA BECMG 1513/1517 7000M TSRA/SHRA HABD 140930Z 1412/1518 VRB04KT 9999 BKN024 SCT070 BECMG 1513/1517 7000M TSRA FEW023 CB BECMG 1511/1516 8000M TSRA HADR 140930Z 1412/1518 18008KT 9999 SCT026 SCT080 HAMK 140930Z 1412/1518 09005KT 9999 BKN025 SCT080 BECMG 1502/1506 7000M SHRA BECMG 1511/1516 7000M TSRA HBBA 141700Z 1418/1524 36004KT 9999 FEW030 BECMG 1503/1505 VRB03KT 5000 HZ NSC BECMG 1508/1510 18012G25KT 7000 FEW035 BECMG 1516/1518 18005KT CAVOK HDAM 141700Z 1418/1518 VRB03KT 8000 HZ NSC BECMG 1500/1506 28014KT 8000 HZ FEW023 BECMG 1506/1512 26010KT 6000 HZ/BLDU NSC BECMG 1512/151508010KT FEW030CB HECA 141100Z 1412/1518 32010KT 9999 FEW025= HEAX 141100Z 1412/1518 32011KT 9999 SCT020 HELX 141300Z 1413/1518 32008KT 6000 NSC TEMPO 1413/1420 32012KT 3000 SA HKEL 141700Z 1418/1518 08005KT 9999 FEW020 BECMG 1420/1423 15005KT CAVOK TEMPO 1500/1506 13005KT CAVOK BECMG 1508/1511 12005KT 9999 FEW023CB TEMPO 1512/1518 07005KT -TSRA FEW024CB BKN025 HKJK 141700Z 1418/1524 04005KT 9999 SCT020 BECMG 1420/1423 VRB03KT CAVOK TEMPO 1500/1506 VRB03KT 0800 FG SCT009 BKN016 BECMG 1508/1511 12005KT SCT021 BKN080 TEMPO 1512/1518 16010KT FEW028 BECMG 1520/1523 SCT022 HKKI 141700Z 1418/1518 24005KT 9999 FEW022 SCT090 BECMG 1420/1423 00000KT FEW021 BKN090 TEMPO 1500/1506 CAVOK BECMG 1508/1511 22005KT 9999 FEW025CB TEMPO 1512/1518 24005KT FEW027CB HKMO 141700Z 1418/1524 17006KT 9999 FEW022 BECMG 1500/1506 24005KT SCT020 BECMG 1509/1512 16010KT SCT024 BECMG 1518/1521 21005KT FEW020 HLLB 141700Z 1418/1518 35015KT 8000 SCT030 BECMG 1420/1422 VRB02K BECMG 0502/0504 03010KT HRYR 141700Z 1418/1524 18005KT 9999 FEW025 FM 142200 30003KT FEW026 BECMG 1503/1506 VRB03KT FEW026 SCT100 FM 150800 17008KT SCT025 TEMPO 1512/1517 14010KT SCT025 SCT100 FM 152100 17004KT FEW026 HSKA 141700Z 1418/1524 24008KT 9999 FEW040 SCT140 TEMPO 1420/1500 8000 TSRA FEW045CB HSOB 141700Z 1418/1524 21008G18KT CAVOK TEMPO 1420/1503 9999 FEW040 SCT140 HSPN 141700Z 1418/1524 18008G18KT 8000 TEMPO 1418/1421 6000 SHRA BKN140 BECMG 1421/1423 24008G18KT HSSS 141700Z 1418/1524 22008G18KT 9999 SCT140 TEMPO 1422/1503 6000 SHRA BKN140 HTAR 141700Z 1418/1518 10008KT 9999 FEW020 TEMPO 1423/1503 -RA BKN016 SCT080 BECMG 1505/1508 BKN022 HTDA 141700Z 1418/1524 13005KT 9999 FEW016 BECMG 1419/1422 00000KT PROB40 TEMPO 1506/1510 12010KT RA BKN015 HTDO 141700Z 1418/1518 10010KT 9999 FEW028 HTGW 141700Z 1418/1518 12015KT 9999 FEW024 HTKJ 141700Z 1418/1518 09005KT 9999 FEW028 BECMG 1422/1501 BKN025 HTMT 141100Z 1412/1512 12010KT 9999 SCT023 BECMG 1509/1511 09015KT BKN023 HTMW 141700Z 1418/1518 00000KT 9999 FEW023 BECMG 1500/1502 12010KT BECMG 1511/1513 33010KT HTTB 141100Z 1412/1512 13010KT 9999 FEW025 HTZA 141700Z 1418/1518 13005KT 9999 FEW016 BECMG 1502/1504 21010KT BKN018 BECMG 1510/1512 13015KT SCT022 HUEN 141700Z 1418/1524 20014KT 9999 FEW020 FEW022CB BECMG 1421/14124 33006KT FEW018 FEW020CB TEMPO 1502/1506 VRB13KT 8000 TS FEW017 FEW019CB SCT100 BECMG 1507/1512 17014KT 9999 FEW023 FEW025CB FM 151700 23009KT FEW020 FEW022CB BECMG 1521/1524 34006KT FEW018 FEW020CB HUSO 141700Z 1418/1518 23004KT 9999 SCT020 FEW022CB BECMG 1501/1506 35003KT FEW019 BECMG 1509/1513 VRB05KT SCT022 FEW024CB FM 151600 12005KT TS SCT021 FEW023CB KABE 141748Z 1418/1518 24008KT P6SM VCTS SCT030CB BKN050 TEMPO 1418/1422 5SM -SHRA BKN030 FM142300 26007KT P6SM VCSH SCT025 BKN060 FM150100 29006KT P6SM SCT040 BKN070 FM150800 25004KT P6SM FEW050 BKN090 FM151500 28009KT P6SM FEW050 KABI 141908Z 1419/1518 19014G21KT P6SM BKN035 FM142000 18015G22KT P6SM SCT040 FM150200 17010KT P6SM SKC FM151500 19013G20KT P6SM SKC KABQ 141725Z 1418/1518 VRB06KT P6SM FEW080 FM142200 24006KT P6SM SCT090 FM150000 16010KT P6SM VCSH SCT100 FM150300 10015G25KT P6SM VCSH SCT070 BKN110 FM150900 09010KT P6SM BKN130 FM151600 21006KT P6SM FEW080 SCT150 KABR 141728Z 1417/1518 02010KT P6SM SCT090 BKN110 FM142300 04009KT P6SM FEW090 SCT150 FM150500 VRB04KT P6SM FEW250 KABY 141725Z 1418/1518 18005KT P6SM SCT040 SCT250 FM142100 19007KT P6SM VCTS BKN035CB BKN250 FM150100 21004KT P6SM BKN250 FM151200 14003KT P6SM SCT015 BKN050 KACK 141740Z 1418/1518 17010KT P6SM SKC FM142100 19008KT P6SM BKN070 FM150700 22010G18KT P6SM BKN040 KACT 142055Z 1421/1518 17011KT P6SM SCT100 TEMPO 1512/1515 BKN025 KACV 141939Z 1420/1518 32005KT P6SM BKN008 FM150200 32003KT 6SM BR OVC006 FM150400 34003KT 4SM BR OVC004 FM151000 VRB03KT 2SM BR OVC003 KACY 141748Z 1418/1518 25009G18KT P6SM FEW030 SCT040 FM142300 25009KT P6SM VCTS SCT040CB BKN200 FM150200 26006KT P6SM VCSH SCT040 BKN150 FM150500 26006KT P6SM SCT050 BKN150 FM151200 27007KT P6SM FEW070 SCT250 KADF 141735Z 1418/1518 23006KT P6SM VCSH SCT030 BKN120 TEMPO 1418/1421 BKN030 FM142100 21007KT P6SM SCT030 BKN120 FM150100 VRB03KT P6SM VCSH SCT025 OVC120 FM151200 22008KT P6SM OVC120 KADW 141700Z 1417/1523 27012KT 9999 SCT020 BKN200 QNH2989INS BECMG 1421/1422 29012G18KT 9000 -SHRA BKN040 QNH2991INS BECMG 1504/1505 28012KT 9999 NSW FEW050 BKN100 QNH2994INS BECMG 1514/1515 31012KT 9999 FEW050 QNH2999INS TX30/1420Z TN20/1510Z KAEG 141725Z 1418/1518 02006KT P6SM FEW080 FM142200 21007KT P6SM SCT090 FM150000 15007KT P6SM VCSH SCT100 FM150300 12012KT P6SM VCSH SCT070 BKN110 FM150900 VRB06KT P6SM BKN130 FM151600 03006KT P6SM FEW080 SCT150 KAEX 141739Z 1418/1518 VRB04KT P6SM FEW035 SCT045 FM150100 VRB03KT P6SM SCT250 KAFF 141913Z 1419/1601 12009KT 9999 SCT100 QNH3015INS BECMG 1420/1421 16010G15KT 9999 VCTS SCT070CB BKN100 QNH3018INS TEMPO 1422/1424 VRB25G35KT 8000 -TSRAGS BKN060CB OVC100 TEMPO 1502/1504 VRB15G25KT 9000 -SHRA BKN040 BECMG 1505/1506 21009KT 9999 NSW SCT050 SCT110 QNH3021INS BECMG 1512/1513 23009KT 9999 FEW100 520105 QNH3014INS BECMG 1516/1517 33012KT 9999 FEW130 QNH3012INS BECMG 1520/1521 30009KT 9000 -SHRA FEW080 FEW150 QNH3016INS TX29/1422Z TN11/1512Z KAFW 142055Z 1421/1518 17011KT P6SM BKN110 FM150600 18011KT P6SM SCT070 KAGC 141901Z 1419/1518 22007KT P6SM VCSH SCT015 BKN250 TEMPO 1419/1421 3SM -TSRA BKN015CB FM150000 24004KT P6SM SCT250 FM150800 21004KT 4SM BR SCT250 FM151400 24007KT P6SM SCT250 KAGS 142046Z 1421/1518 29008KT P6SM SCT070 FM150100 VRB03KT P6SM SKC FM150800 00000KT 4SM BR SKC FM151400 VRB05KT P6SM FEW050 KAHN 141728Z 1418/1518 28004KT P6SM FEW060 FM150100 00000KT P6SM FEW250 FM151700 00000KT P6SM SCT040 KAIA 141745Z 1418/1518 04012KT P6SM SKC FM142300 12009KT P6SM SCT200 FM151400 17008KT P6SM SKC KALB 141855Z 1419/1518 VRB03KT P6SM VCSH SCT025 BKN035 TEMPO 1420/1424 18010G20KT 2SM TSRA BR BKN010CB OVC025 FM150000 VRB03KT P6SM VCSH BKN050 BKN100 FM150600 00000KT 4SM BR BKN015 BKN050 FM151200 28005KT P6SM BKN025 FM151400 30006KT P6SM FEW250 KALI 141735Z 1418/1518 16015G21KT P6SM FEW050 SCT250 FM142200 13016G22KT P6SM FEW250 FM150700 15009KT P6SM FEW025 SCT200 TEMPO 1507/1511 BKN025 FM151100 15005KT 6SM BR SCT015 FM151400 16011KT P6SM FEW025 SCT250 KALO 141737Z 1418/1518 11003KT P6SM SCT150 BKN200 FM150500 VRB03KT P6SM OVC100 FM150800 VRB03KT P6SM VCSH BKN050 FM151700 06006KT P6SM BKN080 KALS 141724Z 1418/1518 16007KT P6SM FEW100 FM142100 22012KT P6SM VCTS SCT090CB BKN200 FM150200 16008KT P6SM SCT100 BKN200 FM150600 VRB06KT P6SM SCT200 KALW 141720Z 1418/1518 24004KT 2SM HZ FU SKC FM142200 30005KT 5SM HZ FU SKC FM150300 11005KT 3SM HZ FU SKC FM151700 16005KT 6SM HZ FEW160 KAMA 141731Z 1418/1518 20006KT P6SM SCT070 SCT100 FM142300 13006KT P6SM FEW080 SCT110 FM150300 07007KT P6SM FEW060 SCT100 KANB 141722Z 1418/1518 24005KT P6SM FEW050 FM150100 00000KT P6SM BKN250 KAND 141720Z 1418/1518 26005KT P6SM FEW060 FM150300 02003KT P6SM FEW080 FM151400 06003KT P6SM FEW060 FM151600 26004KT P6SM SCT050 KAOO 142046Z 1421/1518 31006KT P6SM SCT035 BKN050 FM150500 VRB04KT 5SM BR SCT250 FM151400 27008KT P6SM SCT250 KAPA 141738Z 1418/1518 09005KT P6SM FEW040 FEW200 FM142100 10010KT P6SM SCT060 BKN150 FM142300 11011KT P6SM BKN070 BKN120 TEMPO 1423/1503 VRB15G30KT -TSRA BKN070CB FM150300 15010KT P6SM FEW090 SCT150 FM150800 19011KT P6SM FEW120 SCT220 FM151700 07006KT P6SM FEW080 SCT150 KAPF 142059Z 1421/1518 11005KT P6SM FEW030 SCT250 TEMPO 1421/1422 VRB06G25KT TSRA BKN035CB FM142300 07006KT P6SM SCT030 BKN250 FM150100 VRB03KT P6SM SCT250 FM151400 12008KT P6SM SCT250 KAPN 141728Z 1418/1518 29005KT P6SM FEW070 FM150200 VRB03KT P6SM SCT060 FM150600 VRB03KT P6SM VCSH BKN035 FM151100 34003KT P6SM BKN020 FM151700 02006KT P6SM BKN050 KARA 142045Z 1421/1518 23006KT P6SM SCT045 FM150100 VRB03KT P6SM FEW250 KART 142002Z 1420/1518 36010KT P6SM FEW025 BKN040 TEMPO 1420/1422 -SHRA FM142200 VRB03KT P6SM VCSH BKN060 FM150400 VRB03KT P6SM SCT060 FM150600 VRB03KT 4SM BR SCT003 FM150900 VRB03KT 1SM BR BKN003 FM151300 25006KT P6SM FEW250 KASD 141722Z 1418/1518 VRB04KT P6SM FEW040 SCT060 KASE 141805Z 1418/1518 19005KT P6SM SKC FM141900 33006KT P6SM FEW100 SCT250 FM150000 30008KT P6SM FEW090 SCT130 FM150300 18006KT P6SM FEW090 SCT130 KASN 141722Z 1418/1518 28005KT P6SM FEW050 FM150100 00000KT P6SM BKN250 KAST 141939Z 1420/1518 25010KT 6SM FU BKN080 FM150400 22003KT 1SM BR OVC003 KATL 141935Z 1420/1524 29007KT P6SM SCT060 FM150100 30004KT P6SM FEW250 FM151700 28005KT P6SM SCT040 KATW 141740Z 1418/1518 24006KT P6SM SCT050 BKN250 FM150600 VRB03KT P6SM SCT100 BKN200 TEMPO 1507/1511 3SM BR BKN080 FM151300 06005KT P6SM VCSH BKN080 KATY 141926Z 1419/1518 05010KT P6SM OVC018 TEMPO 1420/1421 SCT015 BKN060 FM142100 04011KT P6SM SCT035 BKN060 FM150200 04006KT P6SM FEW080 SCT090 FM151000 VRB04KT P6SM SCT050 KAUG 141730Z 1418/1518 14004KT P6SM OVC005 FM141900 17006KT P6SM BKN035 FM150200 18003KT 3SM BR OVC003 FM151300 VRB04KT P6SM SCT040 BKN250 KAUS 141730Z 1418/1524 18012G22KT P6SM SCT040 FM150100 16010KT P6SM SCT050 SCT250 FM150800 17007KT P6SM OVC015 FM151500 19012KT P6SM SCT040 KAUW 141740Z 1418/1518 25007KT P6SM SCT050 BKN250 FM142200 31004KT P6SM VCSH BKN070 BKN200 FM150300 VRB03KT P6SM BKN100 FM150700 10003KT 5SM BR BKN100 TEMPO 1508/1512 2SM BR FM151400 09005KT P6SM BKN070 KAVL 141720Z 1418/1518 34005KT P6SM SCT040 FM150300 VRB02KT P6SM SCT200 FM150700 VRB02KT 2SM BR SCT010 FM151300 VRB02KT 6SM BR FEW030 FM151500 33004KT P6SM SCT045 KAVP 141723Z 1418/1518 25007KT P6SM SCT025 BKN040 TEMPO 1418/1422 3SM SHRA BR OVC025 FM150000 29005KT P6SM BKN040 FM150600 VRB03KT 4SM BR BKN035 FM151300 28007KT P6SM BKN045 KAXN 141726Z 1418/1518 05005KT P6SM VCTS SCT040CB BKN110 TEMPO 1418/1420 VRB10G25KT 2SM +TSRA BKN035CB FM142100 36008KT P6SM SCT080 BKN150 FM150200 01005KT P6SM FEW250 KAZO 141740Z 1418/1518 26009KT P6SM FEW035 FM150200 23005KT P6SM FEW200 FM151400 26004KT P6SM BKN250 KBAB 141909Z 1419/1601 18009KT 9999 FEW150 QNH2973INS BECMG 1505/1506 VRB06KT 9999 SKC QNH2979INS BECMG 1520/1521 19009KT 9999 SKC QNH2981INS TX38/1423Z TN13/1512Z KBAD 141800Z 1418/1524 19010G15KT 9999 FEW200 QNH2994INS BECMG 1500/1501 19006KT 9999 SCT150 QNH2992INS BECMG 1514/1515 20010G15KT 9999 FEW150 QNH2993INS TX34/1421Z TN23/1512Z KBAF 142027Z 1420/1518 05009KT P6SM VCTS SCT025 BKN035CB FM150200 00000KT P6SM BKN120 KBAM 141720Z 1418/1518 VRB06KT P6SM SCT120 BKN200 FM142100 23007KT P6SM FEW130 BKN250 FM150300 32005KT P6SM SCT250 KBBD 141730Z 1418/1518 17012G18KT P6SM BKN150 FM150200 15007KT P6SM FEW150 FM151100 16007KT P6SM SCT020 TEMPO 1512/1515 BKN020 FM151500 17010KT P6SM SKC KBBG 142006Z 1420/1518 18010KT P6SM VCSH OVC015 FM150100 18010KT P6SM VCSH OVC025 TEMPO 1501/1505 4SM -SHRA BR OVC015 FM150500 17007KT 4SM -SHRA BR VCTS OVC015CB KBCB 141733Z 1418/1518 28005KT P6SM SCT050 FM150100 00000KT P6SM SCT250 FM150700 00000KT 4SM BR SCT009 SCT250 FM151400 VRB03KT P6SM SCT060 KBCE 142024Z 1420/1518 25018G26KT P6SM VCTS SCT080CB BKN100 FM142300 28009KT P6SM VCSH SCT080 BKN100 FM150300 29007KT P6SM FEW100 FEW120 KBDL 142027Z 1420/1524 19010KT P6SM VCTS SCT040 BKN060CB FM150200 00000KT 6SM BR BKN050 FM151300 VRB03KT P6SM BKN050 FM151400 VRB03KT P6SM SCT070 KBDN 141720Z 1418/1518 36005KT 5SM HZ FU SKC FM142100 35009KT 5SM HZ FU SKC FM150500 VRB04KT 3SM HZ FU SKC FM151700 33007KT 6SM HZ SCT140 KBDR 141933Z 1420/1518 20009KT P6SM SCT040 SCT150 FM142100 19010KT P6SM SHRA SCT040 TEMPO 1422/1424 TSRA BKN030CB FM150100 23006KT P6SM VCSH SCT040 BKN100 FM150800 28006KT P6SM SCT050 BKN250 FM151400 28010KT P6SM SCT050 SCT250 KBED 142025Z 1420/1518 VRB03KT P6SM VCSH SCT025 BKN040 FM150000 VRB03KT P6SM SCT150 FM150600 00000KT 4SM BR BKN030 FM150900 00000KT P6SM BKN015 KBFD 142037Z 1421/1518 29006KT P6SM VCSH BKN060 FM150700 29003KT 4SM BR SCT250 FM151500 28008KT P6SM SCT250 KBFF 141745Z 1418/1518 04007KT P6SM SCT030 FM142200 13009KT P6SM VCTS SCT080CB BKN250 FM150230 10008KT P6SM BKN150 FM151500 12006KT P6SM SCT200 KBFI 142059Z 1421/1518 30006KT 3SM HZ FU SCT050 FM150000 VRB04KT P6SM SKC KBFL 141720Z 1418/1518 33007KT P6SM FEW200 KBFM 141720Z 1418/1518 VRB03KT P6SM SCT030 TEMPO 1420/1423 VRB15G25KT 3SM TSRA BKN025CB OVC050 FM150200 VRB02KT P6SM BKN250 KBGM 141902Z 1419/1518 28005KT P6SM SCT008 OVC015 TEMPO 1419/1422 3SM SHRA BR BKN008 FM142200 29007KT P6SM BKN025 FM150300 28005KT P6SM BKN035 FM150900 27005KT 3SM BR BKN015 FM151300 28008KT P6SM BKN040 KBGR 141724Z 1418/1518 16004KT P6SM -SHRA BKN015 FM150100 17004KT 4SM BR OVC008 FM150400 18003KT 2SM BR OVC003 FM151400 20004KT P6SM OVC008 KBHB 141932Z 1420/1518 14004KT P6SM OVC012 FM142300 17004KT 2SM BR OVC003 FM150500 18004KT 1/2SM FG OVC001 FM151300 19005KT 1SM BR OVC003 FM151600 20006KT P6SM OVC008 KBHM 142041Z 1421/1518 29006KT P6SM FEW050 FM150100 00000KT P6SM BKN250 KBIF 141404Z 1414/1520 VRB06KT 9999 FEW100 QNH3000INS BECMG 1417/1418 20009KT 9999 FEW080 QNH2991INS TEMPO 1419/1424 19012G18KT BECMG 1502/1503 17006KT 9999 FEW100 QNH2993INS BECMG 1517/1518 20009KT 9999 FEW100 QNH3003INS TX34/1422Z TN20/1414Z KBIH 141733Z 1418/1518 33006KT P6SM SKC FM142000 17012G20KT P6SM VCTS SCT120CB TEMPO 1422/1501 VRB15G25KT P6SM -TSRA FM150300 33007KT P6SM SCT150 KBIL 141722Z 1418/1518 06010KT P6SM VCTS SCT060CB BKN120 FM150300 VRB05KT P6SM FEW100 FM150600 23007KT P6SM SKC KBIS 141726Z 1418/1518 03010KT P6SM SCT250 FM150300 09005KT P6SM FEW250 KBIX 141800Z 1418/1524 VRB06KT 9999 FEW200 QNH2997INS BECMG 1500/1501 22006KT 9999 BKN050 QNH2998INS BECMG 1514/1515 17009KT 9999 FEW050 QNH3002INS TX34/1421Z TN25/1512Z LAST NO AMDS AFT 1422 NEXT 1510 KBJC 141738Z 1418/1518 09005KT P6SM FEW040 FEW200 FM142000 09009KT P6SM SCT060 BKN150 FM142200 11011KT P6SM BKN070 BKN120 TEMPO 1423/1502 VRB15G30KT -TSRA BKN070CB FM150300 18007KT P6SM FEW090 SCT150 FM150600 27005KT P6SM FEW120 SCT220 FM151700 05006KT P6SM FEW080 SCT150 KBJI 141724Z 1417/1518 32008KT P6SM SCT025 BKN030 FM142100 34008KT P6SM FEW045 FM150700 VRB04KT P6SM SKC KBKE 141721Z 1418/1518 VRB03KT 3SM FU SKC FM142100 30007KT 6SM FU SKC FM150400 VRB03KT 6SM FU SKC KBKF 141536Z 1415/1515 27009KT 9999 FEW080 QNH3011INS BECMG 1420/1421 09009KT 9999 VCTS SCT090CB QNH3009INS TEMPO 1421/1503 VRB25G35KT BECMG 1502/1503 15009KT 9999 VCTS SCT090CB QNH3014INS TEMPO 1505/1506 VRB25G35KT BECMG 1505/1506 20009KT 9999 NSW FEW100 QNH3006INS TX32/1421Z TN12/1415Z KBKW 141738Z 1418/1518 30008KT P6SM SCT030 BKN045 BKN070 FM150200 VRB03KT P6SM FEW250 FM151500 VRB03KT P6SM SCT045 KBLF 141733Z 1418/1518 28006KT P6SM SCT012 SCT035 TEMPO 1418/1421 BKN035 FM150100 00000KT P6SM SCT050 KBLH 141739Z 1418/1518 18012G18KT P6SM FEW100 KBLI 141720Z 1418/1518 VRB03KT 3SM HZ FU SCT050 FM142100 26005KT 6SM HZ FU SKC FM150300 18005KT P6SM SKC KBLV 141835Z 1418/1522 20012KT 9999 SCT030 BKN200 QNH2996INS TEMPO 1419/1422 -TSRA BKN030CB BECMG 1500/1501 16009KT 9999 SCT015 BKN070 QNH2994INS BECMG 1508/1509 18009KT 9000 -SHRA SCT008 BKN030 OVC060 QNH2996INS BECMG 1511/1512 19009KT 9000 -SHRA OVC008 QNH2992INS TEMPO 1517/1522 8000 -TSRA OVC010CB TX30/1418Z TN20/1505Z KBMG 141720Z 1418/1518 24006KT P6SM SCT050 FM150000 VRB03KT P6SM SCT250 FM151200 VRB03KT P6SM SCT070 BKN200 FM151400 19006KT P6SM BKN060 KBMI 141720Z 1418/1518 20005KT P6SM BKN250 FM150700 17005KT P6SM VCSH SCT050 BKN090 FM150900 17005KT 6SM -SHRA VCTS OVC020CB FM151200 16006KT 6SM SHRA VCTS OVC008CB KBNA 141739Z 1418/1518 30004KT P6SM SCT040 SCT250 FM150500 15003KT P6SM BKN100 FM151400 16005KT P6SM SCT100 BKN250 FM151600 17006KT P6SM VCSH SCT050 BKN100 BKN250 KBNO 141721Z 1418/1518 VRB06KT P6SM SKC FM151200 VRB05KT P6SM BKN150 KBOI 141721Z 1418/1518 30010KT P6SM SKC FM150600 15006KT P6SM SKC KBOS 142024Z 1420/1524 03009KT P6SM VCSH SCT015 BKN040 FM142300 12006KT P6SM BKN035 FM150600 20004KT 2SM BR BKN020 FM151400 27004KT P6SM BKN040 FM151700 30004KT P6SM SCT200 KBPI 141722Z 1418/1518 VRB04KT P6SM SCT100 FM141900 30016G26KT P6SM SKC FM150300 35009KT P6SM SKC FM150800 VRB05KT P6SM SKC KBPK 141942Z 1420/1518 20009KT P6SM -SHRA FEW010 SCT015 BKN060 TEMPO 1420/1421 BKN015 FM142100 18010G16KT P6SM -SHRA SCT020 BKN060 TEMPO 1421/1424 BKN020 FM150000 17010KT P6SM VCSH OVC050 FM150600 16007KT P6SM VCTS SCT030CB BKN100 FM151200 19012KT P6SM -SHRA OVC050 KBPT 141739Z 1418/1518 10009KT P6SM SCT035 FM150100 VRB03KT P6SM FEW250 KBRD 141739Z 1418/1518 35008KT P6SM VCSH BKN060 FM142100 35006KT P6SM BKN200 FM150200 VRB04KT P6SM FEW250 KBRL 142043Z 1421/1518 18007KT P6SM SCT050 BKN200 TEMPO 1421/1422 3SM -TSRA BR OVC050CB FM142200 17006KT P6SM VCSH SCT030 BKN060 FM150200 16005KT 5SM -SHRA VCTS BKN035CB OVC050 FM150900 15005KT 4SM -SHRA BR BKN010 OVC020 FM151400 12006KT 6SM BR BKN008 OVC015 KBRO 141729Z 1418/1518 16016G24KT P6SM SCT040 FM150200 15009KT P6SM SKC FM151500 16016G22KT P6SM BKN035 KBTL 141740Z 1418/1518 26009KT P6SM FEW035 FM150200 23005KT P6SM FEW200 FM151400 26004KT P6SM BKN250 KBTM 141731Z 1418/1518 VRB03KT P6SM SKC FM142300 31008KT P6SM SKC FM150300 15006KT P6SM SKC KBTR 141722Z 1418/1518 VRB04KT 5SM HZ FEW030 FEW250 FM150100 00000KT 6SM HZ SKC FM151500 27004KT P6SM FEW030 KBTV 141720Z 1418/1518 VRB04KT P6SM SCT050 SCT120 FM150500 VRB04KT P6SM VCSH BKN080 FM151100 VRB04KT P6SM BKN035 KBUF 141742Z 1418/1518 27008KT P6SM BKN070 FM142000 25012KT P6SM BKN100 FM142200 25012G18KT P6SM BKN200 FM150000 24010KT P6SM SCT060 FM151100 24008KT P6SM SCT060 FM151500 25012G20KT P6SM SCT060 KBUR 141742Z 1418/1518 11003KT P6SM SKC FM141900 17010KT P6SM SKC FM150300 12007KT P6SM SKC FM150800 VRB05KT P6SM SKC FM151600 14005KT P6SM SKC KBVI 141901Z 1419/1518 28007KT P6SM VCSH BKN025 TEMPO 1419/1420 3SM -TSRA BKN015CB FM142200 26004KT P6SM SCT250 FM150900 00000KT 3SM BR SCT250 FM151400 23005KT P6SM SCT250 KBVO 141732Z 1418/1518 20004KT P6SM VCSH BKN040 TEMPO 1418/1420 5SM -TSRA BR BKN025CB FM142000 18008KT P6SM VCSH BKN025 FM150200 17007KT P6SM VCTS BKN025CB TEMPO 1502/1506 3SM TSRA BR OVC015CB FM150600 19006KT P6SM VCSH BKN015 TEMPO 1506/1509 4SM TSRA BKN015CB FM150900 19006KT P6SM VCSH BKN015 PROB30 1509/1515 5SM -TSRA BKN015CB FM151500 24006KT P6SM BKN015 KBWG 141722Z 1418/1518 24005KT P6SM SCT040 FM150400 00000KT P6SM BKN080 FM151000 VRB03KT P6SM VCSH BKN040 FM151400 19008KT P6SM SCT040 BKN080 KBWI 142036Z 1421/1524 27010G18KT P6SM VCTS SCT045CB BKN200 TEMPO 1421/1423 30015G26KT 4SM SHRA BKN045 FM150000 29007KT P6SM SCT060 BKN080 FM150700 28006KT P6SM FEW090 SCT250 KBYI 141730Z 1418/1518 26010KT P6SM SKC FM142000 28010G20KT P6SM SKC FM150300 22006KT P6SM FEW200 KBZN 141740Z 1418/1524 35005KT P6SM FEW060 KCAE 142046Z 1421/1518 28008KT P6SM SCT070 FM150200 VRB03KT P6SM SKC FM151400 VRB05KT P6SM FEW050 KCAK 141736Z 1418/1518 27008KT P6SM SCT040 BKN150 FM142100 29008KT P6SM FEW045 SCT150 FM150100 VRB03KT P6SM FEW200 FM151400 25005KT P6SM FEW035 SCT200 KCAR 141759Z 1418/1518 19008KT P6SM SCT025 BKN050 FM142100 18006KT P6SM BKN050 FM150300 19006KT 5SM BR OVC020 FM150700 20006KT 5SM BR VCSH OVC007 FM151500 23005KT 5SM -SHRA OVC025 KCBM 141243Z 1412/1515 VRB06KT 4800 BR SCT002 BKN160 QNH2998INS BECMG 1413/1414 VRB06KT 9999 NSW SCT100 QNH2994INS TX33/1421Z TN21/1412Z KCDC 141739Z 1418/1518 31005KT P6SM FEW120 FM141900 23010KT P6SM VCTS SCT080CB BKN120 FM142300 18008KT P6SM VCSH SCT100 BKN150 FM150300 14006KT P6SM SCT120 FM151600 23007KT P6SM SCT120 KCDR 141911Z 1419/1518 35010KT P6SM VCTS BKN080CB TEMPO 1419/1421 33014KT 6SM -TSRA BKN060CB FM150000 12013KT P6SM BKN150 FM151400 26007KT P6SM SCT200 KCDS 141735Z 1418/1518 16011KT P6SM SCT040 FM142300 16011KT P6SM VCTS SCT050CB FM150500 VRB06KT P6SM SCT007 KCEC 141938Z 1420/1518 VRB04KT P6SM OVC007 FM150200 VRB03KT 4SM BR OVC004 FM150400 VRB03KT 2SM BR OVC003 FM151000 16003KT 1SM BR OVC002 KCEF 141800Z 1418/1524 06006KT 9000 -SHRA FEW010 SCT030 BKN100 QNH2981INS TEMPO 1418/1501 20015G20KT 6000 -TSRA FEW006 BKN012CB OVC020 BECMG 1503/1504 20006KT 9999 NSW SCT045 QNH2982INS BECMG 1508/1509 27006KT 3200 BR BKN010 QNH2983INS BECMG 1511/1512 29006KT 0800 FG BKN007 QNH2983INS BECMG 1514/1515 31009KT 9999 NSW SCT030 QNH2987INS TX27/1419Z TN17/1510Z KCGI 141720Z 1418/1518 21006KT P6SM VCSH SCT035 OVC130 FM150000 19005KT P6SM OVC110 FM151200 VRB04KT P6SM VCSH BKN110 KCHA 141730Z 1418/1518 32003KT P6SM SCT060 SCT250 FM150200 00000KT P6SM SCT250 FM151000 00000KT P6SM BKN250 FM151500 25003KT P6SM SCT120 OVC200 KCHO 141720Z 1418/1518 25005KT P6SM SCT060 BKN250 KCHS 141950Z 1420/1518 20006KT P6SM VCTS SCT035CB SCT200 TEMPO 1421/1423 VRB10G20KT 3SM -TSRA BKN040CB BKN070 FM150500 23005KT P6SM SCT150 FM151600 25005KT P6SM SCT040 KCID 141730Z 1418/1518 17006KT P6SM FEW060 BKN250 FM150400 VRB04KT 5SM BR VCSH BKN040 OVC100 FM150600 VRB03KT 4SM -SHRA BR OVC040 FM151000 35003KT 3SM BR VCSH SCT010 OVC020 TEMPO 1510/1513 1SM BR SCT003 OVC008 FM151500 07006KT 6SM -SHRA BR BKN015 OVC020 KCKB 141738Z 1418/1518 26004KT P6SM VCSH SCT035 FM150700 VRB03KT 3SM BR FEW040 FM150800 00000KT 1/2SM FG OVC001 FM151300 VRB02KT 3SM BR SCT002 FM151330 VRB04KT P6SM SCT040 KCKV 141739Z 1418/1518 23003KT P6SM SCT040 SCT250 FM150400 19003KT P6SM BKN100 FM151300 15005KT P6SM SCT100 BKN250 FM151500 18007KT P6SM VCSH SCT050 BKN100 BKN250 KCLE 141736Z 1418/1524 29008KT P6SM SCT045 FM142300 24006KT P6SM FEW250 FM152300 21005KT P6SM SCT045 BKN150 KCLL 141723Z 1418/1518 17013G16KT P6SM SKC FM150100 16010KT P6SM SCT250 FM151000 17007KT P6SM BKN015 FM151600 18011G18KT P6SM BKN025 KCLM 141720Z 1418/1518 10008KT 2SM HZ FU SCT040 FM142100 08005KT 6SM HZ FU SCT050 FM150000 28005KT P6SM SKC FM150900 27004KT 4SM BR SKC FM151500 VRB03KT P6SM SKC KCLT 141956Z 1420/1524 26005KT P6SM SCT050 FM142300 30003KT P6SM FEW060 FM150300 02003KT P6SM FEW060 FM151600 25005KT P6SM SCT060 KCMA 141742Z 1418/1518 23005KT P6SM FEW015 FM142000 24008KT P6SM SKC FM150300 VRB03KT P6SM SKC FM150700 VRB03KT P6SM OVC006 FM151200 VRB03KT P6SM OVC010 FM151600 23005KT P6SM SCT010 KCMH 141737Z 1418/1518 28009KT P6SM SCT060 FM150100 21003KT P6SM SCT250 FM151500 20009KT P6SM SCT250 KCMI 141720Z 1418/1518 22005KT P6SM BKN250 FM150500 18005KT P6SM VCSH SCT045 BKN110 FM151200 16006KT 6SM -SHRA VCTS OVC020CB KCMX 141720Z 1418/1518 34006KT P6SM SCT050 FM142200 35006KT P6SM SCT080 FM150000 02005KT P6SM BKN080 FM150900 07005KT P6SM SCT090 KCNM 141720Z 1418/1518 16007KT P6SM FEW080 KCNU 142054Z 1421/1518 20012KT P6SM VCTS SCT020 BKN035CB TEMPO 1421/1423 2SM +TSRA FM150800 19007KT 5SM BR VCSH SCT009 BKN015 FM151500 30009KT P6SM SCT009 BKN015 KCNY 141806Z 1418/1518 03005KT P6SM SKC FM142000 29006KT P6SM FEW130 FEW250 FM150000 31010KT P6SM FEW130 SCT250 FM150300 35008KT P6SM SCT110 BKN200 FM150500 01005KT P6SM FEW110 SCT200 KCOD 141722Z 1418/1518 02011KT P6SM SKC FM142100 03006KT P6SM VCTS SCT030CB BKN100 TEMPO 1423/1502 5SM -TSRA OVC030CB FM150200 27007KT P6SM SCT100 LTD TO CLD VIS AND WIND KCOE 141739Z 1418/1518 VRB04KT 3SM HZ SKC FM142000 28004KT 6SM FU HZ FEW050 SCT200 FM150300 08003KT 6SM FU HZ SCT200 FM151500 09003KT 3SM FU HZ SCT200 KCOF 141800Z 1418/1524 12009KT 9999 SCT030 SCT200 QNH3004INS BECMG 1418/1419 15012KT 9999 VCTS BKN030CB QNH3002INS TEMPO 1419/1424 VRB15G25KT 8000 TSRA BKN020CB BKN200 BECMG 1500/1501 14008KT 9999 NSW SCT040 SCT200 QNH3004INS BECMG 1504/1505 VRB06KT 9999 FEW040 FEW200 QNH3005INS BECMG 1514/1515 14006KT 9999 SCT030 QNH3004INS BECMG 1519/1520 12009KT 9999 VCTS BKN030CB QNH3005INS TX31/1420Z TN26/1510Z KCON 141730Z 1418/1518 00000KT P6SM BKN019 TEMPO 1420/1424 1SM +TSRA OVC010CB FM150500 00000KT P6SM BKN250 FM150700 00000KT 6SM BR BKN008 FM151300 VRB03KT P6SM BKN015 FM151400 VRB04KT P6SM BKN250 KCOS 141724Z 1418/1518 08007KT P6SM FEW090 SCT200 FM142100 14012KT P6SM VCTS SCT080CB BKN140 TEMPO 1422/1501 VRB25G35KT -TSRA BKN060CB FM150300 07006KT P6SM SCT120 BKN200 FM150600 13006KT P6SM SCT120 BKN200 KCOU 141904Z 1419/1518 16010G19KT P6SM VCSH BKN035 TEMPO 1419/1421 4SM -SHRA BKN025 FM142100 16009KT P6SM VCTS BKN040CB FM150000 16006KT P6SM BKN040 FM151000 17006KT 5SM -SHRA VCTS BKN015CB FM151600 17008KT P6SM BKN020 KCPR 141722Z 1418/1518 06011KT P6SM FEW020 FM142100 10010G18KT P6SM VCTS SCT070CB BKN150 TEMPO 1423/1502 5SM -TSRA OVC020CB FM150200 04011KT P6SM VCSH SCT080 BKN150 FM150800 05008KT P6SM SCT015 FM151200 24006KT P6SM SCT020 KCPS 141740Z 1418/1518 17009KT P6SM VCSH BKN040 TEMPO 1419/1421 6SM -SHRA BKN030 FM150000 17008KT P6SM BKN040 FM151200 18009KT 5SM -SHRA VCTS BKN020CB KCRE 141807Z 1418/1518 19010G15KT P6SM VCTS FEW020 SCT030CB BKN060 TEMPO 1420/1424 VRB15G25KT 4SM -TSRA BR SCT010 BKN025CB OVC045 FM150300 22003KT P6SM SCT250 FM151000 25002KT 4SM BR SCT005 FM151400 22008KT P6SM SKC KCRG 142048Z 1421/1518 15010KT P6SM -RA SCT060 BKN100 FM150000 19007KT P6SM VCSH SCT040 BKN120 FM150400 00000KT P6SM SCT100 KCRP 141735Z 1418/1518 16015G22KT P6SM SCT045 BKN250 FM142000 14017G24KT P6SM FEW040 SCT250 FM150800 16010KT P6SM FEW025 SCT090 FM151430 17014KT P6SM SCT025 BKN250 KCRQ 141724Z 1418/1518 VRB03KT P6SM FEW014 FM142000 26008KT P6SM SKC FM150100 VRB04KT P6SM FEW015 FM150700 VRB03KT P6SM BKN014 KCRW 141738Z 1418/1518 24004KT P6SM SCT035 FM150600 00000KT 2SM BR FEW250 FM150700 00000KT 1/2SM FG OVC001 FM151300 00000KT 4SM BR SCT002 FM151330 VRB04KT P6SM FEW050 KCSG 141728Z 1418/1518 VRB03KT P6SM VCSH SCT060 TEMPO 1418/1422 VRB15G25KT 4SM TSRA BKN025CB FM150000 24004KT P6SM BKN060 FM150300 00000KT P6SM FEW250 FM150700 00000KT 5SM BR SCT250 FM151400 00000KT P6SM SCT250 FM151700 VRB03KT P6SM SCT040 KCSM 141736Z 1418/1518 18012KT P6SM SCT035 SCT250 TEMPO 1418/1421 BKN035 FM151000 24012KT P6SM BKN250 KCSV 141800Z 1418/1518 29004KT P6SM SCT040 SCT200 FM150700 14003KT 4SM BR BKN080 FM151300 20003KT P6SM SCT080 FM151600 25004KT P6SM SCT080 BKN200 KCTB 142021Z 1420/1518 VRB06KT 5SM HZ SKC KCUB 142046Z 1421/1518 28008KT P6SM SCT070 FM150200 VRB03KT P6SM SKC FM151400 VRB05KT P6SM FEW050 KCVG 142059Z 1421/1524 26004KT P6SM SCT050 FM150100 20003KT P6SM BKN250 FM151100 19003KT P6SM BKN250 FM151800 20008KT P6SM BKN070 BKN200 KCVS 141801Z 1418/1524 19009KT 9999 FEW200 QNH3000INS BECMG 1502/1503 09009KT 9999 FEW200 QNH2995INS BECMG 1506/1507 14009KT 9999 FEW060 BKN120 QNH3000INS BECMG 1523/1524 16012KT 9999 VCTS SCT080CB QNH2999INS TX32/1421Z TN17/1512Z KCWA 141740Z 1418/1518 24007KT P6SM SCT050 BKN200 FM142200 31004KT P6SM VCSH BKN070 BKN200 FM150300 VRB03KT P6SM BKN100 FM150700 10003KT 5SM BR BKN100 TEMPO 1508/1512 2SM BR FM151400 09005KT P6SM BKN070 KCXO 141723Z 1418/1518 15014G19KT P6SM SKC FM150200 16005KT P6SM SCT250 FM150600 16004KT P6SM SCT025 TEMPO 1509/1513 3SM BR BKN025 FM151600 17007KT P6SM BKN035 KCXP 141721Z 1418/1518 VRB04KT P6SM FEW180 FM142300 29009G18KT P6SM VCTS SCT090CB BKN200 FM150200 26007KT P6SM SCT150 BKN200 FM150500 VRB04KT P6SM VCSH SCT100 KCYS 142039Z 1421/1518 12010KT P6SM VCTS BKN050CB FM142115 VRB40G60KT 4SM -TSRAGR OVC040CB FM142230 18010KT P6SM VCTS BKN050CB FM150400 17008KT P6SM SCT200 FM150900 22007KT P6SM SCT015 FM151400 29006KT P6SM SCT250 KDAA 141700Z 1417/1523 27012KT 9999 SCT020 BKN200 QNH2989INS BECMG 1421/1422 29012G18KT 9000 -SHRA BKN040 QNH2991INS BECMG 1504/1505 28012KT 9999 NSW FEW050 BKN100 QNH2994INS BECMG 1514/1515 31012KT 9999 FEW050 QNH2999INS TX30/1420Z TN20/1510Z KDAB 141904Z 1419/1518 19008KT P6SM VCSH BKN045 FM142000 12008KT P6SM VCTS SCT045CB BKN060 BKN250 TEMPO 1420/1423 3SM TSRA BKN030CB FM150000 20004KT P6SM FEW040 SCT100 BKN250 FM151400 18005KT P6SM SCT025 KDAG 141733Z 1418/1518 30011KT P6SM SKC FM142000 04006KT P6SM FEW120 FM150100 24014G22KT P6SM FEW120 FM150600 27010KT P6SM FEW120 KDAL 142055Z 1421/1518 18013KT P6SM BKN110 FM150600 18012KT P6SM SCT070 KDAN 141842Z 1419/1518 25006KT P6SM VCSH SCT060 FM142200 24005KT P6SM SCT090 FM150000 VRB03KT P6SM FEW250 FM151000 00000KT 3SM BR FEW250 FM151200 VRB03KT P6SM FEW250 KDAY 141737Z 1418/1518 27008KT P6SM SCT050 FM150100 21003KT P6SM SCT250 FM151600 22012KT P6SM BKN250 KDBQ 141730Z 1418/1518 21007KT P6SM SCT040 BKN250 FM150600 VRB03KT 6SM BR VCSH SCT040 BKN100 FM150800 VRB03KT 4SM -SHRA BR BKN030 OVC050 FM151000 VRB03KT 2SM BR VCSH BKN025 OVC040 TEMPO 1510/1513 1 1/2SM -RA BR SCT008 OVC025 FM151500 09006KT 6SM BR BKN030 OVC050 KDCA 142036Z 1421/1524 28012G18KT P6SM VCTS SCT050CB BKN250 TEMPO 1421/1423 30015G24KT -SHRA BKN050 FM150000 30007KT P6SM SCT060 BKN090 FM150600 28005KT P6SM FEW060 SCT250 KDDC 141720Z 1418/1518 33009KT P6SM OVC018 FM141900 33012KT P6SM VCTS BKN030CB FM150000 35010KT P6SM BKN050 KDEC 141720Z 1418/1518 19005KT P6SM SCT045 BKN250 FM150100 17005KT P6SM VCSH SCT045 BKN100 FM150800 17005KT P6SM VCTS BKN045CB FM151100 17006KT P6SM VCTS OVC015CB KDEN 142018Z 1420/1524 09009G15KT P6SM SCT040 SCT100 BKN200 FM142300 12013KT P6SM SCT040 BKN060 BKN100 TEMPO 1500/1503 VRB15G30KT -TSRA BKN060CB FM150300 15010KT P6SM FEW090 SCT150 FM150800 19011KT P6SM FEW120 SCT220 FM151700 07006KT P6SM FEW080 SCT150 KDET 141720Z 1418/1518 26009KT P6SM FEW060 FM150200 VRB04KT P6SM BKN250 FM151500 22008KT P6SM SCT045 BKN200 KDFW 142055Z 1421/1524 18013KT P6SM BKN110 FM150600 18012KT P6SM SCT070 KDHN 141725Z 1418/1518 19007KT P6SM VCTS BKN035CB BKN250 FM150100 21004KT P6SM BKN250 FM151200 14003KT P6SM SCT015 BKN050 KDHT 141731Z 1418/1518 01006KT P6SM SCT070 SCT100 FM151500 09004KT P6SM FEW070 FEW200 KDIJ 141730Z 1418/1518 19007KT P6SM SKC FM141900 25010G20KT P6SM SKC FM150200 14007KT P6SM SKC LTD TO CLD VIS AND WIND KDIK 141726Z 1418/1518 15007KT P6SM SCT250 KDLF 141800Z 1418/1524 15012G18KT 9999 SCT020 BKN040 OVC050 QNH2981INS BECMG 1501/1502 16009KT 9999 FEW070 BKN120 BKN200 QNH2983INS BECMG 1512/1513 12006KT 8000 BR BKN015 BKN100 QNH2995INS BECMG 1515/1516 13010G15KT 9999 NSW SCT020 BKN100 QNH2998INS BECMG 1523/1524 15009KT 9999 FEW015 SCT120 QNH2999INS TX34/1422Z TN22/1512Z KDLH 141739Z 1418/1518 34008KT P6SM BKN060 FM142000 33008KT P6SM BKN120 FM150100 VRB04KT P6SM SCT200 FM151400 06006KT P6SM SCT100 KDLS 141720Z 1418/1518 VRB03KT 2SM HZ FU SKC FM142200 VRB05KT 5SM HZ FU SKC FM150600 VRB03KT 3SM HZ FU SKC FM151700 33008KT 6SM HZ FEW150 KDMA 141429Z 1414/1520 16009KT 9999 FEW100 QNH2996INS BECMG 1417/1418 32012KT 9999 FEW100 QNH2993INS BECMG 1420/1421 30012G18KT 9999 SCT080 QNH2986INS TEMPO 1421/1424 VRB15G25KT VCTS BKN080CB 510009 TEMPO 1506/1507 VRB20G30KT 8000 -TSRA BKN080CB 510009 BECMG 1507/1508 16009KT 9999 SCT100 QNH2996INS BECMG 1517/1518 30012KT 9999 BKN100 QNH3001INS TX34/1423Z TN22/1414Z KDMN 141723Z 1418/1518 23008KT P6SM SCT090 SCT250 FM150600 26008KT P6SM BKN250 KDNL 142046Z 1421/1518 29008KT P6SM SCT070 FM150100 VRB03KT P6SM SKC FM151400 VRB05KT P6SM FEW050 KDOV 141600Z 1416/1522 25012KT 9999 SCT035 QNH2985INS TEMPO 1421/1424 27015G20KT 6000 -TSRA BKN030CB OVC050 BECMG 1423/1424 28009KT 9000 -RA BKN020 OVC060 QNH2990INS BECMG 1504/1505 25009KT 9999 NSW FEW020 BKN050 QNH2991INS BECMG 1509/1510 26009KT 9999 FEW035 QNH2992INS BECMG 1517/1518 29010G15KT 9999 SCT040 QNH2996INS TX29/1420Z TN20/1510Z KDPA 142058Z 1421/1518 24008KT 5SM HZ FEW050 BKN250 FM150100 VRB03KT P6SM SCT040 BKN250 FM150900 21004KT P6SM VCSH SCT040 BKN250 FM151400 17010KT 6SM SHRA BKN040 KDRO 141806Z 1418/1518 23005KT P6SM SKC FM142000 30010KT P6SM FEW120 SCT200 FM150100 33007KT P6SM FEW100 SCT250 FM150300 04005KT P6SM FEW090 SCT250 KDRT 141730Z 1418/1518 14012KT P6SM SCT060 SCT250 FM151300 13012KT P6SM OVC025 FM151600 13012KT P6SM SCT050 KDSM 141737Z 1418/1518 16006KT P6SM FEW100 SCT190 BKN220 FM142300 11005KT P6SM VCSH OVC080 FM150500 07005KT 6SM -SHRA OVC040 FM150700 07005KT 6SM -SHRA OVC025 FM151100 04004KT P6SM VCSH OVC015 FM151600 04007KT P6SM BKN025 KDTW 141720Z 1418/1524 26009KT P6SM FEW060 FM150200 VRB04KT P6SM BKN250 FM151500 22008KT P6SM SCT045 BKN200 KDUG 141725Z 1418/1518 33006KT P6SM SCT090 FM142100 32010KT P6SM VCTS SCT080CB BKN120 TEMPO 1423/1501 4SM -TSRA BR BKN040CB FM150100 36009KT P6SM -SHRA BKN090 OVC250 FM150600 VRB04KT P6SM BKN100 KDUJ 141957Z 1420/1518 27006KT P6SM BKN015 FM150300 26003KT 6SM HZ BKN100 FM151200 25004KT 2SM BR BKN004 FM151500 26006KT P6SM SCT250 KDVL 141724Z 1417/1518 32008KT P6SM FEW250 FM150000 VRB05KT P6SM SKC KDYS 141600Z 1416/1522 20015G25KT 9999 SCT020 BKN060 QNH2987INS TEMPO 1416/1418 BKN020 BKN060 BECMG 1423/1424 18009KT 9999 FEW100 QNH2990INS BECMG 1507/1508 18009KT 9999 SKC 510105 QNH2994INS BECMG 1515/1516 20012G20KT 9999 SKC QNH2991INS TX34/1422Z TN22/1512Z KEAR 141737Z 1418/1518 05009KT P6SM -SHRA OVC025 FM142000 06011KT P6SM VCSH SCT025 BKN060 FM150000 05009KT P6SM BKN100 FM150500 VRB05KT 4SM BR FEW250 FM151400 VRB04KT P6SM FEW250 KEAT 141739Z 1418/1518 26004KT 1SM HZ VV019 FM142200 14004KT 5SM FU HZ SCT040 FM150500 32006KT 6SM FU HZ FEW040 FM151200 30006KT 6SM HZ SKC KEAU 141726Z 1418/1518 26008KT P6SM SCT080 FM142300 23007KT P6SM VCTS BKN060CB OVC250 FM150200 VRB02KT P6SM BKN250 FM151200 VRB04KT P6SM BKN020 FM151500 VRB04KT P6SM BKN050 KECG 141741Z 1418/1518 22009KT P6SM FEW040 BKN100 FM150200 22005KT P6SM SCT100 FM151400 25008KT P6SM SKC KECP 141725Z 1418/1518 19007KT P6SM VCTS BKN035CB BKN250 FM150100 21004KT P6SM BKN250 FM151500 18007KT P6SM BKN050 KEDW 141804Z 1418/1524 23012KT 9999 FEW110 QNH2988INS BECMG 1420/1421 22012G18KT 9999 FEW150 QNH2985INS BECMG 1422/1423 22015G25KT 9999 FEW130 QNH2984INS BECMG 1502/1503 22012KT 9999 SKC QNH2983INS BECMG 1505/1506 23009KT 9999 FEW100 SCT120 QNH2989INS BECMG 1517/1518 24012KT 9999 FEW130 QNH2993INS BECMG 1519/1520 23012G18KT 9999 FEW100 SCT150 QNH2992INS BECMG 1522/1523 23015G25KT 9999 FEW100 SCT160 QNH2993INS TX38/1422Z TN19/1512Z KEED 141733Z 1418/1518 15008KT P6SM FEW150 FM142100 20011KT P6SM FEW150 FM150200 24011KT P6SM FEW150 FM151200 17011KT P6SM BKN250 KEET 141722Z 1418/1518 32005KT P6SM VCTS SCT050CB FM142100 32005KT P6SM SCT050 FM150100 00000KT P6SM BKN250 KEFD 142000Z 1420/1602 16012KT 9999 SCT040 QNH2994INS TEMPO 1420/1424 16012G18KT BECMG 1501/1502 15006KT 9999 FEW020 SCT250 QNH2995INS BECMG 1514/1515 16012KT 9999 SCT030 SCT150 QNH2998INS BECMG 1523/1524 16009KT 9999 SCT050 QNH2999INS TX34/1420Z TN25/1512Z KEGE 141805Z 1418/1518 05003KT P6SM SKC FM142000 29007KT P6SM FEW100 SCT150 FM150100 34006KT P6SM FEW090 SCT140 FM150300 07005KT P6SM FEW090 SCT150 KEGI 141340Z 1413/1515 34006KT 9999 FEW150 FEW250 QNH2999INS BECMG 1414/1415 25005KT 9999 SCT035 SCT120 BKN250 QNH3000INS BECMG 1418/1419 19009KT 9999 -SHRA VCTS SCT035CB BKN150 BKN250 QNH3001INS TEMPO 1419/1423 20015G25KT 6000 -TSRA BKN030CB OVC150 BECMG 1500/1501 20006KT 9999 NSW FEW030 SCT055 BKN150 QNH2996INS BECMG 1505/1506 24004KT 9000 BR FEW018 SCT040 SCT150 QNH2999INS TX33/1418Z TN23/1510Z KEKN 141738Z 1418/1518 32005KT P6SM VCSH SCT040 FM150100 VRB03KT P6SM SCT250 FM150500 00000KT 2SM BR SCT001 FM150600 00000KT 1/2SM FG OVC001 FM151300 00000KT 4SM BR SCT002 FM151400 27004KT P6SM FEW050 KEKO 141720Z 1418/1518 VRB06KT P6SM SCT120 FM142100 25007KT P6SM FEW120 BKN250 FM150300 VRB05KT P6SM SCT250 KEKS 141740Z 1418/1518 35007KT P6SM SKC KELD 141745Z 1418/1518 22007KT P6SM FEW040 SCT250 FM150100 16004KT P6SM SCT180 BKN250 FM151500 21009KT P6SM FEW200 KELM 141723Z 1418/1518 31005KT P6SM SCT018 BKN025 TEMPO 1418/1421 3SM SHRA BR OVC018 FM142200 29005KT P6SM SCT025 BKN035 FM150600 VRB03KT 2SM BR OVC015 FM151400 29007KT P6SM BKN045 KELP 141723Z 1418/1518 20008KT P6SM FEW100 SCT250 FM150600 20009KT P6SM BKN250 KELY 142029Z 1420/1518 05010G15KT P6SM VCTS BKN090CB TEMPO 1420/1424 VRB20G35KT -TSRA FM150400 17008KT P6SM BKN120 FM151700 18006KT P6SM VCTS BKN090CB KEND 141907Z 1419/1524 22009KT 8000 -SHRA BKN020 QNH2984INS TEMPO 1421/1502 21010G15KT 4800 -TSRA BKN015CB BKN060 BECMG 1502/1503 24006KT 9999 NSW BKN040 OVC100 QNH2986INS BECMG 1505/1506 27003KT 9999 BKN015 BKN025 BKN100 QNH2987INS BECMG 1514/1515 32009KT 9999 SCT025 BKN150 QNH2991INS TX29/1421Z TN18/1512Z KENV 141739Z 1418/1518 11007KT P6SM FEW100 SCT120 FM150300 32007KT P6SM SCT120 FM151500 11006KT P6SM SCT120 KENW 141741Z 1418/1518 28007KT P6SM SCT040 SCT250 FM142100 17006KT P6SM FEW050 SCT200 FM150300 VRB04KT P6SM BKN250 FM151500 VRB03KT 5SM -SHRA OVC045 KERI 141736Z 1418/1518 30010KT P6SM FEW045 SCT250 FM150100 22008KT P6SM FEW250 FM151500 26010KT P6SM FEW040 SCT200 KEUG 141722Z 1418/1518 34005KT P6SM BKN080 FM150500 21003KT P6SM BKN080 KEUL 141721Z 1418/1518 VRB05KT 6SM FU SKC TEMPO 1418/1420 5SM FU KEVV 141720Z 1418/1518 22005KT P6SM FEW040 SCT250 FM142300 25006KT P6SM SCT040 BKN250 FM150300 00000KT P6SM BKN130 FM151500 VRB04KT P6SM VCSH BKN080 KEVW 142023Z 1420/1518 30012G22KT P6SM SCT090 BKN120 FM150300 30008KT P6SM FEW100 FEW180 FM150500 16006KT P6SM SCT180 FM151500 24008KT P6SM SCT120 KEWN 141739Z 1418/1518 20004KT P6SM VCTS SCT040CB FM150000 VRB02KT P6SM FEW060 FEW250 FM151400 25004KT P6SM SKC KEWR 141933Z 1420/1524 21010G16KT P6SM SHRA BKN035 TEMPO 1420/1422 3SM TSRA BKN030CB FM150000 27009KT P6SM VCSH SCT040 BKN100 FM150500 28009KT P6SM SCT050 BKN250 FM151400 29012G18KT P6SM SCT050 SCT250 FM151900 28010KT P6SM SCT250 KEYW 141730Z 1418/1518 13009KT P6SM SCT025 SCT250 KFAF 141800Z 1418/1524 VRB06KT 9999 FEW060 SCT120 QNH2990INS BECMG 1422/1423 24006KT 9999 FEW040 QNH2988INS BECMG 1505/1506 25006KT 9999 FEW030 BKN045 QNH2993INS BECMG 1515/1516 27006KT 9999 FEW040 SCT120 QNH2999INS TX32/1518Z TN21/1510Z LAST NO AMDS AFT 1503 NEXT 1510 KFAR 141724Z 1417/1518 35009KT P6SM SCT030 FM142000 35010KT P6SM FEW110 FM150300 VRB04KT P6SM SKC KFAT 141720Z 1418/1518 31008KT P6SM FEW200 KFAY 142044Z 1421/1518 24008KT P6SM VCTS SCT040CB BKN100 TEMPO 1421/1422 VRB20G30KT 1SM -TSRA BKN035CB FM142300 23008KT P6SM SCT100 FM150000 24003KT P6SM FEW050 TEMPO 1509/1512 3SM BR FEW007 KFBG 141700Z 1417/1523 23006KT 8000 -SHRA BKN030 BKN080 QNH2995INS TEMPO 1417/1423 VRB12G20KT 6000 -TSRA BKN015CB BECMG 1423/1424 24006KT 9999 NSW SCT050 QNH2998INS BECMG 1514/1515 27006KT 9999 FEW050 QNH3005INS TX33/1419Z TN21/1511Z KFCS 141308Z 1413/1519 33009KT 9999 FEW120 QNH3011INS BECMG 1420/1421 14010G15KT 9999 VCTS SCT080CB BKN150 QNH3015INS TEMPO 1422/1501 VRB20G35KT 8000 -TSRA BKN050CB OVC150 BECMG 1504/1505 18012KT 9999 NSW SCT060 QNH3016INS BECMG 1516/1517 36009KT 9999 SCT090 BKN150 QNH3015INS TX29/1422Z TN15/1413Z KFDY 141736Z 1418/1518 26008KT P6SM SCT045 FM150200 23004KT P6SM FEW200 FM151400 21004KT P6SM FEW035 BKN250 KFFO 141900Z 1419/1601 26009KT 9999 BKN050 QNH3001INS BECMG 1502/1503 19006KT 9999 SCT050 BKN250 QNH3005INS BECMG 1514/1515 23012KT 9999 BKN050 BKN200 QNH3005INS TEMPO 1519/1523 22015G25KT 6000 -TSRA OVC040CB TX29/1420Z TN19/1510Z KFHU 141957Z 1419/1524 34009KT 9999 SCT050 BKN120 QNH3009INS BECMG 1420/1421 34015G25KT 9000 TSRA BKN050CB BKN120 QNH3004INS TEMPO 1422/1503 VRB35G45KT 8000 BECMG 1502/1503 24015G20KT 9000 -SHRA VCTS BKN030CB OVC150 QNH3002INS BECMG 1505/1506 23009KT 9000 -SHRA BKN030 OVC150 QNH3009INS BECMG 1509/1510 23009KT 9999 NSW BKN150 QNH3012INS BECMG 1517/1518 23012KT 9999 BKN150 QNH3014INS BECMG 1521/1522 VRB20G30KT 9000 -TSRA BKN040CB BKN150 QNH3015INS TX30/1420Z TN18/1512Z KFKL 141914Z 1419/1518 30007KT P6SM SCT025 BKN050 FM150000 26004KT P6SM SCT250 FM150900 24004KT 2SM BR FEW250 FM151400 25007KT P6SM SCT250 KFLG 141730Z 1418/1518 VRB05KT P6SM SCT140 FM141900 24010KT P6SM SCT090 SCT120 TEMPO 1419/1423 VRB10G20KT 5SM TSRA BKN070CB FM150200 VRB05KT P6SM SCT120 KFLL 142059Z 1421/1524 11012KT P6SM FEW035 FEW150 BKN250 FM150100 11006KT P6SM FEW025 SCT250 FM150400 VRB03KT P6SM SCT250 FM151400 12012KT P6SM SCT030 SCT250 KFLO 141815Z 1418/1518 23008KT P6SM VCTS SCT030CB BKN050 FM150000 22004KT P6SM SCT120 FM150500 26002KT 4SM BR SKC FM150900 23002KT 1/4SM FG VV002 FM151300 26003KT P6SM SCT250 KFMH 141740Z 1418/1518 17012KT P6SM VCSH SCT012 BKN025 FM150000 21007KT P6SM BKN030 FM150500 21006KT P6SM BKN070 KFMN 141725Z 1418/1518 15007KT P6SM FEW090 FM141900 27010G20KT P6SM SCT100 FM142300 32015G25KT P6SM VCSH BKN100 FM150200 06012G22KT P6SM BKN120 FM150700 08006KT P6SM SCT150 FM151600 12006KT P6SM SCT090 KFMY 141720Z 1418/1518 19007KT P6SM SCT045 BKN250 FM141900 22008KT P6SM VCTS SCT045CB SCT150 BKN250 TEMPO 1419/1422 VRB15G25KT 3SM TSRA BKN025CB FM150000 14005KT P6SM FEW025 BKN150 FM150200 VRB03KT P6SM SCT025 SCT200 FM151400 14007KT P6SM FEW020 SCT250 KFNT 141720Z 1418/1518 27009KT P6SM FEW050 FM150200 26004KT P6SM BKN250 FM150900 23003KT P6SM BKN250 FM151500 22008KT P6SM SCT045 BKN200 KFOD 141737Z 1418/1518 00000KT P6SM SCT150 BKN200 FM151200 01005KT P6SM BKN020 FM151600 03007KT P6SM BKN050 KFOE 141738Z 1418/1518 16007KT 6SM SHRA VCTS OVC035CB FM150300 00000KT P6SM -SHRA BKN045 FM150900 35004KT P6SM VCSH SCT005 OVC012 KFPR 141740Z 1418/1518 13008KT P6SM VCSH SCT035 BKN060 FM142100 13010KT P6SM SCT035 BKN250 FM150000 15006KT P6SM FEW100 BKN250 FM151400 13008KT P6SM SCT025 KFRI 142045Z 1420/1522 16009KT 8000 -SHRA VCTS BKN015CB QNH2980INS TEMPO 1421/1500 4800 -TSRA BKN010CB BECMG 1501/1502 VRB06KT 8000 -SHRA BKN015 QNH2982INS BECMG 1504/1505 36009KT 9999 NSW BKN010 QNH2984INS BECMG 1514/1515 36012KT 9999 BKN025 QNH2987INS TX29/1421Z TN18/1512Z KFSD 142039Z 1421/1518 05003KT P6SM VCSH SCT050 BKN110 FM150100 04005KT P6SM SCT040 BKN140 FM151000 06006KT P6SM BKN030 KFSI 141525Z 1415/1519 21010KT 9999 SCT010 BKN070 BKN080 QNH2986INS BECMG 1419/1420 21012G18KT 9999 BKN070 QNH2981INS BECMG 1501/1502 18009KT 9999 VCTS BKN060CB QNH2986INS TEMPO 1503/1507 01020G30KT 6000 -TSRA BKN060CB BECMG 1507/1508 21006KT 9999 NSW SCT060 BKN100 QNH2990INS BECMG 1514/1515 24015G20KT 9999 BKN100 QNH2995INS TX33/1421Z TN25/1415Z KFSM 141732Z 1418/1518 20010G16KT P6SM -RA SCT015 BKN050 TEMPO 1418/1421 BKN025 FM142100 18010KT P6SM SCT020 BKN035 FM150100 10005KT P6SM SCT020 BKN040 PROB30 1510/1512 3SM TSRA BR OVC015CB FM151200 09006KT P6SM VCSH BKN025 PROB30 1512/1518 4SM TSRA BKN015CB KFST 141720Z 1418/1518 16011KT P6SM FEW080 KFTK 140900Z 1409/1515 VRB06KT 8000 BR SCT070 QNH2999INS BECMG 1411/1412 VRB06KT 9999 NSW SCT060 QNH3000INS BECMG 1510/1511 17006KT 8000 -SHRA FEW050 OVC080 QNH3008INS TX30/1418Z TN17/1409Z KFTW 142055Z 1421/1518 18011KT P6SM BKN110 FM150600 18011KT P6SM SCT070 KFTY 141728Z 1418/1518 28004KT P6SM FEW060 FM150100 VRB03KT P6SM FEW250 FM151700 00000KT P6SM SCT050 KFVE 141759Z 1418/1518 18007KT P6SM SCT015 BKN040 FM142100 18005KT P6SM BKN040 FM150200 19006KT 5SM BR OVC015 FM150800 21005KT 3SM BR VCSH OVC005 FM151400 24005KT 5SM -SHRA OVC015 KFWA 141730Z 1418/1518 26008KT P6SM SCT060 FM150200 VRB03KT P6SM SCT200 FM151400 20006KT P6SM BKN100 KFXE 142059Z 1421/1518 14011KT P6SM SCT040 FM150100 VRB03KT P6SM SCT030 BKN250 FM151400 11010KT P6SM SCT250 KFYV 141732Z 1418/1518 21009KT P6SM VCSH BKN025 OVC035 TEMPO 1418/1422 BKN015 FM142200 19012KT P6SM BKN035 TEMPO 1504/1508 5SM -TSRA BKN025CB FM150800 19008KT P6SM VCSH BKN035 TEMPO 1508/1512 3SM TSRA BR OVC025CB FM151200 19008KT P6SM VCSH BKN025 PROB30 1512/1518 3SM TSRA BKN015CB KGBD 141739Z 1418/1518 33008KT P6SM VCSH SCT015 BKN030 FM142000 35008KT P6SM VCTS SCT020 BKN035CB FM150100 34007KT P6SM VCSH SCT020 BKN035 FM150300 35007KT 5SM BR SCT009 BKN015 LTD TO CLD VIS AND WIND KGCC 141720Z 1418/1518 16012KT P6SM SCT060 TEMPO 1421/1501 2SM TSRA BKN040CB FM150200 13008KT P6SM BKN080 KGCK 142055Z 1421/1518 34012G18KT P6SM BKN045 FM150000 01011KT P6SM SCT090 KGCN 141856Z 1419/1518 25012KT P6SM VCTS FEW080CB SCT120 TEMPO 1420/1424 VRB10G20KT 5SM -TSRA BKN070CB FM150200 VRB05KT P6SM SCT120 KGDV 141720Z 1418/1518 VRB06KT P6SM FEW170 FM150700 VRB06KT P6SM FEW060 KGEG 141739Z 1418/1518 07003KT 4SM FU HZ SCT050 FM142100 31005KT 6SM FU HZ FEW050 SCT200 FM151100 VRB03KT 3SM FU HZ SCT050 SCT200 FM151400 VRB03KT 2SM FU HZ SCT050 SCT200 FM151600 VRB03KT 4SM FU HZ SCT050 SCT200 KGFA 141900Z 1419/1601 23006KT 9999 FEW080 FEW250 QNH3000INS TX25/1423Z TN10/1512Z KGFK 141724Z 1417/1518 34009G15KT P6SM SCT030 FM142300 01007KT P6SM FEW250 FM150300 VRB03KT P6SM SKC KGFL 141733Z 1418/1518 VRB03KT P6SM VCSH SCT025 BKN035 TEMPO 1420/1424 2SM TSRA BR BKN025CB FM150000 VRB03KT P6SM VCSH SCT030 BKN050 FM150300 00000KT 4SM BR BKN015 BKN050 FM151200 20003KT 6SM BR BKN015 FM151400 15005KT P6SM FEW250 KGGG 141745Z 1418/1518 20010G15KT 6SM HZ SCT040 BKN250 FM150000 17008KT P6SM SCT180 BKN250 FM151200 18009KT P6SM SCT015 BKN025 FM151500 21012G18KT P6SM SCT200 KGGW 141720Z 1418/1518 16007KT P6SM SKC FM150400 12007KT P6SM SKC KGJT 141804Z 1418/1518 14004KT P6SM SKC FM141900 28005KT P6SM FEW120 FM150200 31007KT P6SM FEW120 SCT200 FM150500 09005KT P6SM SCT110 SCT250 KGKY 142055Z 1421/1518 17012KT P6SM BKN110 FM150600 18011KT P6SM SCT070 KGLD 141746Z 1418/1518 01011G20KT P6SM FEW024 BKN035 OVC045 FM142300 05010KT P6SM FEW070 SCT250 FM150300 09005KT P6SM FEW250 FM150500 17008KT P6SM FEW250 KGLH 141737Z 1418/1518 24007KT P6SM FEW040 BKN200 KGLS 141723Z 1418/1518 16011KT P6SM SCT027 FM151100 18009KT P6SM VCSH BKN050 FM151600 18009KT P6SM FEW250 KGMU 141720Z 1418/1518 26004KT P6SM FEW050 FM150000 30003KT P6SM FEW060 FM150700 01003KT P6SM FEW100 FM151300 04003KT P6SM FEW250 FM151600 08004KT P6SM FEW060 KGNV 142050Z 1421/1518 22009KT P6SM VCTS SCT035CB BKN120 TEMPO 1421/1423 VRB20G30KT 3SM TSRA BKN025CB FM150000 24005KT P6SM VCSH SCT030 BKN120 FM150200 00000KT P6SM SCT100 KGON 141933Z 1420/1518 18008KT P6SM SCT040 FM142100 19010KT P6SM SHRA BKN040 FM150100 20006KT P6SM VCSH BKN040 BKN100 FM150800 25006KT P6SM SCT050 BKN250 FM151400 28010KT P6SM SCT050 SCT250 KGPI 141937Z 1420/1518 17006KT 2SM HZ BKN040 FM150300 VRB04KT 2SM FU OVC040 KGPT 141722Z 1418/1518 17007KT P6SM FEW040 SCT250 FM150100 00000KT P6SM SKC FM151500 13005KT P6SM FEW035 KGRB 141740Z 1418/1518 25007KT P6SM SCT050 BKN200 FM150500 VRB03KT P6SM SCT100 BKN200 FM150900 03004KT 3SM BR VCSH SCT050 BKN080 FM151300 06005KT P6SM VCSH BKN080 KGRF 141303Z 1413/1519 VRB06KT 8000 HZ SKC QNH2992INS BECMG 1415/1416 01008KT 8000 HZ SKC QNH2980INS BECMG 1502/1503 VRB06KT 8000 HZ SKC QNH2980INS TX30/1500Z TN13/1413Z KGRI 141737Z 1418/1518 05009KT P6SM -SHRA OVC060 TEMPO 1418/1422 BKN020 FM142200 06010KT P6SM VCSH SCT025 OVC060 FM150000 06007KT P6SM BKN150 FM150600 VRB04KT 4SM BR FEW250 FM151400 VRB04KT P6SM FEW250 KGRK 141600Z 1416/1522 19010G15KT 9999 SCT025 SCT200 QNH2998INS BECMG 1417/1418 19015G25KT 9999 FEW035 BKN150 QNH2992INS BECMG 1423/1424 17009KT 9999 FEW050 SCT150 QNH2988INS BECMG 1510/1511 18009KT 9999 SCT015 QNH2994INS BECMG 1514/1515 19010G15KT 9999 FEW050 QNH2996INS TX34/1420Z TN22/1512Z KGRR 141740Z 1418/1518 27009KT P6SM FEW040 FM150200 VRB03KT P6SM FEW200 FM151400 24005KT P6SM SCT200 KGSB 142000Z 1420/1602 25006KT 8000 -SHRA VCTS SCT040CB SCT080 QNH2992INS TEMPO 1420/1424 VRB12G20KT 4800 -TSRA BKN040CB BECMG 1423/1424 24006KT 9999 NSW SCT050 QNH2994INS BECMG 1514/1515 27006KT 9999 FEW060 QNH3000INS TX32/1520Z TN22/1511Z KGSO 141738Z 1418/1518 VRB05KT P6SM FEW035 FEW100 FM142000 VRB05KT P6SM BKN040 FM150000 VRB02KT P6SM FEW050 KGSP 141720Z 1418/1518 25004KT P6SM FEW050 FM150000 30003KT P6SM FEW060 FM150600 02003KT P6SM FEW070 FM151300 01003KT P6SM FEW200 FM151600 17004KT P6SM FEW060 KGTB 141745Z 1417/1523 VRB06KT 9000 -SHRA BKN015 BKN045 QNH2980INS TEMPO 1417/1421 03012KT 8000 -TSRA BKN015CB BECMG 1423/1424 28009KT 9999 NSW FEW010 BKN015 QNH2981INS BECMG 1505/1506 20006KT 9999 SCT025 QNH2982INS BECMG 1522/1523 29006KT 9999 BKN035 QNH2992INS TX27/1517Z TN19/1511Z KGTF 141740Z 1418/1518 22008KT P6SM SKC KGTR 141737Z 1418/1518 32005KT P6SM FEW040 SCT200 KGUC 141805Z 1418/1518 00000KT P6SM SKC FM141900 26005KT P6SM FEW110 SCT250 FM142000 29006KT P6SM FEW110 SCT200 FM142300 32009KT P6SM FEW120 SCT130 FM150200 36007KT P6SM FEW100 SCT140 KGUP 141725Z 1418/1518 32006KT P6SM SCT100 FM142000 34008KT P6SM VCTS SCT070CB BKN110 TEMPO 1420/1423 VRB20G30KT BKN070CB FM150200 29006KT P6SM VCSH SCT070 BKN120 FM150600 VRB06KT P6SM BKN140 FM151600 24006KT P6SM SCT080 SCT150 KGUS 141900Z 1419/1601 25009KT 9999 FEW030 QNH3001INS BECMG 1511/1512 19006KT 9999 FEW015 SCT025 QNH3003INS BECMG 1517/1518 18009KT 9999 BKN025 OVC045 QNH3001INS TX29/1420Z TN19/1508Z KGUY 141731Z 1418/1518 01007KT P6SM SCT040 SCT100 FM151700 09006KT P6SM FEW090 FEW200 KGWO 141737Z 1418/1518 23006KT P6SM FEW040 SCT200 KGYY 142058Z 1421/1518 20007KT P6SM SCT060 BKN250 FM150100 VRB03KT P6SM SCT040 BKN250 FM150900 21004KT P6SM VCSH SCT040 BKN250 FM151400 17010KT 6SM SHRA BKN040 KHBG 141737Z 1418/1518 34004KT P6SM FEW050 FEW250 KHCR 141739Z 1418/1518 VRB04KT P6SM SCT120 FM142000 25009KT P6SM SCT090 SCT120 FM150200 VRB03KT P6SM FEW100 BKN200 FM151600 20007KT P6SM SCT120 KHDC 141722Z 1418/1518 VRB03KT P6SM FEW030 FEW250 KHDN 141805Z 1418/1518 28010KT P6SM SKC FM141900 29007KT P6SM FEW250 FM150100 32007KT P6SM FEW110 SCT150 FM150500 12005KT P6SM FEW100 SCT250 KHIB 141739Z 1418/1518 33008KT P6SM SCT100 FM150100 VRB04KT P6SM FEW200 FM151000 00000KT 3SM BR SCT140 FM151200 VRB03KT 1SM BR SCT130 FM151300 VRB03KT P6SM SCT200 KHIE 141730Z 1418/1518 04003KT P6SM BKN040 TEMPO 1421/1501 2SM SHRA OVC010 FM150500 00000KT P6SM SCT040 BKN250 FM151300 VRB03KT P6SM BKN030 BKN250 KHIF 141307Z 1413/1519 10009KT 9999 FEW150 QNH2998INS BECMG 1417/1418 27008KT 9999 SKC QNH3005INS BECMG 1503/1504 11012KT 9999 SKC QNH3000INS TX32/1422Z TN16/1513Z KHIO 141722Z 1418/1518 31003KT 3SM FU OVC040 FM142000 03005KT 5SM FU BKN045 BKN080 FM150500 00000KT 3SM FU OVC045 KHKS 141737Z 1418/1518 28005KT P6SM FEW050 SCT200 KHKY 141720Z 1418/1518 24004KT P6SM FEW060 FM142300 28004KT P6SM SCT070 FM150400 30003KT P6SM FEW080 FM151000 VRB02KT 5SM BR FEW070 FM151300 VRB03KT P6SM FEW060 KHLG 141730Z 1418/1518 VRB03KT P6SM SCT035 BKN250 FM142300 24003KT P6SM SCT250 FM150900 22003KT 3SM BR SCT250 FM151400 23005KT P6SM SCT250 KHLN 141740Z 1418/1518 35005KT P6SM FEW060 KHMN 142002Z 1420/1602 17012KT 9999 SCT160 SCT200 QNH2995INS TS OMTNS TEMPO 1421/1501 VRB20G30KT VCTS SCT080CB SCT160 BKN200 BECMG 1500/1501 18009KT 9999 SCT080 BKN200 QNH2996INS BECMG 1508/1509 VRB06KT 9999 FEW160 SCT200 QNH3003INS BECMG 1517/1518 20009KT 9999 FEW100 SCT200 QNH3006INS BECMG 1520/1521 VRB15G25KT 8000 -TSRA FEW060 SCT080CB BKN200 QNH3003INS TX36/1422Z TN21/1512Z KHNB 141722Z 1418/1518 22006KT P6SM SCT040 FM150100 VRB03KT P6SM BKN110 FM150900 VRB03KT P6SM VCSH BKN040 FM151400 19010KT P6SM BKN040 KHND 141733Z 1418/1518 19008KT P6SM FEW150 FM142100 21012G20KT P6SM VCTS SCT150CB FM150300 19011KT P6SM FEW150 KHOB 141720Z 1418/1518 17008KT P6SM FEW080 KHON 141715Z 1418/1518 03011KT P6SM BKN020 FM142000 03011KT P6SM BKN040 FM150000 04005KT P6SM SCT070 FM151200 07005KT P6SM VCSH BKN040 KHOP 141605Z 1416/1522 VRB06KT 9999 FEW050 QNH3001INS BECMG 1419/1420 25006KT 9999 SCT055 BKN070 QNH2999INS BECMG 1502/1503 15006KT 8000 BR SCT035 BKN055 QNH3000INS TEMPO 1509/1512 6000 -SHRA BKN050 OVC065 BECMG 1511/1512 15009KT 9999 NSW FEW035 BKN070 QNH2997INS TX31/1420Z TN21/1509Z KHOT 141735Z 1418/1518 23006KT P6SM VCSH SCT020 BKN120 TEMPO 1418/1421 BKN020 FM142100 20007KT P6SM SCT020 BKN120 FM150100 VRB03KT P6SM VCSH SCT020 OVC120 FM151200 21008KT P6SM OVC120 KHOU 142055Z 1421/1518 16012KT P6SM SCT040 SCT250 FM150200 16006KT P6SM FEW025 SCT250 TEMPO 1514/1516 BKN025 FM151600 17007KT P6SM BKN035 KHPN 141933Z 1420/1518 17007KT P6SM SHRA BKN035 TEMPO 1420/1423 4SM TSRA BKN030CB FM150100 24006KT P6SM VCSH SCT040 BKN100 FM150600 30005KT P6SM SCT050 BKN250 FM151400 29007KT P6SM SCT050 SCT250 NOT SKED KHQM 142014Z 1420/1518 VRB04KT 2SM HZ SCT040 FM150300 24006KT P6SM FEW060 FM150900 23005KT 5SM BR SKC FM151200 VRB02KT 2SM BR OVC007 KHRL 141729Z 1418/1518 17018G25KT P6SM SCT040 FM150200 15010KT P6SM SKC FM151500 16016G22KT P6SM SCT035 KHRO 141941Z 1420/1518 20008KT P6SM -SHRA SCT025 BKN060 TEMPO 1420/1423 BKN025 FM150000 18010KT P6SM VCSH OVC050 FM150600 16008KT P6SM VCTS SCT030CB BKN100 FM151200 20012KT P6SM -SHRA OVC050 KHRT 141900Z 1419/1523 30009KT 9000 -SHRA VCTS BKN020CB QNH2997INS TEMPO 1419/1422 22015G20KT 4800 -TSRA BKN020CB BECMG 1421/1422 21006KT 9999 NSW SCT010 BKN150 QNH3000INS BECMG 1514/1515 19006KT 9000 -SHRA FEW030 SCT100 QNH3008INS TX33/1421Z TN22/1511Z KHST 141600Z 1416/1522 12009KT 9999 VCTS SCT030CB QNH3002INS BECMG 1421/1422 10006KT 9999 NSW FEW035 QNH3002INS BECMG 1512/1513 11009KT 9999 SCT025 QNH3004INS TX33/1420Z TN25/1511Z KHSV 141720Z 1418/1518 26005KT P6SM SCT050 FM150100 00000KT P6SM SKC FM151600 23006KT P6SM FEW050 KHTS 141738Z 1418/1518 27006KT P6SM SCT045 FM150700 00000KT 2SM BR FEW250 FM150800 00000KT 1/2SM FG OVC001 FM151300 00000KT 4SM BR SCT002 FM151330 VRB04KT 6SM BR FEW050 KHUF 141720Z 1418/1518 22006KT P6SM SCT050 FM150400 VRB03KT P6SM BKN250 FM150900 VRB03KT P6SM VCSH SCT040 BKN110 FM151300 17005KT P6SM VCSH BKN060 KHUL 141724Z 1418/1518 18005KT P6SM SCT025 BKN050 FM150300 19005KT P6SM OVC015 FM150500 20006KT 4SM BR OVC005 FM151400 22005KT P6SM -SHRA BKN025 KHUM 141722Z 1418/1518 VRB05KT P6SM SCT035 TEMPO 1507/1511 5SM BR KHUT 141950Z 1420/1518 26008KT P6SM VCTS SCT020 BKN040CB TEMPO 1420/1421 2SM +TSRA FM150100 30006KT P6SM VCSH SCT020 BKN035 FM150400 33007KT 5SM BR SCT009 BKN015 KHVR 141740Z 1418/1518 25007KT P6SM SKC KHYA 142031Z 1421/1518 19014G19KT P6SM SCT009 FM150000 21007KT P6SM BKN030 FM150500 21006KT P6SM BKN070 KHYR 141918Z 1419/1518 31006KT P6SM VCSH BKN030 FM142100 36007KT P6SM VCTS BKN030CB BKN100 FM150000 34004KT P6SM VCSH BKN100 FM150500 VRB03KT P6SM SCT200 FM150900 00000KT 3SM BR SCT060 FM151400 VRB04KT P6SM SCT050 KHYS 141720Z 1418/1518 34008KT P6SM VCTS OVC020CB FM150000 35009KT P6SM BKN040 FM150300 36006KT P6SM SCT100 KIAB 141800Z 1418/1524 22009KT 8000 -SHRA VCTS SCT015 BKN020CB QNH2984INS TEMPO 1420/1502 21015G25KT 4800 TSRA OVC015CB BECMG 1504/1505 25009KT 9999 NSW BKN015 QNH2984INS BECMG 1508/1509 30006KT 8000 BR BKN005 OVC040 QNH2986INS BECMG 1514/1515 35012KT 9999 NSW SCT010 BKN040 QNH2990INS BECMG 1520/1521 36009KT 9999 SCT040 QNH2988INS TX28/1420Z TN20/1512Z KIAD 142036Z 1421/1524 27009G16KT P6SM VCTS SCT045CB BKN150 TEMPO 1421/1422 30014G22KT 5SM -SHRA BKN045 FM142300 31006KT P6SM SCT060 BKN120 FM150600 VRB03KT P6SM SCT120 FM151300 29008KT P6SM FEW070 SCT250 FM152200 25004KT P6SM FEW070 SCT250 KIAG 141742Z 1418/1518 29007KT P6SM BKN110 FM142100 26010KT P6SM BKN200 FM150000 24008KT P6SM SCT060 FM151100 25007KT P6SM FEW250 FM151600 26012G18KT P6SM SCT060 KIAH 142055Z 1421/1524 15013KT P6SM SCT050 SCT250 FM150200 16007KT P6SM SCT250 TEMPO 1514/1516 BKN025 FM151600 17007KT P6SM BKN035 KICT 142006Z 1420/1518 21008KT P6SM VCTS SCT025 BKN040CB TEMPO 1420/1423 2SM +TSRA FM150100 26005KT P6SM VCSH SCT025 BKN045 FM150500 33007KT 5SM BR SCT009 BKN015 KIDA 141730Z 1418/1518 22010KT P6SM SKC FM142100 22010G20KT P6SM SKC FM150200 17006KT P6SM FEW200 KIFP 141733Z 1418/1518 19012KT P6SM FEW150 FM150500 16010G16KT P6SM FEW150 FM150600 VRB05KT P6SM FEW150 FM151400 18011KT P6SM BKN250 KILG 142034Z 1421/1518 27011KT P6SM VCTS SCT035CB BKN060 TEMPO 1421/1423 6SM -SHRA BKN035 FM142300 28008KT P6SM VCTS SCT030 BKN050CB TEMPO 1500/1502 4SM -SHRA BKN035 FM150200 27005KT P6SM SCT040 BKN090 KILM 141821Z 1418/1518 20010G15KT P6SM VCTS FEW020 SCT030CB BKN060 TEMPO 1421/1501 VRB20G35KT 3SM TSRA BR SCT010 BKN025CB OVC040 FM150300 22005KT P6SM SCT250 FM150900 25002KT 1SM BR BKN004 FM151330 22006KT P6SM SCT040 KILN 141737Z 1418/1518 27007KT P6SM SCT050 FM150100 VRB02KT P6SM SCT250 TEMPO 1510/1514 00000KT 4SM BR FM151600 22012KT P6SM BKN250 KIND 142020Z 1420/1524 22008KT P6SM FEW050 SCT250 FM150000 VRB04KT P6SM SCT250 FM151500 19007KT P6SM BKN040 FM151800 20009KT 6SM -SHRA BKN035 KINK 141720Z 1418/1518 15008KT P6SM FEW080 KINL 141739Z 1418/1518 32007KT P6SM SCT030 FM150100 VRB04KT P6SM FEW250 FM150900 00000KT 3SM BR FEW200 FM151300 00000KT P6SM FEW250 KINS 141501Z 1415/1521 VRB06KT 9999 FEW150 QNH2993INS BECMG 1417/1418 13009KT 9999 FEW150 QNH2989INS BECMG 1420/1421 21012KT 9999 FEW150 SCT200 QNH2985INS TS OMTNS S TEMPO 1423/1503 VRB15G25KT VCTS SCT100CB BECMG 1505/1506 VRB06KT 9999 FEW100 SCT200 QNH2989INS TX40/1421Z TN23/1512Z KINT 141738Z 1418/1518 VRB05KT P6SM FEW035 FEW100 FM142000 VRB05KT P6SM BKN040 FM150000 VRB02KT P6SM FEW050 KINW 141730Z 1418/1518 VRB06KT P6SM SCT120 KIPL 141739Z 1418/1518 16010KT P6SM FEW120 KIPT 142049Z 1421/1518 27010KT P6SM VCSH BKN025 TEMPO 1421/1422 3SM -SHRA BR BKN018 OVC040 FM142200 27006KT P6SM -SHRA SCT030 BKN050 FM150500 VRB04KT 5SM BR SCT250 FM151500 27006KT P6SM SCT250 KISM 141740Z 1418/1518 20008KT P6SM SCT040 SCT250 FM142000 18008KT P6SM VCTS SCT045CB SCT080 BKN250 TEMPO 1420/1423 2SM TSRA BKN030CB BKN060 FM150100 18005KT P6SM FEW040 SCT100 BKN250 FM151400 16005KT P6SM SCT025 KISN 141726Z 1418/1518 17008KT P6SM FEW250 KISO 141739Z 1418/1518 23004KT P6SM VCTS SCT035CB TEMPO 1418/1419 VRB10G20KT 3SM TSRA BKN015CB FM150000 VRB02KT P6SM FEW250 FM151400 25003KT P6SM SKC LTD TO CLD VIS AND WIND KISP 141933Z 1420/1518 18010KT P6SM SCT040 SCT150 FM142100 19010KT P6SM SHRA SCT040 TEMPO 1422/1424 TSRA BKN030CB FM150100 23008KT P6SM VCSH SCT040 BKN100 FM150800 28008KT P6SM SCT050 BKN250 FM151400 28010KT P6SM SCT050 SCT250 KITH 141723Z 1418/1518 30007KT P6SM SCT008 OVC025 TEMPO 1418/1422 3SM SHRA BR OVC008 FM142200 32005KT P6SM BKN025 FM150300 VRB03KT P6SM BKN035 FM150900 VRB03KT 5SM BR BKN015 FM151300 29010KT P6SM BKN040 KIWA 142044Z 1421/1518 27010G16KT P6SM FEW120 SCT180 FM150300 05020G30KT P6SM VCTS SCT080CB BKN120 OVC180 TEMPO 1503/1505 05035G45KT 3SM +TSRA BKN080CB OVC120 FM150700 16010KT 5SM BLDU VCSH FEW080 BKN120 OVC200 KIWD 141720Z 1418/1518 33006KT P6SM VCSH BKN045 FM142100 35005KT P6SM VCSH BKN045 FM150200 00000KT P6SM SCT060 FM151300 VRB04KT 5SM BR SCT030 FM151700 05005KT P6SM SCT070 KIXD 141949Z 1420/1518 18010KT 6SM -SHRA VCTS OVC035CB TEMPO 1420/1422 3SM -TSRA BKN025CB FM150500 12005KT P6SM BKN050 FM150900 VRB05KT P6SM BKN015 FM151200 VRB05KT P6SM BKN008 KJAC 141722Z 1418/1518 20009KT P6SM SKC FM142000 25012G19KT P6SM SKC FM142300 29011KT P6SM SKC FM150300 36006KT P6SM SKC FM151600 19006KT P6SM SKC LTD TO CLD VIS AND WIND KJAN 141737Z 1418/1518 28005KT P6SM FEW050 SCT200 KJAX 142047Z 1421/1518 15012KT P6SM VCTS SCT035CB BKN100 TEMPO 1421/1423 VRB20G30KT 3SM TSRA BKN025CB FM150000 20007KT P6SM VCSH SCT040 BKN120 FM150400 00000KT P6SM SCT100 KJBR 141730Z 1418/1518 21008KT P6SM VCTS BKN050CB BKN120 BKN250 FM150100 19005KT P6SM BKN120 BKN250 FM151400 22010KT P6SM SCT050 BKN120 BKN250 FM151700 22012G18KT P6SM VCSH BKN050 BKN120 BKN250 KJCT 141934Z 1420/1518 18011KT P6SM FEW040 BKN150 FM150200 15007KT P6SM FEW150 FM151000 16005KT P6SM BKN020 FM151500 18009KT P6SM SCT030 FM151700 18010KT P6SM SKC KJER 141721Z 1418/1518 27010KT P6SM SKC FM150300 VRB05KT P6SM SKC KJFK 141933Z 1420/1524 20012KT P6SM SHRA BKN040 TEMPO 1420/1423 3SM TSRA BKN030CB FM150100 23012KT P6SM VCSH SCT040 BKN100 FM150600 28011KT P6SM SCT050 BKN250 FM151400 28012KT P6SM SCT050 SCT250 FM151900 25012KT P6SM SCT250 KJHW 141742Z 1418/1518 29008KT P6SM SCT025 SCT035 BKN130 FM142200 29009KT P6SM SCT250 FM150000 27007KT P6SM FEW250 FM150600 23005KT 4SM BR SCT003 FM150800 23005KT 1SM BR BKN003 FM151200 24005KT 4SM BR SCT003 FM151300 25008KT P6SM SCT060 KJKL 141720Z 1418/1518 VRB03KT P6SM SCT200 FM151300 00000KT P6SM SCT250 KJLN 141720Z 1418/1518 20012G20KT P6SM VCSH OVC015 FM142100 21015G22KT P6SM VCSH OVC025 TEMPO 1421/1501 4SM -SHRA OVC015 FM150100 20012KT 4SM -SHRA BR VCTS OVC015CB FM151100 22012KT P6SM OVC007 KJMS 141726Z 1418/1518 02010KT P6SM FEW250 FM150300 VRB04KT P6SM FEW250 KJST 142045Z 1421/1518 26006KT P6SM SCT020 FM150400 25006KT 4SM BR SCT250 FM151500 27008KT P6SM SCT250 KJXN 141740Z 1418/1518 27008KT P6SM FEW035 FM150000 24004KT P6SM FEW200 FM151500 25009KT P6SM SCT250 KLAF 141720Z 1418/1518 23006KT P6SM SCT045 FM150800 VRB03KT P6SM VCSH SCT040 BKN250 FM151200 VRB03KT P6SM VCSH SCT040 BKN130 FM151600 18007KT P6SM VCSH OVC035 KLAL 141720Z 1418/1518 20006KT P6SM SCT035 BKN250 FM141900 21006KT P6SM VCTS SCT040CB SCT150 BKN250 TEMPO 1419/1422 VRB15G25KT 3SM TSRA BKN025CB FM150000 VRB03KT P6SM SCT030 BKN150 FM150200 00000KT P6SM FEW025 BKN200 FM151400 14005KT P6SM FEW020 SCT150 BKN250 KLAN 141740Z 1418/1518 27008KT P6SM FEW035 FM150400 23004KT P6SM FEW200 FM151600 23009KT P6SM SCT200 KLAR 141745Z 1418/1518 16018KT P6SM SCT120 FM141900 10012KT P6SM VCTS SCT070CB BKN150 FM150230 16009KT P6SM SCT200 FM151600 28007KT P6SM SKC KLAS 142045Z 1421/1524 10009KT P6SM FEW150 FM142200 21009G14KT P6SM VCTS SCT150CB FM150300 22010KT P6SM FEW150 FM151200 VRB05KT P6SM FEW150 FM151800 17007KT P6SM FEW150 KLAW 141736Z 1418/1518 19012G19KT P6SM SCT035 SCT250 TEMPO 1418/1421 BKN035 FM151000 24012KT P6SM BKN250 KLAX 142041Z 1421/1524 25012KT P6SM FEW060 SCT140 FM150600 VRB03KT P6SM OVC010 FM151600 26006KT P6SM SCT010 FM152000 26012KT P6SM SKC KLBB 141735Z 1418/1518 19011KT P6SM SCT060 KLBE 141935Z 1420/1518 26007KT P6SM VCSH SCT020 BKN100 FM142300 25005KT P6SM SCT250 FM150800 22004KT 4SM BR FEW250 FM151400 24006KT P6SM SCT250 KLBF 141739Z 1418/1518 01009KT P6SM SCT080 FM142300 09008KT P6SM SCT250 FM150400 VRB03KT P6SM FEW250 FM151600 16006KT P6SM BKN250 KLBL 142055Z 1421/1518 35007KT P6SM SCT050 FM150000 36006KT P6SM SCT250 KLBT 141819Z 1418/1518 22008KT P6SM VCTS SCT030CB BKN070 TEMPO 1420/1424 VRB20G35KT 3SM TSRA BR SCT010 BKN025CB OVC040 FM150100 25004KT P6SM SCT250 FM150500 26002KT 4SM BR SKC FM150900 23002KT 1/2SM FG VV003 FM151400 26003KT P6SM SCT250 KLBX 141723Z 1418/1518 17008KT P6SM FEW040 FM150200 16006KT P6SM FEW025 SCT250 TEMPO 1514/1516 BKN025 FM151600 17007KT P6SM BKN035 KLCH 141739Z 1418/1518 20007KT P6SM SCT035 FM150100 VRB03KT P6SM FEW250 KLCK 141737Z 1418/1518 27008KT P6SM SCT060 FM150100 21003KT P6SM SCT250 FM151500 20009KT P6SM SCT250 KLEB 141730Z 1418/1518 22006KT P6SM BKN050 TEMPO 1420/1424 2SM TSRA OVC010CB FM150500 00000KT P6SM BKN250 FM150700 00000KT 6SM BR BKN008 FM151300 VRB03KT P6SM BKN015 FM151400 VRB04KT P6SM BKN250 KLEE 141740Z 1418/1518 19008KT P6SM VCTS SCT040CB SCT080 BKN250 TEMPO 1419/1422 3SM TSRA BKN035CB BKN060 FM150000 20004KT P6SM FEW040 SCT100 BKN250 FM151400 16004KT P6SM SCT025 KLEX 141722Z 1418/1518 26005KT P6SM SCT040 FM150000 VRB03KT P6SM BKN250 FM151400 20007KT P6SM VCSH BKN040 KLFI 141710Z 1417/1523 23010G15KT 9999 FEW060 SCT120 QNH2990INS BECMG 1422/1423 24006KT 9999 FEW040 QNH2991INS BECMG 1505/1506 25006KT 9999 FEW030 BKN045 QNH2995INS BECMG 1514/1515 27006KT 9999 FEW040 SCT120 QNH2999INS TX32/1517Z TN21/1508Z KLFK 141745Z 1418/1518 19009KT P6SM SCT040 FM150000 16005KT P6SM FEW180 SCT250 FM151200 15004KT P6SM BKN015 BKN025 FM151600 20008KT P6SM FEW020 SCT030 KLFT 142045Z 1421/1518 VRB04KT P6SM SCT045 BKN060 FM150100 VRB03KT P6SM FEW250 KLGA 141933Z 1420/1524 20010G17KT P6SM SHRA BKN035 TEMPO 1420/1423 3SM TSRA BKN030CB FM150100 23012KT P6SM VCSH SCT040 BKN100 FM150600 28010KT P6SM SCT050 BKN250 FM151400 28008KT P6SM SCT050 SCT250 FM151900 25010KT P6SM SCT250 KLGB 141742Z 1418/1518 09005KT P6SM SKC FM141900 19008KT P6SM SKC FM142300 30010KT P6SM SKC FM150400 VRB03KT P6SM SKC FM150800 VRB03KT P6SM OVC010 FM151600 16005KT P6SM SCT010 KLGU 141739Z 1418/1518 VRB04KT P6SM FEW180 FM141900 33007KT P6SM FEW120 FEW180 FM150400 VRB04KT P6SM FEW180 FM151200 12006KT P6SM SCT150 FM151700 32006KT P6SM SCT120 KLIT 141943Z 1420/1518 25007KT P6SM VCSH SCT035 OVC100 FM150100 18005KT P6SM SCT040 BKN120 FM151000 VRB03KT 6SM BR BKN120 FM151300 22005KT P6SM BKN120 FM151500 22009G15KT P6SM BKN120 KLLQ 141735Z 1418/1518 26009KT P6SM SCT120 BKN250 FM150200 VRB04KT P6SM BKN120 FM151400 25008KT P6SM BKN120 KLMT 141721Z 1418/1518 VRB03KT 6SM FU SKC FM142100 20005KT 5SM FU SKC FM150100 28008KT 4SM FU SKC FM150400 VRB04KT 4SM FU SKC KLND 141722Z 1418/1518 34008KT P6SM FEW080 SCT150 FM150100 01011KT P6SM FEW040 FM150700 VRB05KT P6SM SKC KLNK 142005Z 1420/1518 09006KT P6SM VCSH OVC035 TEMPO 1421/1423 5SM -TSRA BKN035CB FM150000 06006KT P6SM VCSH OVC060 FM151100 36005KT P6SM BKN060 KLNS 142057Z 1421/1518 28010KT P6SM SCT040 FM150100 29006KT P6SM SCT040 FM150700 29004KT 5SM BR SKC FM151500 30006KT P6SM SKC KLOZ 141720Z 1418/1518 VRB04KT P6SM SCT200 FM150800 00000KT 3SM BR FEW250 FM151200 00000KT 1SM BR BKN250 FM151300 00000KT P6SM SCT250 KLRD 141735Z 1418/1518 16014KT P6SM FEW070 SCT250 FM142300 13017G25KT P6SM FEW090 SCT250 TEMPO 1423/1502 BKN090 FM150900 15012KT P6SM FEW250 FM151200 14010KT P6SM FEW020 SCT110 FM151500 16013KT P6SM FEW050 SCT250 KLRF 141500Z 1415/1521 17006KT 9999 SCT010 BKN070 QNH3001INS BECMG 1417/1418 22012KT 9999 SCT160 BKN170 QNH2996INS BECMG 1423/1424 19009KT 9999 FEW060 SCT110 QNH2989INS TX33/1421Z TN22/1512Z KLRU 141723Z 1418/1518 12008KT P6SM FEW100 SCT250 FM150600 27005KT P6SM BKN250 FM151200 21006KT P6SM FEW100 SCT250 KLSE 141720Z 1418/1518 18005KT P6SM BKN200 FM151100 VRB04KT P6SM BKN045 KLSF 141735Z 1417/1523 20006KT 9999 SCT040 QNH2999INS TEMPO 1418/1424 VRB12G20KT 4800 -TSRA BKN040CB BECMG 1500/1501 19006KT 9999 VCTS BKN040CB QNH2996INS BECMG 1503/1504 19006KT 9999 NSW SCT040 QNH2998INS BECMG 1508/1509 VRB06KT 4800 BR FEW010 QNH3002INS TEMPO 1511/1513 1600 BR BECMG 1514/1515 18006KT 9999 NSW SCT040 BKN090 QNH3000INS TEMPO 1519/1523 VRB10G15KT 3200 -TSRA BKN040CB TX32/1421Z TN20/1511Z KLSV 141501Z 1415/1521 VRB06KT 9999 FEW150 QNH2982INS BECMG 1420/1421 19012KT 9999 FEW150 QNH2973INS TS OMTNS SE TEMPO 1422/1501 21012G18KT BECMG 1502/1503 19009KT 9999 FEW150 QNH2974INS BECMG 1505/1506 VRB06KT 9999 FEW200 QNH2977INS TX42/1423Z TN27/1512Z KLTS 141700Z 1417/1523 19012KT 9999 SCT020 QNH2982INS BECMG 1423/1424 18009KT 9999 SCT060 SCT100 QNH2980INS BECMG 1502/1503 17009KT 9000 -SHRA SCT040 BKN060 QNH2983INS TEMPO 1503/1505 30015G25KT 9000 -TSRA BKN050CB OVC070 BECMG 1505/1506 19009KT 9999 NSW FEW040 QNH2985INS BECMG 1508/1509 VRB06KT 9999 SCT050 QNH2988INS BECMG 1517/1518 17009KT 9999 FEW100 QNH2984INS TX34/1421Z TN23/1512Z KLUF 142000Z 1420/1602 25009KT 9999 SCT150 QNH2980INS TEMPO 1421/1501 24015G20KT BECMG 1503/1504 20012KT 9000 -SHRA VCTS BKN100CB QNH2975INS TEMPO 1504/1508 VRB15G25KT 8000 -TSRA BECMG 1507/1508 VRB06KT 9999 NSW FEW023 QNH2985INS BECMG 1519/1520 23012KT 9999 BKN150 QNH2993INS TX40/1421Z TN24/1511Z KLUK 141737Z 1418/1518 24006KT P6SM SCT060 FM150100 00000KT P6SM SKC TEMPO 1508/1512 2SM BR SCT250 FM151600 22010KT P6SM BKN200 KLVK 141720Z 1418/1518 28011KT P6SM FEW200 FM150400 27008KT P6SM SKC FM151000 27004KT P6SM BKN010 FM151300 28004KT P6SM OVC010 FM151700 28008KT P6SM SCT010 KLVM 141722Z 1418/1518 VRB06KT P6SM FEW080 FM142000 30010KT P6SM VCTS FEW060CB SCT200 FM150300 27006KT P6SM FEW100 SCT200 FM150900 VRB05KT P6SM SKC KLVS 141725Z 1418/1518 07006KT P6SM SKC FM142100 14011KT P6SM VCTS SCT060CB BKN100 TEMPO 1421/1424 VRB20G30KT FM150000 13011KT P6SM VCSH SCT060 BKN100 FM150900 05007KT P6SM SCT140 FM151600 18008KT P6SM FEW070 SCT150 KLWB 141938Z 1420/1518 28006KT P6SM SCT045 FM150700 00000KT 3SM BR SCT003 FM150900 00000KT 1/4SM FG BKN001 FM151300 00000KT 3SM BR SCT003 BKN009 FM151430 VRB03KT P6SM SCT050 KLWS 141739Z 1418/1518 VRB03KT 4SM HZ SKC FM141900 33005KT 6SM HZ FU SCT050 SCT200 FM150300 VRB04KT 6SM HZ SCT200 FM151200 11002KT 6SM HZ SKC KLWT 141740Z 1418/1518 VRB05KT P6SM SKC FM142100 21005KT P6SM SCT060 KLYH 141733Z 1418/1518 24006KT P6SM FEW060 FM150100 VRB03KT P6SM FEW250 KMAF 141720Z 1418/1518 18011KT P6SM SKC KMBG 141728Z 1417/1518 03010KT P6SM SCT110 BKN200 FM150200 08006KT P6SM FEW250 FM151500 14006KT P6SM SCT250 KMBL 141728Z 1418/1518 25008KT P6SM FEW250 FM150100 22006KT P6SM FEW250 FM150700 27004KT 6SM BR BKN080 FM151000 VRB04KT 3SM -SHRA BR SCT020 BKN050 FM151500 VRB03KT 6SM -SHRA BR BKN035 KMBS 141720Z 1418/1518 25009KT P6SM FEW050 FM150200 VRB04KT P6SM BKN250 FM150900 23003KT P6SM BKN250 FM151500 22008KT P6SM SCT045 BKN200 KMCB 141722Z 1418/1518 VRB04KT P6SM FEW030 FEW250 KMCC 141724Z 1418/1518 17010KT P6SM SCT250 KMCE 141720Z 1418/1518 32007KT P6SM FEW200= KBFL 141720Z 1418/1518 33007KT P6SM FEW200 KMCF 141645Z 1416/1522 18009KT 9999 SCT030 BKN120 QNH3005INS BECMG 1417/1418 20009KT 8000 -SHRA BKN030 QNH3001INS TEMPO 1417/1424 VRB10G15KT 6000 -TSRA BKN020CB BECMG 1501/1502 15006KT 9999 NSW FEW120 SCT150 QNH3004INS BECMG 1518/1519 20009KT 8000 -SHRA SCT030 BKN120 QNH3004INS TEMPO 1519/1522 VRB10G15KT 6000 -TSRA BKN020CB TX31/1419Z TN25/1506Z KMCI 142057Z 1421/1518 15007KT P6SM -SHRA VCTS BKN035CB TEMPO 1421/1423 VRB15G25KT 3SM -TSRA BKN025CB FM150400 12005KT P6SM BKN050 FM150900 VRB05KT P6SM BKN015 FM151200 VRB05KT P6SM BKN008 KMCK 141746Z 1418/1518 06012G19KT P6SM FEW021 SCT029 BKN040 FM142300 05009KT P6SM SCT035 FM150500 19005KT P6SM FEW250 FM151000 VRB03KT 6SM BR FEW250 FM151500 15006KT P6SM FEW250 KMCN 141901Z 1419/1518 24004KT P6SM VCSH SCT060 FM150100 21004KT P6SM FEW250 FM151000 00000KT 4SM BR SCT250 FM151400 00000KT P6SM SCT200 FM151700 VRB03KT P6SM SCT040 KMCO 141740Z 1418/1524 19008KT P6SM SCT040 SCT250 FM142000 18008KT P6SM VCTS SCT045CB SCT080 BKN250 TEMPO 1420/1423 2SM TSRA BKN030CB BKN060 FM150100 18005KT P6SM FEW040 SCT100 BKN250 FM151400 16005KT P6SM SCT025 KMCW 141737Z 1418/1518 16005KT P6SM SCT150 BKN200 FM150900 00000KT P6SM BKN080 FM151200 36004KT P6SM BKN025 FM151600 02005KT P6SM BKN045 KMDT 142056Z 1421/1518 30012KT P6SM BKN040 FM150100 31006KT P6SM SCT035 FM150700 29006KT 5SM BR SKC FM151500 30006KT P6SM SKC KMDW 142058Z 1421/1524 24010KT P6SM SCT060 BKN250 FM150100 VRB03KT P6SM FEW050 BKN250 FM150900 21004KT P6SM VCSH SCT040 BKN250 FM151400 17010KT 6SM SHRA BKN040 PROB30 1515/1521 4SM -TSRA OVC025CB FM152100 15007KT P6SM -SHRA BKN040 KMEI 141737Z 1418/1518 35005KT P6SM FEW050 SCT200 KMEM 142059Z 1421/1524 23008KT P6SM SCT035 BKN150 FM150100 18006KT P6SM BKN120 BKN250 FM151400 22010KT P6SM SCT050 BKN120 BKN250 FM151700 22012G18KT P6SM SCT050 BKN120 BKN250 KMER 141720Z 1418/1518 32007KT P6SM FEW200 NOT SKED KMFD 141736Z 1418/1518 27008KT P6SM SCT040 TEMPO 1419/1422 BKN040 FM150100 25004KT P6SM FEW200 FM151400 23005KT P6SM SCT035 KMFE 141729Z 1418/1518 17015G20KT P6SM SCT050 FM150600 15010KT P6SM SKC FM151500 16015G20KT P6SM SCT040 KMFR 141721Z 1418/1518 VRB03KT 2SM FU SKC FM142100 30004KT 2SM FU SKC FM150000 30010KT 1SM FU SKC FM150300 VRB03KT 2SM FU SCT150 KMGE 141300Z 1413/1519 29006KT 9999 SCT250 QNH2999INS BECMG 1501/1502 33006KT 9999 FEW055 QNH3002INS BECMG 1508/1509 15006KT 9999 FEW180 QNH3005INS TX32/1421Z TN22/1511Z KMGM 142045Z 1421/1518 08008KT 5SM -RA VCTS BKN050CB FM142300 VRB03KT P6SM BKN100 FM150100 00000KT P6SM BKN250 KMGW 141730Z 1418/1518 26007KT P6SM VCSH BKN035 FM150000 24003KT P6SM SCT250 FM150900 00000KT 3SM BR SCT250 FM151400 23004KT P6SM SCT250 KMHK 141738Z 1418/1518 18006KT P6SM VCTS BKN040CB FM150100 VRB03KT P6SM -SHRA BKN050 FM150700 34003KT P6SM SCT008 BKN015 KMHR 141724Z 1418/1518 20008KT P6SM SCT250 FM150300 16008KT P6SM SKC KMHT 141820Z 1418/1518 VRB04KT 5SM -TSRA BKN025CB TEMPO 1419/1423 1SM +TSRA OVC010CB FM150500 00000KT P6SM BKN250 FM150700 00000KT 6SM BR BKN008 FM151300 VRB03KT P6SM BKN015 FM151400 VRB04KT P6SM BKN250 KMIA 142059Z 1421/1524 11009KT P6SM SCT040 FM150100 09006KT P6SM FEW050 SCT250 FM150400 VRB03KT P6SM SCT250 FM151400 11010KT P6SM SCT035 SCT250 KMIB 141700Z 1417/1523 22006KT 9999 FEW080 FEW200 QNH2990INS FU FEW200 TX28/1517Z TN13/1511Z KMIV 141748Z 1418/1518 27012KT P6SM SCT035 BKN050 FM142000 26009KT P6SM VCTS SCT035CB BKN150 FM150100 27005KT P6SM VCSH SCT040 BKN090 TEMPO 1501/1503 5SM -SHRA BKN030 FM150400 26005KT P6SM SCT040 BKN150 KMKC 142058Z 1421/1518 20005KT 6SM -SHRA VCTS OVC035CB TEMPO 1421/1423 VRB15G25KT 3SM -TSRA FM150500 12005KT P6SM BKN050 FM150900 VRB05KT P6SM BKN015 FM151200 VRB05KT P6SM BKN008 KMKE 142033Z 1421/1524 22012KT P6SM SCT045 BKN250 FM150300 20006KT P6SM BKN250 FM151600 14008KT P6SM VCSH BKN045 KMKG 141740Z 1418/1518 24009KT P6SM FEW050 FM150200 VRB03KT P6SM FEW250 FM151400 22008KT P6SM BKN200 KMKL 142051Z 1421/1518 28006KT P6SM VCSH SCT040 BKN150 FM150100 18002KT P6SM BKN120 BKN250 FM151500 22010KT P6SM SCT050 BKN120 BKN250 KMKT 141726Z 1418/1518 00000KT P6SM VCTS SCT050CB TEMPO 1419/1421 2SM +TSRA BKN040CB FM142300 26005KT P6SM VCTS SCT045CB BKN200 FM150000 31005KT P6SM VCTS SCT040CB BKN200 FM150300 VRB04KT P6SM BKN250 FM151100 01005KT P6SM BKN060 KMLB 141740Z 1418/1518 12010KT P6SM SCT035 SCT250 FM141900 12009KT P6SM VCTS SCT035CB BKN060 FM150000 17007KT P6SM FEW035 SCT100 BKN250 FM151400 14006KT P6SM SCT025 KMLC 141732Z 1418/1518 19007KT 4SM -RA BR SCT035 BKN045 FM142000 19006KT P6SM VCSH BKN025 FM142300 18005KT P6SM BKN035 FM150800 19005KT P6SM VCSH BKN025 PROB30 1510/1516 5SM -TSRA BKN025CB KMLI 141730Z 1418/1518 16007KT P6SM FEW070 BKN250 FM150500 14004KT 5SM BR VCSH BKN040 OVC120 FM150900 VRB04KT 3SM -SHRA BR BKN035 OVC050 FM151100 VRB04KT 2SM SHRA BKN008 OVC020 FM151400 09006KT 5SM BR VCSH BKN015 OVC030 KMLS 141722Z 1418/1518 13008KT 6SM HZ VCSH SCT070 BKN150 FM142100 12008KT P6SM VCTS SCT060CB OVC150 FM150600 VRB05KT P6SM FEW080 SCT200 FM151200 14006KT P6SM SKC KMLU 141745Z 1418/1518 23008KT 6SM HZ FEW040 SCT250 FM150100 16004KT P6SM FEW180 SCT250 FM151500 21009KT P6SM FEW200 KMMH 141721Z 1418/1518 12006KT P6SM SCT080 FM141900 10008KT P6SM VCTS SCT090CB SCT150 TEMPO 1420/1423 23025G40KT 6SM -TSRA BKN080CB OVC120 FM150000 27014G22KT P6SM VCSH SCT100 BKN150 FM150400 24005KT P6SM BKN150 KMMT 141500Z 1415/1521 22009KT 9999 FEW050 SCT200 QNH2995INS BECMG 1501/1502 20006KT 9999 FEW030 SCT150 QNH2997INS BECMG 1514/1515 22009KT 9999 FEW050 SCT200 QNH3001INS TX33/1419Z TN22/1511Z KMOB 141720Z 1418/1518 02003KT P6SM SCT030 TEMPO 1420/1423 VRB15G25KT 3SM TSRA BKN025CB OVC050 FM150200 VRB02KT P6SM BKN250 KMOD 141724Z 1418/1518 32009KT P6SM SCT250 KMOT 141726Z 1418/1518 VRB04KT P6SM FEW250 FM151400 22008KT P6SM SKC KMPV 141720Z 1418/1518 17008G16KT P6SM VCSH SCT040 SCT120 FM150000 VRB04KT P6SM BKN050 FM151100 00000KT P6SM VCSH BKN020 FM151600 VRB04KT P6SM VCSH SCT070 KMQY 141739Z 1418/1518 31004KT P6SM SCT060 SCT250 FM150500 13003KT P6SM BKN100 FM151400 17004KT P6SM SCT100 BKN250 FM151600 18005KT P6SM VCSH SCT050 BKN100 BKN250 KMRB 141720Z 1418/1518 29008KT P6SM VCTS SCT045CB BKN110 FM150000 30006KT P6SM SCT060 BKN110 FM150500 27005KT P6SM FEW060 SCT250 KMRY 141720Z 1418/1518 24005KT P6SM OVC007 FM141900 29010KT P6SM OVC012 TEMPO 1421/1501 SCT012 FM150100 25006KT P6SM OVC007 FM150400 24006KT 4SM BR OVC003 FM150800 23004KT 3SM BR OVC003 KMSL 141720Z 1418/1518 27005KT P6SM SCT050 FM150100 00000KT P6SM SKC FM151600 23004KT P6SM FEW050 KMSN 141741Z 1418/1518 23006KT P6SM SCT040 BKN250 FM150300 VRB03KT P6SM BKN250 FM151500 16005KT P6SM VCSH BKN045 KMSO 141924Z 1419/1518 00000KT P6SM SKC FM142200 33009KT 6SM HZ SKC FM150200 VRB03KT 4SM HZ SKC KMSP 142040Z 1421/1524 24007G15KT P6SM VCTS SCT050CB BKN110 TEMPO 1423/1501 5SM -TSRA SCT025 BKN050CB FM150200 31005KT P6SM SCT050 BKN250 FM150600 01005KT P6SM SCT250 KMSS 141720Z 1418/1518 11006KT P6SM -SHRA SCT050 OVC070 FM150200 22005KT P6SM BKN120 FM151400 24007KT P6SM VCSH SCT080 KMSY 141722Z 1418/1524 35005KT P6SM FEW040 SCT250 FM150100 VRB03KT P6SM SCT250 FM151500 02005KT P6SM FEW030 SCT250 FM151700 03004KT P6SM SCT035 BKN130 PROB30 1519/1523 VRB15KT 4SM TSRA BKN025CB OVC050 KMTC 141700Z 1417/1523 26009KT 9999 FEW050 QNH2989INS TX31/1517Z TN21/1508Z KMTH 141730Z 1418/1518 12009KT P6SM FEW025 SCT250 KMTJ 141804Z 1418/1518 35005KT P6SM SKC FM141900 33005KT P6SM FEW250 FM142100 30007KT P6SM FEW130 SCT250 FM150200 07006KT P6SM FEW110 SCT250 FM150400 12006KT P6SM FEW110 SCT200 KMTN 141720Z 1418/1518 25008KT P6SM VCTS SCT045CB BKN080 FM150000 28007KT P6SM SCT060 BKN080 FM150800 28005KT P6SM FEW090 SCT200 KMTW 141740Z 1418/1518 25008KT P6SM SCT050 BKN250 FM150600 VRB03KT P6SM SCT100 BKN200 TEMPO 1509/1512 3SM BR BKN080 FM151300 06005KT P6SM VCSH BKN080 KMUI 141900Z 1419/1601 26009KT 9999 BKN020 OVC050 QNH2987INS TEMPO 1419/1423 30012G18KT 6000 -TSRA SCT015 BKN025CB BECMG 1422/1423 26009KT 8000 -RA SCT015 BKN030 QNH2988INS BECMG 1506/1507 25006KT 9999 NSW FEW025 SCT040 BKN090 QNH2990INS BECMG 1509/1510 27006KT 9999 FEW030 QNH2991INS BECMG 1515/1516 28012G18KT 9999 SCT040 QNH2994INS BECMG 1523/1524 29009KT 9999 SCT040 QNH2995INS TX27/1420Z TN17/1510Z KMUO 141805Z 1418/1524 30009KT 9999 FEW150 QNH2990INS TEMPO 1421/1502 30012G18KT BECMG 1502/1503 VRB06KT 9999 FEW150 QNH2991INS BECMG 1511/1512 12006KT 9999 FEW150 QNH2993INS TX34/1423Z TN15/1512Z KMWH 141739Z 1418/1518 VRB04KT 5SM HZ FU SKC FM142000 21006KT 6SM FU HZ SCT050 FM150600 VRB03KT 6SM HZ SCT200 FM151200 02004KT 6SM HZ SKC KMXF 141900Z 1419/1601 25006KT 9999 SCT040 QNH2999INS TEMPO 1420/1502 VRB12G20KT 4800 -TSRA BKN040CB BECMG 1501/1502 19006KT 9999 VCTS BKN040CB QNH2996INS BECMG 1503/1504 19006KT 9999 NSW SCT040 QNH2998INS BECMG 1505/1506 VRB06KT 6000 BR FEW010 QNH3002INS BECMG 1514/1515 18006KT 9999 NSW SCT040 BKN090 QNH3000INS TEMPO 1519/1523 VRB10G15KT 3200 -TSRA BKN040CB TX33/1419Z TN20/1511Z LAST NO AMDS AFT 1503 NEXT 1511 KMYL 141721Z 1418/1518 VRB05KT P6SM SKC KMYR 141809Z 1418/1518 19010G15KT P6SM VCTS FEW020 SCT030CB BKN060 TEMPO 1420/1424 VRB15G25KT 4SM -TSRA BR SCT010 BKN025CB OVC045 FM150200 21003KT P6SM SCT120 FM151000 25003KT 4SM BR SCT005 FM151400 22009KT P6SM SKC KNBC 1415/1515 23006KT 9999 FEW100 QNH2999INS BECMG 1418/1420 22007KT 9999 FEW030 SCT080 QNH2997INS T33/1417Z T24/1509Z KNBG 1415/1515 VRB05KT 9000 HZ SCT035CB BKN250 QNH2998INS BECMG 1416/1418 VRB06KT 9000 HZ VCTS SCT035CB SCT120 BKN250 QNH2996INS TEMPO 1419/1423 VRB20G30KT 4800 -TSRA BR BKN030CB BKN120 OVC250 BECMG 1423/1501 20006KT 9999 NSW SCT035 SCT250 QNH2997INS BECMG 1506/1508 VRB03KT 8000 BR FEW020 SCT050 BKN250 QNH3000INS T35/1320Z T26/1412Z FN20039 KNCA 1421/1521 18010KT 9999 FEW020 SCT050 BKN060 QNH2992INS TEMPO 1423/1503 VCTS 9999 FEW020 SCT030CB BECMG 1506/1508 23005KT 9999 FEW020 SCT090 QNH2995INS T20/1508Z T31/1518Z KNEW 141722Z 1418/1518 VRB05KT P6SM FEW030 FEW250 KNFG 1415/1515 VRB05KT 9999 FEW018 QNH2983INS TEMPO 1419/1501 24012G20KT FM150330 VRB05KT 9999 FEW020 QNH2984INS TEMPO 1508/1514 BKN020 T27/1421Z T18/1513Z KNFL 1415/1515 VRB06KT 9999 SCT120 SCT200 QNH2997INS FM142100 VRB06KT 9999 SCT070 SCT120 BKN200 QNH2990INS FM150000 24008KT 9999 VCTS SCT070CB BKN120 BKN200 QNH2990INS TEMPO 1501/1507 VRB20G35KT -TSRA BKN070CB FM150800 VRB06KT 9999 FEW070 SCT120 BKN200 QNH2995INS T37/1500Z T16/1513Z FS30003 KNFW 1415/1515 15012KT 8000 -SHRA FEW040 BKN075 OVC100 QNH2994INS FM151800 17012G18KT 9999 VCSH FEW050 BKN100 OVC150 QNH2988INS FM152000 17012KT 9999 FEW060 BKN120 OVC200 QNH2990INS FM160800 21009KT 9999 FEW040 SCT080 BKN250 QNH2992INS T32/1422Z T24/1511Z FN20046 KNGP 1415/1515 16014G21KT 9999 FEW020 SCT030 BKN250 QNH2994INS BECMG 1417/1418 14017G24KT 9999 FEW030 SCT250 QNH2988INS TEMPO 1418/1500 14018G26KT BECMG 1500/1502 16013KT 9999 FEW020 SCT250 QNH2991INS T34/1419Z T27/1512Z FN20058 KNGU 1415/1515 28005KT 9999 SKC QNH2993INS FM141800 25008KT 9999 FEW050 SCT280 QNH2990INS FM142300 24005KT 9999 FEW060 FEW280 QNH2994INS FM150900 VRB05KT 9999 SKC QNH2996INS T31/1419Z T24/1509Z FN00067 KNHK 1415/1515 27008KT 9999 FEW060 SCT280 QNH2987INS BECMG 1422/1500 VRB05KT 9999 VCSH FEW030 BKN280 QNH2988INS BECMG 1503/1505 26006KT 9999 NSW FEW280 QNH2994INS T30/1421Z T20/1510Z FN20002 KNID 1415/1515 VRB05KT 9999 FEW150 QNH2981INS WND 13007KT AFT 1420 BECMG 1422/1500 18012G22KT 9999 FEW100 FEW220 QNH2977INS BECMG 1503/1505 21008KT 9999 SKC QNH2979INS T41/1423Z T22/1513Z KNIP 1415/1515 22008KT 9999 FEW030 SCT180 SCT250 QNH3002INS FM141700 20010KT 9999 VCTS SCT040CB SCT150 BKN250 QNH2997INS TEMPO 1418/1500 VRB20G35KT 3200 TSRA SCT010 BKN020CB FM150100 22006KT 9999 FEW030 SCT150 BKN250 QNH2999INS T34/1420Z T27/1512Z FN20015 KNJK 1417/1515 VRB06KT 9999 SKC QNH2974INS FM141800 VRB06KT 9999 FEW080 QNH2966INS TEMPO 1420/1502 14010KT FM150200 26012KT 9999 FEW080 FEW160 QNH2967INS T41/1422Z T28/1513Z 1709 FS30093 KNKT 1418/1515 20010KT 9999 SCT020 BKN100 QNH2995INS TEMPO 1418/1500 VRB10G40KT 1600 TSRA BR BKN020CB BECMG 1500/1502 21010KT 9999 SCT025 BKN100 QNH2997INS FM151000 22005KT 9999 FEW030 SCT100 QNH3000INS T32/1419Z T24/1509Z 1844Z KNKX 1415/1515 VRB05KT 9999 FEW015 QNH2989INS BECMG 1416/1418 29008KT 9999 SCT015 QNH2984INS FM150430 VRB05KT 9999 SCT015 QNH2988INS TEMPO 1509/1515 BKN015 T31/1421Z T20/1511Z KNLC 1415/1515 32006KT 9999 FEW065 QNH2984INS FM141900 34007KT 9999 FEW065 QNH2977NS TEMPO 1419/1501 03008KT 6000 FU HZ FM150200 32009KT 9999 FEW065 QNH2978INS T38/1423Z T18/1513Z FS30067 KNMM 1415/1515 34006KT 9999 SCT045 SCT150 BKN280 QNH2998INS FM142000 34006KT 9999 VCTS SCT055CB SCT150 BKN280 QNH2993INS TEMPO 1420/1423 VRB15G25KT 4800 +TSRA BKN055CB BKN150 BKN280 FM142300 VRB03KT 9999 FEW050 SCT180 BKN280 QNH2995INS FM151500 14003KT 9999 FEW220 QNH3005INS T35/1421Z T22/1511Z FN20035 KNPA 1415/1515 VRB05KT 9999 FEW030 SCT160 BKN250 QNH2997INS FM141800 20007KT 9999 SCT040CB SCT120 BKN280 QNH2994INS TEMPO 1419/1500 VRB10G20KT 6000 TSRA BKN040CB TEMPO 1500/1502 6000 SHRA BKN040CB FM150200 VRB03KT 9999 SCT040 SCT120 BKN250 QNH2994INS FM151200 VRB05KT 9999 FEW030 SCT250 QNH3000INS T32/1420Z T25/1512Z FN20033 KNQI 1415/1515 15014G20KT 9999 SCT025 BKN250 QNH2992INS TEMPO 1415/1417 17014KT BKN020 BKN030 BECMG 1417/1419 14016G21KT 9999 VCSH SCT050 BKN300 QNH2986INS TEMPO 1420/1500 13018G23KT FM150200 16012KT 9999 FEW020 SCT250 QNH2990INS TEMPO 1509/1513 VRB05KT 6000 BR BKN015 T36/1420Z T25/1511Z FN20042 KNQX 1415/1515 14012KT 9999 SCT024 BKN220 QNH2999INS BECMG 1418/1420 13010KT 9999 VCSH SCT024 SCT220 QNH2997INS FM150200 13010KT 9999 FEW024 SCT220 QNH3002INS T32/1419Z T27/1510Z FN20027 KNRB 1415/1515 21008KT 9999 SCT030 SCT150 BKN250 QNH3002INS FM141700 19008KT 9999 VCTS SCT035CB SCT150 BKN250 QNH2994INS TEMPO 1418/1422 3200 TSRA SCT015 BKN030CB OVC100 FM150100 25005KT 9999 VCSH SCT030 SCT120 BKN250 QNH2998INS T32/1418Z T24/1511Z FN20021 KNSE 1415/1515 VRB04KT 9999 FEW035 SCT120 BKN250 QNH3000INS FM141700 VRB05KT 9999 VCSH SCT035 BKN100 BKN250 QNH2995INS FM141800 VRB05KT 9999 VCTS SCT035CB BKN100 OVC250 QNH2992INS TEMPO 1418/1423 VRB12G20KT 8000 TSRA FM150100 18004KT 9999 BKN035 BKN120 BKN250 QNH2993INS FM150900 VRB03KT 9999 BKN020 BKN250 QNH2995INS T32/1420Z T23/1512Z 1500 FN20030 KNSI 1415/1515 29010KT 9999 BKN006 QNH2988INS TEMPO 1415/1417 SCT008 FM141700 29010KT 9999 FEW010 QNH2985INS FM142300 29012G20KT 9999 FEW012 SCT200 QNH2982INS FM150600 29010KT 9999 SCT008 SCT200 QNH2986INS FM150900 29008KT 8000 BR OVC005 QNH2987INS T23/1422Z T17/1512Z FS30125 KNTD 1415/1515 VRB05KT 9999 SCT018 QNH2987INS TEMPO 1415/1418 20007KT BKN018 FM141800 23009KT 9999 FEW018 FEW045 SCT180 QNH2985INS FM142300 26011KT 9999 FEW045 FEW200 QNH2988INS FM150400 VRB05KT 9999 SCT015 QNH2990INS T24/1422Z T17/1512Z FS30029 KNTU 1415/1515 24008G18KT 9999 FEW280 QNH2991INS FM142000 24012KT 9999 SCT030 SCT280 QNH2986INS TEMPO 1420/1502 BKN030 BKN050 BKN280 FM150900 VRB06KT 9999 SCT020 BKN035 BKN280 QNH2999INS T31/1419Z T22/1509Z FN20008 KNUC 1415/1515 26010KT 9999 BKN012 QNH2983INS TEMPO 1418/1500 26012G18KT SCT015 FM150700 25008KT 8000 BR OVC010 QNH2986INS T23/1421Z T18/1512Z FS30125 KNUW 1415/1515 VRB06KT 6000 BR FU FEW020 BKN050 BKN250 QNH2996INS TEMPO 1415/1418 00000KT 4800 BR FU SCT030 SCT060 FM141800 27007KT 8000 FU HZ SCT035 BKN0570 QNH2989INS FM150300 VRB06KT 9999 FEW025 SCT250 QNH2983INS TEMPO 1512/1515 4800 BR BKN070 BKN250 T22/1500Z T10/1512Z 1510 FS30004 KNXP 1415/1515 VRB05KT 9999 SKC QNH2993INS BECMG 1418/1420 14010KT 9999 FEW060 FEW200 QNH2990INS FM142200 14015KT 9999 VCTS BKN060 BKN200 QNH2987INS TEMPO 1500/1504 14012G20KT -SHRA TS BKN060CB BKN200 FM150900 VRB05KT 9999 FEW060 SCT200 QNH2991INS T40/1423Z T29/1513Z KNYG 1421/1521 27006KT 9999 FEW045 SCT060 SCT140 QNH2988INS BECMG 1501/1503 VRB04KT 9999 SCT070 BKN120 QNH2995INS FM150900 VRB04KT 9999 SKC QNH2997INS BECMG 1515/1517 33006KT 9999 SCT250 QNH2995INS T19/1509Z T33/1520Z KNYL 1415/1515 16010KT 9999 SKC QNH2968INS TEMPO 1418/1500 17012G18KT FM150315 18012KT 9999 SKC QNH2970INS T41/1423Z T28/1512Z KNZY 1415/1515 VRB06KT 9999 BKN020 QNH2986INS TEMPO 1415/1417 SCT020 FM141700 28010KT 9999 FEW060 FEW250 QNH2984INS FM150100 VRB06KT 9999 FEW015 QNH2986INS FM150700 VRB06KT 9999 BKN015 QNH2986INS T26/1422Z T20/1512Z FS30103 KOAJ 141739Z 1418/1518 19005KT P6SM VCTS SCT035CB FM150000 VRB02KT P6SM FEW060 FEW250 FM151400 25003KT P6SM SKC LTD TO CLD VIS AND WIND KOAK 141939Z 1420/1524 28008KT P6SM OVC011 FM142100 29013KT P6SM BKN013 FM150200 29010KT P6SM BKN013 FM150500 29008KT P6SM OVC010 FM151000 28007KT P6SM OVC008 FM151900 29008KT P6SM SCT010 KOFF 141800Z 1418/1524 09009KT 9000 -SHRA SCT035 BKN060 OVC100 QNH2992INS BECMG 1502/1503 04006KT 4800 -SHRA BR SCT008 OVC015 QNH2991INS BECMG 1511/1512 02006KT 4800 BR OVC010 QNH2992INS BECMG 1514/1515 04009KT 9999 NSW FEW020 QNH2989INS TX28/1518Z TN20/1512Z KOFK 142023Z 1420/1518 09007KT P6SM VCTS SCT035 OVC100CB TEMPO 1420/1422 5SM -TSRA BKN035CB FM150000 12005KT P6SM VCSH OVC100 FM150400 10005KT P6SM BKN200 KOGB 142046Z 1421/1518 27008KT P6SM SCT060 FM150200 VRB03KT P6SM SKC FM150800 00000KT 4SM BR SKC FM151400 VRB05KT P6SM FEW050 KOGD 141739Z 1418/1518 29008KT P6SM SCT120 SCT200 FM150300 17006KT P6SM FEW120 SCT200 FM151700 31007KT P6SM SCT120 KOKC 141938Z 1420/1518 17012KT P6SM VCTS SCT025CB BKN040 TEMPO 1420/1421 BKN025CB FM142100 18010KT P6SM SCT030 BKN100 FM150300 17010KT P6SM VCSH BKN040 TEMPO 1504/1508 3SM TSRA BKN012CB FM151400 28010KT P6SM BKN025 KOLF 141720Z 1418/1518 VRB05KT P6SM SKC KOLM 141720Z 1418/1518 03004KT 3SM HZ FU SCT045 FM142100 01006KT P6SM SCT060 FM150300 VRB03KT P6SM SKC KOLS 141725Z 1418/1518 VRB04KT P6SM SCT150 FM142000 29007KT P6SM VCTS SCT080CB TEMPO 1422/1424 4SM -TSRA BR BKN040CB FM150000 24006KT P6SM -SHRA BKN080 FM150600 15004KT P6SM BKN080 KOMA 141722Z 1418/1518 14005KT P6SM -SHRA OVC090 TEMPO 1418/1422 4SM -SHRA OVC060 FM142300 06005KT P6SM VCSH OVC070 FM150900 VRB04KT P6SM BKN050 FM151200 36005KT P6SM SCT050 KONP 142008Z 1420/1518 27005KT 2SM BR OVC006 TEMPO 1421/1501 6SM BR SCT006 FM150100 23002KT 1/2SM FG OVC002 KONT 141724Z 1418/1524 VRB04KT P6SM SKC FM142000 26012G18KT P6SM FEW100 FM150600 26005KT P6SM SKC FM152000 26012G18KT P6SM FEW100 KOPF 142059Z 1421/1518 12009KT P6SM FEW035 FM150100 VRB03KT P6SM SCT030 SCT250 FM151400 12010KT P6SM SCT250 KORD 142058Z 1421/1524 25010KT P6SM SCT060 BKN250 FM150000 VRB04KT P6SM FEW050 BKN250 FM150900 21004KT P6SM VCSH SCT040 BKN250 FM151400 17010KT 6SM SHRA BKN040 PROB30 1515/1521 4SM -TSRA OVC025CB FM152100 15007KT P6SM -SHRA BKN040 KORF 141741Z 1418/1518 22008KT P6SM FEW050 FM150000 24005KT P6SM SCT080 FM151400 31007KT P6SM SKC KORH 142030Z 1421/1518 35007KT 5SM -SHRA BR VCTS FEW009 BKN040CB FM150000 20006KT P6SM VCSH OVC004 FM150200 VRB03KT P6SM BKN030 FM151000 VRB03KT P6SM BKN010 KOTH 141721Z 1418/1518 30005KT P6SM OVC008 FM142000 30007KT P6SM BKN012 FM142100 31011KT P6SM SCT012 FM150100 30007KT P6SM BKN008 FM150600 27003KT 4SM BR OVC004 KOTM 141737Z 1418/1518 17007KT P6SM SCT150 BKN200 FM142000 14007KT P6SM VCSH SCT060 BKN120 FM150000 13006KT 6SM -SHRA OVC070 FM150800 10005KT 6SM -SHRA OVC015 FM151200 09004KT P6SM OVC010 KOUN 141935Z 1420/1518 19010KT P6SM SCT020 BKN250 TEMPO 1420/1421 1SM TSRA BKN008CB FM150300 17010KT P6SM VCSH BKN040 TEMPO 1504/1508 3SM TSRA BKN012CB FM151400 28010KT P6SM BKN025 KOWB 141720Z 1418/1518 VRB03KT P6SM FEW035 SCT250 FM150000 VRB04KT P6SM SCT040 BKN200 FM150500 VRB04KT P6SM BKN130 FM151500 17006KT P6SM VCSH BKN080 KOXR 141742Z 1418/1518 24006KT P6SM SCT014 FM142000 26012KT P6SM SKC FM150300 26006KT P6SM BKN010 FM150600 VRB03KT P6SM OVC006 FM151100 VRB03KT P6SM OVC010 FM151600 24006KT P6SM SCT010 KOZR 141600Z 1416/1522 20006KT 9999 FEW030 FEW200 QNH3002INS BECMG 1417/1418 24006KT 9000 -SHRA SCT040 QNH2999INS TEMPO 1420/1502 25015G20KT 4800 -TSRA BKN020CB BECMG 1501/1502 22006KT 9999 NSW BKN040 QNH2995INS BECMG 1515/1516 VRB06KT 8000 -SHRA SCT024 QNH3006INS TEMPO 1518/1522 22010G20KT 4800 -TSRA BKN020CB TX34/1420Z TN22/1511Z KPAE 141720Z 1418/1518 34006KT 3SM HZ FU SCT050 FM142100 36004KT P6SM SKC KPAH 141908Z 1419/1518 22006KT P6SM VCSH BKN040 OVC110 FM150100 VRB04KT P6SM SCT040 BKN100 FM151200 19007KT P6SM VCSH BKN150 KPAM 141800Z 1418/1524 22006KT 9999 SCT020 QNH3000INS BECMG 1419/1420 22009KT 8000 -SHRA SCT030 SCT100 QNH3001INS TEMPO 1420/1423 VRB10G15KT 4800 -TSRA BKN030CB BECMG 1422/1423 22006KT 9999 NSW SCT010 BKN150 QNH3000INS BECMG 1515/1516 VRB06KT 8000 -SHRA SCT030 QNH3007INS TEMPO 1518/1523 16010G15KT 4800 -TSRA BKN030CB TX33/1517Z TN23/1512Z KPBF 141735Z 1418/1518 24009KT P6SM SCT040 BKN120 FM150200 VRB04KT P6SM SCT040 BKN120 FM151000 VRB03KT 6SM BR BKN120 FM151400 23008KT P6SM BKN120 KPBG 141720Z 1418/1518 12006KT P6SM BKN060 FM150400 VRB04KT P6SM VCSH BKN080 FM151100 18005KT P6SM BKN045 KPBI 142059Z 1421/1518 16009KT P6SM SCT030 SCT120 BKN250 FM150100 11006KT P6SM SCT030 SCT250 FM150400 VRB03KT P6SM SCT250 FM151400 12010KT P6SM SCT250 KPDK 141728Z 1418/1518 29004KT P6SM FEW060 FM150100 32004KT P6SM FEW250 FM151700 VRB03KT P6SM SCT050 KPDT 141720Z 1418/1518 VRB05KT 2SM HZ FU SKC FM142200 35007KT 5SM HZ FU SKC FM150500 12005KT 3SM HZ FU SKC FM151700 34007KT 6SM HZ FEW150 KPDX 141722Z 1418/1518 32005KT 5SM FU OVC045 FM142100 31008KT 6SM FU BKN045 BKN080 FM150500 32003KT 5SM FU OVC045 KPEQ 141720Z 1418/1518 10006KT P6SM FEW080= KFST 141720Z 1418/1518 16011KT P6SM FEW080 KPGA 141730Z 1418/1518 VRB06KT P6SM FEW120 KPGD 141720Z 1418/1518 22007KT P6SM SCT040 BKN250 FM141900 23009KT P6SM VCTS SCT045CB SCT150 BKN250 TEMPO 1419/1422 VRB15G25KT 3SM TSRA BKN025CB FM150000 15004KT P6SM FEW025 BKN150 FM150200 VRB03KT P6SM SCT025 SCT200 FM151400 13007KT P6SM FEW020 SCT250 KPGV 141859Z 1419/1518 24005KT P6SM VCTS SCT035CB TEMPO 1419/1420 VRB10G20KT 3SM TSRA BKN035CB FM150000 VRB03KT P6SM FEW250 FM151400 25004KT P6SM SKC LTD TO CLD VIS AND WIND KPHF 141749Z 1418/1518 25008KT P6SM FEW050 FM150000 24005KT P6SM SCT090 FM151000 28006KT P6SM SKC KPHL 142027Z 1420/1524 25011KT P6SM VCTS SCT040CB BKN060 FM142100 28011KT P6SM VCTS BKN035CB TEMPO 1421/1422 4SM SHRA BKN030 FM142300 27010KT P6SM VCTS SCT035CB BKN070 FM150100 27008KT P6SM VCSH SCT040 BKN100 FM150200 26006KT P6SM SCT040 BKN090 FM152100 27009G18KT P6SM FEW050 KPHX 142044Z 1421/1524 29012G18KT P6SM FEW120 SCT180 FM150300 05020G30KT P6SM VCTS SCT080CB BKN120 OVC180 TEMPO 1503/1505 05035G45KT 3SM +TSRA BKN080CB OVC120 FM150700 16010KT P6SM VCSH FEW080 BKN120 OVC200 FM151900 27010KT P6SM FEW060 SCT120 BKN250 KPIA 141720Z 1418/1518 18006KT P6SM BKN250 FM150400 VRB04KT P6SM VCSH SCT050 BKN110 FM150800 17005KT 6SM -SHRA VCTS OVC045CB FM151000 VRB04KT 6SM SHRA VCTS OVC008CB KPIB 141737Z 1418/1518 34004KT P6SM FEW050 FEW250 KPIE 141720Z 1418/1518 21009KT P6SM VCTS SCT035CB BKN250 TEMPO 1418/1420 VRB15G25KT 3SM TSRA BKN025CB FM150000 26006KT P6SM FEW030 BKN150 FM150200 VRB03KT P6SM SCT025 BKN200 FM151400 14006KT P6SM FEW020 SCT150 BKN250 KPIH 141730Z 1418/1518 24011KT P6SM SKC FM142000 26011G21KT P6SM SKC FM150200 21010KT P6SM FEW200 KPIR 141728Z 1417/1518 03013KT P6SM SCT090 BKN130 FM150000 07009KT P6SM FEW100 SCT250 FM151700 11007KT P6SM BKN100 KPIT 141901Z 1419/1524 22007KT P6SM VCSH SCT025 BKN070 TEMPO 1419/1421 3SM -TSRA BKN025CB FM142300 24005KT P6SM SCT250 FM151600 25007KT P6SM SCT045 KPKB 141738Z 1418/1518 VRB03KT P6SM FEW045 FM150600 00000KT 1 1/2SM BR FEW045 FM150700 00000KT 1/2SM FG OVC001 FM151300 00000KT 4SM BR SCT002 FM151330 VRB04KT P6SM SCT045 KPLN 141728Z 1418/1518 25011KT P6SM FEW250 FM150000 28007KT P6SM SCT060 FM150300 VRB03KT P6SM VCSH BKN050 FM150700 34003KT P6SM VCSH BKN030 FM151200 35004KT P6SM BKN050 FM151500 02005KT P6SM BKN060 KPMD 142039Z 1421/1518 26010G17KT P6SM SKC FM142200 24015G25KT P6SM SCT120 FM150300 23012KT P6SM SKC FM151000 22008KT P6SM SKC KPNA 141722Z 1418/1518 VRB06KT P6SM SCT110 FM141900 30014G24KT P6SM SKC FM150300 31008KT P6SM SKC LTD TO CLD VIS AND WIND KPNC 141736Z 1418/1518 23008KT P6SM SCT025 BKN100 TEMPO 1419/1422 BKN025 FM150300 32010KT P6SM SCT015 BKN040 PROB30 1503/1508 3SM TSRA BKN015CB KPNE 142028Z 1420/1518 26010KT P6SM VCTS SCT030CB BKN060 TEMPO 1421/1422 5SM -SHRA BKN035 FM150100 29007KT P6SM VCSH SCT040 BKN080 FM150200 28006KT P6SM SCT040 BKN080 KPNS 141720Z 1418/1518 18006KT P6SM SCT030 TEMPO 1419/1423 VRB15G25KT 2SM TSRA BKN025CB OVC050 FM150200 VRB03KT 5SM BR SCT100 BKN250 KPOB 141700Z 1417/1523 23006KT 8000 -SHRA BKN030 BKN080 QNH2995INS TEMPO 1417/1423 VRB12G20KT 6000 -TSRA BKN015CB BECMG 1423/1424 24006KT 9999 NSW SCT050 QNH2998INS BECMG 1514/1515 27006KT 9999 FEW050 QNH3005INS TX33/1419Z TN21/1511Z KPOE 141600Z 1416/1522 19009KT 9999 SCT030 QNH2996INS BECMG 1500/1501 19006KT 9999 FEW200 QNH2994INS BECMG 1514/1515 18010G15KT 9999 SKC QNH2997INS TX35/1421Z TN23/1512Z KPOU 141900Z 1419/1518 23008KT P6SM VCTS SCT025 BKN035CB TEMPO 1420/1424 25016G20KT 1SM TSRA BR OVC035CB FM150000 00000KT P6SM VCSH BKN050 OVC100 FM150600 00000KT 4SM BR BKN050 FM151200 29003KT 6SM HZ BR BKN015 FM151300 29004KT P6SM BKN050 FM151400 30006KT P6SM SCT250 KPQI 141800Z 1418/1518 18007KT P6SM SCT025 BKN050 FM142000 18006KT P6SM BKN050 FM150400 19005KT 5SM BR OVC020 FM150700 20005KT 5SM BR VCSH OVC006 FM151500 23005KT 5SM -SHRA OVC025 KPRB 141742Z 1418/1518 00000KT P6SM SKC FM141900 21007KT P6SM SKC FM142200 21015KT P6SM SKC FM150400 21007KT P6SM SKC FM150800 VRB05KT P6SM SKC FM151200 VRB03KT 3SM BR SCT005 KPRC 142022Z 1420/1518 27010KT P6SM FEW070 SCT100 TEMPO 1420/1424 VRB10G20KT 5SM TSRA BKN060CB FM150230 VRB05KT P6SM SCT120 KPSC 141720Z 1418/1518 35003KT 2SM HZ FU SKC FM142200 35005KT 5SM HZ FU SKC FM150300 03003KT 3SM HZ FU SKC FM151700 35005KT 6SM HZ FEW160 KPSF 141733Z 1418/1518 13004KT P6SM VCSH BKN025 BKN035 TEMPO 1421/1501 2SM TSRA BR OVC015CB FM150100 VRB03KT 6SM BR VCSH SCT025 OVC050 FM150400 00000KT 3SM BR BKN015 BKN050 FM151200 VRB03KT 5SM BR BKN050 FM151400 29004KT P6SM SCT250 KPSM 141730Z 1418/1518 00000KT P6SM BKN015 BKN035 TEMPO 1421/1501 1SM +TSRA OVC010CB FM150500 00000KT P6SM BKN250 FM150700 00000KT 6SM BR BKN008 FM151300 VRB03KT P6SM BKN015 FM151400 VRB04KT P6SM BKN250 KPSP 141724Z 1418/1518 VRB04KT P6SM SKC FM142300 32012G18KT P6SM FEW090 FM150700 VRB05KT P6SM SKC KPTK 141720Z 1418/1518 27009KT P6SM FEW050 FM150200 27004KT P6SM BKN250 FM151500 22008KT P6SM SCT045 BKN200 KPUB 141724Z 1418/1518 12007KT P6SM FEW100 FM142200 10012KT P6SM SCT090 BKN150 FM150000 10012KT P6SM VCTS BKN090CB FM150200 06007KT P6SM SCT120 BKN200 FM150400 10005KT P6SM BKN200 KPUW 141739Z 1418/1518 VRB04KT 3SM HZ SKC FM142000 26005KT 6SM FU HZ FEW040 SCT200 FM150400 00000KT 5SM FU HZ SCT200 FM151200 10004KT 6SM HZ SKC KPVD 142031Z 1421/1518 18011KT P6SM SCT035 FM150000 20005KT P6SM BKN060 FM151100 26004KT P6SM BKN045 KPVU 141739Z 1418/1518 28008KT 6SM FU SCT100 BKN200 FM142000 32008KT P6SM SCT100 BKN180 FM150400 15005KT 6SM FU FEW100 BKN200 FM151400 16005KT P6SM SCT100 BKN150 KPVW 141735Z 1418/1518 19011KT P6SM SCT060 KPWM 141825Z 1418/1518 07004KT P6SM SCT005 BKN250 TEMPO 1420/1424 5SM BR BKN005 FM150000 19003KT 1 1/2SM BR OVC003 KPWT 142059Z 1421/1518 05006KT 4SM HZ FU SCT050 FM150300 04005KT P6SM SKC FM150400 VRB04KT P6SM SKC KQD3 141904Z 1419/1601 VRB06KT 9999 FEW140 QNH2965INS BECMG 1503/1504 26015G25KT 5000 HZ FEW100 QNH2956INS BECMG 1511/1512 30012G18KT 8000 HZ SCT100 QNH2964INS TEMPO 1513/1516 VRB25G35KT 3200 -TSRA BKN020CB BECMG 1516/1517 VRB06KT 9999 NSW FEW090 QNH2958INS TX44/1510Z TN32/1423Z KQN3 141309Z 1413/1519 18009KT 9999 SCT045 QNH2980INS BECMG 1423/1424 17009KT 8000 -SHRA BKN045 QNH2988INS TEMPO 1501/1506 VRB25G35KT 6000 -TSRA BKN040CB BECMG 1506/1507 VRB06KT 9999 NSW SCT045 QNH2981INS TX33/1415Z TN22/1505Z KQNA 141500Z 1415/1515 19009KT 9999 FEW030 BKN250 QNH2993INS BECMG 1501/1502 20010G15KT 9999 FEW020 SCT150 QNH2987INS TEMPO 1505/1508 20015G25KT TX32/1505Z TN25/1420Z KQRH 141904Z 1419/1601 VRB06KT 9999 FEW140 QNH2965INS BECMG 1503/1504 26015G25KT 5000 HZ FEW100 QNH2956INS BECMG 1511/1512 30012G18KT 8000 HZ SCT100 QNH2964INS TEMPO 1513/1516 VRB25G35KT 3200 -TSRA BKN020CB BECMG 1516/1517 VRB06KT 9999 NSW FEW090 QNH2958INS TX44/1510Z TN32/1423Z KRAP 141907Z 1419/1518 04009KT P6SM OVC100 TEMPO 1419/1421 5SM -TSRA OVC050CB FM142300 10011KT P6SM SCT100 FM150900 09011KT P6SM -TSRA BKN040CB KRBG 141721Z 1418/1518 VRB03KT P6SM SKC FM142200 35007KT P6SM SKC FM150300 35002KT P6SM SKC KRBL 141724Z 1418/1518 VRB05KT P6SM SKC TEMPO 1421/1501 16011KT KRCA 141900Z 1419/1601 10009KT 9999 SCT050 BKN070 OVC100 QNH2997INS TEMPO 1419/1422 35015G25KT 6000 -TSRA BKN035CB OVC050 BECMG 1505/1506 12006KT 9000 -SHRA BKN020 OVC050 QNH2996INS BECMG 1519/1520 13006KT 9999 NSW SCT050 QNH2994INS TEMPO 1520/1523 32010G20KT 6000 -TSRA SCT030 BKN050CB TX21/1422Z TN14/1512Z KRDD 141724Z 1418/1518 VRB05KT P6SM SKC TEMPO 1421/1501 16011KT KRDG 141748Z 1418/1518 29009KT P6SM VCSH FEW025 BKN035 FM142000 28011KT P6SM VCTS SCT030CB BKN040 TEMPO 1421/1423 5SM -SHRA BKN040 FM142300 29008KT P6SM SCT025 BKN060 FM150300 26003KT P6SM SCT050 BKN080 FM151500 29009KT P6SM FEW050 KRDM 141720Z 1418/1518 36005KT 5SM HZ FU SKC FM142100 35009KT 5SM HZ FU SKC FM150500 VRB04KT 3SM HZ FU SKC FM151700 33007KT 6SM HZ SCT140 KRDR 141800Z 1418/1524 33009KT 9999 FEW150 SCT200 QNH2990INS FU SCT200 TX26/1517Z TN11/1511Z KRDU 141738Z 1418/1518 VRB05KT P6SM VCTS SCT030CB BKN100 FM141900 VRB03KT P6SM SCT040 SCT100 FM150000 VRB03KT P6SM FEW060 TEMPO 1510/1512 3SM BR KRFD 142058Z 1421/1518 22007KT P6SM FEW050 BKN250 FM150100 VRB03KT P6SM SCT040 BKN250 FM150900 21004KT P6SM VCSH SCT040 BKN250 FM151400 17010KT 6SM SHRA BKN040 KRHI 141740Z 1418/1518 25007KT P6SM VCSH SCT050 BKN200 FM142000 31006KT P6SM VCTS BKN050CB FM150000 04004KT P6SM SCT100 BKN150 FM150700 VRB03KT 3SM BR BKN120 TEMPO 1507/1511 1/2SM FG BKN003 FM151300 11005KT P6SM BKN030 KRIC 141741Z 1418/1518 25008KT P6SM FEW050 FM142300 25004KT P6SM BKN080 FM150600 28003KT P6SM SCT080 FM150800 30006KT P6SM SKC KRIL 141805Z 1418/1518 00000KT P6SM SKC FM141900 30008KT P6SM FEW130 SCT200 FM150200 33008KT P6SM SCT110 BKN200 FM150400 11006KT P6SM SCT110 BKN200 KRIV 142006Z 1420/1602 30009KT 9999 FEW100 QNH2986INS TEMPO 1421/1502 31012G20KT BECMG 1503/1504 15004KT 9999 SKC QNH2990INS BECMG 1518/1519 30009KT 9999 FEW110 QNH2996INS TEMPO 1521/1601 31012G20KT TX34/1422Z TN17/1513Z KRIW 141722Z 1418/1518 VRB05KT P6SM SCT090 SCT150 FM150000 02012G18KT P6SM SCT100 FM150400 34007KT P6SM SKC FM150600 32007KT P6SM SKC KRKD 141958Z 1420/1518 10003KT 1SM BR OVC002 TEMPO 1420/1424 1/2SM FG FM150100 17003KT 1/2SM FG OVC002 FM151300 VRB04KT 5SM BR BKN010 BKN250 KRKS 141914Z 1419/1518 28011G21KT P6SM SCT110 FM142000 28012G22KT P6SM VCTS SCT100CB FM150200 29008KT P6SM FEW120 FM150600 06008KT 6SM FU SKC FM150800 22008KT 6SM FU SKC KRME 141723Z 1418/1518 VRB05KT P6SM SCT015 BKN035 TEMPO 1418/1422 3SM SHRA BR OVC015 FM142200 29005KT P6SM BKN035 FM150300 VRB03KT P6SM BKN025 FM150900 VRB03KT 3SM BR BKN015 FM151300 27005KT P6SM BKN040 KRND 141631Z 1416/1515 18010G26KT 9999 SCT020 QNH2998INS BECMG 1422/1423 15012G20KT 9999 SCT075 QNH2996INS BECMG 1502/1503 15012KT 9999 SCT060 QNH2090INS BECMG 1507/1508 16006KT 9999 SCT015 QNH2994INS BECMG 1511/1512 VRB06KT 9999 SCT010 QNH2998INS TEMPO 1511/1514 BKN010 BECMG 1514/1515 18012KT 9999 FEW015 QNH3000INS TX35/1421Z TN24/1512Z KRNH 141726Z 1418/1518 26006KT P6SM VCSH SCT050 BKN060 BKN080 FM142100 29005KT P6SM VCTS SCT045CB BKN200 FM150100 VRB04KT P6SM SCT050 BKN250 FM150800 36005KT P6SM SCT150 KRNO 141721Z 1418/1518 VRB04KT P6SM FEW150 FM142200 30009KT P6SM SCT080 BKN180 FM150000 28011G20KT P6SM VCTS SCT100CB BKN150 FM150300 29010G18KT P6SM SCT150 BKN200 FM150600 28005KT P6SM VCSH SCT100 KROA 141841Z 1419/1518 31006KT P6SM VCSH SCT050 FM142000 28005KT P6SM SCT060 FM150100 VRB03KT P6SM FEW250 KROC 141742Z 1418/1518 31009KT P6SM VCSH BKN060 BKN100 FM142300 27008KT P6SM BKN060 FM150100 26007KT P6SM SCT060 FM151700 28012G17KT P6SM SCT060 KROG 141732Z 1418/1518 19012KT P6SM VCSH OVC012 TEMPO 1418/1422 BKN025 FM142200 19012KT P6SM BKN035 TEMPO 1504/1508 5SM -TSRA BKN025CB FM150800 19008KT P6SM VCSH BKN035 TEMPO 1508/1512 3SM TSRA BR OVC025CB FM151200 19008KT P6SM VCSH BKN025 PROB30 1512/1518 3SM TSRA BKN015CB KROW 141725Z 1418/1518 08006KT P6SM SKC FM142000 11007KT P6SM SCT100 FM150200 15006KT P6SM BKN100 FM150800 04007KT P6SM BKN140 KRSL 141739Z 1418/1518 35007KT P6SM VCSH SCT015 BKN025 FM142000 36008KT P6SM VCTS SCT020 BKN035CB FM150000 34007KT P6SM VCSH SCT020 BKN035 FM150200 35007KT 5SM BR SCT009 BKN015 KRST 141720Z 1418/1518 18005KT P6SM SCT050 BKN200 FM151100 VRB04KT P6SM SCT040 BKN060 KRSW 141720Z 1418/1518 20008KT P6SM SCT045 BKN250 FM141900 21007KT P6SM VCTS SCT045CB SCT150 BKN250 TEMPO 1419/1422 VRB15G25KT 3SM TSRA BKN025CB FM150000 12005KT P6SM FEW025 BKN150 FM150200 VRB03KT P6SM SCT025 SCT200 FM151400 13007KT P6SM FEW020 SCT250 KRUT 141720Z 1418/1518 15007KT P6SM -SHRA BKN035 FM150200 VRB03KT P6SM VCSH BKN090 FM150900 00000KT P6SM VCSH BKN025 FM151100 00000KT P6SM BKN015 FM151500 VRB04KT P6SM SCT050 KRVS 141732Z 1418/1518 18010KT P6SM VCTS OVC015CB FM142000 18007KT P6SM VCSH BKN025 FM150200 18005KT P6SM VCTS BKN025CB TEMPO 1502/1506 3SM TSRA BR OVC015CB FM150600 19006KT P6SM VCSH BKN015 TEMPO 1506/1509 4SM TSRA BKN015CB FM150900 19005KT P6SM VCSH BKN015 PROB30 1509/1515 5SM -TSRA BKN015CB FM151500 24007KT P6SM BKN015 KRWF 141726Z 1418/1518 32006KT P6SM VCTS SCT035 BKN050CB FM142300 35006KT P6SM VCTS SCT040CB BKN200 FM150200 36006KT P6SM SCT035 BKN140 FM151100 VRB04KT P6SM SCT130 KRWI 141738Z 1418/1518 24008KT P6SM VCTS SCT040CB BKN100 TEMPO 1418/1420 5SM -TSRA BKN035CB FM142300 23008KT P6SM SCT100 FM150000 24003KT P6SM FEW050 TEMPO 1509/1512 3SM BR FEW007 KRWL 141745Z 1418/1518 10010KT P6SM SCT150 FM150300 22006KT P6SM BKN150 FM151600 25008KT P6SM SKC KRYY 141728Z 1418/1518 30005KT P6SM FEW060 FM150100 VRB03KT P6SM FEW250 FM151100 00000KT 6SM BR FEW250 FM151700 VRB03KT P6SM SCT040 KSAC 141724Z 1418/1518 20008KT P6SM SCT250 KSAF 141725Z 1418/1518 03006KT P6SM FEW080 FM142000 21008KT P6SM SCT090 FM142300 17008KT P6SM VCTS SCT090CB FM150200 12012G20KT P6SM VCSH SCT060 BKN100 FM151000 13008KT P6SM BKN120 TEMPO 1512/1516 01006KT FM151600 23006KT P6SM FEW080 SCT150 KSAN 142043Z 1421/1524 29010KT P6SM FEW080 FM150200 VRB04KT P6SM SCT015 FM151000 VRB04KT P6SM BKN018 FM151500 VRB04KT P6SM SCT020 FM151900 29010KT P6SM FEW080 KSAT 141730Z 1418/1524 16012G22KT P6SM FEW050 SCT250 FM150700 16009KT P6SM OVC015 FM151500 17010KT P6SM SCT040 KSAV 142005Z 1420/1518 18008KT P6SM VCSH SCT040 TEMPO 1421/1423 VRB10G20KT 3SM -TSRA SCT040CB BKN070 FM150100 20006KT P6SM VCTS SCT045CB FM150400 21006KT P6SM SCT200 FM151600 24004KT P6SM SCT050 KSAW 141853Z 1419/1518 08006KT P6SM VCTS BKN040CB FM142000 01006KT P6SM VCSH BKN070 FM150300 VRB04KT P6SM BKN060 FM151100 02005KT P6SM BKN030 FM151600 04006KT P6SM SCT030 KSBA 141742Z 1418/1518 VRB05KT P6SM SKC FM142000 25010KT P6SM SKC FM150200 VRB03KT P6SM SKC FM150700 VRB03KT P6SM OVC008 FM151200 VRB03KT P6SM OVC010 FM151600 16005KT P6SM SCT012 KSBD 141724Z 1418/1518 VRB04KT P6SM SKC FM142000 25010KT 6SM HZ FEW080 FM150400 VRB04KT P6SM SKC KSBN 141730Z 1418/1518 26006KT P6SM SCT050 FM150200 VRB03KT P6SM SCT200 FM151500 19006KT P6SM VCSH BKN050 KSBP 141742Z 1418/1518 VRB05KT P6SM SCT006 FM142100 31012KT P6SM SKC FM150400 VRB03KT P6SM SKC FM150600 VRB03KT P6SM BKN006 FM151600 24005KT P6SM SCT006 KSBY 141753Z 1418/1518 26010KT P6SM SCT040 FM150000 23006KT P6SM VCSH BKN070 FM150600 VRB03KT P6SM BKN080 FM151100 28008KT P6SM SKC KSCK 141724Z 1418/1518 30009KT P6SM SCT250 KSDF 141722Z 1418/1524 27005KT P6SM SCT050 FM150200 VRB03KT P6SM BKN200 FM151100 VRB03KT P6SM BKN080 FM151400 19010KT P6SM VCSH BKN040 PROB30 1518/1524 4SM TSRA BKN025CB KSDL 142044Z 1421/1518 25007KT P6SM FEW100 SCT170 FM150230 05020G30KT 5SM -TSRA SCT080CB BKN120 OVC180 TEMPO 1503/1505 05035G45KT 3SM +TSRA BKN080CB OVC120 FM150700 16010KT P6SM VCSH FEW080 BKN120 OVC200 KSDY 141720Z 1418/1518 VRB04KT P6SM FEW230 KSEA 142047Z 1421/1524 30007KT 3SM HZ FU SCT050 FM150000 34006KT P6SM FEW060 FM150900 VRB04KT P6SM SCT060 FM151800 21006KT P6SM SCT060 FM152100 31005KT P6SM SCT060 KSEZ 141730Z 1418/1518 21005KT P6SM FEW060 SCT100 TEMPO 1420/1424 VRB10G20KT 5SM -TSRA BKN050CB FM150200 VRB05KT P6SM SCT120 FM150400 04007KT P6SM FEW120 NOT SKED KSFB 141740Z 1418/1518 20008KT P6SM SCT040 SCT250 FM141900 19008KT P6SM VCTS SCT045CB SCT080 BKN250 TEMPO 1420/1423 2SM TSRA BKN030CB BKN060 FM150100 20004KT P6SM FEW040 SCT100 BKN250 FM151400 16005KT P6SM SCT025 KSFF 141739Z 1418/1518 07004KT 4SM HZ FU SKC FM150200 VRB03KT 6SM FU HZ FEW200 FM150600 VRB03KT 3SM FU HZ SCT050 SCT200 FM151600 VRB03KT 4SM FU HZ SCT050 SCT200 KSFO 141906Z 1419/1524 27011KT P6SM FEW006 OVC011 FM142100 28016G24KT P6SM BKN012 TEMPO 1421/1501 SCT012 FM150100 28016KT P6SM BKN011 FM150500 28013KT P6SM OVC010 FM151000 28008KT P6SM OVC008 FM151800 28010KT P6SM SCT010 KSGF 142005Z 1420/1518 20018G28KT P6SM VCSH SCT025 BKN030 FM142300 21012KT P6SM VCSH OVC025 TEMPO 1423/1503 5SM -SHRA BR OVC015 FM150300 18012KT 4SM -SHRA BR VCTS OVC025CB KSGJ 142051Z 1421/1518 13010KT P6SM VCSH SCT100 FM150000 20007KT P6SM SCT120 BKN250 FM150400 23003KT P6SM SCT250 KSGR 141723Z 1418/1518 18009KT P6SM SKC FM150200 16006KT P6SM FEW025 SCT250 FM151600 17007KT P6SM BKN035 KSGU 141739Z 1418/1518 14006KT P6SM SCT140 FM141830 26009KT P6SM FEW120 SCT160 FM150400 13006KT P6SM FEW200 FM151700 26007KT P6SM SCT180 KSHR 141722Z 1418/1518 15014KT P6SM SCT050 BKN120 FM142000 12011KT P6SM VCTS SCT050CB BKN200 FM142200 VRB06KT P6SM VCTS BKN050CB OVC120 FM150600 VRB05KT P6SM SCT070 SCT200 KSHV 141745Z 1418/1518 23009KT P6SM SCT040 BKN250 FM150000 18006KT P6SM SCT180 BKN250 FM151500 22011KT P6SM FEW200 KSJC 141720Z 1418/1518 VRB04KT P6SM SCT015 FM141900 32010KT P6SM FEW200 FM150400 32005KT P6SM SKC FM150700 VRB03KT P6SM BKN015 FM151000 VRB03KT P6SM OVC012 KSJS 141720Z 1418/1518 VRB03KT P6SM SCT200 FM150600 00000KT 3SM BR FEW025 FM151300 00000KT P6SM FEW250 KSJT 141730Z 1418/1518 19012KT P6SM BKN025 FM141900 18013G20KT P6SM FEW050 FM150200 17007KT P6SM SKC TEMPO 1512/1515 SCT020 FM151500 18011G18KT P6SM SKC KSKA 141907Z 1419/1601 06006KT 6000 FU SCT010 QNH2992INS BECMG 1502/1503 10006KT 9000 FU SCT010 QNH2992INS BECMG 1517/1518 24006KT 9000 FU SCT010 QNH2991INS TX27/1500Z TN15/1512Z KSKF 141800Z 1418/1524 17012G18KT 9999 SCT075 QNH2996INS TEMPO 1501/1504 18012G25KT BECMG 1503/1504 16012KT 9999 SCT060 QNH2090INS BECMG 1507/1508 16006KT 9999 SCT015 QNH2994INS BECMG 1511/1512 VRB06KT 9999 BKN010 QNH2998INS BECMG 1514/1515 18010G15KT 9999 FEW050 QNH3000INS BECMG 1522/1523 VRB06KT 9999 SCT020 QNH2999INS TX35/1421Z TN24/1512Z KSLC 142025Z 1420/1524 33010G18KT P6SM FEW100 SCT150 FM142300 34010KT P6SM SCT120 SCT180 FM150300 16006KT P6SM BKN200 FM151800 32008KT P6SM SCT120 BKN180 KSLE 141722Z 1418/1518 34004KT 5SM FU SCT040 BKN080 FM142100 36006KT 6SM FU SCT040 BKN080 FM150500 VRB03KT 6SM FU SCT040 BKN080 KSLI 141303Z 1413/1519 VRB06KT 9999 FEW060 QNH2989INS BECMG 1420/1421 23009KT 9999 SKC QNH2985INS BECMG 1505/1506 VRB06KT 8000 BR SCT005 QNH2989INS BECMG 1516/1517 23009KT 9999 NSW FEW060 QNH2991INS TX25/1421Z TN18/1413Z KSLK 141720Z 1418/1518 VRB03KT P6SM VCSH SCT030 BKN050 FM142100 VRB03KT P6SM -SHRA BKN035 FM150200 00000KT P6SM VCSH BKN025 FM150800 VRB03KT P6SM BKN008 FM151300 VRB04KT P6SM SCT060 KSLN 141739Z 1418/1518 21008KT P6SM VCSH SCT020 BKN035 FM142000 24007KT P6SM VCTS SCT025 BKN040CB FM150000 35007KT P6SM VCSH SCT025 BKN040 FM150300 35007KT 5SM BR SCT009 BKN015 KSME 141720Z 1418/1518 VRB04KT P6SM SCT250 FM150900 00000KT 1/2SM FG SCT030 FM151300 00000KT 3SM BR BKN020 FM151400 VRB03KT P6SM BKN090 KSMF 141724Z 1418/1518 17011KT P6SM SCT250 KSMN 141731Z 1418/1518 VRB03KT P6SM SKC FM142100 35007KT P6SM SKC FM150200 VRB03KT P6SM SKC KSMO 141742Z 1418/1518 00000KT P6SM SKC FM142000 24008KT P6SM SKC FM150300 VRB03KT P6SM SKC FM150600 VRB03KT P6SM OVC009 FM151200 VRB03KT P6SM OVC011 FM151600 26006KT P6SM SCT011 KSMX 141742Z 1418/1518 00000KT 6SM BR BKN007 FM141820 VRB03KT P6SM SCT006 FM142100 30012KT P6SM SKC FM150300 30006KT P6SM BKN005 FM150900 VRB03KT 4SM BR OVC003 FM151600 VRB03KT P6SM BKN007 KSNA 141724Z 1418/1518 VRB03KT P6SM SCT015 FM142000 22010KT P6SM SKC FM150300 VRB04KT P6SM FEW015 FM151000 VRB03KT P6SM BKN015 KSNS 141720Z 1418/1518 30008KT P6SM OVC008 FM141900 30010KT P6SM SCT010 FM142000 29012KT P6SM FEW200 FM150130 30010KT P6SM BKN011 FM150400 31008KT P6SM OVC006 FM150800 31006KT P6SM OVC005 KSNY 141745Z 1418/1518 08008KT P6SM SCT030 FM141900 08008KT P6SM FEW250 FM150000 03010KT P6SM SCT100 FM150300 11007KT P6SM FEW100 SCT250 FM151400 19009KT P6SM SKC KSOA 141730Z 1418/1518 17010KT P6SM BKN020 FM141900 17012G19KT P6SM FEW040 BKN150 FM150200 16005KT P6SM FEW150 FM151100 17007KT P6SM SCT020 TEMPO 1512/1515 BKN020 FM151500 18011KT P6SM SKC KSPI 141720Z 1418/1518 18007KT P6SM SCT045 BKN250 FM150100 VRB04KT P6SM VCSH SCT050 BKN100 FM150800 17005KT P6SM VCTS OVC025CB FM151100 17006KT 6SM SHRA VCTS OVC015CB KSPS 141736Z 1418/1518 19014G22KT P6SM SCT035 SCT250 FM151000 24012KT P6SM BKN250 KSRQ 141720Z 1418/1518 22010KT P6SM SCT035 BKN250 FM141900 23008KT P6SM VCTS SCT035CB SCT150 BKN250 TEMPO 1419/1421 VRB15G25KT 3SM TSRA BKN025CB FM150000 24006KT P6SM SCT030 BKN150 FM150200 12004KT P6SM SCT025 BKN200 FM151400 13007KT P6SM FEW020 SCT150 BKN250 KSSC 141500Z 1415/1521 22009KT 9999 FEW050 SCT200 QNH2995INS BECMG 1501/1502 20006KT 9999 FEW030 SCT150 QNH2997INS BECMG 1514/1515 22009KT 9999 FEW050 SCT200 QNH3001INS TX33/1419Z TN22/1511Z KSSF 141730Z 1418/1518 16011G21KT P6SM FEW050 SCT250 FM150700 15006KT P6SM OVC015 FM151500 16009KT P6SM SCT040 KSSI 142050Z 1421/1518 18010KT P6SM VCSH SCT035 BKN200 FM150000 19008KT P6SM VCSH SCT030 BKN120 FM150400 24003KT P6SM SCT100 KSTC 141957Z 1420/1518 36008KT P6SM VCTS SCT030CB BKN150 FM142100 35006KT P6SM SCT050 BKN200 FM150100 VRB04KT P6SM SCT200 FM151500 03005KT P6SM FEW200 KSTJ 142044Z 1421/1518 12008KT P6SM VCSH FEW030 BKN050 FM142200 02005KT 6SM -SHRA VCTS OVC035CB FM150500 03005KT P6SM BKN050 FM150800 VRB05KT P6SM BKN015 FM151100 VRB05KT P6SM BKN008 KSTL 141740Z 1418/1524 17009KT P6SM VCSH BKN040 TEMPO 1419/1421 6SM -SHRA BKN030 FM150000 17008KT P6SM BKN040 FM151200 18009KT 5SM -SHRA VCTS BKN020CB FM151800 19010KT P6SM BKN025 KSTS 141720Z 1418/1518 VRB04KT 6SM FU SCT006 FM141900 17008KT 6SM HZ FU SKC FM150300 15006KT P6SM SKC FM150600 VRB03KT P6SM OVC005 FM151000 VRB03KT 3SM BR OVC003 KSUA 141740Z 1418/1518 12009KT P6SM VCTS SCT030CB BKN060 FM142000 12010KT P6SM SCT035 BKN250 FM150000 16005KT P6SM FEW100 BKN250 FM151400 12008KT P6SM SCT025 KSUN 141730Z 1418/1524 13011KT P6SM SKC FM142100 22011KT P6SM SKC FM150300 30010KT P6SM FEW200 FM151800 15006KT P6SM SCT150 KSUS 141740Z 1418/1518 17009KT P6SM VCSH BKN040 TEMPO 1419/1421 6SM -SHRA BKN030 FM150000 17008KT P6SM BKN040 FM151200 18009KT 5SM -SHRA VCTS BKN020CB KSUU 141909Z 1419/1601 23015G25KT 9999 SCT150 QNH2982INS BECMG 1420/1421 23015G25KT 9999 SKC QNH2977INS BECMG 1502/1503 23020G30KT 9999 SKC QNH2979INS TEMPO 1504/1510 23025G35KT BECMG 1513/1514 23015G25KT 9999 SCT150 QNH2984INS BECMG 1516/1517 23012G20KT 9999 FEW150 QNH2985INS TEMPO 1521/1523 23015G25KT BECMG 1523/1524 23015G25KT 9999 SKC QNH2987INS TX29/1423Z TN13/1512Z KSUX 141911Z 1419/1518 14004KT P6SM VCTS SCT070CB BKN140 FM150000 VRB04KT P6SM BKN070 FM151000 35006KT 6SM BR BKN020 KSVN 142000Z 1420/1602 22009KT 9999 VCSH SCT050 SCT200 QNH2995INS TEMPO 1420/1424 VRB15G25KT 8000 -TSRA BKN040CB BECMG 1504/1505 200006KT 9999 NSW SCT030 QNH2996INS BECMG 1513/1514 20006KT 9999 SCT060 SCT200 QNH3002INS BECMG 1517/1518 20009KT 9999 VCSH SCT050 SCT200 QNH3001INS TEMPO 1520/1524 VRB15G25KT 8000 -TSRA BKN040CB TX33/1420Z TN22/1510Z KSWF 141933Z 1420/1524 22007KT 4SM -SHRA BKN030 TEMPO 1420/1422 2SM TSRA BKN030CB FM150000 VRB03KT 5SM BR VCSH SCT025 BKN100 FM150300 29004KT P6SM SCT030 SCT100 FM151400 30010KT P6SM SCT050 SCT250 NOT SKED KSYM 141720Z 1418/1518 VRB03KT P6SM SCT250 FM151100 00000KT 3SM BR SCT250 FM151200 00000KT P6SM SCT250 KSYR 141957Z 1420/1518 28008KT P6SM SCT015 BKN035 TEMPO 1420/1422 3SM -TSRA BR OVC015CB FM142200 30007KT P6SM BKN035 FM150400 26005KT P6SM SCT040 TEMPO 1509/1512 5SM BR BKN025 FM151400 28010KT P6SM BKN045 KSZL 141900Z 1419/1601 18009KT 8000 -SHRA VCTS BKN015CB BKN030 QNH2984INS TEMPO 1423/1503 18012G18KT 4800 -TSRA BKN015CB BECMG 1503/1504 17009KT 9999 NSW BKN010 OVC040 QNH2980INS BECMG 1507/1508 18009KT 8000 -SHRA BKN008 QNH2982INS BECMG 1514/1515 23009KT 9999 NSW OVC010 QNH2983INS BECMG 1517/1518 30009KT 9999 BKN025 QNH2980INS TX27/1421Z TN20/1511Z KTCC 141725Z 1418/1518 08007KT P6SM FEW090 FM142200 06011KT P6SM SCT090 FM150100 07010KT P6SM VCTS SCT060CB BKN100 FM150500 04006KT P6SM VCSH BKN100 FM150900 06006KT P6SM BKN130 FM151500 12006KT P6SM SCT150 KTCL 141722Z 1418/1518 30005KT P6SM FEW050 FM150100 00000KT P6SM SKC KTCM 141302Z 1413/1519 VRB06KT 8000 HZ SKC QNH2992INS TEMPO 1413/1416 6000 BR BECMG 1415/1416 01008KT 8000 HZ SKC QNH2980INS BECMG 1502/1503 VRB06KT 8000 HZ SKC QNH2980INS TX30/1500Z TN13/1413Z KTCS 141723Z 1418/1518 18010KT P6SM SCT090 SCT150 FM150600 31007KT P6SM SCT080 BKN250 FM151200 VRB05KT P6SM FEW100 SCT250 KTEB 141933Z 1420/1524 21010KT P6SM SHRA BKN035 TEMPO 1420/1422 3SM TSRA BKN030CB FM150000 26008KT P6SM VCSH SCT040 BKN100 FM150500 28008KT P6SM SCT050 BKN250 FM151400 29010G16KT P6SM SCT050 SCT250 FM151900 28010KT P6SM SCT250 KTEX 141805Z 1418/1518 28010G15KT P6SM SCT100 FM141900 29007KT P6SM FEW090 SCT120 FM150200 VRB04KT P6SM FEW090 SCT250 KTIK 142045Z 1420/1523 19012KT 9999 SCT040 QNH2986INS TEMPO 1420/1423 8000 -TSRA BKN020CB BECMG 1423/1424 21012KT 8000 -SHRA BKN030 BKN050 QNH2987INS TEMPO 1502/1506 22012G20KT 6000 -TSRA BKN020CB BKN030 BECMG 1506/1507 20009KT 9999 NSW SCT030 BKN050 QNH2990INS BECMG 1514/1515 27012KT 9999 SCT010 BKN020 QNH2996INS TX30/1421Z TN21/1512Z KTIX 141740Z 1418/1518 19008KT P6SM SCT040 SCT250 FM141900 14008KT P6SM VCSH SCT045 SCT080 FM142000 15009KT P6SM VCTS SCT045CB BKN250 TEMPO 1421/1424 3SM TSRA BKN030CB FM150100 18006KT P6SM FEW035 SCT100 BKN250 FM151400 17006KT P6SM SCT025 KTLH 141831Z 1419/1518 VRB15G25KT 2SM -TSRA BKN035CB FM141930 19007KT P6SM VCTS BKN035CB BKN250 FM150100 21004KT P6SM BKN250 FM151500 18005KT P6SM BKN050 KTMB 142059Z 1421/1518 09011G16KT P6SM SKC FM150100 VRB03KT P6SM SCT030 SCT250 FM151400 11012KT P6SM SCT250 KTOI 142047Z 1421/1518 25005KT 5SM -RA VCTS BKN050CB FM142300 VRB03KT P6SM BKN100 FM150100 00000KT P6SM BKN250 FM151000 00000KT 3SM BR BKN010 FM151400 00000KT P6SM SCT010 KTOL 141736Z 1418/1518 25010KT P6SM SCT050 FM150200 25004KT P6SM FEW200 FM150600 VRB03KT P6SM FEW050 SCT250 FM151400 22004KT P6SM SCT040 BKN250 KTOP 141738Z 1418/1518 14006KT P6SM SHRA VCTS OVC035CB FM150300 00000KT P6SM -SHRA BKN050 FM150900 35003KT P6SM VCSH SCT007 OVC015 KTPA 141720Z 1418/1524 22008KT P6SM VCTS SCT035CB BKN250 TEMPO 1418/1420 VRB15G25KT 3SM TSRA BKN025CB FM150000 26006KT P6SM FEW030 BKN150 FM150200 VRB03KT P6SM SCT025 BKN200 FM151400 15005KT P6SM FEW020 SCT150 BKN250 FM151800 21007KT P6SM VCTS SCT040CB SCT150 BKN250 KTPH 141720Z 1418/1518 VRB06KT P6SM SCT120 FM142100 19010G20KT P6SM VCTS BKN090CB FM150300 01007KT P6SM SCT120 KTRI 141730Z 1418/1518 00000KT P6SM SCT050 FM150300 00000KT P6SM SCT090 BKN200 FM150600 00000KT 4SM BR FEW250 TEMPO 1508/1512 1SM BR SCT002 FM151400 VRB02KT P6SM FEW040 BKN250 KTRK 141721Z 1418/1518 19005KT P6SM FEW120 SCT200 FM142200 24010G18KT P6SM VCTS SCT100CB BKN150 FM150100 26009KT P6SM SCT120 BKN200 FM150400 VRB03KT P6SM VCSH SCT100 KTRM 141724Z 1418/1518 VRB05KT P6SM SKC FM142000 14009KT P6SM FEW100 FM150100 15005KT P6SM FEW100 FM150400 34009KT P6SM SKC FM150900 VRB05KT P6SM SKC KTTD 141722Z 1418/1518 00000KT 3SM BR SCT040 BKN080 FM142000 26005KT 5SM FU BKN045 BKN080 FM150500 VRB03KT 3SM FU OVC045 KTTN 142028Z 1420/1518 26007KT P6SM VCTS SCT030CB BKN060 TEMPO 1421/1423 5SM -SHRA BKN035 FM150100 27007KT P6SM VCSH SCT040 BKN090 FM150200 28006KT P6SM SCT040 BKN080 KTUL 141732Z 1418/1518 18008KT P6SM VCTS BKN015CB OVC025 FM142000 18008KT P6SM VCSH BKN025 FM150200 18007KT P6SM VCTS BKN025CB TEMPO 1502/1506 3SM TSRA BR OVC015CB FM150600 19008KT P6SM VCSH BKN015 TEMPO 1506/1509 4SM TSRA BKN015CB FM150900 19007KT P6SM VCSH BKN015 PROB30 1509/1515 5SM -TSRA BKN015CB FM151500 24009KT P6SM BKN015 KTUP 141730Z 1418/1518 VRB04KT P6SM SCT050 BKN250 FM150100 00000KT P6SM BKN250 FM151500 18005KT P6SM SCT050 BKN250 KTUS 141725Z 1418/1518 31008KT P6SM SCT090 FM150200 11010KT P6SM VCTS BKN080CB BKN150 TEMPO 1502/1504 3SM -TSRA BR BKN040CB FM150400 12015KT P6SM -SHRA BKN060 FM150700 16006KT P6SM BKN100 KTVC 141728Z 1418/1518 25011KT P6SM FEW250 FM150000 28007KT P6SM SCT060 FM150500 VRB03KT P6SM VCSH BKN050 FM150900 34003KT P6SM VCSH BKN030 FM151400 35004KT P6SM BKN050 FM151700 02005KT P6SM BKN060 KTVF 141724Z 1417/1518 32010KT P6SM SCT025 BKN030 FM142100 34008KT P6SM FEW200 FM150100 VRB05KT P6SM FEW250 KTVL 141721Z 1418/1518 04007KT P6SM FEW150 BKN180 FM142100 18006KT P6SM VCTS FEW100CB BKN150 FM150000 20010G18KT P6SM SCT120 BKN200 FM150300 19006KT P6SM VCSH SCT090 KTWF 141721Z 1418/1518 30010KT P6SM SKC FM150400 20010KT P6SM SKC KTXK 141745Z 1418/1518 22009KT P6SM SCT040 BKN250 FM150000 18007KT P6SM SCT180 BKN250 FM151500 21011G17KT P6SM FEW200 KTYR 141745Z 1418/1518 20012KT P6SM SCT040 BKN250 FM150000 17009KT P6SM SCT180 BKN250 FM151200 18010KT P6SM SCT015 BKN025 FM151500 21013G19KT P6SM SCT200 KTYS 141730Z 1418/1518 VRB03KT P6SM SCT040 SCT120 FM150200 00000KT P6SM SCT250 FM151300 VRB03KT P6SM BKN250 FM151600 23003KT P6SM FEW050 SCT120 OVC200 KUAO 141722Z 1418/1518 VRB03KT 5SM FU SCT040 BKN080 FM142100 01005KT 6SM FU SCT045 BKN080 FM150500 VRB03KT 5SM FU BKN040 BKN080 KUES 141741Z 1418/1518 24006KT P6SM SCT040 BKN250 FM150400 VRB03KT P6SM SCT250 FM151500 16005KT P6SM VCSH BKN045 KUIN 141740Z 1418/1518 16008KT P6SM VCSH SCT040 BKN080 TEMPO 1419/1421 6SM -SHRA BKN030 FM150000 15006KT P6SM BKN040 FM151200 16006KT 5SM -SHRA VCTS BKN015CB KUKI 141940Z 1420/1518 08008KT 4SM FU SCT025 FM150100 05005KT P6SM SCT020 FM150500 16003KT P6SM SCT020 KUNV 142047Z 1421/1518 26006KT P6SM SCT035 OVC040 FM150500 25005KT 4SM BR SCT250 FM151400 25006KT P6SM SCT250 KUTS 141723Z 1418/1518 17010G16KT P6SM FEW040 FM150100 18006KT P6SM SCT250 FM151000 17007KT P6SM SCT015 TEMPO 1514/1516 BKN025 FM151600 17007KT P6SM BKN035 KVAD 141600Z 1416/1522 21010KT 9999 SCT030 QNH3001INS TEMPO 1419/1424 VRB15G25KT 4800 -TSRA BKN030CB BECMG 1501/1502 19006KT 9999 FEW030 BKN250 QNH3006INS BECMG 1509/1510 17006KT 8000 BR BKN004 OVC020 QNH3004INS BECMG 1511/1512 17006KT 1600 BR OVC002 QNH3009INS BECMG 1513/1514 19006KT 9999 NSW SCT020 QNH3008INS TEMPO 1518/1522 VRB10G20KT 6000 -TSRA BKN030CB TX33/1419Z TN22/1511Z KVBG 141937Z 1419/1520 34009KT 9999 BKN010 QNH2994INS TEMPO 1419/1422 BKN020 BECMG 1421/1422 VRB06KT 4800 BR FEW003 BKN007 QNH2990INS BECMG 1503/1504 VRB06KT 0800 FG OVC002 QNH2991INS BECMG 1506/1507 VRB06KT 0400 FG VV001 QNH2992INS BECMG 1516/1517 VRB06KT 4800 BR BKN003 QNH2994INS BECMG 1517/1518 30009KT 9999 NSW FEW004 QNH2993INS TX22/1422Z TN11/1512Z KVCT 141735Z 1418/1518 17013KT P6SM SCT045 BKN250 FM142200 15014KT P6SM FEW040 SCT250 FM150300 15008KT P6SM FEW020 SCT250 TEMPO 1508/1512 BKN020 FM151200 VRB04KT 6SM BR SCT020 FM151400 17010KT P6SM SCT030 BKN250 KVEL 141806Z 1418/1518 28005KT P6SM SKC FM141900 30006KT P6SM FEW120 SCT200 FM142200 32008KT P6SM SCT110 BKN250 FM150300 29005KT P6SM SCT100 BKN140 FM150600 18004KT P6SM FEW250 KVGT 141733Z 1418/1518 15007KT P6SM FEW150 FM142300 23011KT P6SM VCTS SCT150CB FM151000 VRB05KT P6SM FEW150 FM151700 14010KT P6SM FEW150 KVIS 141720Z 1418/1518 30006KT P6SM FEW200 KVLD 141725Z 1418/1518 19005KT P6SM SCT030 FM141900 19007KT P6SM VCTS BKN035CB BKN250 FM150100 00000KT P6SM BKN250 FM151500 18004KT P6SM BKN050 KVNY 141742Z 1418/1518 00000KT P6SM SKC FM141900 14010KT P6SM SKC FM150300 VRB03KT P6SM SKC FM151600 12005KT P6SM SKC KVOK 141715Z 1417/1523 21006KT 9999 FEW055 FEW100 SCT200 QNH2989INS BECMG 1511/1512 20006KT 9999 BKN010 BKN025 QNH2994INS BECMG 1519/1520 21006KT 9000 -SHRA BKN030 QNH2995INS TX32/1420Z TN21/1511Z LAST NO AMDS AFT 1420 NEXT 1509 KVPS 141700Z 1417/1523 17009KT 9000 -SHRA VCTS SCT030CB BKN250 QNH2997INS TEMPO 1417/1423 19015G25KT 4800 -TSRA BKN030CB BKN150 BECMG 1500/1501 33006KT 9999 NSW FEW030 SCT055 BKN150 QNH2996INS BECMG 1512/1513 25006KT 9999 FEW025 FEW120 SCT200 QNH2999INS BECMG 1517/1518 29004KT 9999 VCTS FEW030CB FEW150 QNH3000INS TX32/1419Z TN23/1510Z KVQQ 141720Z 1418/1518 22007KT P6SM VCTS SCT035CB BKN100 FM150000 23006KT P6SM VCSH SCT030 BKN120 FM150300 00000KT P6SM SCT100 KVRB 141740Z 1418/1518 13010KT P6SM VCTS SCT035CB BKN060 FM142000 14009KT P6SM SCT035 BKN250 FM150000 16005KT P6SM FEW100 BKN250 FM151400 13007KT P6SM SCT025 KVTN 141739Z 1418/1518 34010KT P6SM BKN060 FM141900 01008KT P6SM SCT110 FM142300 06005KT P6SM BKN250 FM151500 13005KT P6SM BKN250 KWJF 141742Z 1418/1518 26007KT P6SM SKC FM142200 24015G25KT P6SM SCT120 FM150300 23012KT P6SM SKC FM150900 23007KT P6SM SKC KWMC 141720Z 1418/1518 21008KT P6SM SCT120 FM150300 12007KT P6SM BKN250 KWRB 141816Z 1418/1519 20009KT 9999 BKN040 QNH2994INS BECMG 1500/1501 18009KT 9999 FEW030 SCT150 QNH2998INS TX33/1419Z TN23/1511Z KWRI 141900Z 1419/1524 24012KT 9999 BKN030 QNH2980INS TEMPO 1419/1422 25015G25KT 6000 -TSRA BKN025CB BECMG 1421/1422 26009KT 9000 -RA BKN020 OVC040 QNH2985INS BECMG 1506/1507 25009KT 9999 NSW FEW025 OVC060 QNH2989INS BECMG 1514/1515 28012KT 9999 FEW050 QNH2992INS WND 25006KT AFT 1523 TX28/1420Z TN19/1510Z KWRL 141722Z 1418/1518 02006KT P6SM SCT070 FM142100 35009KT P6SM VCTS SCT070CB BKN150 TEMPO 1423/1502 5SM -TSRA OVC070CB FM150200 31007KT P6SM VCSH SCT070 BKN110 FM150600 VRB06KT P6SM FEW070 KWWR 141736Z 1418/1518 21008KT P6SM SCT040 SCT250 TEMPO 1419/1423 BKN040 FM150100 34010KT P6SM SCT020 BKN050 KXNA 141732Z 1418/1518 19014KT P6SM BKN008 BKN015 OVC025 TEMPO 1418/1422 BKN025 FM142200 19012KT P6SM BKN035 TEMPO 1504/1508 5SM -TSRA BKN025CB FM150800 19008KT P6SM VCSH BKN035 TEMPO 1508/1512 3SM TSRA BR OVC025CB FM151200 19008KT P6SM BKN025 PROB30 1512/1518 3SM TSRA BKN015CB KYIP 141720Z 1418/1518 26009KT P6SM FEW060 FM150200 VRB04KT P6SM BKN250 FM151500 22008KT P6SM SCT045 BKN200 KYKM 141720Z 1418/1518 VRB04KT 3SM HZ FU SKC FM142100 16005KT 5SM HZ FU SKC FM150500 27006KT 3SM HZ FU SKC FM151700 15004KT 6SM HZ SKC KYNG 141736Z 1418/1518 29008KT P6SM VCTS SCT045CB BKN130 FM142200 30008KT P6SM FEW050 SCT200 FM150600 22004KT P6SM FEW250 FM151300 25004KT P6SM FEW035 SCT200 KZZV 141730Z 1418/1518 00000KT P6SM BKN070 FM142300 VRB04KT P6SM BKN120 FM150800 00000KT 2SM BR SCT250 FM151400 22005KT P6SM FEW250 LATI 141700Z 1418/1518 VRB03KT CAVOK TEMPO 1511/1518 34012KT FEW030CB SCT070 BKN120 TEMPO 1513/1517 -TSRA SCT030CB LBBG 141700Z 1418/1518 03008KT CAVOK TEMPO 1502/1505 5000 BR SCT015 BECMG 1508/1510 09012KT LBGO 141700Z 1418/1518 VRB04KT CAVOK TEMPO 1502/1506 5000 BR NSC BECMG 1509/1511 09010KT LBPD 141700Z 1418/1518 11008KT CAVOK BECMG 1420/1422 VRB04KT BECMG 1510/1512 13010KT LBSF 141700Z 1418/1518 12010KT CAVOK BECMG 1420/1422 VRB04KT BECMG 1509/1511 15010KT LBWN 141700Z 1418/1518 05010KT CAVOK BECMG 1419/1421 VRB04KT TEMPO 1502/1506 2000 BR SCT010 BECMG 1508/1510 10012KT LCEN 141040Z 1412/1512 15012KT 9999 FEW030 BECMG 1418/1421 28012KT LCLK 141730Z 1418/1518 23010KT CAVOK BECMG 1418/1420 30008KT PROB30 TEMPO 1500/1504 1500 VCFG BKN002 BECMG 1506/1508 15010KT BECMG 1509/1512 21016KT BECMG 1516/1518 30008KT LCPH 141730Z 1418/1518 29012KT CAVOK BECMG 1420/1422 35007KT BECMG 1506/1509 28014KT BECMG 1516/1518 34008KT LCRA 141924Z 1421/1515 28010KT CAVOK BECMG 1509/1512 26015G25KT LDDU 141725Z 1418/1518 05005KT 9999 FEW040 TX29/1514Z TN21/1501Z PROB30 TEMPO 1420/1503 TS FEW030CB TEMPO 1421/1506 02012KT PROB30 TEMPO 1511/1517 05015KT TS FEW040CB BECMG 1512/1514 29008KT BECMG 1516/1518 05010KT LDOS 141725Z 1418/1518 32008KT CAVOK TX26/1512Z TN18/1420Z PROB40 TEMPO 1418/1422 30015G25KT 3000 TSRA FEW035CB SCT040 LDPL 141725Z 1418/1518 06012KT 9999 FEW030 TX28/1513Z TN20/1503Z PROB30 TEMPO 1418/1500 TSRA FEW030CB LDRI 141725Z 1418/1518 VRB02KT 9999 FEW030 TX29/1513Z TN20/1503Z BECMG 1503/1505 05008G18KT LDSB 141455Z 1414/1512 CNL LDSP 141725Z 1418/1518 32008KT 9999 FEW030 SCT035 TX29/1511Z TN21/1422Z PROB30 TEMPO 1421/1500 31015G28KT -TSRA FEW030CB BKN033 TEMPO 1501/1507 04008KT TEMPO 1510/1516 23008KT PROB30 TEMPO 1515/1518 TS FEW040CB LDZA 141725Z 1418/1518 05005KT CAVOK TX26/1512Z TN17/1503Z TEMPO 1509/1514 05008KT LDZD 141725Z 1418/1518 VRB02KT 9999 FEW030 TX30/1513Z TN20/1503Z BECMG 1502/1504 04006KT BECMG 1504/1506 04012KT LEAL 141700Z 1418/1518 09014KT 9999 FEW025 TX31/1512Z TN25/1505Z BECMG 1418/1420 07005KT PROB40 TEMPO 1424/1506 3000 TSRA SCT020 FEW025CB BECMG 1510/1512 10010KT LEAM 142000Z 1421/1521 01003KT CAVOK TX31/1513Z TN23/1506Z BECMG 1507/1510 11011KT LEAS 142000Z 1421/1521 12005KT 9999 FEW020 TX24/1514Z TN16/1506Z BECMG 1508/1512 06010KT BECMG 1518/1521 VRB05KT LEBB 141700Z 1418/1518 VRB04KT 9999 FEW020 BKN050 TX26/1515Z TN16/1504Z TEMPO 1418/1419 36010KT TEMPO 1512/1518 01010KT LEBL 141700Z 1418/1518 20010KT 9999 FEW020 TX29/1512Z TN23/1506Z BECMG 1418/1420 VRB04KT TEMPO 1508/1512 10008KT BECMG 1512/1514 19010KT LEBZ 141700Z 1418/1518 26006KT CAVOK TX36/1516Z TN17/1505Z LECH 141700Z 1418/1518 12010KT 9999 SCT025 TX31/1512Z TN16/1506Z BECMG 1418/1420 VRB03KT BECMG 1510/1512 13010KT LECO 142000Z 1421/1521 02008KT CAVOK TX26/1514Z TN15/1506Z LEGE 141700Z 1418/1518 02005KT 9999 SCT040 TX33/1513Z TN19/1506Z TEMPO 1418/1420 18010KT BECMG 1512/1514 18010KT LEGR 142000Z 1421/1521 VRB03KT CAVOK TX35/1515Z TN17/1506Z BECMG 1512/1514 21010KT TEMPO 1514/1519 FEW045CB SCT080 BECMG 1518/1521 VRB03KT LEIB 142000Z 1421/1521 12010KT 9999 FEW020 TX30/1512Z TN25/1505Z LEJR 141700Z 1418/1518 25010KT CAVOK TX31/1514Z TN17/1504Z BECMG 1419/1422 17003KT TEMPO 1502/1509 3000 BR BKN005 PROB40 TEMPO 1502/1508 0500 FG VV001 BECMG 1509/1512 23010KT LELC 141700Z 1418/1518 08007KT 9999 SCT020 TX30/1513Z TN24/1505Z PROB40 TEMPO 1421/1507 BKN010 LELL 141400Z 1415/1515 17010KT 9999 SCT020 TX29/1513Z TN20/1505Z BECMG 1419/1421 VRB03KT BECMG 1510/1512 16010KT LEMD 141700Z 1418/1524 VRB05KT CAVOK TX35/1515Z TN18/1506Z BECMG 1419/1421 02010KT PROB40 TEMPO 1511/1518 23008KT PROB40 TEMPO 1521/1524 16010KT LEMG 141700Z 1418/1518 12008KT 9999 FEW020 TX29/1513Z TN22/1503Z TEMPO 1419/1502 VRB03KT TEMPO 1501/1510 3000 BR BKN006 PROB30 TEMPO 1502/1507 1000 BCFG BKN003 LEMH 142000Z 1421/1521 01010KT 9999 FEW020 TX30/1512Z TN21/1505Z BECMG 1503/1504 36010KT TEMPO 1504/1515 36016G28KT BECMG 1518/1520 36005KT LEPA 141700Z 1418/1518 05010KT 9999 FEW030 TX31/1512Z TN20/1506Z BECMG 1418/1420 03005KT BECMG 1508/1510 20010KT LEPP 142000Z 1421/1521 34009KT 9999 BKN030 TX30/1515Z TN14/1505Z LERS 142000Z 1421/1521 VRB04KT 9999 SCT020 TX31/1513Z TN20/1505Z TEMPO 1502/1506 30010KT BECMG 1510/1512 18010KT LESA 141700Z 1418/1518 06007KT CAVOK TX32/1515Z TN12/1506Z LESO 141700Z 1418/1518 36006KT 9999 SCT030 TX26/1515Z TN17/1506Z LEST 141700Z 1418/1518 05009KT 9999 FEW020 TX29/1515Z TN15/1504Z LESU 141400Z 1415/1515 19010KT 9999 SCT045 TX31/1514Z TN11/1505Z BECMG 1415/1417 35008KT BECMG 1420/1422 VRB03KT BECMG 1510/1512 20010KT LETO 141700Z 1418/1518 VRB05KT CAVOK TX35/1515Z TN18/1506Z BECMG 1419/1421 02010KT BECMG 1508/1510 VRB05KT LEVC 141700Z 1418/1518 11010KT 9999 FEW040 TX29/1514Z TN22/1506Z BECMG 1419/1421 VRB04KT PROB30 TEMPO 1506/1510 BKN015 FEW020CB BECMG 1510/1512 10010KT LEVD 141700Z 1418/1518 05010KT CAVOK TX30/1516Z TN12/1506Z BECMG 1510/1512 VRB05KT LEVT 141700Z 1418/1518 29005KT 9999 SCT025 BKN045 TX26/1515Z TN15/1506Z TEMPO 1418/1420 02011KT BECMG 1511/1513 02012KT LEVX 141700Z 1418/1518 VRB04KT CAVOK TX30/1515Z TN16/1505Z TEMPO 1418/1419 27010KT TEMPO 1512/1518 27010KT LEXJ 142000Z 1421/1521 VRB03KT 9999 SCT030 TX26/1513Z TN17/1506Z BECMG 1510/1514 05015KT PROB40 TEMPO 1512/1518 06015G25KT BECMG 1519/1521 11005KT LEZG 141700Z 1418/1518 33015KT 9999 FEW050 TX33/1514Z TN17/1506Z BECMG 1508/1510 30004KT BECMG 1514/1516 09005KT LEZL 142000Z 1421/1521 21006KT CAVOK TX33/1515Z TN18/1505Z PROB40 TEMPO 1505/1509 3000 BR BKN005 LFBC 141000Z 1410/1509 CNL LFBD 141700Z 1418/1524 30007KT CAVOK TX30/1515Z TN15/1504Z BECMG 1421/1423 VRB02KT PROB40 TEMPO 1501/1506 3000 BR NSC TEMPO 1514/1518 05010KT LFBE 141907Z 1419/1512 CNL= LFTW 141906Z 1419/1515 CNL LFBG 142000Z 1421/1521 30006KT CAVOK TEMPO 1504/1507 VRB02KT 3000 BR PROB30 TEMPO 1505/1507 0800 BCFG LFBH 141700Z 1418/1518 34012KT CAVOK BECMG 1423/1501 06004KT PROB40 1502/1507 BKN010 BECMG 1511/1513 30014KT LFBI 141700Z 1418/1518 32010KT CAVOK FM150000 02004KT CAVOK PROB30 TEMPO 1504/1508 BKN012 LFBL 141700Z 1418/1518 34006KT CAVOK= LFBT 141700Z 1418/1518 30008KT 9999 BKN040 BECMG 1422/1424 VRB03KT CAVOK BECMG 1510/1512 06010KT LFBM 142000Z 1421/1521 30004KT CAVOK PROB30 TEMPO 1503/1506 0500 FG LFBO 141700Z 1418/1524 29008KT CAVOK= LFLL 141700Z 1418/1524 36012KT CAVOK BECMG 1521/1523 VRB02KT LFBP 141700Z 1418/1518 30008KT 9999 SCT040 BECMG 1420/1422 VRB03KT CAVOK PROB30 TEMPO 1500/1506 4000 BR BECMG 1510/1512 06010KT LFBT 141700Z 1418/1518 30008KT 9999 BKN040 BECMG 1422/1424 VRB03KT CAVOK BECMG 1510/1512 06010KT LFBU 141700Z 1418/1518 32010KT CAVOK FM150000 03005KT CAVOK PROB30 TEMPO 1505/1507 BKN010 LFBZ 141700Z 1418/1518 33010KT 9999 SCT040 BECMG 1418/1419 VRB03KT CAVOK TEMPO 1421/1506 BKN015 BECMG 1510/1512 09010KT TEMPO 1515/1518 35010KT LFCR 141700Z 1418/1518 31010KT CAVOK LFJL 141700Z 1418/1518 30006KT 9999 FEW045 BKN055 LFKB 142000Z 1421/1521 22004KT 9999 FEW040CB SCT120 TX28/1512Z TN21/1404Z TEMPO 1421/1509 VRB15G30KT 4000 TSRA SCT030CB BKN080 BECMG 1507/1509 02010KT FEW030 LFKC 142030Z 1420/1515 CNL LFKF 141400Z 1415/1515 27012KT 9999 FEW030 SCT120 TEMPO 1415/1417 FEW040CB BECMG 1422/1424 04004KT BECMG 1508/1510 24010KT TEMPO 1511/1515 TSRA FEW015 SCT040CB BKN080 LFKJ 142000Z 1421/1521 04005KT 9999 SCT040 SCT100 BECMG 1508/1510 23010KT TEMPO 1513/1516 30015KT LFKS 141503Z 1415/1515 CNL LFLB 141900Z 1419/1512 CNL LFLC 142000Z 1421/1521 36006KT 9999 FEW050 BKN080= LFLL 141700Z 1418/1524 36012KT CAVOK BECMG 1521/1523 VRB02KT LFLP 141900Z 1419/1515 CNL LFLS 141900Z 1419/1515 CNL LFLX 141700Z 1418/1524 33005KT CAVOK BECMG 1501/1503 VRB03KT TEMPO 1503/1507 2000 BR BKN002 BECMG 1507/1510 34005KT BECMG 1516/1519 02005KT LFLY 141700Z 1418/1518 36007KT CAVOK LFMD 141400Z 1415/1515 11010KT 9999 FEW040TCU PROB30 TEMPO 1415/1417 36010G25KT TSRA BKN025 FEW030CB BECMG 1419/1421 36006KT CAVOK BECMG 1508/1510 16010KT FEW040 LFMH 142001Z 1420/1515 CNL LFMI 142000Z 1421/1521 34025G40KT CAVOK BECMG 1423/1501 36020G30KT BECMG 1503/1505 36015KT BECMG 1510/1512 36005KT LFMK 141821Z 1418/1515 CNL LFML 142000Z 1421/1603 32020G33KT CAVOK TX32/1513Z TN20/1504Z BECMG 1422/1424 33015KT BECMG 1501/1503 33005KT BECMG 1510/1512 22005KT BECMG 1600/1602 14005KT LFMN 142000Z 1421/1603 34010KT CAVOK PROB30 TEMPO 1421/1423 09010KT BECMG 1508/1510 18010KT BECMG 1518/1520 34010KT LFMO 142000Z 1421/1521 35015G25KT CAVOK BECMG 1506/1508 36015KT LFMP 141400Z 1415/1515 31012KT CAVOK TEMPO 1415/1418 31025G35KT TEMPO 1418/1424 31020G30KT LFMT 142000Z 1421/1521 35012KT CAVOK BECMG 1513/1515 20010KT BECMG 1518/1520 VRB05KT LFMU 142030Z 1420/1515 CNL LFMV 142000Z 1420/1515 CNL LFMY 141456Z 1415/1515 CNL LFOA 142000Z 1421/1521 33005KT CAVOK PROB30 TEMPO 1504/1506 4500 BR LFOB 141700Z 1418/1518 32010KT 9999 SCT045 BECMG 1419/1421 26007KT TEMPO 1422/1507 BKN011 LFOC 141537Z 1415/1515 CNL LFOE 142000Z 1421/1521 30008KT 9999 BKN040 BECMG 1421/1424 BKN015 TEMPO 1502/1506 BKN008 BECMG 1507/1510 BKN025 LFOH 141802Z 1418/1512 CNL LFOJ 142000Z 1421/1521 35005KT CAVOK BECMG 1501/1503 4000 BR BKN015 PROB30 TEMPO 1503/1507 2000 BKN006 BECMG 1508/1510 9999 NSW BKN025 LFOK 141700Z 1418/1518 31006KT CAVOK PROB30 TEMPO 1501/1506 3000 BR LFOP 142001Z 1420/1518 CNL LFOT 141700Z 1418/1518 30006KT CAVOK TEMPO 1504/1507 2000 BR BKN002 BECMG 1507/1510 SCT020 BECMG 1510/1512 CAVOK BECMG 1515/1517 01005KT LFPB 141700Z 1418/1518 30010KT 9999 SCT045 LFPG 141700Z 1418/1524 30010KT 9999 SCT045 TX27/1515Z TN16/1505Z BECMG 1518/1520 03005KT LFPO 141700Z 1418/1524 32008KT CAVOK BECMG 1423/1502 30003KT BKN020 TEMPO 1510/1514 SCT035 LFPV 142000Z 1421/1521 31006KT CAVOK PROB30 TEMPO 1503/1507 BKN014 LFQQ 141700Z 1418/1524 28011KT CAVOK BECMG 1419/1421 22007KT BECMG 1423/1501 OVC006 BECMG 1507/1509 BKN025 LFRB 141700Z 1418/1524 32006KT 9999 BKN015 TEMPO 1418/1510 3000 BR BKN005 LFRD 141842Z 1418/1518 32010KT 9999 BKN015 TEMPO 1418/1509 BKN006 BECMG 1422/1424 30005KT BECMG 1508/1510 BKN020 BECMG 1512/1515 02007KT LFRH 141700Z 1418/1518 26010KT CAVOK BECMG 1421/1423 32005KT TEMPO 1423/1503 2000 BR BECMG 1503/1505 BKN010 BECMG 1511/1513 25012KT CAVOK LFRI 141700Z 1418/1518 36006KT 9999 SCT030 TEMPO 1421/1508 3000 BR BKN005 PROB40 TEMPO 1422/1506 0500 FG VV/// LFRL 141824Z 1418/1512 CNL LFRM 141700Z 1418/1518 36005KT 9999 SCT040 TEMPO 1500/1508 BKN010 LFRN 141700Z 1418/1518 31008KT 9999 SCT030 BECMG 1419/1421 VRB05KT BKN015 TEMPO 1421/1508 BKN006 BECMG 1508/1510 35005KT SCT020 LFRO 141955Z 1419/1512 CNL LFRQ 141700Z 1418/1518 32006KT 9999 BKN017 PROB40 TEMPO 1418/1510 3000 BR BKN003 LFRS 141700Z 1418/1524 VRB04KT 9999 SCT030 TEMPO 1500/1508 3000 BR BKN005 PROB30 TEMPO 1500/1506 0500 FG VV/// LFRZ 141700Z 1418/1518 VRB05KT 9999 SCT030 TEMPO 1418/1421 30013KT BECMG 1422/1424 4000 BR BKN005 PROB30 TEMPO 1500/1506 0500 FG VV/// BECMG 1506/1508 9999 NSW SCT020 LFSB 141700Z 1418/1518 34005KT CAVOK LFSI 142000Z 1421/1521 VRB02KT 9999 SCT040 PROB30 TEMPO 1504/1506 3000 BR LFSO 141717Z 1417/1515 CNL LFST 141700Z 1418/1518 32008KT CAVOK BECMG 1421/1424 VRB03KT BECMG 1509/1512 FEW045 BKN055 LFSX 141721Z 1417/1515 CNL LFTH 142000Z 1421/1521 33005KT CAVOK BECMG 1508/1512 22012KT BECMG 1519/1521 32005KT LFTW 141906Z 1419/1515 CNL LFVP 141400Z 1415/1424 24010KT 9999 SCT005 PROB30 TEMPO 1415/1424 0500 FG VV/// LGAV 141700Z 1418/1518 02015KT 9999 FEW025 LGEL 141700Z 1418/1518 35008KT 9999 FEW025 SCT070 TEMPO 1510/1516 17013KT BECMG 1516/1518 VRB03KT LGIR 141700Z 1418/1518 30015KT 9999 FEW025 LGKO 141700Z 1418/1518 31015KT 9999 FEW020 LGKR 141700Z 1418/1518 VRB03KT 9999 FEW030 LGPZ 141700Z 1418/1518 26010KT 9999 FEW030 SCT070 BECMG 1418/1420 VRB03KT BECMG 1509/1511 26013KT PROB30 TEMPO 1510/1516 SHRA FEW018CB SCT020 BKN070 LGRP 141700Z 1418/1518 25014KT 9999 FEW020 LGSA 141700Z 1418/1518 30012KT 9999 SCT025 LGSR 141700Z 1418/1518 32008KT 9999 FEW020 BECMG 1504/1506 32018KT LGTS 141700Z 1418/1518 VRB03KT 9999 FEW025 TEMPO 1418/1424 7000 SHRA FEW018CB BKN025 BECMG 1512/1514 20010KT SCT025 PROB40 TEMPO 1512/1518 4000 TSRA FEW018CB BKN020 LHBP 141715Z 1418/1518 22008KT CAVOK TEMPO 1418/1420 VRB15G30KT TEMPO 1418/1505 5000 SHRA FEW010 SCT015 BKN030 BECMG 1506/1508 35007KT SCT045 BKN100 BECMG 1512/1514 02007KT CAVOK LHPA 141715Z 1418/1518 33007KT CAVOK TEMPO 1418/1423 8000 SHRA SCT040TCU BKN080 BECMG 1420/1423 23005KT BECMG 1505/1508 33012KT TEMPO 1508/1515 33012G22KT LIBC 142020Z 1418/1518 CNL LIBD 141700Z 1418/1518 VRB05KT 9999 SCT030 TEMPO 1418/1503 3000 TSRA BECMG 1508/1510 01012KT LIBP 141700Z 1418/1518 VRB05KT 9999 SCT040 TEMPO 1418/1506 TSRA BECMG 1507/1509 34010KT TEMPO 1512/1516 TSRA LIBR 141700Z 1418/1518 VRB05KT 9999 SCT030 TEMPO 1418/1424 TSRA BECMG 1507/1509 02012KT LICA 141700Z 1418/1518 VRB05KT 9999 SCT030 TEMPO 1418/1424 TSRA BECMG 1508/1511 27012KT TEMPO 1509/1516 3000 TSRA LICC 141700Z 1418/1518 VRB05KT 9999 FEW040 BECMG 1509/1511 08010KT LICD 142021Z 1418/1518 CNL LICJ 141700Z 1418/1518 VRB04KT 9999 SCT030 TEMPO 1503/1509 4000 TSRA BECMG 1506/1508 29012KT LICR 141700Z 1418/1518 35013KT 9999 SCT030 TEMPO 1512/1518 4000 TSRA LIEA 141700Z 1418/1518 VRB06KT 9999 SCT030 LIEE 141700Z 1418/1518 31010KT 9999 SCT030 BECMG 1418/1420 VRB06KT LIEO 141700Z 1418/1518 25012KT 9999 SCT030 BECMG 1418/1420 VRB06KT LIMC 141700Z 1418/1524 VRB05KT 9999 SCT050 PROB30 TEMPO 1418/1421 TSRA LIME 141700Z 1418/1518 VRB05KT 9999 SCT050 PROB40 TEMPO 1418/1422 TSRA LIMF 141700Z 1418/1518 VRB05KT 9999 SCT050 LIMJ 141700Z 1418/1518 VRB05KT 9999 BKN025 PROB30 TEMPO 1418/1421 TSRA LIML 141700Z 1418/1518 VRB05KT 9999 SCT050 PROB40 TEMPO 1418/1422 SHRA LIMP 141700Z 1418/1518 VRB05KT 9999 SCT050 TEMPO 1418/1504 TSRA LIMZ 142047Z 1418/1518 CNL LIPB 141700Z 1418/1518 VRB05KT 9999 SCT030 LIPE 141700Z 1418/1518 VRB06KT 9999 SCT040 TEMPO 1418/1505 TSRA BECMG 1508/1510 08012KT LIPH 141700Z 1418/1518 VRB05KT 9999 SCT030 TEMPO 1418/1421 TSRA BECMG 1510/1512 06010KT LIPO 141700Z 1418/1518 VRB05KT 9999 SCT050 PROB40 TEMPO 1418/1422 TSRA LIPQ 141700Z 1418/1518 06015KT 9999 SCT030 LIPY 141700Z 1418/1518 VRB05KT 9999 FEW030 TEMPO 1418/1421 TSRA TEMPO 1503/1509 TSRA BECMG 1506/1508 03014KT LIPZ 141700Z 1418/1524 04014KT 9999 SCT030 TEMPO 1418/1421 TSRA LIRA 141700Z 1418/1518 VRB05KT 9999 SCT030 TEMPO 1418/1503 TSRA TEMPO 1512/1518 TSRA BECMG 1516/1518 VRB05KT LIRF 141700Z 1418/1524 VRB05KT 9999 SCT030 TEMPO 1418/1503 SHRA BECMG 1509/1511 22010KT TEMPO 1510/1518 TSRA BECMG 1517/1519 VRB05KT LIRN 141700Z 1418/1518 VRB05KT 9999 SCT030 TEMPO 1418/1421 3000 TSRA TEMPO 1505/1512 TSRA BECMG 1508/1510 22010KT BECMG 1516/1518 VRB05KT LIRP 141700Z 1418/1518 VRB04KT 9999 SCT025 SCT060 PROB40 TEMPO 1418/1421 4000 TSRA FEW020CB BKN040 BECMG 1506/1508 04012KT 9999 SCT080 TEMPO 1510/1515 04015G30KT LIRQ 141700Z 1418/1518 VRB04KT 9999 SCT030 TEMPO 1418/1421 TSRA BECMG 1508/1510 05013KT LIRZ 141700Z 1418/1518 VRB05KT 9999 SCT040 BECMG 1508/1510 04010KT TEMPO 1509/1515 TSRA BECMG 1516/1518 VRB05KT LJLJ 142000Z 1421/1521 VRB02KT 9999 FEW020 SCT040 BKN120 BECMG 1423/1502 FEW040 SCT120 BECMG 1502/1504 1200 BR BCFG BKN001 BECMG 1507/1509 12006KT 9999 NSW FEW025 PROB30 TEMPO 1512/1517 12010KT SHRA SCT050TCU BKN100 BECMG 1518/1520 33003KT CAVOK LJMB 142000Z 1421/1521 36004KT CAVOK BECMG 1502/1504 3000 BR NSC BECMG 1506/1508 9999 NSW FEW050 PROB40 TEMPO 1512/1517 SHRA SCT050TCU BKN100 LKCV 141700Z 1418/1518 30006KT CAVOK BECMG 1506/1508 32012KT TEMPO 1509/1513 SCT040 LKKB 141700Z 1418/1518 30008KT CAVOK TEMPO 1510/1516 32012KT SCT040 BECMG 1516/1518 VRB02KT LKNA 141700Z 1418/1518 30008KT CAVOK TEMPO 1507/1518 33012G22KT LKPD 141700Z 1418/1518 28008KT CAVOK TEMPO 1418/1422 28006KT TEMPO 1422/1510 SCT040 TEMPO 1508/1517 30012G22KT LLBG 141703Z 1418/1518 VRB04KT 9999 SCT030 TEMPO 1500/1506 16005KT BKN025 BECMG 1507/1509 27010KT FEW030 BECMG 1515/1517 VRB04KT SCT025 TX32/1511Z TN24/1503Z LLET 141703Z 1418/1518 36010KT CAVOK BECMG 1506/1509 02016KT TX39/1513Z TN26/1503Z LLHA 141713Z 1418/1518 25006KT 9999 SCT025 TEMPO 1500/1506 VRB04KT BKN020 BECMG 1506/1508 27010KT TX32/1512Z TN26/1503Z LLHZ 141711Z 1418/1518 VRB04KT 9999 SCT025 TEMPO 1500/1506 BKN025 BECMG 1506/1508 27012KT TX30/1512Z TN25/1503Z LLIB 141110Z 1412/1512 30012KT 9999 FEW035 BECMG 1416/1418 25003KT SCT020 TEMPO 1500/1506 8000 SCT015 BECMG 1506/1508 16006 FEW030 TX34/1412Z TN22/1503Z LLSD 141708Z 1418/1518 26006KT 9999 SCT025 BECMG 1419/1421 VRB04KT TEMPO 1500/1506 BKN025 BECMG 1506/1508 27012KT TX32/1511Z TN24/1503Z LOWG 141715Z 1418/1518 VRB02KT 9999 FEW025 SCT050 BKN110 TX26/1512Z TN15/1503Z PROB30 TEMPO 1418/1420 FEW030CB SCT050 BKN110 PROB40 1500/1505 0800 BCFG NSC BECMG 1507/1509 35006KT FEW050 SCT090 LOWI 141715Z 1418/1518 VRB02KT 9999 SCT050 SCT070 TX26/1514Z TN15/1503Z TEMPO 1418/1508 27007KT -SHRA SCT030TCU BKN050 BECMG 1510/1512 09006KT SCT070 SCT120 LOWK 141715Z 1418/1518 VRB02KT 9999 SCT040 BKN100 TX26/1515Z TN16/1504Z TEMPO 1418/1422 35010KT SHRA SCT040 FEW050CB BKN060 PROB30 TEMPO 1418/1421 TSRA BECMG 1508/1511 35005KT FEW040 SCT100 TEMPO 1513/1517 03010KT FEW050TCU SCT060 LOWL 141715Z 1418/1518 25005KT 9999 FEW050 SCT090 TX27/1515Z TN15/1504Z TEMPO 1508/1516 28010KT SCT060 LOWS 141715Z 1418/1518 15005KT 9999 SCT060 BKN090 TX24/1515Z TN16/1504Z TEMPO 1500/1508 -SHRA BKN060 BECMG 1507/1509 29006KT TEMPO 1512/1518 -SHRA SCT040 BKN060 LOWW 142015Z 1421/1603 30010KT CAVOK TX30/1514Z TN19/1603Z TEMPO 1509/1517 34015KT LPAZ 141700Z 1418/1524 VRB05KT 9999 SCT020 BECMG 1516/1518 32010KT BECMG 1521/1524 03015KT LPBJ 141702Z 1418/1518 30010KT CAVOK BECMG 1423/1501 27005KT PROB40 1503/1508 0200 FG BKN002 BECMG 1516/1518 31010KT LPFR 141700Z 1418/1518 26013KT CAVOK BECMG 1419/1421 32008KT BECMG 1503/1506 VRB03KT PROB30 TEMPO 1503/1508 5000 BR BKN005 BECMG 1509/1512 25015KT LPLA 141701Z 1418/1518 VRB05KT 9999 FEW025 SCT035 PROB40 TEMPO 1418/1506 7000 -SHRA SCT008 BKN016 FEW018TCU PROB30 TEMPO 1421/1503 3000 -TSRA SCT018CB BECMG 1506/1509 35008KT LPMA 141700Z 1418/1518 03018KT 9999 SCT016 PROB40 TEMPO 1418/1518 03020G32KT LPMR 141701Z 1418/1518 32010KT CAVOK BECMG 1420/1422 VRB02KT FEW008 PROB40 1500/1509 0100 FG BKN001 PROB40 1509/1518 3000 BR BKN003 BECMG 1510/1512 26010KT LPMT 141701Z 1418/1518 31008KT CAVOK BECMG 1422/1424 VRB02KT SCT012 PROB40 1502/1509 0200 FG BKN004 BECMG 1513/1515 24008KT LPOV 141701Z 1418/1518 34010KT CAVOK BECMG 1419/1421 VRB02KT FEW005 PROB40 1503/1513 0200 FG BKN002 PROB40 1513/1516 3000 BR BKN004 BECMG 1511/1513 33008KT LPPD 141700Z 1418/1518 VRB05KT 9999 SCT020 LPPR 141700Z 1418/1518 32010KT CAVOK BECMG 1420/1422 VRB03KT BECMG 1422/1500 17005KT 9999 FEW008 PROB30 1505/1509 3000 BR SCT003 BECMG 1508/1510 09008KT FEW020 BECMG 1512/1515 32010KT CAVOK LPPS 141700Z 1418/1524 02013KT 9999 SCT015 SCT030 LPPT 141700Z 1418/1524 32015KT CAVOK BECMG 1420/1423 31005KT 9999 SCT008 TEMPO 1501/1508 3000 BR BKN003 BECMG 1509/1511 VRB03KT SCT020 BECMG 1515/1517 32012KT FEW035 BECMG 1521/1524 32005KT SCT008 LQSA 141453Z 1414/1512 VRB02KT 9999 FEW035 SCT050 TX31/1414Z TN14/1504Z TEMPO 1414/1420 VRB10KT TSRA FEW030CB BKN040 PROB40 TEMPO 1414/1416 VRB15G25KT 3000 TSRAGR SCT010 SCT030CB BKN035 TEMPO 1500/1507 3000 RA BKN012 OVC030 TEMPO 1509/1512 TSRA FEW035CB SCT045 LQTZ 141526Z 1415/1515 29005KT 9999 FEW035 SCT045 TX25/1415Z TN16/1504Z TEMPO 1415/1420 VRB15KT 4000 TSRA FEW030CB BKN040 TEMPO 1500/1507 3000 RA BKN012 OVC030 TEMPO 1509/1512 TSRA FEW035CB SCT045 LRBO 241700Z 1418/1518 VRB03KT 9999 SKC BECMG 1508/1510 22010KT FEW050 LRBS 141700Z 1418/1518 VRB04KT CAVOK LRCK 141700Z 1418/1518 VRB04KT CAVOK BECMG 1509/1511 09010KT BECMG 1516/1518 VRB04KT LRCT 141700Z 1418/1518 16004KT 9999 SKC BECMG 1500/1502 VRB03KT SCT080 LROP 141700Z 1418/1518 VRB04KT CAVOK LRSB 141700Z 1418/1518 VRB04KT CAVOK TEMPO 1511/1517 SCT035CB PROB30 1512/1516 VRB15G25KT 3000 TSRA BKN010 BKN030CB LRTR 141700Z 1418/1518 16008KT CAVOK PROB30 TEMPO 1418/1422 VRB25G35KT 3000 TSRA SQ BKN030CB BECMG 1503/1505 32010KT TEMPO 1506/1511 3000 TSRA BKN035CB LRTZ 141700Z 1418/1518 VRB03KT 9999 SKC TEMPO 1500/1504 33006KT SCT200 BECMG 1504/1506 04012KT TEMPO 1509/1514 SCT040 LSGG 142025Z 1421/1603 VRB03KT 9999 FEW045 SCT080 TX28/1515Z TN14/1504Z BECMG 1507/1509 05010KT LSMA 140925Z 1410/1516 VRB03KT 9999 FEW006 SCT025 BKN045 PROB40 TEMPO 1410/1418 4000 SHRA SCT025TCU PROB30 1504/1508 3000 BCFG BECMG 1509/1511 05008KT LSMD 140925Z 1410/1516 32003KT 9999 SCT012 BKN060 PROB40 TEMPO 1410/1416 SHRA SCT025TCU BKN040 PROB30 TEMPO 1413/1416 30010KT BECMG 1503/1506 CAVOK PROB30 1503/1507 3000 BCFG SCT002 BECMG 1508/1511 9999 SCT060 LSME 140925Z 1410/1516 16004KT 9999 SCT018 SCT060 PROB40 TEMPO 1410/1418 SHRA SCT025TCU BKN040 PROB30 1503/1507 3000 BCFG SCT005 LSMM 140925Z 1410/1516 VRB03KT 9999 FEW011 BKN035 PROB40 TEMPO 1410/1418 4000 SHRA SCT025TCU PROB30 1504/1508 3000 BCFG BECMG 1510/1512 04008KT LSMP 140925Z 1410/1516 VRB03KT 9999 FEW010 SCT070 PROB30 TEMPO 1410/1412 SHRA SCT050TCU BECMG 1419/1422 CAVOK LSZH 142025Z 1421/1603 13003KT 9999 FEW065 BKN080 TX27/1515Z TN13/1505Z BECMG 1506/1509 CAVOK PROB40 1503/1507 3000 BCFG SCT002 BECMG 1509/1511 9999 SCT060 LTCE 141555Z 1415/1512 07015KT 9999 SCT035 BKN080 BECMG 1419/1421 BKN040 LUKK 141720Z 1418/1518 18006KT CAVOK LWOH 142030Z 1421/1521 34006KT 9999 FEW050 TEMPO 1512/1521 VRB20KT TSRA FEW035CB BKN040 LWSK 142030Z 1421/1521 VRB02KT 9999 FEW040 BKN080 TEMPO 1421/1423 RA TEMPO 1513/1518 VRB20KT TSRA SCT033CB BKN040 LYBE 141700Z 1418/1518 15006KT 9999 SCT040 TX30/1418Z TN20/1503Z TEMPO 1418/1421 25015G25KT 5000 TSRA SCT033CB SCT040 BECMG 1421/1423 32010KT TEMPO 1422/1509 VRB25KT 5000 TSRA SCT030CB SCT033 LYBT 141700Z 1418/1518 28008KT 9999 SCT040 TX29/1418Z TN19/1503Z TEMPO 1418/1424 26015G25KT 3000 TSRA SCT027CB BKN033 TEMPO 1500/1509 5000 SHRA SCT027TCU BKN033 LYKV 141700Z 1418/1518 14005KT 9999 SCT040 TX28/1513Z TN16/1503Z TEMPO 1419/1422 VRB20KT 5000 TSRA SCT027CB BKN035 TEMPO 1423/1502 5000 SHRA SCT030TCU BKN035 BECMG 1502/1504 31010KT TEMPO 1509/1515 5000 SHRA SCT030TCU BKN033 LYNI 141700Z 1418/1518 05005KT CAVOK TX30/1514Z TN16/1503Z TEMPO 1419/1422 33018G32KT 5000 TSRA SCT028 BKN030 TEMPO 1504/1507 4000 RA BKN010 OVC025 TEMPO 1510/1518 33018G32KT 5000 TSRA SCT028 BKN030 LYPG 141700Z 1418/1518 36005KT 9999 FEW040 TX34/1514Z TN21/1504Z PROB40 TEMPO 1512/1518 VRB15G25KT TSRA FEW033CB SCT040 LYTV 141700Z 1418/1518 32007KT 9999 FEW040 TX34/1513Z TN19/1503Z PROB40 TEMPO 1420/1423 5000 TSRA FEW030CB SCT040 LYUZ 141700Z 1418/1518 32008KT 9999 SCT020 TX22/1418Z TN13/1503Z TEMPO 1418/1420 24015G25KT 3000 TSRA SCT017CB SCT020 TEMPO 1422/1508 2000 RA BR BKN005 BKN017 PROB40 TEMPO 1512/1518 3000 SHRA SCT013TCU BKN017 LYVR 141700Z 1418/1518 1409KT 9999 SCT040 TX30/1418Z TN20/1503Z TEMPO 1418/1422 13015G25KT BECMG 1501/1503 27010KT TEMPO 1504/1509 VRB25KT 5000 TSRA SCT030CB SCT033 LZTT 141907Z 1419/1518 VRB02KT 9999 BKN025 TEMPO 1419/1420 -RA BKN008 TEMPO 1420/1423 27015G25KT 3000 TSRA SCT010 SCT020CB BKN040 BECMG 1423/1501 -RA SCT020 BKN040 TEMPO 1501/1508 4000 RA BR SCT008 BKN014 BECMG 1509/1511 12005KT NSW SCT043 BKN100 PROB40 TEMPO 1512/1516 -SHRA SCT030 BKN070 MGGT 141700Z 1418/1518 36010KT 9999 SCT018 TX26/1420Z TN17/1512Z BECMG 1501/1503 36010KT SCT016 BECMG 1506/1508 SCT012 BECMG 1515/1517 36012KT FEW018 MGMM 141700Z 1418/1518 09010KT 9999 SCT020 TX35/1420Z TN21/1512Z BECMG 1418/1420 SCT020 BECMG 1500/1502 CAVOK BECMG 1506/1508 00000KT BKN012 BECMG 1515/1517 09008KT SCT018 MGPB 141700Z 1418/1518 06008KT 9999 SCT018 TX33/1420Z TN21/1512Z TEMPO 1419/1508 8000 TSRA SCT018TCU FEW025CB BECMG 1501/1503 00000KT SCT016 BECMG 1515/1517 06010KT SCT018 MGSJ 141700Z 1418/1518 23010KT 9999 SCT018 TX34/1420Z TN23/1512Z BECMG 1501/1503 00000KT SCT016 TEMPO 1508/1512 8000 VCTSRA FEW025CB BECMG 1515/1517 18008KT FEW018 MHLC 141110Z 1412/1512 00000KT 9999 FEW024 SCT090 TX32/1419Z TN22/1512Z BECMG 1415/1417 35006KT SCT026TCU PROB30 TEMPO 1421/1503 06008KT 6000 -TSRA SCT024CB SCT080 BECMG 1503/1505 12004KT 9999 NSW SCT022TCU SCT070 BECMG 1510/1512 00000KT FEW024 SCT090 MHLM 141110Z 1412/1512 00000KT 9999 FEW026 TX34/1420Z TN22/1512Z BECMG 1415/1417 04012KT SCT028TCU PROB30 1422/1500 8000 VCSH SCT026 FEW028CB SCT080 BECMG 1503/1505 00000KT 9999 NSW SCT025 SCT070 BECMG 1510/1512 21004KT FEW024 SCT090 MHRO 141110Z 1412/1512 08016KT 9999 FEW024TCU TX32/1419Z TN26/1512Z MHSC 141309Z 1413/1519 VRB06KT 9999 SCT035 BKN050 QNH3000INS BECMG 1420/1421 02009KT 9000 -SHRA SCT055 QNH2995INS TEMPO 1421/1502 VRB12G20KT VCTS BKN050CB BECMG 1503/1504 01009KT 9999 NSW BKN020 QNH3002INS BECMG 1514/1515 VRB06KT 9999 SCT035 QNH3006INS BECMG 1517/1518 01009KT 9999 VCSH SCT055 QNH3001INS TX30/1420Z TN19/1413Z MHTG 141110Z 1412/1512 00000KT 9999 SCT026 TX28/1420Z TN17/1512Z BECMG 1415/1417 36008KT 9999 SCT030TCU BECMG 1421/1423 06010KT SCT028TCU FEW030CB BECMG 1502/1504 13004KT SCT028 SCT090 BECMG 1510/1512 00000KT FEW010 SCT026 MKJP 141715Z 1418/1518 14018KT 9999 SCT020 PROB40 TEMPO 1419/1423 7000 SHRA BKN020 BECMG 1500/1502 36005KT BECMG 1512/1514 14020KT FEW022CB MKJS 141715Z 1418/1518 04016KT 9999 FEW022CB TEMPO 1419/1423 4000 TSRA BKN018CB BECMG 1500/1502 VRB03KT FEW022 BECMG 1512/1514 07018KT FEW022CB MMAA 141125Z 1412/1518 08010KT P6SM VC TS BKN010 BKN100 TX30/1421Z TN24/1412Z TEMPO 1412/1414 5SM TSRA BKN015CB FM141400 23005KT P6SM SCT015 BKN100 FM141600 23010KT P6SM SCT015 BKN300 FM150200 13012KT P6SM SCT015CB BKN080 TEMPO 1510/1514 5SM TSRA BKN015CB FM151600 23005KT P6SM SCT020 BKN250 MMAN 141718Z 1418/1518 14012KT P6SM SKC FM150900 00000KT 5SM HZ OVC015 FM151600 12010KT P6SM SCT020 MMCE 141725Z 1418/1518 12010KT P6SM SCT015 FM142100 03012KT P6SM SCT015CB TEMPO 1423/1502 2SM TSRA OVC010CB FM150300 09010KT P6SM SCT020 FM151200 12015KT P6SM SCT015 MMCL 141717Z 1418/1518 24010KT P6SM BKN025 FM150000 25010KT 6PSM BKN025CB BKN120 TEMPO 1504/1508 5SM TSRA FM151400 00000KT P6SM SCT100 BKN250 MMCM 141725Z 1418/1518 12015KT P6SM SCT020 FM150300 12010KT P6SM SCT020 FM151500 14015KT P6SM BKN015 MMCN 141709Z 1418/1518 14005KT P6SM SCT020CB TEMPO 1420/1424 3SM RA BKN015CB FM150000 23010KT 5SM TSRA BKN015CB OVC080 FM150600 00000KT 6SM RA BKN020 OVC080 FM151400 20010KT P6SM SCT020 BKN080 MMCP 141725Z 1418/1518 12012KT P6SM SCT015 FM142100 34010G20KT P6SM SCT030 FM150600 09010KT P6SM SCT020 MMCS 141718Z 1418/1518 25012KT P6SM SCT040 FM150000 30010KT P6SM SCT080 MMCU 141906Z 1419/1518 06010KT P6SM VC SH BKN030CB BKN120 TEMPO 1420/1424 4SM TSRA FM150100 20010KT 6SM RA BKN030CB OVC080 PROB40 1501/1504 3SM TSRA FM150600 00000KT P6SM SCT020 BKN080 MMCV 141729Z 1418/1518 16015G25KT P6SM SCT030 BECMG 1502/1503 00000KT FM151200 00000KT P6SM BKN020 MMCZ 141900Z 1419/1524 10015KT P6SM BKN015CB BKN080 TEMPO 1419/1422 4SM TSRA FM150000 00000KT P6SM SCT010 FM151600 13010KT P6SM SCT020 MMDO 141709Z 1418/1518 20010KT 6SM VC RA BKN020CB TEMPO 1420/1424 3SM TSRA FM150000 20010KT 5SM RA BKN020 OVC080 FM150300 00000KT P6SM BKN015 FM151500 00000KT P6SM SCT015 BKN080 MMEP 141808Z 1418/1518 00000KT P6SM BKN025 FM142000 30010KT 5SM VC RA BKN015CB OVC080 TEMPO 1422/1502 2SM TSRA OVC010CB FM150200 00000KT 4SM RA BKN015 OVC080 FM150600 00000KT 5SM HZ SCT015 BKN070 TEMPO 1512/1515 1/2SM FG VV002 MMGL 141706Z 1418/1524 20012KT P6SM BKN020 BKN120 TX26/1420Z TN15/1512Z FM142200 23015KT P6SM BKN025CB OVC120 TEMPO 1422/1502 4SM TSRA BECMG 1503/1504 23010KT TEMPO 1503/1507 6SM TSRA FM151000 00000KT P6SM SCT020CB BKN100 BKN250 FM151600 24010KT 5SM HZ SCT030 BKN240 MMGM 141709Z 1418/1518 20010KT 6SM VC RA SCT015CB BKN020 TEMPO 1420/1424 3SM RA FM150000 23010KT 3SM TSRA BKN010CB OVC080 FM150300 00000KT P6SM SCT015 BKN080 PROB40 1511/1515 3SM RA BKN010CB MMHO 141717Z 1418/1518 23010KT P6SM SCT020 BKN100 BKN240 FM150200 25010KT P6SM BKN030CB OVC150 TEMPO 1504/1508 6SM TSRA FM151500 24010KT P6SM SCT040 BKN140 BKN250 MMIA 141848Z 1418/1518 00000KT P6SM SCT030 BKN100 FM141900 23010KT P6SM BKN020CB TEMPO 1423/1503 2SM TSRA OVC010CB FM150300 00000KT 5SM RA BKN015CB OVC080 FM150600 00000KT P6SM SCT015 BKN080 TEMPO 1512/1516 2SM BR BKN010 MMIO 141718Z 1418/1518 03010KT P6SM SCT040 FM150600 20010KT P6SM SKC MMLM 141709Z 1418/1518 09010KT P6SM SCT020 FM142000 23012KT P6SM BKN030 TEMPO 1500/1504 5SM RA BKN020CB FM150600 00000KT P6SM SCT020 BKN080 MMLP 141717Z 1418/1518 04010KT P6SM SCT040 SCT230 FM142300 08015KT P6SM BKN030CB BKN140 TEMPO 1502/1506 6SM TSRA FM150900 00000KT P6SM SCT020 SCT100 BKN250 FM151600 10010KT P6SM SCT050 SCT250 MMLT 141709Z 1418/1518 06012KT P6SM SCT040 VC CB TEMPO 1422/1502 5SM TSRA BKN030CB FM150300 00000KT P6SM SCT080 MMMA 141851Z 1418/1518 16010G20KT P6SM BKN025 FM142100 14010G20KT P6SM SCT030 FM150200 15010KT P6SM SCT020 FM150400 00000KT P6SM BKN015 FM151600 15001KT 5SM HZ SCT010 MMMD 141722Z 1418/1524 13015KT P6SM SCT020 TX36/1421Z TN23/1512Z TEMPO 1420/1424 BKN020 FM151000 00000KT 3SM BR OVC010 FM151600 14010KT 5SM HZ SCT010 SCT100 MMML 141717Z 1418/1518 15010KT P6SM SCT030 FM142300 16015KT P6SM SCT020CB BKN120 TEMPO 1502/1506 P6SM TSRA FM151000 00000KT P6SM SCT100 BKN240 MMMM 141706Z 1418/1524 13010KT P6SM SCT020 SCT100 FM142200 15015KT P6SM BKN020CB BKN100 TEMPO 1422/1502 4SM TSRA BECMG 1503/1504 15010KT FM151000 00000KT 3SM BR OVC010 FM151600 20010KT 4SM HZ SCT020 BKN100 MMMT 141725Z 1418/1518 36015KT P6SM BKN020 FM142100 36012KT P6SM SCT030 FM150000 02010KT 5SM VC RA BKN020CB TEMPO 1502/1506 2SM TSRA OVC010CB FM150600 00000KT P6SM OVC030 PROB40 1510/1514 5SM RA FM151600 00000KT P6SM BKN030 MMMV 141718Z 1418/1518 06010KT P6SM SCT080 FM150600 00000KT P6SM BKN250 MMMX 141534Z 1416/1518 30005KT 1 1/2SM HZ SCT080 SCT250 TX24/1421Z TN12/1512Z FM141700 08010KT 4SM HZ SCT020CB BKN070 TEMPO 1421/1501 2SM TSRA BKN010CB FM150100 06005KT 5SM RA BKN020 OVC080 FM150400 30005KT P6SM SCT020 BKN080 FM151700 08005KT P6SM SCT080 MMMY 141718Z 1418/1524 16012KT P6SM SCT030 TX34/1421Z TN24/1512Z FM150900 00000KT 2SM BR OVC010 FM151600 12010KT P6SM SCT030 MMMZ 141717Z 1418/1524 20010KT P6SM SCT020CB BKN120 BKN250 TX33/1420Z TN25/1512Z FM142200 24015KT P6SM BKN020CB OVC100 TEMPO 1422/1502 4SM TSRA BECMG 1503/1504 06010KT TEMPO 1503/1507 3SM TSRA FM151200 00000KT P6SM SCT020CB BKN100 BKN250 FM151700 25010KT P6SM BKN100 BKN250 MMNL 141729Z 1418/1518 15010G20KT P6SM SCT020 SCT230 BECMG 1502/1503 00000KT FM151200 00000KT 3SM BR BKN010 FM151500 15010KT 5SM HZ SCT020 MMPA 141729Z 1418/1518 08012KT P6SM BKN020 FM142100 10015KT P6SM BKN015CB BKN100 TEMPO 1421/1501 5SM TSRA BECMG 1502/1503 12010KT FM150600 00000KT 3SM BR OVC010 TEMPO 1510/1514 1SM BR FM151600 10010KT 3SM HZ SCT010 SCT230 MMPG 141729Z 1418/1518 12015KT P6SM SCT030 SCT120 FM142200 17015KT P6SM VC SH SCT020CB BKN120 FM150400 00000KT P6SM SCT100 SCT250 FM151500 13010KT 5SM HZ SCT015 SCT080 MMPQ 141725Z 1418/1518 14012KT P6SM SCT020 FM142300 06012KT 5SM VC RA BKN015CB TEMPO 1500/1503 2SM TSRA OVC010CB FM150400 09010KT P6SM SCT015 BKN250 MMPR 141329Z 1413/1518 03005KT P6SM BKN020 BKN080 TX32/1419Z TN24/1512Z FM141600 20010KT P6SM SCT020 SCT100 FM142200 23010KT P6SM SCT020CB BKN080 TEMPO 1422/1502 3SM TSRA FM150600 03005KT P6SM SCT020 BKN100 FM151600 20010KT P6SM SCT020 BKN250 MMRX 141729Z 1418/1518 13015G25KT P6SM SCT020 TEMPO 1421/1501 BKN020 BECMG 1502/1503 00000KT FM151000 00000KT 3SM BR BKN010 FM151500 16010KT 5SM HZ SCT010 MMSD 141709Z 1418/1518 14015KT P6SM SCT040 TEMPO 1422/1502 5SM TSRA BKN030CB FM150300 34005KT P6SM SCT080 BKN250 MMSL 141709Z 1418/1518 24010KT P6SM SCT030 FM150300 20010KT P6SM SKC MMSP 141706Z 1418/1524 16010KT P6SM BKN020 TX26/1420Z TN14/1512Z FM142300 15010KT P6SM BKN025CB BKN140 TEMPO 1500/1504 6SM TSRA FM151000 00000KT 3SM BR OVC010 FM151700 20010KT 4SM HZ SCT010 BKN100 MMTC 141718Z 1418/1518 06012KT P6SM SCT025 FM142000 06010KT P6SM BKN020CB TEMPO 1422/1501 3SM TSRA FM150300 000000KT P6SM SCT030 BKN250 MMTG 141722Z 1418/1518 05010KT P6SM SCT015 BKN100 FM142100 10010KT P6SM BKN015CB OVC090 TEMPO 1421/1501 3SM TSRA BECMG 1502/1503 10010KT FM150900 00000KT 3SM BR OVC010 FM151500 13010KT 4SM HZ SCT010 SCT080 MMTJ 141717Z 1418/1524 30010KT 5SM HZ BKN020 TX28/1421Z TN21/1512Z FM150200 00000KT 3SM HZ OVC010 FM151200 00000KT 2SM BR OVC005 FM151700 32010KT 4SM HZ BKN012 MMTO 141856Z 1419/1524 10010KT 6SM HZ BKN015CB BKN120 OVC250 TX22/1420Z TN08/1512Z TEMPO 1419/1423 3SM TSRA BECMG 1500/1501 12010KT TEMPO 1500/1504 4SM TSRA FM150800 00000KT 4SM HZ OVC010 TEMPO 1512/1516 1SM BR FM151700 22010KT 3SM HZ SCT010 BKN070 MMTP 141722Z 1418/1524 24010KT P6SM SCT020 SCT250 FM142100 26010KT P6SM BKN020CB BKN120 TEMPO 1423/1503 4SM TSRA BECMG 1503/1504 02010KT FM151000 00000KT P6SM VC TS SCT020CB BKN100 BKN250 FM151500 22010KT P6SM SCT100 BKN250 MMUN 141722Z 1418/1524 10015KT P6SM BKN020 TX31/1418Z TN24/1512Z BECMG 1502/1503 00000KT FM151600 15010KT P6SM SCT010 BKN230 MMVA 141850Z 1418/1518 09012KT P6SM BKN015 FM142200 06010KT 5SM BKN015CB TEMPO 1500/1502 1SM TSRA OVC010CB FM150300 00000KT P6SM SCT015 FM151200 00000KT 5SM HZ SCT015 MMZC 141119Z 1412/1518 13005KT P6SM BKN030 TX18/1422Z TN10/1412Z FM141600 16012KT P6SM SCT030 FM142200 16015KT P6SM BKN030 PROB40 1422/1502 3SM TSRA BKN020CB FM150300 16005KT P6SM SCT030 BKN250 FM151600 16008KT P6SM SCT030 SCT100 MPDA 141100Z 1412/1424 21004KT 9999 SCT015 BKN080 PROB30 TEMPO 1420/1424 4000 TSRA SCT014CB BKN080 MPMG 141100Z 1412/1424 33006KT SCT018 SCT090 PROB30 TEMPO 1418/1422 21004KT 6000 TSRA SCT014CB BKN080 MPPA 141100Z 1412/1524 02005KT 7000 SCT018CB BKN090 PROB30 TEMPO 1418/1422 19004KT 6000 TSRA SCT014CB BKN080 MPSM 141100Z 1412/1524 31008KT SCT018 BKN090 PROB30 TEMPO 1418/1422 6000 TSRA SCT014CB BKN080 MPTO 141100Z 1412/1524 31008KT SCT018 BKN090 PROB30 TEMPO 1419/1423 17008KT 6000 TSRA SCT014CB BKN070 MRLB 141700Z 1418/1518 08012KT 9999 SCT040 TX33/1419Z TN22/1511Z TEMPO 1420/1424 28007KT MRLM 141700Z 1418/1518 32008KT 9999 SCT015 TX29/1517Z TN22/1511Z TEMPO 1418/1424 5000 RA BKN015 BECMG 1502/1505 24005KT BECMG 1515/1518 06005KT MROC 141700Z 1418/1518 25008KT 9999 SCT030 TX29/1518Z TN19/1510Z TEMPO 1419/1424 5000 TSRA FEW020CB BECMG 1501/1504 09008KT MRPV 141700Z 1418/1518 07013KT 9999 FEW025 BKN080 TX26/1517Z TN18/1510Z TEMPO 1418/1501 5000 RA MTCH 141100Z 1412/1512 05010KT 9999 FEW024 SCT060 FM141800 02012G22KT 9999 FEW030 PROB30 TEMPO 1422/1502 4800 -TSRA FEW014CB SCT030 BECMG 1504/1508 VRB02KT 7000 NSW FEW018 MTPP 141100Z 1412/1512 07004KT 8000 FEW020 SCT200 BECMG 1417/1419 28010KT PROB40 TEMPO 1421/1504 4800 TSRA SCT014CB BKN030 BECMG 1506/1510 VRB02KT 700 NSW FEW016 MUGM 1420/1515 12014KT 9999 VCTS SCT030CB SCT080 BKN280 QNH2991INS BECMG 1421/1423 07011KT 9999 NSW FEW032 SCT100 BKN250 QNH2993INS FM150200 34008KT 9999 FEW030 SCT100 BKN250 QNH2995INS BECMG 1510/1512 VRB06KT 9999 VCSH FEW030CB SCT100 SCT250 QNH2998INS T33/1520Z T26/1511Z 2045 FN20026 MWCB 141100Z 1412/1512 07010KT 9999 TS VCSH SCT016CB PROB30 TEMPO 1508/1512 9000 SHRA SCT016 MWCR 141100Z 1412/1512 07010KT 9999 TS VCSH SCT016CB PROB30 TEMPO 1509/1515 9000 SHRA SCT016 MZBZ 141100Z 1412/1512 09010KT 9999 SCT022 SCT045 PROB30 TEMPO 1412/1418 4000 SHRA BKN015 NCRG 141712Z 1418/1518 15007KT 9999 FEW010 SCT016 BKN040 PROB30 TEMPO 1418/1422 5000 SHRA BKN015 NFFN 141707Z 1418/1518 08007KT 9999 SCT028 BKN048 NFNA 141708Z 1418/1518 25007KT 9999 SCT020 BKN045 PROB30 TEMPO 1502/1506 5000 SHRA BKN015 NFTF 141713Z 1418/1518 20010KT 9999 FEW017 SCT100 NFTV 141604Z 1417/1508 20008KT 9999 SCT017 BKN040 NGFU 141715Z 1418/1518 12007KT 9999 FEW019 PROB30 TEMPO 1418/1506 5000 SHRA BKN015 NGTA 141714Z 1418/1518 14008KT 9999 SCT018 BKN100 NIUE 141715Z 1418/1518 25010KT 9999 SCT018 NLWF 141100Z 1412/1512 10012KT 9999 SCT015 BKN025 TEMPO 1412/1424 4000 SHRA BKN012 SCT016TCU PROB30 TEMPO 1412/1421 2000 TSRA BKN008 SCT015CB TEMPO 1500/1512 SHRA FEW020TCU NLWW 141700Z 1418/1518 15005KT 9999 SCT015 BKN025 TEMPO 1418/1424 4000 SHRA BKN012 SCT018TCU PROB30 TEMPO 1420/1503 2000 TSRA BKN010 SCT015CB NSFA 141714Z 1418/1518 12007KT 9999 FEW030 PROB30 TEMPO 1418/1512 3000 TSRA BKN015 FEW018CB NSTU 141722Z 1418/1518 12008KT P6SM VCSH SCT020 BKN040 BKN100 NTAA 141700Z 1418/1524 VRB03KT 9999 FEW025 FM142200 21012KT 9999 FEW018 BKN040 PROB40 TEMPO 1422/1512 22012G22KT 4500 SHRA FEW013 SCT016 BKN040 BECMG 1512/1513 VRB03KT NVSS 141600Z 1418/1518 14006KT 9999 SCT020 BKN040 PROB30 INTER 1418/1424 9000 -SHRA BKN018 NVVV 141600Z 1418/1518 VRB01KT 9999 FEW020 NWWD 141215Z 1412/1506 CNL NWWK 141216Z 1412/1506 CNL NWWL 141100Z 1412/1512 16006KT 9999 FEW035 TEMPO 1500/1506 SHRA FEW020TCU NWWM 141100Z 1412/1512 16008KT 9999 SCT030 BKN050 PROB40 TEMPO 1418/1422 SHRA NWWR 141100Z 1412/1512 17008KT 9999 FEW040 NWWU 141216Z 1412/1506 CNL NWWW 141700Z 1418/1518 VRB02KT 9999 FEW040 TEMPO 1418/1422 SHRA BECMG 1422/1424 14010KT NZAA 140912Z 1409/1506 27025G45KT 9999 -SHRA FEW014 BKN030 TEMPO 1409/1420 4000 +SHRA BKN014 FEW020CB BECMG 1410/1412 26020G35KT TEMPO 1420/1500 6000 SHRA FEW020TCU BECMG 1504/1506 24015G25KT NZQN 141111Z 1412/1506 02005KT 9999 FEW040 TEMPO 1412/1418 BKN014 NZWN 141353Z 1413/1512 22025G35KT 9999 -RA BKN006 TEMPO 1413/1420 5000 RADZ BKN003 FEW020TCU PROB30 TEMPO 1414/1418 3000 +RADZ FEW020CB BECMG 1416/1418 BKN020 FM150300 18015KT 9999 SCT055 BECMG 1509/1511 36010KT OAIX 141500Z 1415/1521 36020G35KT 9999 SKC 530005 QNH2975INS BECMG 1417/1418 36015G25KT 9999 SKC 520005 QNH2982INS BECMG 1423/1424 34012G18KT 9999 SKC QNH2976INS BECMG 1508/1509 35015G25KT 8000 HZ SKC 520005 QNH2972INS BECMG 1510/1511 36020G35KT 8000 HZ SKC 530005 QNH2968INS BECMG 1517/1518 34015G25KT 9000 HZ SKC 520005 QNH2988INS TX36/1509Z TN23/1500Z OAJL 141600Z 1416/1522 15009KT 8000 HZ FEW050 QNH2944INS BECMG 1504/1505 12006KT 9000 HZ SKC QNH2953INS BECMG 1509/1510 11012G18KT 9000 HZ SKC QNH2947INS BECMG 1515/1516 15009KT 9000 HZ FEW050 QNH2962INS TX38/1509Z TN26/1501Z OAKN 141500Z 1415/1521 25009KT 6000 DU SKC QNH2956INS BECMG 1423/1424 VRB03KT 4400 DU SKC QNH2963INS BECMG 1507/1508 26009KT 6000 DU SKC QNH2956INS BECMG 1509/1510 28012G18KT 5000 DU SKC QNH2954INS TX40/1510Z TN27/1502Z OBBI 141703Z 1418/1600 33010KT CAVOK BECMG 1501/1502 33015G25KT BECMG 1514/1516 32008KT OIAA 141730Z 1418/1524 29005MPS CAVOK OIAW 141730Z 1418/1524 29004MPS 8000 NSC TEMPO 1512/1515 29005MPS OIBK 141730Z 1418/1524 28004MPS 4000 BR NSC TEMPO 1423/1502 2000 BR FEW015 BECMG 1504/1506 12005MPS 5000 HZ BECMG 1516/1518 27004MPS OICI 141730Z 1418/1524 27003MPS 4000 DU NSC BECMG 1420/1422 6000 OIFM 141730Z 1418/1524 05006MPS CAVOK BECMG 1421/1423 12004MPS TEMPO 1500/1504 5000 HZ OIIE 141730Z 1418/1524 33006MPS CAVOK BECMG 1507/1509 12005MPS BECMG 1518/1520 33004MPS OIII 141730Z 1418/1524 33004MPS CAVOK BECMG 1506/1508 14005MPS BECMG 1518/1520 33003MPS OIKB 141730Z 1418/1524 03003MPS 3000 HZ NSC BECMG 1506/1508 17006MPS BECMG 1518/1520 08003MPS OIKK 141730Z 1418/1524 33004MPS CAVOK TEMPO 1412/1416 28009MPS OIMM 141730Z 1418/1524 17003MPS CAVOK BECMG 1506/1508 06007MPS BECMG 1518/1520 18003MPS OISL 141730Z 1418/1524 22003MPS CAVOK TEMPO 1505/1508 10007MPS OISS 141730Z 1418/1524 28003MPS 7000 NSC OITR 141730Z 1418/1524 32003MPS 8000 FEW035 BECMG 1503/1505 04006MPS TEMPO 1504/1507 04012MPS BECMG 1516/1518 32004MPS OITT 141730Z 1418/1524 05007MPS 8000 FEW020 TEMPO 1421/1501 06007G12MPS 5000 TSRA SCT030CB SCT035 BKN100 OIZC 141730Z 1418/1524 12004MPS 3000 BR/HZ SCT020 TEMPO 1507/1514 12009MPS OIZH 141730Z 1418/1524 02004MPS 8000 NSC TEMPO 1512/1516 03007G12MPS 4000 SA OJAI 141800Z 1418/1524 31012KT 5000 HZ FEW030 TEMPO 1512/1517 33018KT 3000 BLDU OJAM 141800Z 1418/1524 30012KT 5000 HZ FEW030 TEMPO 1512/1517 31018KT 4000 BLDU OJAQ 141800Z 1418/1524 01010KT CAVOK TEMPO 1512/1517 35016KT 7000 NSC OKBK 141645Z 1418/1524 33012KT 7000 SKC OMAA 141700Z 1418/1600 28005KT 8000 NSC PROB30 1500/1504 3000 BR BKN008 BECMG 1507/1509 34013KT OMAD 141700Z 1418/1600 28005KT 8000 NSC PROB30 1500/1504 3000 BR BKN008 BECMG 1506/1508 34012KT OMDB 141655Z 1418/1600 34010KT 8000 NSC BECMG 1418/1420 09005KT PROB30 1421/1504 4000 HZ BECMG 1507/1509 33012KT BECMG 1518/1520 09005KT OMDW 141100Z 1412/1518 33010KT 8000 NSC BECMG 1418/1420 VRB02KT PROB40 1421/1504 3000 BR BKN007 PROB30 1500/1504 0150 FG VV/// BECMG 1508/1510 33013KT OMRK 141655Z 1418/1600 VRB02KT 8000 NSC BECMG 1508/1510 35012KT BECMG 1516/1518 VRB02KT OMSJ 141655Z 1418/1600 33010KT 8000 NSC BECMG 1418/1420 09005KT PROB30 1421/1504 4000 HZ BECMG 1508/1510 33012KT BECMG 1518/1520 09005KT OODQ 141700Z 1418/1518 21028KT 6000 NSC PROB30 TEMPO 1422/1503 4000 BR FEW015 OOMS 141700Z 1418/1524 VRB02KT 8000 NSC PROB30 TEMPO 1421/1502 3000 BR BECMG 1506/1508 04012KT PROB30 TEMPO 1518/1524 3000 BR BECMG 1522/1524 VRB02KT OOSA 141740Z 1418/1600 13005KT 1500 +DZ BR SCT003 BKN007 OVC018 BECMG 1506/1508 3000 BECMG 1514/1516 1400 OOSH 141700Z 1418/1524 VRB02KT 8000 NSC PROB30 TEMPO 1422/1503 3000 BR BECMG 1506/1508 08012KT BECMG 1515/1517 VRB02KT ORBD 141900Z 1419/1601 28009KT 6000 DUHZ SKC QNH2942INS BECMG 1505/1506 32012G18KT 8000 BLDUHZ SKC QNH2943INS WND 29010KT AFT 1515 TX44/1512Z TN28/1502Z LAST NO AMDS AFT 1419 NEXT 1503 ORSU 141130Z 1412/1512 26012KT CAVOK BECMG 1417/1419 32006KT BECMG 1500/1502 04010KT OTBH 141512Z 1415/1521 35010G15KT 8000 HZ SKC WS012/34040KT QNH2939INS BECMG 1416/1417 31009KT 9000 HZ SKC WS012/34040KT QNH2941INS BECMG 1502/1503 33012G18KT 9000 HZ SKC QNH2946INS BECMG 1504/1505 34015G25KT 9000 HZ SKC QNH2940INS BECMG 1515/1516 35010KT 9000 HZ SKC QNH2944INS TX44/1510Z TN30/1502Z PAAQ 141738Z 1418/1518 VRB05KT P6SM -SHRA OVC060 FM151200 VRB05KT P6SM -RA OVC050 PABE 141738Z 1418/1518 25020G28KT P6SM VCSH BKN010 TEMPO 1418/1421 4SM BR OVC010 FM142100 23022KT 4SM BR OVC007 FM142300 22015G20KT 5SM -RA BR OVC015 FM151400 29005KT P6SM OVC050 PABI 141400Z 1414/1520 30006KT 9999 FEW045 BKN055 OVC110 600604 QNH2960INS BECMG 1503/1504 33006KT 9000 -SHRA BKN015 OVC030 600604 QNH2965INS BECMG 1507/1508 30006KT 9000 -SHRA OVC015 600505 QNH2972INS TX13/1500Z TN10/1513Z PABR 141730Z 1418/1518 29009KT 2SM BR OVC003 FM150600 26015KT 4SM BR BKN050 FM151400 23020G27KT 1/2SM -RA FG OVC003 PABT 141727Z 1418/1518 35005KT P6SM FEW018 BKN035 OVC050 FM150000 05005KT P6SM SCT060 BKN120 PACD 141730Z 1418/1518 25012KT 4SM -SHRA BR SCT004 OVC008 FM150200 22011KT 2SM -RA BR OVC008 FM151000 27011KT 5SM BR VCSH SCT008 OVC015 PACV 142025Z 1420/1518 07005KT P6SM -RA BKN013 OVC040 FM151200 VRB05KT 6SM -RA BKN015 OVC040 PADL 141738Z 1418/1518 23018G25KT P6SM BKN025 FM150300 19008KT P6SM OVC010 PADQ 141738Z 1418/1518 06005KT P6SM BKN045 FM150300 26008KT P6SM SCT100 FM151300 27005KT P6SM VCSH BKN050 PADU 141730Z 1418/1518 21011KT P6SM SCT025 BKN035 TEMPO 1420/1424 BKN025 FM150200 22011KT 4SM -RA SCT015 BKN025 FM150700 27008KT P6SM SCT025 BKN035 PAED 141900Z 1419/1601 22012KT 9999 VCSH OVC030 600607 QNH2969INS BECMG 1423/1424 19009KT 9999 NSW OVC030 600706 QNH2973INS BECMG 1512/1513 19006KT 9999 BKN030 BKN065 600704 QNH2982INS BECMG 1521/1522 28006KT 9999 BKN040 BKN120 QNH2985INS TX18/1500Z TN11/1514Z PAEI 142056Z 1420/1602 VRB03KT 9999 -RA SCT005 BKN015 QNH2964INS TEMPO 1420/1504 8000 -RA BR BECMG 1503/1504 VRB03KT 9000 -RA BR SCT020 BKN050 QNH2969INS BECMG 1510/1511 25009KT 8000 -RA BR SCT009 BKN015 OVC020 QNH2975INS TEMPO 1511/1516 BKN009 BECMG 1518/1519 26009KT 9999 NSW SCT020 BKN030 QNH2982INS TX14/1501Z TN10/1513Z PAEN 141738Z 1418/1518 18014KT P6SM OVC100 FM151200 18005KT P6SM BKN050 PAFA 141730Z 1418/1524 21004KT 4SM -RA BR SCT006 BKN030 OVC050 TEMPO 1418/1419 5SM -RA BR BKN020 FM141900 29004KT 4SM -RA BR SCT005 OVC020 FM150500 VRB03KT 6SM -RA BR OVC007 FM150800 VRB03KT P6SM BKN015 OVC025 PAFB 142000Z 1420/1602 VRB03KT 8000 -RA BR SCT007 OVC020 QNH2964INS TEMPO 1420/1504 BKN007 BECMG 1503/1504 VRB03KT 9000 -RA BR SCT020 BKN050 QNH2969INS BECMG 1510/1511 25009KT 8000 -RA BR SCT009 BKN015 OVC020 QNH2975INS TEMPO 1511/1516 BKN009 BECMG 1518/1519 26009KT 9999 NSW SCT020 BKN030 QNH2982INS TX14/1501Z TN10/1513Z PAGA 141727Z 1418/1518 02005KT 4SM BR OVC010 FM142200 03006KT P6SM OVC015 FM150700 VRB03KT P6SM OVC050 FM151500 26005KT P6SM BKN100 PAGK 141738Z 1418/1518 22004KT P6SM BKN070 OVC090 FM142100 16015G23KT P6SM -SHRA SCT025 BKN040 FM151200 18005KT P6SM -SHRA OVC050 PAGS 141728Z 1418/1518 VRB02KT P6SM VCSH SCT035 OVC045 TEMPO 1418/1422 22009KT 4SM -SHRA BKN020 OVC030 FM142200 22009KT P6SM VCSH SCT025 BKN050 FM150500 19003KT P6SM BKN050 FM151000 14003KT P6SM VCSH SCT015 BKN025 OVC040 LTD TO CLD VIS AND WIND PAGY 141728Z 1418/1518 21022G32KT P6SM VCSH FEW015 SCT050 OVC070 LTD TO CLD VIS AND WIND PAHN 141728Z 1418/1518 10010KT P6SM VCSH SCT013 BKN060 OVC070 TEMPO 1418/1422 10010G20KT P6SM -SHRA BKN013 OVC020 FM151000 10007KT P6SM VCSH BKN015 OVC025 LTD TO CLD VIS AND WIND PAHO 141738Z 1418/1518 24015G20KT P6SM BKN050 OVC070 FM151200 24005KT P6SM -RA OVC050 PAIL 141738Z 1418/1518 25015G20KT P6SM VCSH OVC012 FM142300 22012G20KT P6SM SCT025 BKN040 FM151300 18005KT P6SM OVC010 PAJN 141728Z 1418/1518 07010KT P6SM VCSH FEW003 BKN030 OVC040 TEMPO 1418/1422 5SM -SHRA BR SCT003 BKN020 OVC030 FM142200 10010KT P6SM VCSH BKN040 OVC060 FM151200 09005KT P6SM VCSH SCT025 OVC050 PAKN 141738Z 1418/1518 25012G25KT P6SM BKN030 FM150400 20007KT P6SM OVC090 PAKT 141728Z 1418/1518 12012KT 3SM BR VCSH BKN006 OVC015 TEMPO 1418/1422 -SHRA OVC003 FM142200 09009KT P6SM VCSH SCT005 BKN020 FM150500 32005KT P6SM VCFG SCT005 BKN015 FM151000 33005KT 4SM BR SCT004 SCT050 FM151500 32006KT P6SM FEW050 SCT070 LTD TO CLD VIS AND WIND 1506/1515 PAKW 141728Z 1418/1518 22006KT P6SM SCT007 OVC025 TEMPO 1418/1422 3SM -SHRA BR BKN008 BKN013 OVC025 FM142200 22007KT P6SM VCSH SCT020 BKN040 FM150000 22009KT P6SM BKN050 FM150600 VRB02KT P6SM SCT025 FM151000 00000KT 4SM BR FEW004 SCT070 FM151600 VRB03KT P6SM SCT070 LTD TO CLD VIS AND WIND PAMC 141727Z 1418/1518 00000KT 4SM -RA BR OVC011 FM150400 21006KT 6SM -RA BR OVC015 FM151100 20004KT P6SM -RA BKN025 OVC050 FM151600 VRB02KT P6SM VCSH OVC050 PANC 142033Z 1421/1524 18010KT P6SM -RA OVC025 FM150100 17010KT P6SM SCT060 BKN080 FM151800 26005KT P6SM OVC030 PAOM 141730Z 1418/1518 36015KT P6SM SKC FM142100 36018G24KT P6SM SKC FM150200 01012KT P6SM SCT120 PAOR 141727Z 1418/1518 00000KT P6SM VCSH BKN080 FM150000 VRB03KT P6SM VCSH SCT060 BKN100 FM150900 VRB03KT P6SM OVC100 PAOT 141730Z 1418/1518 01014KT P6SM SKC FM150300 34012KT P6SM SKC PAPG 141728Z 1418/1518 06003KT 3SM BR BKN005 OVC010 FM142000 06005KT P6SM VCSH SCT025 BKN040 FM150900 VRB03KT P6SM VCFG SCT005 FM151200 00000KT 2SM BR VCFG SCT003 OVC005 FM151600 00000KT 5SM BR FEW005 OVC015 LTD TO CLD VIS AND WIND 1506/1515 PAQT 141909Z 1419/1518 27006KT 4SM BR OVC004 FM142100 26007KT P6SM OVC007 FM150000 26008KT P6SM OVC015 FM150200 24008KT P6SM FEW015 FM151400 22011KT 1/4SM FG BKN003 PASC 141730Z 1418/1518 28007KT 2SM BR OVC003 FM142100 27008KT P6SM OVC015 FM150400 24009KT P6SM FEW015 BKN100 FM151400 23010KT 1/4SM FG BKN003 BKN250 PASD 141730Z 1418/1518 28008KT P6SM SCT015 OVC025 FM150700 22007KT 2SM -RA OVC015 FM151500 22005KT P6SM SCT015 OVC025 LTD TO CLD VIS AND WIND PASI 141728Z 1418/1518 31005KT 5SM -SHRA SCT013 BKN020 OVC030 TEMPO 1418/1422 2SM -SHRA BR BKN013 OVC020 FM142200 25010KT P6SM VCSH SCT020 BKN030 FM150100 26010KT P6SM SCT040 BKN060 FM150700 10004KT P6SM BKN060 PASN 141919Z 1419/1518 28011KT P6SM SCT015 BKN025 FM150200 32015G22KT P6SM BKN008 OVC015 FM150600 33014KT P6SM BKN010 PASY 141925Z 1419/1520 22006KT 9999 OVC015 QNH3020INS BECMG 1515/1516 13009KT 9999 BKN020 QNH3012INS TX12/1505Z TN09/1514Z PATA 141727Z 1418/1518 10009KT 4SM -RA BR OVC016 FM142000 09006KT 5SM -SHRA BR BKN025 OVC050 FM150600 VRB04KT P6SM BKN050 BKN100 PATK 141738Z 1418/1518 17007KT P6SM -RA BKN050 FM151200 VRB05KT P6SM -RA OVC050 PAUN 141727Z 1418/1518 33008KT P6SM BKN060 FM142100 03007KT P6SM SCT250 FM150800 02007KT P6SM BKN050 PAVD 141916Z 1419/1518 VRB05KT 1SM -RA BR FEW001 BKN002 OVC040 TEMPO 1419/1423 6SM OVC040 FM150100 25004KT P6SM -RA SCT025 BKN050 FM151200 VRB05KT P6SM OVC020 LTD TO CLD VIS AND WIND PAWG 141728Z 1418/1518 30006KT P6SM VCSH FEW005 BKN015 OVC030 FM142000 28006KT P6SM VCSH BKN040 FM150900 VRB03KT 5SM BR VCFG SCT005 BKN025 FM151500 VRB02KT P6SM FEW015 OVC050 LTD TO CLD VIS AND WIND 1506/1515 PAYA 141728Z 1418/1518 27004KT P6SM VCSH SCT007 OVC025 TEMPO 1418/1422 4SM BR BKN007 OVC020 FM150000 24005KT 5SM -SHRA BR OVC015 FM150600 09004KT P6SM -SHRA OVC015 FM151200 09003KT 4SM -SHRA BR BKN007 OVC015 LTD TO CLD VIS AND WIND PGSN 141733Z 1418/1518 10010KT P6SM VCSH FEW018 SCT050 FM142300 10014KT P6SM VCSH SCT018 SCT050 PGUA 141800Z 1418/1524 08012KT 9999 VCSH SCT015 QNH2968INS TEMPO 1418/1502 3200 SHRA BKN012 BECMG 1501/1502 10015KT 8000 -SHRA BKN014 BKN050 QNH2962INS TEMPO 1502/1508 10015G25KT 3200 SHRA BKN009 BECMG 1512/1513 18015G25KT 8000 -SHRA BKN010 BKN050 QNH2955INS TEMPO 1512/1518 1600 SHRA BKN008 BECMG 1517/1518 13030KT 6000 -SHRA BKN010 BKN014 QNH2947INS TEMPO 1518/1600 1600 +SHRA BKN008 TX31/1502Z TN25/1515Z PGUM 141733Z 1418/1524 08008KT P6SM VCSH FEW020 SCT050 FM142300 09014KT P6SM VCSH SCT018 SCT050 PHHI 142010Z 1420/1521 07009KT 9999 VCSH SCT015 BKN050 QNH2996INS TEMPO 1421/1503 07012G18KT BECMG 1504/1505 07009KT 9999 VCSH SCT050 QNH3000INS TX29/1500Z TN21/1515Z PHJH 141722Z 1418/1518 03009KT P6SM FEW030 FM142000 04012G18KT P6SM FEW035 SCT060 FM150500 05008KT P6SM FEW030 SCT060 NOT SKED AFT 150400 PHJR 141722Z 1418/1518 06005KT P6SM FEW025 FM142000 12009G15KT P6SM FEW030 SCT060 FM150600 06004KT P6SM SCT025 SCT040 PHKO 141722Z 1418/1518 12006KT P6SM FEW050 FM142000 26009KT P6SM FEW025 SCT050 FM150800 14006KT P6SM SCT025 SCT050 PHLI 141722Z 1418/1518 03007KT P6SM SCT020 BKN035 FM141900 06010KT P6SM SCT025 SCT060 PHMK 141722Z 1418/1518 03011KT P6SM FEW030 FM142000 05012G20KT P6SM FEW030 SCT060 FM150600 05009KT P6SM SCT030 SCT060 PHNG 1415/1515 07008KT 9999 SCT025 BKN050 QNH2995INS TEMPO 1415/1420 07010G15KT BKN025 BKN045 FM150600 VRB05KT 9999 SCT025 BKN045 QNH2997INS TEMPO 1507/1511 07008KT BKN025 BKN040 TEMPO 1512/1515 07008KT 9000 -SHRA BKN025 BKN040 T29/1423Z T26/1513Z PHNL 141722Z 1418/1524 06005KT P6SM FEW025 FM142000 07012G18KT P6SM FEW030 SCT060 FM150400 05007KT P6SM FEW025 FM152000 07010G16KT P6SM FEW030 SCT060 PHNY 141722Z 1418/1518 04011KT P6SM SCT025 FM142000 25008KT P6SM BKN025 FM150300 05011KT P6SM SCT025 PHOG 141722Z 1418/1518 04010KT P6SM FEW030 FM142000 04016G22KT P6SM FEW030 SCT060 FM150500 06011KT P6SM SCT030 SCT060 LTD TO VIS AND WIND 1509/1516 PHTO 141722Z 1418/1518 23005KT P6SM VCSH SCT025 BKN035 FM142000 06010KT P6SM FEW030 SCT060 FM150600 23006KT P6SM VCSH SCT025 BKN060 PKMJ 141733Z 1418/1518 24008KT P6SM VCSH SCT014 SCT050 BKN110 PKWA 141733Z 1418/1518 23010KT P6SM VCSH SCT015 SCT030 BKN110 TEMPO 1418/1421 BKN015 PLCH 141715Z 1418/1518 10007KT 9999 SCT018 PMDY 141722Z 1418/1518 08012KT P6SM VCSH SCT025 BKN040 PTKK 141733Z 1418/1518 22010G18KT P6SM VCSH SCT013 SCT025 BKN110 PTRO 141733Z 1418/1518 27010KT 6SM -RA VCTS SCT015CB BKN030 OVC120 TEMPO 1418/1421 27010G22KT 3SM SHRA BKN015 OVC040 FM142100 27011KT P6SM VCSH SCT016 BKN040 OVC110 PTYA 141733Z 1418/1518 29011KT P6SM VCSH SCT016 SCT030 BKN110 TEMPO 1418/1421 5SM -SHRA BKN016 PWAK 141400Z 1414/1520 09015G20KT 9999 VCSH SCT020 BKN100 QNH2982INS TEMPO 1416/1423 8000 -SHRA BKN015 TX31/1503Z TN27/1512Z LIMITED METWATCH 1414 TIL 1422 RCFN 141700Z 1418/1518 03005KT 9999 FEW025 SCT050 BECMG 1500/1502 12005KT TEMPO 1508/1511 04005KT FEW012 FEW015TCU BKN025 BECMG 1511/1513 34005KT RCKH 142042Z 1420/1524 21007KT 7000 SCT016 BKN032 TEMPO 1420/1423 07005KT 1500 TSRA SCT004 SCT007CB BKN009 OVC018 TEMPO 1423/1503 20012KT 2700 TSRA SCT006 BKN012 FEW015CB BKN030 TEMPO 1510/1516 24005KT 5000 SHRA FEW012 BKN018 BECMG 1516/1518 33005KT FEW010 BKN016 BKN025 TEMPO 1518/1524 29010KT 2700 SHRA SCT005 FEW008CB BKN011 BKN020 RCMQ 141700Z 1418/1518 18004KT 9999 FEW006 SCT025 BKN040 TX32/1505Z TN25/1420Z BECMG 1420/1423 FEW012 SCT040 BECMG 1501/1504 24008KT FEW012 SCT025 BKN050 TEMPO 1506/1511 7000 -RA FEW010 BKN020 BKN040 BECMG 1512/1515 18004KT RCNN 141700Z 1418/1518 14004KT 7000 -RA SCT006 FEW010CB BKN016 BKN028 TX26/1506Z TN25/1420Z TEMPO 1419/1423 9999 FEW010 BKN025 BKN030 BECMG 1502/1505 20010KT 9999 FEW010 BKN025 BKN030 TEMPO 1506/1511 7000 -RA SCT006 FEW010CB BKN016 BKN028 BECMG 1512/1515 10004KT RCSS 141700Z 1418/1518 29005KT 9999 FEW020 BKN032 TEMPO 1420/1424 FEW010 BKN020 BKN035 BECMG 1502/1504 29010KT TEMPO 1506/1510 30015KT 4000 SHRA FEW010 FEW015CB BKN018 BKN035 TEMPO 1514/1518 26008KT FEW012 BKN022 RCTP 141700Z 1418/1524 23005KT 9999 FEW015 BKN032 TEMPO 1420/1424 24010KT FEW010 BKN020 BKN040 BECMG 1500/1502 25012KT TEMPO 1504/1510 27017KT 4000 SHRA FEW008 FEW010CB BKN017 BKN030 BECMG 1515/1517 FEW012 BKN024 TEMPO 1517/1523 23018KT 2800 SHRA SCT008 FEW010CB BKN013 BKN025 RJAA 141706Z 1418/1600 20010KT 9999 FEW030= RJBB 141706Z 1418/1600 10004KT 9999 FEW025 BKN050 BECMG 1503/1505 22007KT RJAH 141707Z 1418/1600 22008KT 9999 FEW010 SCT020 BECMG 1521/1600 20018KT RJBB 141706Z 1418/1600 10004KT 9999 FEW025 BKN050 BECMG 1503/1505 22007KT RJCB 141709Z 1418/1600 36003KT 9999 FEW005 BKN015 TEMPO 1418/1421 1500 -SHRA BR FEW001 BKN003 TEMPO 1421/1506 3000 -SHRA BR FEW002 BKN005 BECMG 1502/1504 14007KT TEMPO 1506/1515 2000 SHRA BR FEW002 BKN004 TEMPO 1515/1600 3000 -SHRA BR FEW002 BKN005 RJCC 141706Z 1418/1600 17012KT 9999 FEW005 BKN015 TEMPO 1418/1421 1500 -SHRA BR FEW001 BKN003 TEMPO 1421/1506 3000 -SHRA BR FEW002 BKN005 TEMPO 1506/1515 2000 SHRA BR FEW002 BKN004 TEMPO 1515/1600 4000 SHRA BR FEW003 BKN006 RJCH 141717Z 1418/1600 35003KT 9999 FEW008 BKN015 TEMPO 1418/1421 4000 -SHRA BR FEW005 BKN008 TEMPO 1506/1512 3000 SHRA BR BKN008 BKN025 FEW025CB BECMG 1512/1515 15005KT TEMPO 1512/1515 3000 -SHRA BR RJCK 141714Z 1418/1600 03008KT 9999 FEW003 BKN015 TEMPO 1418/1501 1500 -SHRA BR FEW001 BKN003 BECMG 1503/1505 17006KT TEMPO 1506/1515 1500 SHRA BR FEW001 BKN003 BECMG 1509/1512 03008KT TEMPO 1515/1600 3000 -SHRA BR FEW002 BKN005 RJCM 141720Z 1418/1600 01005KT 9999 FEW006 BKN015 TEMPO 1418/1500 3000 -SHRA BR FEW003 BKN006 TEMPO 1500/1506 FEW005 BKN008 TEMPO 1506/1512 3000 SHRA BR FEW002 BKN005 TEMPO 1512/1518 1500 -SHRA BR FEW002 BKN005 TEMPO 1518/1600 3000 -SHRA BR FEW005 BKN008 RJEC 141712Z 1418/1600 31005KT 9999 FEW005 BKN015 TEMPO 1418/1500 2000 BR FEW002 BKN005 TEMPO 1503/1512 3000 SHRA BR FEW003 BKN006 TEMPO 1512/1518 4000 -SHRA BR FEW005 BKN008 TEMPO 1518/1600 3000 SHRA BR FEW002 BKN005 RJFF 141709Z 1418/1600 01010KT 8000 -SHRA FEW006 SCT010 BKN020 TEMPO 1421/1500 4000 -SHRA BR BECMG 1423/1501 18013KT TEMPO 1500/1503 18015G25KT 3000 SHRA BR RJFK 141711Z 1418/1600 15007KT 7000 -SHRA FEW005 SCT010 BKN015 TEMPO 1421/1506 3000 SHRA BR FEW003 BKN005 BKN010 TEMPO 1506/1512 4000 -SHRA BR RJFM 141714Z 1418/1600 20014KT 6000 -SHRA FEW008 SCT010 BKN015 TEMPO 1418/1500 1500 +SHRA BR FEW003 SCT005 BKN008 BECMG 1422/1500 15014KT TEMPO 1500/1509 3000 SHRA BR FEW003 SCT005 BKN008 BECMG 1509/1512 23003KT TEMPO 1509/1518 3000 SHRA BR RJFO 141709Z 1418/1600 03016KT 7000 -SHRA FEW005 SCT010 BKN015 BECMG 1418/1420 12030G40KT TEMPO 1418/1500 3000 SHRA BR FEW005 BKN008 BKN015 BECMG 1423/1501 15013KT BECMG 1518/1521 25004KT RJFR 141706Z 1418/1600 04010KT 7000 -SHRA FEW005 SCT010 BKN015 BECMG 1419/1421 06025G35KT TEMPO 1420/1500 3000 SHRA BR BECMG 1421/1423 16025G35KT TEMPO 1500/1502 4000 -SHRA BR BECMG 1502/1504 17009KT RJFS 141710Z 1418/1600 01007KT 6000 -SHRA FEW008 SCT010 BKN025 BECMG 1419/1421 23016KT TEMPO 1421/1500 23018G28KT 3000 SHRA BR TEMPO 1500/1503 4000 -SHRA BR BECMG 1515/1518 03010KT RJFT 141712Z 1418/1600 03012KT 7000 -SHRA FEW008 SCT015 BKN025 BECMG 1418/1420 26016KT TEMPO 1419/1422 26020G30KT 1500 +SHRA BR BECMG 1420/1422 19011KT TEMPO 1422/1501 3000 SHRA BR BECMG 1506/1509 06007KT RJFU 141706Z 1418/1600 32005KT 9999 -SHRA FEW008 BKN015 BKN025 BECMG 1421/1423 18014KT TEMPO 1423/1506 19015G28KT RJGG 142003Z 1420/1600 14012KT 8000 -SHRA FEW010 BKN020 TEMPO 1420/1501 4000 TSRA FEW005 BKN012 FEW020CB TEMPO 1501/1506 SHRA FEW008 FEW020CB BKN025 RJNK 141705Z 1418/1600 22006KT 9999 FEW030 BECMG 1518/1521 20018KT TEMPO 1521/1600 22025G35KT RJNS 141706Z 1418/1600 32004KT 8000 -SHRA FEW008 BKN012 TEMPO 1418/1421 FEW005 BKN008 TEMPO 1421/1503 4000 SHRA BR FEW005 BKN008 BECMG 1423/1501 18008KT BECMG 1512/1515 24005KT RJNT 141705Z 1418/1600 18010KT 9999 FEW030 BECMG 1503/1505 32008KT BECMG 1509/1512 18004KT RJOA 141705Z 1418/1600 09010KT 9999 FEW020 SCT030 BKN040 RJOB 142042Z 1420/1600 12007KT 9999 FEW015 BKN045 TEMPO 1420/1500 FEW002 BKN008 BKN015 RJOC 141705Z 1418/1600 08008KT 9999 FEW030 RJOH 141706Z 1418/1600 08007KT 9999 FEW030 RJOI 1415/1515 03007KT 9999 FEW030 QNH2974INS BECMG 1416/1418 06009KT 9999 FEW020 SCT030 SCT140 621608 520003 QNH2974INS TEMPO 1418/1500 08018G26KT 9000 -SHRA BR BKN030 FM150000 11010KT 8000 -SHRA BR VCTS FEW015 BKN025CB BKN050 OVC120 621609 510003 QNH2973INS FM150900 16010KT 8000 -SHRA BR VCTS FEW015 BKN025CB BKN050 OVC120 621609 510003 QNH2973INS TEMPO 1509/1515 17010G16KT 6000 SHRA T28/1420Z T31/1506Z RJOK 141712Z 1418/1600 12012KT 8000 -SHRA FEW008 SCT015 BKN025 TEMPO 1421/1503 1500 +TSRA BR FEW003 BKN008 BKN015 FEW020CB TEMPO 1503/1509 2000 +SHRA BR FEW003 BKN008 BKN015 FEW020CB TEMPO 1509/1515 3000 SHRA BR TEMPO 1515/1521 3000 SHRA BR FEW003 BKN009 BKN015 RJOM 141706Z 1418/1600 36005KT 9999 FEW020 SCT040 BKN050 RJOO 141708Z 1418/1600 08008KT 9999 FEW025 SCT040 RJOT 141707Z 1418/1600 09005KT 9999 FEW020 BKN050 RJSA 141705Z 1418/1600 25008KT 8000 -SHRA FEW010 BKN020 BKN030 TEMPO 1418/1421 1500 SHRA BR FEW001 BKN003 BKN005 TEMPO 1421/1503 4000 -SHRA BR FEW002 BKN005 BKN008 TEMPO 1503/1512 3000 SHRA BR FEW002 BKN005 BKN008 TEMPO 1512/1600 4000 SHRA BR FEW005 BKN008 BKN020 RJSF 141707Z 1418/1600 18005KT 9999 FEW020 SCT030 TEMPO 1418/1422 4000 BR FEW005 BKN008 BKN015 TEMPO 1503/1509 4000 TSRA BR FEW010 BKN030 FEW030CB RJSK 141715Z 1418/1600 14004KT 8000 -SHRA FEW010 BKN020 BKN030 TEMPO 1418/1422 2000 -SHRA BR FEW002 BKN005 BKN008 BECMG 1422/1500 25005KT TEMPO 1422/1506 4000 -SHRA BR FEW005 BKN008 BKN020 TEMPO 1506/1512 3000 TSRA BR FEW005 BKN008 BKN020 FEW020CB TEMPO 1512/1600 1500 SHRA BR FEW002 BKN005 BKN008 RJSN 141708Z 1418/1600 18006KT 9999 FEW020 SCT080 BECMG 1504/1506 32006KT BECMG 1509/1512 16004KT BECMG 1515/1518 20006KT TEMPO 1518/1600 4000 -SHRA BR RJSS 141709Z 1418/1600 24004KT 9999 FEW010 SCT040 BECMG 1421/1423 13008KT TEMPO 1505/1509 4000 TSRA BR FEW010 BKN030 FEW030CB BECMG 1512/1515 26004KT BECMG 1521/1600 16008KT RJTT 141705Z 1418/1600 20014KT 9999 FEW015 TEMPO 1521/1600 20024G34KT RJTY 141300Z 1413/1519 VRB06KT 9999 FEW030 QNH2992INS BECMG 1502/1503 18012G20KT 9999 SCT040 QNH2984INS WND 18009KT AFT 1512 TX33/1503Z TN23/1419Z LAST NO AMDS AFT 1413 NEXT 1421 RKJK 141505Z 1415/1521 VRB06KT 9999 FEW030 QNH2962INS TEMPO 1507/1512 9000 -SHRA BKN035 BECMG 1501/1502 04009KT 9999 SCT030 QNH2964INS TX37/1504Z TN26/1421Z RKPC 141700Z 1418/1524 11008KT 9999 FEW030 SCT180 TN27/1420Z TX32/1505Z TN27/1520Z BECMG 1502/1503 10015G25KT BKN025 OVC100 BECMG 1507/1508 4200 -RA BECMG 1515/1516 16012KT BECMG 1523/1524 09012KT 7000 NSW RKPK 141700Z 1418/1524 03008KT 9999 SCT040 TN26/1420Z TX33/1505Z TEMPO 1421/1512 09008KT 8000 -SHRA SCT015 BKN030 RKSG 142000Z 1420/1602 12006KT 9000 HZ SCT200 QNH2973INS BECMG 1422/1423 09009KT 9999 NSW SCT040 QNH2970INS TEMPO 1509/1515 06010G15KT 9000 -SHRA BKN040 TX37/1505Z TN25/1518Z RKSI 141700Z 1418/1524 07007KT 7000 SCT030 TN27/1421Z TX34/1505Z TN26/1521Z BECMG 1503/1504 33008KT BECMG 1510/1511 08007KT RKSM 141700Z 1418/1524 33006KT 9999 FEW040 TN26/1421Z TX35/1506Z RKSO 141900Z 1419/1601 09006KT 9999 SCT200 QNH2970INS BECMG 1508/1509 03006KT 9999 SCT050 BKN200 QNH2965INS TX38/1505Z TN25/1518Z RKSS 141700Z 1418/1524 06005KT 7000 SCT030 BKN180 TN26/1420Z TX36/1505Z TN26/1520Z BECMG 1501/1502 29006KT TEMPO 1503/1507 BKN030 BECMG 1516/1517 07006KT BKN030 RKTN 141700Z 1418/1524 13006KT 9999 SCT040 TN24/1421Z TX35/1506Z BECMG 1505/1506 BKN040 RKTU 141700Z 1418/1524 12006KT 9999 SCT030 SCT200 TN25/1421Z TX36/1506Z BECMG 1503/1504 BKN030 ROAH 141708Z 1418/1600 10006KT 9999 -SHRA FEW010 BKN025 TEMPO 1418/1420 4000 SHRA FEW010 BKN015 FEW020CB BECMG 1419/1421 16016KT TEMPO 1420/1502 18022G34KT 2000 +TSRA FEW008 BKN010 SCT020CB TEMPO 1502/1512 18022G34KT 4000 SHRA FEW010 BKN015 FEW020CB RODN 142045Z 1420/1522 17020G30KT 4800 -SHRA BKN009 OVC020 510003 QNH2941INS TEMPO 1420/1424 15025G35KT BECMG 1508/1509 15012G18KT 9000 -SHRA BR BKN020 QNH2943INS TX31/1510Z TN25/1420Z ROIG 141712Z 1418/1600 26006KT 9999 FEW010 BKN020 TEMPO 1421/1500 4000 SHRA FEW008 BKN015 FEW020CB TEMPO 1500/1509 2000 +TSRA FEW006 BKN010 SCT020CB TEMPO 1518/1600 3000 SHRA FEW008 BKN015 FEW020CB ROTM 1421/1521 17016G27KT 3200 SHRA BR SCT008 OVC016 QNH2948INS TEMPO 1422/1423 18020G33KT 1600 +SHRA BR TEMPO 1502/1506 TSRA BR FM150800 18027G35KT 8000 -SHRA BR FEW008 BKN015 OVC030 QNH2946INS T30/1504Z T27/1520Z RPLB 141700Z 1418/1518 20010KT 9000 BKN018 OVC080 TX29/1506Z TN25/1420Z TEMPO 1418/1424 22012G23KT 6000 RA BKN016 OVC070 RPLI 141700Z 1418/1518 21008G20KT 8000 -SHRA SCT019 OVC100 TEMPO 1418/1424 21010G24KT 5000 -TSRA FEW018CB SCT019 OVC090 RPLL 141700Z 1418/1524 23010KT 9999 FEW023 BKN100 TX31/1506Z TN26/1422Z TEMPO 1418/1424 22006KT SCT023 BKN090 TEMPO 1503/1509 24016KT 8000 -TSRA FEW020CB SCT023 OVC090 RPMD 141700Z 1418/1518 17006KT 9999 FEW016 SCT290 TEMPO 1418/1424 VRB02KT FEW016 BKN290 RPMZ 141700Z 1418/1518 16006KT 9999 FEW017 SCT300 TEMPO 1418/1424 00000KT FEW017 BKN300 RPVM 141700Z 1418/1524 22010KT 9999 FEW020 BKN300 TEMPO 1418/1424 24008KT FEW020 BKN100 TEMPO 1500/1506 24014KT FEW018CB FEW020 BKN100 SAAR 141700Z 1418/1518 18015KT CAVOK TX14/1518Z TN04/1512Z BECMG 1420/1422 18005KT BECMG 1512/1514 07005KT SABE 141700Z 1418/1518 23015KT 9999 SCT025 TX18/1419Z TN09/1511Z BECMG 1420/1422 23010KT CAVOK BECMG 1502/1504 18005KT BECMG 1512/1515 12005KT SACO 141700Z 1418/1518 18010KT CAVOK TX19/1518Z TN05/1510Z BECMG 1503/1506 02005KT CAVOK TEMPO 1512/1516 36015KT CAVOK SADF 141700Z 1418/1518 21015KT 9999 FEW025 TX16/1418Z TN07/1511Z BECMG 1422/1500 18005KT CAVOK BECMG 1513/1515 14005KT SAEZ 141700Z 1418/1518 25010KT 9999 SCT020 TX16/1418Z TN06/1510Z BECMG 1422/1423 22005KT BECMG 1506/1508 5000 BR NSC TEMPO 1509/1511 2000 BR BECMG 1513/1515 14005KT CAVOK SAME 141700Z 1418/1518 05010KT 9999 FEW040 TX17/1420Z TN04/1510Z SANR 141700Z 1418/1518 09010KT CAVOK TX21/1518Z TN10/1510Z TEMPO 1421/1500 07005KT 9999 BKN030 SANT 141700Z 1418/1518 09005KT 5000 FU BKN080 TX20/1518Z TN10/1510Z TEMPO 1500/1503 14005KT 3000 FU SCT010 OVC020 SARE 141700Z 1418/1518 21010KT 8000 -RA FEW010 OVC050 TX20/1518Z TN08/1508Z BECMG 1421/1422 CAVOK SARF 141700Z 1418/1518 24010KT 5000 -RA BKN025 OVC040 TX22/1517Z TN08/1508Z BECMG 1423/1424 9999 BKN015 OVC030 BECMG 1515/1516 CAVOK SARI 141700Z 1418/1518 27005KT CAVOK TX25/1418Z TN12/1506Z BECMG 1506/1508 24010KT 5000 TSRA OVC020 FEW050CB BECMG 1512/1513 CAVOK SARP 141700Z 1418/1518 27005KT CAVOK TX23/1518Z TN10/1508Z BECMG 1422/1423 20015KT 8000 -RA BKN015 BKN040 BECMG 1507/1508 CAVOK SASA 141700Z 1418/1518 14010KT 8000 BKN030 TX16/1515Z TN09/1510Z BECMG 1421/1500 18005KT 9999 FEW020 SASJ 141700Z 1418/1518 14015KT 8000 BKN030 OVC100 TX16/1515Z TN09/1510Z BECMG 1421/1500 18005KT 9999 FEW020 SAVC 141700Z 1418/1518 30025G38KT CAVOK TX15/1418Z TN10/1511Z SAWE 141700Z 1418/1518 30025KT 9999 SCT020 BKN080 TX06/1418Z TN02/1509Z PROB30 TEMPO 1418/1420 34020G30KT BECMG 1500/1502 30010KT CAVOK BECMG 1507/1509 02010KT 9999 SCT020 PROB40 TEMPO 1511/1515 36020KT 5000 RA BKN015 OVC040 BECMG 1516/1518 32020KT BKN020 SAWG 141700Z 1418/1518 30020G30KT CAVOK TX12/1418Z TN04/1505Z BECMG 1420/1422 30015KT PROB40 TEMPO 1423/1504 VRB05KT BECMG 1505/1507 02012KT 9999 SCT030 BKN060 BECMG 1513/1515 32015KT FEW030 SCT090 SAWH 141700Z 1418/1518 36020G30KT 9999 SCT010 BKN020 OVC050 TX06/1418Z TN00/1510Z BECMG 1419/1421 30020G30KT SCT030 BKN090 BECMG 1423/1501 25020G30KT BECMG 1504/1506 VRB05KT BECMG 1513/1515 34020KT SAZM 141700Z 1418/1518 23020G30KT 9999 BKN020 TX14/1518Z TN01/1511Z BECMG 1422/1423 23010KT 9999 SCT015 BECMG 1512/1514 VRB03KT CAVOK SAZN 141700Z 1418/1518 30010KT CAVOK TX14/1518Z TN04/1512Z BECMG 1504/1506 09005KT SAZS 141700Z 1418/1518 30015KT 9999 SCT040 TX07/1519Z TN01/1509Z BECMG 1420/1422 VRB03KT CAVOK SBAF 141530Z 1418/1506 15007KT 9999 FEW020 SCT050 TX26/1418Z TN13/1505Z RMK PEB SBAN 141600Z 1418/1506 14008KT CAVOK TX29/1418Z TN17/1505Z FM142300 16007KT CAVOK RMK PCZ SBAR 141430Z 1418/1506 09010KT 9999 SCT017 TX28/1418Z TN25/1505Z RMK PEA SBAT 141600Z 1418/1506 36008KT 9999 SCT035 TX35/1418Z TN19/1506Z BECMG 1422/1424 03003KT CAVOK RMK PEH SBBE 141600Z 1418/1518 36008KT 9999 BKN035 FEW040TCU TN24/1506Z TX30/1516Z PROB30 TEMPO 1419/1421 3000 TSRA BKN020 FEW025CB BECMG 1422/1424 05008KT CAVOK BECMG 1506/1508 08005KT BECMG 1512/1514 05008KT SCT020 BECMG 1515/1517 36008KT SCT030 FEW035TCU RMK PEH SBBI 141530Z 1418/1506 31007KT CAVOK TX24/1418Z TN09/1505Z BECMG 1419/1421 12005KT RMK PEB SBBR 141600Z 1418/1518 10008KT CAVOK TX29/1419Z TN10/1508Z FM142300 00000KT CAVOK FM151400 09010KT CAVOK RMK PCZ SBBU 141530Z 1418/1506 05010KT CAVOK TX27/1418Z TN10/1505Z BECMG 1419/1421 08006KT RMK PEB SBBV 141600Z 1418/1518 12008KT 9999 SCT035 FEW040TCU TN24/1508Z TX33/1518Z BECMG 1422/1424 09003KT BECMG 1502/1504 27005KT FEW020 BECMG 1506/1508 30003KT BECMG 1511/1513 07005KT SCT020 FEW025TCU BECMG 1515/1517 12008KT BKN035 FEW040TCU RMK PEH SBBW 141600Z 1418/1506 14007KT CAVOK TX32/1418Z TN22/1505Z RMK PCZ SBCF 141600Z 1418/1518 14008KT CAVOK TX23/1418Z TN14/1508Z RMK PCZ SBCG 141530Z 1418/1518 12005KT CAVOK TX31/1418Z TN17/1508Z BECMG 1422/1424 15010KT RMK PEB SBCJ 141600Z 1418/1506 06005KT 9999 SCT027 TX29/1418Z TN20/1506Z BECMG 1422/1424 00000KT CAVOK RMK PEH SBCO 141530Z 1418/1506 29007KT CAVOK TX22/1418Z TN11/1505Z BECMG 1418/1420 24007KT 9999 FEW035 BECMG 1421/1423 17007KT BKN030 RMK PEB SBCP 141530Z 1418/1506 16018KT 9999 FEW020 TX25/1419Z TN17/1506Z BECMG 1500/1502 05010KT RMK PGY SBCR 141530Z 1418/1518 08006KT CAVOK TX31/1418Z TN18/1508Z BECMG 1420/1422 22010KT 9999 FEW020 PROB40 TEMPO 1506/1512 22010G20KT 8000 BKN012 RMK PEB SBCT 141530Z 1418/1518 30007KT CAVOK TX24/1418Z TN09/1508Z BECMG 1419/1421 12005KT BECMG 1502/1504 8000 BKN010 RMK PEB SBCY 141600Z 1418/1518 36005KT CAVOK TN20/1507Z TX36/1517Z BECMG 1422/1424 13003KT BECMG 1506/1508 18005KT BECMG 1509/1511 33005KT BECMG 1515/1517 36005KT RMK PEH SBDN 141530Z 1418/1506 13005KT CAVOK TX28/1418Z TN11/1505Z BECMG 1419/1421 22006KT RMK PEB SBEG 141600Z 1418/1518 08008KT 9999 SCT020 FEW025TCU TN23/1507Z TX33/1518Z PROB30 1420/1422 TS SCT020 FEW025CB BECMG 1422/1424 00000KT CAVOK BECMG 1511/1513 36003KT BECMG 1515/1517 07008KT SCT020 FEW025TCU RMK PEH SBFI 141530Z 1418/1518 23007KT CAVOK TX26/1418Z TN15/1508Z PROB40 TEMPO 1500/1508 8000 BKN010 PROB40 TEMPO 1508/1512 0800 FG BKN002 BECMG 1512/1513 22007KT 9999 SCT020 RMK PEB SBFL 141530Z 1418/1518 36012KT CAVOK TX23/1418Z TN14/1508Z BECMG 1419/1421 34007KT BECMG 1504/1506 20010KT 9999 SCT030 RMK PEB SBFN 141430Z 1418/1506 12010KT 8000 SCT017 TX29/1418Z TN25/1423Z RMK PEA SBFZ 141430Z 1418/1518 09012KT 9999 SCT020 TN24/1509Z TX30/1515Z BECMG 1423/1501 08007KT BECMG 1506/1507 12007KT BECMG 1512/1513 09014KT RMK PEA SBGL 141530Z 1418/1524 06005KT 9999 FEW020 TN18/1509Z TX26/1517Z BECMG 1421/1423 17005KT BECMG 1500/1502 31005KT SCT030 PROB30 1508/1511 4000 BR BKN010 BECMG 1512/1514 04005KT BECMG 1516/1518 21010KT BECMG 1521/1523 24015KT BKN025 RMK PGY SBGO 141600Z 1418/1518 16009KT CAVOK TX30/1418Z TN12/1508Z FM142300 00000KT CAVOK FM151100 14010KT CAVOK RMK PCZ SBGR 141600Z 1418/1524 00000KT CAVOK TX24/1418Z TN11/1507Z BECMG 1419/1421 15005KT BECMG 1500/1502 00000KT PROB30 1505/1507 4000 BR PROB30 1507/1510 0800 FG BKN002 BECMG 1510/1512 17005KT 9000 NSC BECMG 1513/1515 BKN030 BECMG 1515/1517 16010KT 9999 BKN017 BECMG 1520/1522 7000 BKN011 RMK PGE SBGW 141530Z 1418/1506 06005KT CAVOK TX25/1418Z TN13/1505Z RMK PEB SBIH 141600Z 1418/1506 09005KT 9999 SCT025 FEW027TCU TX35/1418Z TN23/1506Z BECMG 1422/1424 00000KT CAVOK RMK PEH SBIL 141430Z 1418/1506 14007KT 8000 SCT017 SCT030 TX27/1418Z TN22/1505Z BECMG 1501/1503 25004KT BKN017 RMK PEA SBIZ 141600Z 1418/1506 07005KT 9999 SCT025 TX34/1418Z TN23/1506Z BECMG 1422/1424 00000KT CAVOK RMK PEH SBJP 141430Z 1418/1518 09010KT 9000 SCT020 TN22/1509Z TX28/1515Z BECMG 1420/1422 11007KT BECMG 1510/1512 11012KT RMK PEA SBJV 141530Z 1418/1506 09007KT CAVOK TX23/1418Z TN13/1505Z BECMG 1419/1421 35004KT 9999 FEW020 RMK PEB SBKG 141430Z 1418/1506 10012KT 9999 SCT025 TX29/1418Z TN21/1505Z BECMG 1500/1502 5000 BR BKN008 RMK PEA SBKP 141600Z 1418/1518 27005KT CAVOK TX26/1418Z TN13/1509Z BECMG 1419/1421 VRB05KT BECMG 1422/1424 12008KT BECMG 1508/1510 7000 NSC BECMG 1511/1513 CAVOK BECMG 1515/1517 16012KT RMK PGE SBLO 141530Z 1418/1506 09005KT CAVOK TX26/1418Z TN10/1505Z BECMG 1420/1422 00000KT RMK PEB SBLP 141430Z 1418/1506 06005KT 9999 FEW030 TX35/1418Z TN24/1505Z RMK PEA SBME 141530Z 1418/1506 17010KT CAVOK TX26/1419Z TN18/1506Z BECMG 1421/1423 21005KT BECMG 1500/1502 03005KT RMK PGY SBMN 141600Z 1418/1518 09008KT 9999 SCT020 FEW025TCU TN26/1507Z TX32/1517Z PROB30 1420/1422 TS SCT020 FEW025CB BECMG 1422/1424 06003KT CAVOK BECMG 1505/1507 36005KT BECMG 1511/1513 06005KT BECMG 1515/1517 12005KT SCT020 FEW025TCU RMK PEH SBMO 141430Z 1418/1518 09011KT 9000 SCT025 TN21/1506Z TX29/1515Z BECMG 1422/1424 02005KT BECMG 1510/1512 08013KT RMK PEA SBMQ 141600Z 1418/1518 07010KT 9999 SCT025 FEW030TCU TN25/1507Z TX33/1517Z BECMG 1422/1424 03008KT FEW015 BECMG 1506/1508 34003KT BECMG 1511/1513 04008KT BECMG 1515/1517 07008KT SCT025 RMK PEH SBNF 141530Z 1418/1518 04010KT CAVOK TX22/1418Z TN13/1508Z BECMG 1420/1422 01005KT 9999 FEW015 BECMG 1504/1506 24006KT 3000 BR BKN004 BECMG 1510/1512 8000 FEW007 BKN020 RMK PEB SBNT 141430Z 1418/1518 12013KT 9000 SCT017 TN24/1508Z TX29/1515Z BECMG 1423/1501 15008KT BECMG 1510/1512 12013KT RMK PEA SBPJ 141600Z 1418/1506 35008KT 9999 SCT045 FEW050TCU TX37/1418Z TN25/1505Z TEMPO 1421/1424 27015KT 8000 VCTS SCT045 FEW050CB RMK PCZ SBPL 141430Z 1418/1518 14007KT 9999 SCT035 TX34/1418Z TN22/1507Z BECMG 1421/1423 CAVOK BECMG 1509/1511 SCT025 RMK PEA SBPS 141430Z 1418/1518 14009KT 7000 SCT020 SCT030 TX26/1418Z TN21/1508Z BECMG 1502/1504 22005KT BKN020 BECMG 1513/1515 15007KT RMK PEA SBRB 141600Z 1418/1518 33005KT 9999 SCT035 FEW040TCU TN22/1509Z TX30/1518Z BECMG 1422/1424 36003KT CAVOK BECMG 1504/1506 00000KT BECMG 1510/1512 36005KT SCT015 BECMG 1515/1517 33005KT SCT030 FEW035TCU RMK PEH SBRF 141430Z 1418/1518 12008KT 9999 SCT022 TX28/1418Z TN24/1508Z RMK PEA SBRJ 141530Z 1418/1506 17005KT 9999 FEW020 TX25/1419Z TN19/1506Z BECMG 1420/1422 09007KT BECMG 1500/1502 03005KT RMK PGY SBRP 141600Z 1418/1518 25005KT CAVOK TX31/1419Z TN15/1509Z BECMG 1419/1421 16007KT BECMG 1422/1424 12004KT BECMG 1503/1505 11006KT BECMG 1515/1517 25006KT RMK PGE SBSC 141530Z 1418/1506 16007KT 9999 FEW025 TX28/1418Z TN19/1505Z RMK PEB SBSJ 141530Z 1418/1518 16005KT 9999 FEW020 TN15/1509Z TX24/1518Z BECMG 1500/1502 03005KT BECMG 1506/1508 06005KT 6000 BKN015 BECMG 1511/1513 03005KT BECMG 1515/1517 14005KT RMK PGY SBSL 141600Z 1418/1518 02015KT 9999 SCT020 TN25/1503Z TX30/1516Z BECMG 1422/1424 05005KT CAVOK BECMG 1504/1506 08008KT BECMG 1511/1513 05010KT SCT017 BECMG 1515/1517 03010KT SCT020 FEW025TCU RMK PEH SBSM 141530Z 1418/1506 25007KT CAVOK TX25/1418Z TN10/1505Z BECMG 1418/1419 21006KT 9999 BKN030 RMK PEB SBSN 141600Z 1418/1518 07008KT 9999 SCT023 TN24/1505Z TX31/1517Z BECMG 1422/1424 12003KT CAVOK BECMG 1502/1504 00000KT BECMG 1509/1511 09008KT BECMG 1515/1517 06008KT SCT020 RMK PEH SBSP 141600Z 1418/1518 25004KT CAVOK TX25/1418Z TN12/1509Z BECMG 1418/1420 00000KT BECMG 1508/1510 17005KT 9000 NSC BECMG 1510/1512 BKN026 BECMG 1515/1517 16010KT 9999 BKN016 RMK PGE SBSV 141430Z 1418/1518 09009KT 8000 SCT017 TN25/1508Z TX28/1515Z TEMPO 1509/1511 6000 RA BKN015 FEW022TCU RMK PEA SBTE 141430Z 1418/1506 34005KT 9999 SCT040 TX35/1418Z TN25/1505Z BECMG 1421/1422 CAVOK RMK PEA SBTT 141600Z 1418/1518 27005KT 9999 SCT020 FEW025TCU TN23/1511Z TX30/1517Z PROB30 1419/1421 TS SCT020 FEW025CB BECMG 1422/1424 00000KT CAVOK BECMG 1510/1512 09003KT SCT005 BECMG 1515/1517 27005KT SCT020 FEW025TCU RMK PEH SBUG 141530Z 1418/1506 20008KT CAVOK TX21/1418Z TN13/1505Z RMK PEB SBUL 141600Z 1418/1506 33008KT CAVOK TX30/1418Z TN19/1505Z BECMG 1419/1421 13005KT RMK PGE SBUR 141600Z 1418/1506 29006KT CAVOK TX31/1419Z TN20/1505Z BECMG 1420/1422 21004KT BECMG 1500/1502 05008KT RMK PGE SBVH 141600Z 1418/1506 36005KT 9999 BKN035 FEW040TCU TX29/1418Z TN22/1506Z PROB30 TEMPO 1418/1421 5000 TSRA BKN030 FEW035CB BECMG 1422/1424 03003KT CAVOK RMK PEH SBVT 141430Z 1418/1518 20009KT 8000 SCT030 TN19/1507Z TX24/1515Z RMK PEA SBYS 141600Z 1418/1506 16007KT CAVOK TX22/1418Z TN12/1505Z RMK PCZ SCAR 141615Z 1418/1518 22012KT 9999 SCT030 TX17/1418Z TN15/1506Z BECMG 1419/1420 CAVOK BECMG 1N02/1508Z BECMG 1423/1501 23007KT BECMG 1503/1505 11022KT BECMG 1514/1515 07010KT BECMG 1516/1518 27018KT SCAT 141800Z 1418/1518 35008KT 9999 SCT015 TX15/14 18Z TN10/1506Z BECMG 1500/1502 34004KT 8000 OVC008 BECMG 1506/1508 03004KT 4000 BR OVC005 BECMG 1513/1514 9999 OVC013 BECMG 1516/1518 28008KT SCT020 SCBA 141617Z 1418/1518 32025KT 9999 SCT030 TX09/1418Z TN03/1510Z TEMPO 1419/1422 31032KT CAVOK BECMG 1500/1502 31017KT BKN030 BECMG 1507/1509 30012KT BECMG 1514/1516 30022KT SCT030 SCCF 141615Z 1418/1518 27017KT CAVOK TX22/1418Z TN02/1508Z BECMG 1423/1501 23007KT BECMG 1503/1505 11022KT BECMG 1514/1515 07010KT BECMG 1516/1518 27018KT SCCI 141754Z 1418/1518 29025G35KT 9999 FEW040 TN02/1506Z TX11/1518Z TEMPO 1418/1420 27035G50KT BECMG 1421/1423 27010KT BECMG 1423/1501 31012KT BECMG 1503/1505 03011KT BECMG 1506/1508 9000 FEW015 BKN030 TEMPO 1507/1512 5000 -RA SCT010 BKN020 SCCY 141014Z 1412/1424 04010KT 9999 SCT020 BKN040 TN05/1412Z TX10/1418Z BECMG 1414/1416 36015G25KT 9999 -SHRA BKN016 OVC030 SCDA 141615Z 1418/1518 29008KT 9999 SCT025 TX17/1418Z TN15/1506Z BECMG 1421/1423 OVC020 BECMG 1502/1504 02004KT BECMG 1508/1510 11004KT BECMG 1514/1516 24009KT SCT020 SCEL 141600Z 1418/1518 19008KT CAVOK TX20/1419Z TN04/1511Z BECMG 1500/1502 16005KT BECMG 1504/1506 8000 NSC TEMPO 1508/1512 VRB02KT 5000 BR BECMG 1516/1518 19012KT SCFA 141615Z 1418/1518 20013KT 9999 FEW020 TX15/1418Z TN13/1506Z BECMG 1421/1422 BKN013 BECMG 1423/1501 17005KT BECMG 1504/1506 34004KT BECMG 1511/1513 03007KT SCT016 BECMG 1516/1518 21012KT FEW020 SCIE 141600Z 1418/1518 21012KT CAVOK TX15/1418Z TN04/1511Z BECMG 1500/1502 17005KT TEMPO 1506/1512 13005KT 4000 BR NSC BECMG 1516/1518 23012KT SCIP 141746Z 1418/1518 27008KT 9999 SCT016 BKN050 TX20/1420Z TN15/1506Z TEMPO 1418/1420 21008KT 7000 -SHRA SCT012 BKN030 BECMG 1421/1423 16008KT FEW020 SCT040 BECMG 1506/1508 10008KT FEW020 SCT080 TEMPO 1512/1518 10013KT 7000 -SHRA SCT015 BKN030 SCJO 141013Z 1412/1424 VRB02KT 9999 SCT020 SCT100 BKN200 TN01/1412Z TX10/1418Z TEMPO 1412/1413 3000 BR BECMG 1413/1415 CAVOK BECMG 1419/1421 13005KT SCNT 141106Z 1412/1500 35010KT 9000 SCT038 TN05/1412Z TX09/1420Z BECMG 1414/1416 30018G32KT 9999 NSW SCT035 TEMPO 1414/1418 32025G40KT BECMG 1418/1420 29018KT BECMG 1421/1423 28012KT SCPQ 141019Z 1412/1424 36010KT 9999 SCT020 BKN030 TN05/1412Z TX12/1418Z TEMPO 1412/1413 01005KT 3000 -DZ BKN016 OVC030 TEMPO 1415/1418 33015KT 8000 -SHRA BKN020 SCT030 BECMG 1419/1421 CAVOK SCQP 141615Z 1418/1518 17007KT CAVOK TX13/1418Z TNM01/1510Z BECMG 1500/1502 VRB03KT BECMG 1505/1507 3000 BR SCT005 BECMG 1508/1510 0500 OVC002 BECMG 1513/1515 5000 HZ SCT015 BECMG 1516/1518 22007KT CAVOK SCSE 141600Z 1418/1518 29010KT CAVOK TX18/1418Z TN09/1511Z BECMG 05KT TEMPO 1506/1512 13005KT 4000 BR NSC BECMG 1516/1518 23012KT SCTE 141616Z 1418/1518 01007KT 9999 SCT050 SCT200 TX11/1418Z TNM01/1512Z BECMG 1422/1500 VRB03KT SCT030 BKN200 BECMG 1507/1509 BKN025 TEMPO 1510/1512 2000 BR BKN005 BECMG 1515/1517 01007KT BKN040 SCVD 141008Z 1412/1424 VRB02KT 0700 FG BKN00 TN03/1412Z TX11/1418Z BECMG 1413/1415 5000 BR SCT005 BKN250 BECMG 1414/1416 CAVOK SLCB 141000Z 1412/1512 00000KT 5000 FU NSC TX25/1419Z TN05/1511Z BECMG 1415/1417 14010KT 9999 NSW FEW033 SCT070 BECMG 1502/1504 00000KT SCT027 BKN070 SLLP 141000Z 1412/1512 33006KT 9999 FEW015 SCT070 TX15/1420Z TNM03/1510Z BECMG 1415/1417 26012KT TEMPO 1419/1421 33013G23KT SCT017 FEW020CB BKN070 TEMPO 1421/1423 5000 TSRA PROB40 TEMPO 1500/1503 5000 RA SCT010 BKN070 SLTJ 141000Z 1412/1512 00000KT 9999 FEW027 SCT070 TX22/1419Z TN08 /1511Z BECMG 1414/1416 13010KT SCT030 BKN070 BECMG 1502/1504 00000KT 8000 SHRA BKN027 FEW030CB OVC070 SLTR 141000Z 1412/1512 34009KT 9999 SCT020 TX34/1420Z TN20/1510Z BECMG 1423/1502 00000KT SCT013 SCT070 SLVR 140955Z 1412/1512 VRB02KT 9999 SCT017 SCT080 TX26/1420Z TN15 /1511Z FM141400Z 17013G25KT SCT020 BKN070 PROB TEMPO 1417/1419 8000 RADZ BECMG 1422/1501 18017G30KT BKN020 OVC080 SOCA 141600Z 1418/1518 07008KT 9999 FEW026 FM142300 VRB02KT 9999 FEW020 FM151100 08008KT 9999 FEW020 PROB30 TEMPO 1515/1518 4000 SHRA SCT015TCU SPCL 141700Z 1418/1518 36008KT 9999 SCT020 TX33/1420Z TN23/1511Z PROB40 1419/1423 FEW020TCU SCT080 BECMG 1503/1506 33008KT 5000 -RA BKN020 BKN080 TEMPO 1508/1512 32012KT 1200 RABR BKN010 OVC060 BECMG 1512/1515 23004KT 9999 FEW030 SCT100 SPGM 141710Z 1418/1518 35007KT 9999 SCT040 TX32/1420Z TN20/1510Z BECMG 1418/1422 06005KT FEW040 SCT120 TEMPO 1511/1514 00000KT SCT030 BKN080 SPHI 141700Z 1418/1518 21005KT 9999 BKN020 TX23/1419Z TN16/1511Z FM142000 19015KT CAVOK FM150300 17010KT 9999 SCT020 BECMG 1706/1708 OVC014 SPHO 141700Z 1418/1518 VRB02KT 9999 FEW040 FEW050TCU SCT210 TX23/1420Z TN09/1511Z TEMPO 1421/1422 05012KT BECMG 1423/1501 VRB02KT CAVOK SPHY 141700Z 1418/1518 VRB02KT CAVOK TX15/1419Z TN01/1511Z TEMPO 1422/1500 33012KT BECMG 1501/1502 00000KT SPJC 141700Z 1418/1518 29006KT 9999 BKN025 8/1518 VRB02KT 9999 FEW040 FEW050TCU SCT210 TX23/1420Z TN09/1511Z TEMPO 1421/1422 05012KT MPO 1418/1420 3000 DZ BR OVC008 BECMG 1423/1501 22010KT 7000 NSW FM150500 VRB02KT 6000 FE CHECK TEXT NEW ENDING ADDED KATLYTAA SPJI 141700Z 1418/1518 00000KT CAVOK TX33/1420Z TN17/1511Z PROB40 1518/1522 03006KT SCT030 TEMPO 1503/1507 5000 SHRA SCT020TCU BKN100 BECMG 1512/1515 19006KT 9999 FEW020 SPJL 141700Z 1418/1518 VRB05KT 9999 SCT010 SCT080 TX18/1419Z TNM03/1510Z FM142100 27008KT 9999 SCT010 BKN080 FM150900 VRB05KT 9999 SCT020 SCT090 SPJR 141710Z 1418/1518 15005KT 9999 SCT030 SCT050 TX24/1420Z TN10/1510Z BECMG 1420/1423 SCT027 BKN045 BECMG 1510/1513 VRB03KT SCT023 BKN043 SPLO 141700Z 1418/1518 17010KT 9999 SCT025 TX18/1419Z TN14/1510Z SPME 141710Z 1418/1518 33006KT 9999 BKN012 TX27/1419Z TN19/1511Z BECMG 1423/1503 27006KT SCT013 SCT020 TEMPO 1511/1513 31005KT 8000 OVC010 SPMS 141700Z 1418/1518 02008KT 9999 FEW020 TX34/1420Z TN23/1511Z PROB40 TEMPO 1418/1422 FEW030TCU SCT080 BECMG 1422/1501 00000KT CAVOK PROB40 1512/1515 24008KT 8000 -RA BKN020 SCT100 TEMPO 1515/1518 29010KT 3000 SHRA SCT030TCU BKN080 SPQT 141700Z 1418/1518 02008KT 9999 BKN020 SCT100 TX33/1420Z TN22/1511Z PROB40 1418/1422 36010KT FEW020TCU BKN100 BECMG 1422/1501 29004KT CAVOK TEMPO 1503/1506 06012KT 7000 -RA BKN020 BKN080 TEMPO 1509/1512 25006KT 5000 -DZBR SCT005 BECMG 1512/1515 32004KT 9999 SCT020 SPQU 141700Z 1418/1518 26010KT CAVOK TX22/1419Z TN09/1511Z BECMG 1500/1502 04005KT BECMG 1507/1509 05012KT BECMG 1514/1516 25010KT SPRU 141700Z 1418/1518 17010KT 9999 OVC020 TX19/1418Z TN15/1511Z FM150100 14006KT 7000 OVC015 TEMPO 1508/1511 4000 BR FM151600 16010KT 9999 SCT020 SPSO 141700Z 1418/1518 33005KT 5000 BR SCT008 OVC015 TX19/1419Z TN14/1511Z TEMPO 1418/1420 3000 DZ BR OVC008 BECMG 1423/1501 22010KT 7000 NSW FM150500 VRB02KT 6000 FEW010 OVC013 BECMG 1508/1510 4000 BR SPST 141710Z 1418/1518 05004KT 9999 SCT020 SCT100 TX35/1419Z TN22/1511Z TEMPO 1418/1420 35008KT TEMPO 1511/1513 00000KT 5000 BR SCT008 BKN012 SPTN 141700Z 1418/1518 24007KT 9999 SCT040 TX20/1419Z TN11/1511Z FM150000 22005KT 8000 SCT010 BKN020 FM150500 VRB05KT 7000 SCT010 BKN015 FM151400 20005KT 9999 BKN020 SPTU 141700Z 1418/1518 26002KT CAVOK TX32/1419Z TN20/1511Z BECMG 1418/1420 32012KT BECMG 1423/1501 00000KT SPYL 141710Z 1418/1518 17018KT CAVOK TX25/1419Z TN20/1511Z TEMPO 1511/1513 16008KT 9999 BKN020 SPZO 141710Z 1418/1518 VRB02KT 9999 NSC TX20/1419Z TN01/1511Z TEMPO 1418/1422 28012KT BECMG 1509/1511 VRB02KT TEMPO 1517/1521 27012KT SUAA 141730Z 1418/1518 23015KT CAVOK TX14/1518Z TN09/1510Z TEMPO 1507/1511 18005KT 3000 BR NSC BECMG 1513/1515 16008KT 9999 FEW015 SUCA 141730Z 1418/1518 25012KT CAVOK TX13/1518Z TN08/1510Z TEMP BECMG 1507/1511 18008KT SUDU 141730Z 1418/1518 23012KT CAVOK TX14/1518Z TN05/1510Z TEMPO 1502/1511 18005KT 3000 BR NSC BECMG 1513/1515 16008KT 9999 FEW015 SULS 141730Z 1418/1518 25015KT CAVOK TX14/1510Z TN08/1510Z TEMPO 1508/1511 20005KT 3000 BR BECMG 1513/1515 18008KT 9999 FEW015 SUMU 141730Z 1418/1518 23015KT CAVOK TX14/1518Z TN09/1510Z TEMPO 1507/1511 18005KT 3000 BR NSC BECMG 1513/1515 16008KT 9999 FEW015 SURV 141730Z 1418/1518 18015KT 9999 SCT020 TX16/1518Z TN06/1510Z TEMPO 1502/1511 16005KT 3000 BR NSC BECMG 1512/1514 14008KT 9999 SCT015 SUSO 141730Z 1418/1518 23016KT CAVOK TX17/1518Z TN06/1510Z TEMPO 1502/1511 18005KT 3000 BR NSC BECMG 1512/1514 16008KT 9999 FEW015 SYCJ 141116Z 1412/1512 09012KT 9999 BKN018 BECMG 1421/1423 06004KT CAVOK SYEB 141118Z 1412/1423 06012KT 9999 BKN018 SCT040 TEMPO 1416/1420 5000 SHRA FEW012CB BKN016 BKN036 SYEC 141700Z 1418/1518 08012KT 9999 FEW016CB BKN018 BECMG 1422/1500 04008KT 9999 SCT015 TEMPO 1505/1510 5000 SHRA BKN012 BKN038 BECMG 1510/1512 06012KT 9999 BKN018 BKN040 SYKA 141117Z 1412/1423 06006KT 9999 BKN018 SCT040 PROB40 TEMPO 1418/1422 5000 SHRA FEW014CB BKN016 BKN036 SYKM 141117Z 1412/1423 06006KT 9999 BKN018 SCT040 PROB40 TEMPO 1418/1422 5000 SHRA FEW014CB BKN016 BKN036 SYLT 141122Z 1412/1423 07012KT 9999 BKN022 SCT040 SYMB 141121Z 1412/1423 09012KT 9999 BKN018 SCT040 TAPA 141100Z 1412/1512 09010KT 9999 SCT020 TFFF 141700Z 1418/1518 10014KT 9999 SCT025 TEMPO 1423/1518 4000 SHRA BKN018TCU PROB30 1512/1518 2500 SHRA FEW010CB BKN018TCU TFFR 141700Z 1418/1518 11010KT 9999 SCT025 TEMPO 1423/1518 4000 SHRA SCT018TCU PROB30 TEMPO 1512/1518 VRB15G25KT 2000 TSRA FEW010CB BKN018TCU TIST 141731Z 1418/1518 13014G20KT P6SM VCSH SCT025 SCT040 FM142230 09010KT P6SM FEW030 FM150800 08005KT P6SM VCSH SCT025 SCT040 FM151400 12014KT P6SM SCT030 TISX 141731Z 1418/1518 10015G20KT P6SM VCSH SCT025 SCT040 FM142230 08010KT P6SM FEW030 FM150800 06007KT P6SM VCSH SCT025 SCT040 FM151400 10014KT P6SM SCT030 TJBQ 141731Z 1418/1518 08016G24KT P6SM VCSH SCT025 SCT040 TEMPO 1418/1422 VRB18G26KT 4SM TSRA BKN022CB BKN040 FM142300 10006KT P6SM FEW030 SCT060 SCT100 FM151450 07014KT P6SM SCT030 TJMZ 141731Z 1418/1518 27009KT P6SM VCSH SCT025 SCT040 TEMPO 1418/1422 VRB16G24KT 4SM TSRA BKN025CB BKN040 FM142300 08006KT P6SM FEW030 SCT060 SCT100 FM151450 29008KT P6SM VCSH SCT025 SCT040 NOT SKED TJPS 141731Z 1418/1518 14015G22KT P6SM VCSH SCT030 SCT060 FM150000 08006KT P6SM FEW030 FM151400 13012KT P6SM SCT030 TJSJ 141731Z 1418/1518 06016G22KT P6SM VCSH SCT025 SCT040 FM142300 10009KT P6SM FEW030 SCT060 FM150800 11005KT P6SM VCSH SCT025 SCT040 FM151400 06015KT P6SM SCT030 SCT070 TKPK 141731Z 1418/1518 08012G18KT P6SM VCSH FEW018 SCT035 FM150000 07010KT P6SM FEW018 FM150800 05006KT P6SM VCSH SCT018 SCT035 FM151430 07012KT P6SM FEW022 TKPN 141100Z 1412/1512 09010KT 9999 SCT020 TLPC 141700Z 1418/1518 10006KT 9999 SCT025 TEMPO 1500/1518 SHRA BKN018TCU PROB30 TSRA FEW016CB TLPL 141700Z 1418/1518 09014KT 9999 SCT025 TEMPO 1500/1518 SHRA BKN018TCU PROB30 TSRA FEW016CB TNCB 141655Z 1418/1524 09015KT 9999 SCT020 PROB40 TEMPO 1508/1515 10016G26KT 4500 SHRA TSRA SCT012 SCT018CB TNCM 141731Z 1418/1518 10012G19KT P6SM VCSH SCT018 SCT035 FM150000 09010KT P6SM FEW018 FEW040 FM150800 08006KT P6SM VCSH SCT018 SCT035 FM151430 10012KT P6SM FEW022 TQPF 141100Z 1412/1512 10010KT 9999 SCT020 TRPG 141100Z 1412/1512 10012KT 9999 SCT020 TUPJ 141100Z 1412/1512 10010KT 9999 SCT020 TXKF 141731Z 1418/1518 30008KT 9999 FEW020 SCT080 UAAA 141700Z 1418/1518 16005MPS 9999 SCT050CB BKN100 TX31/1509Z TN14/1501Z TEMPO 1418/1424 32005MPS 3000 BR FU BECMG 1502/1503 02005MPS PROB40 TEMPO 1506/1514 TS UACC 141700Z 1418/1518 14006MPS CAVOK TX29/1510Z TN13/1423Z FM150700 23006MPS 9999 SCT030CB BKN100 UAII 141700Z 1418/1518 06005MPS CAVOK TX37/1510Z TN20/1501Z TEMPO 1418/1503 12006MPS TEMPO 1503/1512 26003G08MPS UAKK 141700Z 1418/1518 14005MPS 9999 SCT040 SCT100 TX26/1510Z TN03/1423Z TEMPO 1418/1504 VRB02MPS TEMPO 1504/1506 18006MPS SCT030CB UATE 141707Z 1418/1518 01006MPS 6000 SCT010 TX30/1510Z TN20/1502Z TEMPO 1418/1502 2000 BR SCT003 UATG 141701Z 1418/1518 28005MPS 9999 SCT033CB TX32/1512Z TN18/1501Z BECMG 1504/1506 01008MPS UATT 141800Z 1418/1518 33005MPS 5000 BR NSC TX26/1511Z TN13/1501Z TEMPO 1503/1515 33013MPS BKN015 UBBB 141706Z 1418/1518 34016KT 9999 FEW050CB BKN100 TX29/1510Z TN22/1502Z TEMPO 1418/1424 -TSRA SCT015 SCT040CB PROB40 TEMPO 1500/1508 -TSRA SCT012 SCT040CB BKN100 TEMPO 1508/1518 36016KT UBBG 141101Z 1412/1512 08016KT 9999 SCT040 BKN080 TX28/1412Z TN20/1502Z PROB40 TEMPO 1412/1417 VRB16KT -TSRA SCT030CB BKN060 BECMG 1419/1421 VRB02KT BECMG 1507/1509 10010KT UBBL 141108Z 1412/1512 VRB04KT 9999 FEW020 BKN070 TX29/1412Z TN22/1502Z PROB40 TEMPO 1414/1424 VRB06KT -TSRA SCT012 BKN040CB OVC080 TEMPO 1500/1507 06006KT UBBN 141101Z 1412/1512 13018KT 9999 FEW050 SCT100 TX30/1412Z TN20/1502Z TEMPO 1414/1424 -SHRA SCT040CB BKN090 UBBQ 141106Z 1412/1512 35006KT 9999 FEW040CB BKN070 TX26/1412Z TN18/1502Z TEMPO 1413/1424 -TSRA SCT015 BKN030CB OVC080 TEMPO 1500/1506 -SHRA SCT010 BKN030CB UCFM 141636Z 1418/1518 05003G08MPS 6000 NSC TEMPO 1418/1424 05007G12MPS 2000 BR FU TEMPO 1500/1503 2000 BR FU FEW007 UCFO 141645Z 1418/1518 17005MPS 9999 SCT050CB TEMPO 1418/1424 25003G08MPS 3000 BR FU PROB40 TEMPO 1418/1424 VRB12MPS TS BECMG 1502/1504 27005MPS UDSG 141701Z 1418/1518 06008KT 9999 SCT050 TEMPO 1418/1424 VRB20KT SCT040CB UDYZ 141708Z 1418/1518 04006KT 9999 FEW040 TEMPO 1418/1502 VRB26G36KT -TSRA BKN030CB UEEE 142000Z 1421/1603 16003MPS CAVOK TEMPO 1421/1424 0300 FG VV003 UGKO 141100Z 1412/1512 26012KT 9999 SCT030 BKN045 TX32/1511Z TN18/1502Z TEMPO 1412/1418 26012KT SCT020CB BKN045 BECMG 1417/1419 VRB02KT UGSB 141100Z 1412/1512 29006KT CAVOK TX27/1511Z TN20/1502Z TEMPO 1415/1422 FEW025 BECMG 1417/1419 13011KT BECMG 1506/1508 30006KT UGTB 141100Z 1412/1512 13009KT 9999 BKN040CB TX24/1512Z TN18/1502Z TEMPO 1414/1424 VRB14KT 5000 TSRA BKN017CB TEMPO 1500/1507 SHRA BKN025CB UHBB 142000Z 1421/1521 03003MPS 0400 FG VV002 BECMG 1423/1424 2100 BR BKN005 FM150100 01003MPS 9999 SCT030CB UHHH 141952Z 1421/1603 04006MPS CAVOK TEMPO 1423/1509 03008G13MPS UHMA 142000Z 1421/1521 21003MPS 9999 SCT035 TEMPO 1421/1521 28006MPS UHMM 141950Z 1421/1603 10003MPS 9999 SCT040 FM150000 11005G10MPS 9999 SCT035CB FM150900 03003MPS 9999 NSC FM152100 21003G08MPS 9999 FEW040 UHPP 141939Z 1421/1603 21003G12MPS 9999 SCT011 BKN020CB OVC060 TEMPO 1421/1522 1000 SHRA BR VV003 FM152200 18003G12MPS 9999 BKN030CB OVC060 UHSS 142000Z 1421/1603 01003MPS 9999 BKN004 BKN015CB TEMPO 1421/1423 BKN002 BKN010CB BECMG 1423/1501 SCT030CB UHWW 142000Z 1421/1521 03003MPS 3500 -SHRA BR BKN011 BKN017CB TEMPO 1421/1518 0500 +SHRA BR BKN002 BKN013CB UIAA 142000Z 1421/1521 02003MPS 9999 BKN030CB TEMPO 1504/1514 VRB06MPS -TSRA BECMG 1514/1516 28006G12MPS UIBB 142048Z 1420/1521 30006MPS 4000 -SHRA BKN002 BKN010CB TEMPO 1420/1506 0400 +TSRA FG BKN001 BKN010CB BECMG 1506/1508 BKN012CB UIII 142000Z 1421/1521 30005MPS 9999 -SHRA OVC004CB TEMPO 1421/1504 32010MPS 2500 -SHRA OVC007CB BECMG 1504/1505 BKN008CB UIUU 142000Z 1421/1521 29006G12MPS 9999 BKN030CB TEMPO 1421/1512 31010G16MPS 4000 -TSRA OVC015CB UKBB 141700Z 1418/1518 20004MPS CAVOK TX33/1511Z TN17/1502Z UKDR 141701Z 1418/1518 VRB01MPS CAVOK TX35/1512Z TN20/1503Z UKKK 141702Z 1418/1518 19003MPS 9999 SCT040 TX33/1512Z TN19/1503Z TEMPO 1506/1514 21006G12MPS TEMPO 1514/1518 VRB09G14MPS 2100 -TSRA SCT030CB UKLL 141701Z 1418/1518 30004G09MPS 9999 BKN025 TEMPO 1418/1424 VRB06G13MPS 2100 -TSRAGR BKN007 BKN020CB TEMPO 1500/1509 VRB01MPS 3000 -SHRA BKN007 BKN015CB TEMPO 1509/1518 32007G13MPS 2100 -TSRAGR BKN007 BKN020CB UKOO 141707Z 1418/1518 24003MPS 6000 NSC TX31/1512Z TN17/1502Z TEMPO 1418/1424 2100 DU BECMG 1500/1501 05003MPS BECMG 1508/1509 17003MPS ULAA 142002Z 1421/1521 04003MPS 6000 BKN012 TEMPO 1421/1503 VRB01MPS 0500 -SHRA FG BKN002 BKN011CB FM150300 06003MPS 9999 BKN020 TEMPO 1503/1521 02005MPS 3100 -SHRA BR BKN011CB ULLI 142000Z 1421/1521 16003MPS 6000 BKN020 BECMG 1500/1502 5000 -RA BR BKN012 BKN020 TEMPO 1500/1505 3100 -SHRA BR BKN011 BKN020CB BECMG 1503/1505 09003MPS TEMPO 1505/1515 05003MPS 3100 -SHRA BR BKN007 BKN017CB TEMPO 1518/1521 3100 MIFG BR BKN006 ULMM 141953Z 1421/1521 30003G08MPS 9999 BKN012 TEMPO 1421/1506 27003MPS 3100 -SHRA BR BKN003 BKN011CB TEMPO 1506/1515 33003G08MPS 3100 -SHRA BKN012CB TEMPO 1515/1521 03003MPS -SHRA BKN011CB UMGG 141700Z 1418/1518 22005MPS 9999 SCT030 TX30/1512Z TN20/1502Z TEMPO 1421/1506 17005MPS 2000 BR SCT005 TEMPO 1509/1518 VRB14MPS 2000 TSRA SQ BKN025CB UMKK 142000Z 1421/1521 24005G10MPS 5000 BR SCT011 BKN020 TEMPO 1421/1504 3100 -SHRA BR SCT005 SCT015CB BECMG 1504/1506 27007G12MPS 9999 NSW TEMPO 1506/1510 30007G14MPS 3100 -SHRA BKN008 BKN015CB PROB40 TEMPO 1506/1510 TS BKN010CB BECMG 1510/1512 30006G12MPS UMMS 141957Z 1420/1518 16006MPS 9999 BKN030 TEMPO 1420/1423 VRB20MPS 0300 +TSRAGR SQ BKN004 BKN015CB TEMPO 1423/1503 VRB18MPS 0800 +TSRA SQ BKN004 BKN020CB FM150300 27006MPS 9999 BKN020 TEMPO 1503/1506 1200 BCFG BR SCT004 TEMPO 1506/1518 28006G11MPS 2100 -SHRA SCT020CB UNAA 141944Z 1421/1521 24003MPS 3100 -SHRA BR FEW005 BKN013CB TEMPO 1423/1502 0300 FG FEW003 BKN011CB FM150400 15003G08MPS 9999 SCT017CB TEMPO 1504/1507 5000 -SHRA BECMG 1517/1518 3100 BR FU FEW003 SCT017CB UNBB 142000Z 1421/1521 08003G08MPS 9999 SCT020 TEMPO 1421/1503 14003MPS 0500 FG FU SCT002 SCT011 UNEE 142000Z 1421/1521 10003MPS 3100 BR SCT011 TEMPO 1421/1502 0300 FG VV002 BECMG 1503/1504 9999 NSW BECMG 1504/1506 16005MPS UNKL 141958Z 1421/1521 28005G12MPS 9999 SCT030 BECMG 1503/1505 SCT020CB FM151800 24003MPS 3500 BR SCT030 UNNT 142000Z 1421/1521 14003G08MPS CAVOK TEMPO 1421/1502 0150 FG BKN002 TEMPO 1502/1504 3100 BR UNOO 141952Z 1421/1521 15006G12MPS 9999 SCT033CB URKA 141958Z 1421/1521 08003G08MPS CAVOK BECMG 1501/1503 03006G12MPS TEMPO 1503/1518 08006G12MPS URKK 141955Z 1421/1521 05003G08MPS CAVOK BECMG 1506/1508 08007G12MPS URMM 141958Z 1421/1521 10003G08MPS 9999 SCT030 TX31/1511Z TN14/1502Z TEMPO 1500/1506 3100 BR BKN011 TEMPO 1506/1518 11005G12MPS URRP 141958Z 1421/1521 01006G11MPS 9999 SCT030CB TX32/1515Z TN21/1503Z TEMPO 1421/1506 05003G08MPS BECMG 1506/1508 08003G08MPS URSS 141959Z 1421/1521 05007MPS 9999 SCT020 SCT100 BECMG 1506/1507 24005G10MPS SCT030 BECMG 1509/1510 28006G11MPS BECMG 1517/1518 05006MPS SCT020 USCC 142000Z 1421/1521 32003G08MPS 3100 -SHRA BR BKN011CB TEMPO 1421/1504 28003MPS 0500 +TSRA FG BECMG 1504/1505 32006G11MPS TEMPO 1505/1518 33012MPS USHH 141957Z 1421/1521 10003MPS 9999 SCT015CB TEMPO 1421/1517 VRB13MPS 3100 -TSRA SQ BKN011CB USNN 142000Z 1421/1521 16003MPS 9999 SCT020CB TEMPO 1421/1502 VRB19MPS 1000 TSRA BR SQ BKN002 BKN015CB BECMG 1508/1509 18003MPS USPP 141957Z 1421/1521 23003G09MPS 9999 BKN030 TEMPO 1421/1503 3100 -SHRA BR SCT006 BKN016CB BECMG 1503/1505 29006MPS BECMG 1514/1516 24003MPS USRR 141955Z 1421/1521 18003G08MPS 9999 SCT020CB TEMPO 1421/1509 VRB21MPS 0800 +TSRA SQ BKN005 BKN015CB USSS 141959Z 1421/1521 29003G09MPS 6000 -SHRA BKN015 BKN020CB BECMG 1504/1506 9999 NSW USTR 141959Z 1421/1521 20003MPS 3100 BR SCT011 BKN015CB TEMPO 1421/1504 VRB15MPS 0400 TSRA FG SQ VV002 FM150400 18005MPS 9999 BKN015CB TEMPO 1504/1515 VRB20MPS 1000 TSRAGR SQ BECMG 1515/1516 35007MPS TEMPO 1516/1521 36011MPS 3100 -SHRA SCT011 BKN015CB UTDD 141800Z 1419/1507 VRB02MPS 6000 FEW066 SCT150 TEMPO 1419/1507 07005MPS UTFN 141700Z 1418/1518 33010KT 9999 FEW050CB TX36/1510 TN22/1500Z UTNN 141700Z 1418/1518 VRB04KT 9999 SCT060CB SCT100 TEMPO 1418/1424 29019G29KT -TSRA BECMG 1500/1502 32014G24KT UTNU 141705Z 1418/1518 27012G22KT 6000 BKN030CB OVC100 TEMPO 1418/1424 VRB20G30KT 3000 -TSRA -DS OVC010CB UTSA 141701Z 1418/1518 VRB03KT 7000 NSC TX38/1511Z TEMPO 1418/1505 02012KT UTSB 141700Z 1418/1518 VRB03KT 7000 NSC TX38/1511Z TEMPO 1418/1505 36012KT UTSS 141700Z 1418/1518 13010G20KT 9999 NSC TX36/1509Z TEMPO 1418/1424 06010G20KT UTST 141700Z 1418/1518 VRB06KT 6000 NSC TX38/1511Z TEMPO 1418/1505 23010G20KT UTTT 141100 1418/1518 07012KT 7000 NSC TX37/1510Z UUBW 141957Z 1421/1521 16003MPS 9999 SCT030 TX28/1512Z TN14/1502Z TEMPO 1502/1509 19008MPS TEMPO 1509/1521 VRB15MPS 3100 -TSRA SQ SCT011 BKN020CB UUDD 141957Z 1421/1603 VRB01MPS 9999 SCT030 TX29/1512Z TN14/1421Z BECMG 1503/1505 18007MPS TEMPO 1509/1520 VRB18MPS 3100 -TSRA SQ SCT011 BKN020CB FM152000 26003MPS 6000 FEW003 SCT011 PROB40 TEMPO 1520/1603 0300 FG SCT002 UUDL 142000Z 1421/1521 16003MPS 9999 BKN040 TEMPO 1509/1521 VRB16MPS 3100 -TSRA SQ BKN016CB BKN040 UUEE 141955Z 1421/1521 18002MPS 9999 SCT030 TX28/1512Z TN15/1502Z TEMPO 1423/1506 18007MPS BECMG 1506/1508 20008G13MPS TEMPO 1509/1519 VRB17MPS 3100 -TSRA SCT011 BKN030CB UUWW 141957Z 1421/1521 18003MPS 9999 SCT040 TX27/1512Z TN14/1503Z BECMG 1508/1510 20008MPS BKN030 TEMPO 1510/1520 24013G19MPS 3100 -TSRAGR SCT011 BKN020CB UUYY 142000Z 1421/1521 24003MPS 4000 -SHRA BR BKN011 SCT020CB TEMPO 1421/1505 0300 FG BKN002 FM150500 26003G08MPS 9999 -SHRA BKN015 SCT020CB BECMG 1516/1518 VRB01MPS UWGG 141950Z 1421/1521 19003MPS 9999 SCT030 TX25/1512Z TN12/1503Z UWKD 141954Z 1421/1521 27003MPS 9999 SCT030 TX25/1512Z TN13/1502Z BECMG 1504/1506 28007MPS UWKE 141945Z 1421/1521 28003G09MPS 9999 SCT020 TEMPO 1421/1504 23005MPS 2100 BR BKN007 TEMPO 1504/1515 29005G10MPS UWLW 141945Z 1421/1521 30003MPS 8000 SCT030 TEMPO 1500/1505 3100 BR BKN011 UWOO 141949Z 1421/1521 04003G09MPS 3100 BR BKN015 SCT020CB TX25/1512Z TN13/1501Z TEMPO 1421/1504 33003G08MPS 0400 -SHRA FG VV002 FM150500 34006G12MPS 9999 SCT030CB UWUU 141958Z 1421/1521 29003G08MPS 9999 SCT030 TEMPO 1421/1515 33006G12MPS BKN020CB TEMPO 1515/1521 VRB01MPS UWWW 141952Z 1421/1521 29003G09MPS 9999 SCT020 TX24/1511Z TN13/1501Z TEMPO 1506/1515 30006G13MPS VAAH 141700Z 1418/1524 22006KT 4000 HZ -DZ SCT020 BKN080 BECMG 1501/1503 24006KT 3000 HZ DZ BECMG 1504/1506 23008KT 5000 FU BECMG 1512/1514 22006KT 4000 -RA VABB 141700Z 1418/1524 26010KT 3000 HZ SCT018 SCT025 BKN100 TEMPO 1418/1503 26008G18KT 1500 -SHRA RA FEW012 SCT018 FEW025TCU BKN080 BECMG 1504/1506 4000 HZ TEMPO 1503/1512 26008G18KT 1500 -SHRA RA FEW012 SCT018 FEW025TCU BKN080 BECMG 1513/1515 3000 HZ TEMPO 1512/1524 1500 -SHRA RA FEW012 SCT018 FEW025TCU BKN080 VABJ 141100Z 1412/1421 25004KT 5000 FU SCT020 SCT025 BECMG 1412/1414 23005KT 4000 HZ VABO 141100Z 1412/1421 22008KT 5000 HZ SCT020 BKN080 BECMG 1412/1414 20006KT 4000 HZ SCT015 SCT020 BKN080 VABV 141100Z 1412/1421 29006KT 5000 HZ SCT020 BKN080 BECMG 1412/1414 26007KT 4000 HZ SCT015 SCT020 BKN080 VADU 141100Z 1412/1421 24008KT 5000 HZ SCT015 SCT020 BKN080 BECMG 1412/1414 22006KT 4000 HZ VAJM 141100Z 1412/1421 21010KT 5000 FU SCT020 SCT025 BKN080 BECMG 1412/1414 23006KT 4000 FU VANP 141700Z 1418/1524 27005KT 3000 RA HZ FEW015 SCT020 BKN090 BECMG 1504/1506 28005KT 4000 RA HZ SCT020 BKN090 BECMG 1512/1514 27005KT 3000 RA HZ FEW015 SCT020 BKN090 TEMPO 1510/1514 29008KT 1500 TSRA FEW012 SCT018 FEW030CB BKN080 VAPR 141100Z 1412/1421 27010KT 5000 HZ SCT020 BKN080 BECMG 1412/1414 25008KT 4000 HZ VARK 141100Z 1412/1421 24010KT 5000 HZ SCT020 BKN080 BECMG 1412/1414 22009KT 4000 HZ VASU 141100Z 1412/1421 22008KT 5000 HZ SCT020 BKN080 BECMG 1412/1414 20006KT 4000 FU SCT015 SCT020 BKN080 VDPP 141700Z 1418/1512 16005KT 9999 SCT017 BKN040 TEMPO 1507/1511 5000 SHRA SCT015 FEW017CB BKN040 VDSR 141700Z 1418/1512 25008KT 9999 SCT017 BKN040 VDSV 141700Z 1418/1512 27006KT 9999 SCT017 SCT040 VEBN 141700Z 1418/1524 VRB02KT 3500 HZ SCT018 SCT025 BKN100 BECMG 1422/1500 00000KT 3000 HZ BR TEMPO 1416/1418 1500 -TSRA SCT015 SCT018 FEW030CB OVC090 BECMG 1506/1508 04005KT 5000 HZ SCT020 SCT025 BKN100 TEMPO 1508/1512 1500 -TSRA SCT010 SCT020FEW030CB OVC090 VECC 141700Z 1418/1524 09008KT 3200 -RA HZ SCT018 BKN100 BECMG 1421/1423 2600 -RA HZ BECMG 1502/1504 3200 -RA HZ TEMPO 1506/1510 1500 TSRA SCT015 FEW025CB OVC080 BECMG 1518/1520 2600 -RA HZ VEPT 141100Z 1412/1518 09005KT 4500 HZ SCT015 FEW030CB BKN090 BECMG 1415/1417 00000KT 3500 HZ/-RA SCT018 BKN100 BECMG 1421/1423 FEW010 SCT015 BKN090 BECMG 1503/1505 09005KT SCT015 SCT025 BKN100 BECMG 1509/1511 4500 HZ/-RA SCT015 FEW030CB BKN090 BECMG 1516/1518 00000KT 3500 HZ SCT018 BKN100 VGEG 141700Z 1418/1524 23008KT 4000 SCT016 BKN100 BECMG 1423/1501 00000KT 4000 HZ SCT012 BKN100 BECMG 1502/1504 18010KT 4500 SCT016 BKN100 TEMPO 1504/1512 23025G35KT 2000 RA/TSRA BKN008 FEW27CB OVC090 BECMG 1516/1518 22008KT 4000 SCT016 BKN100 BECMG 1521/1523 00000KT 3500 HZ SCT015 BKN100 VGHS 141700Z 1418/1524 14006KT 3500 HZ SCT012 BKN100 BECMG 1503/1505 17010KT 4000 HZ SCT015 BKN100 TEMPO 1418/1509 15025KT 2000 RA/TSRA BKN007 FEW025CB OVC090 BECMG 1518/1520 14006KT 3500 HZ SCT012 BKN100 VHHH 141700Z 1418/1524 10015KT 9000 FEW015 SCT025 TX30/1506Z TN26/1422Z TN27/1522Z TEMPO 1418/1424 10020G30KT 3500 SHRA FEW010CB SCT020 TEMPO 1500/1506 13020G30KT 2500 -TSRA SHRA FEW010CB SCT020 TEMPO 1514/1521 3500 SHRA FEW010CB SCT020 VIAR 141700Z 1418/1524 00000KT 3000 HZ BR FEW030 SCT100 TEMPO 1423/1504 1500 TSRA SCT030 FEW035CB BKN090 BECMG 1505/1507 15008KT 5000 HZ SCT030 BKN100 TEMPO 1514/1520 1500 TSRA FEW035CB OVC080 BECMG 1521/1522 00000KT 3000 BR VIDP 141700Z 1418/1524 09005KT 3000 HZ BR FEW030 SCT100 TEMPO 1422/1503 1500 TSRA SCT030 FEW035CB BKN090 BECMG 1505/1507 15008KT 4000 HZ SCT030 BKN100 TEMPO 1510/1516 1500 TSRA FEW035CB OVC080 BECMG 1517/1518 12006KT 3000 BR VIJP 141700Z 1418/1524 23005KT 2500 HZ SCT030 SCT100 BECMG 1504/1506 29006KT 4000 HZ BECMG 1514/1515 VRB03KT 2500 HZ VILK 141700Z 1418/1524 00000KT 3000 HZ BR FEW020 SCT025 BKN100 BECMG 1500/1502 2000 BR TEMPO 1423/1502 1000 -TSRA SCT018 SCT020 FEW030CB OVC090 BECMG 1508/1510 04006KT 4000 HZ TEMPO 1510/1514 1000 -TSRA SCT010 SCT020 FEW030CB OVC090 VLLB 141700Z 1418/1518 32004KT 9999 SCT017 SCT060 BKN080 TEMPO 1418/1422 4000 BR SCT010 SCT050 BKN080 VLLN 141700Z 1418/1518 09004KT 8000 SCT020 BKN100 TEMPO 1418/1422 4000 BR SCT010 OVC090 VLPS 141700Z 1418/1518 14004KT 9999 SCT010 BKN100 VLSK 141700Z 1418/1518 09004KT 7000 SCT020 BKN100 TEMPO 1418/1422 3000 BR SCT020 BKN100 VLVT 141700Z 1418/1518 34004KT 8000 SCT016 BKN083 TEMPO 1418/1422 4000 BR BKN040 BKN083 VMMC 141705Z 1418/1524 11013KT 9999 FEW010 SCT025 TEMPO 1418/1503 12018G30KT 2500 +SHRA FEW006 SCT012CB TEMPO 1503/1512 3500 SHRA VNKT 141700Z 1418/1518 26005KT 7000 FEW015 SCT025 BKN100 PROB40 1418/1422 4000 -TSRA/SHRA FEW025CB BECMG 1500/1502 00000KT 4000 -RA/BR FEW008 SCT025 BKN100 BECMG 1503/1505 19004KT 8000 FEW010 SCT100 PROB30 1508/1512 4000 -RA/SHRA FEW025CB BECMG 1513/1514 VRB03KT 7000 FEW015 SCT025 BKN100 VOBL 141700Z 1418/1524 27010KT 6000 SCT008 BKN080 TEMPO 1421/1503 4000 DZ BR BKN006 SCT012 BKN080 TEMPO 1509/1515 3000 RA DZ SCT006 SCT012 BKN080 VOCB 141700Z 1418/1524 22010KT 4000 BR SCT015 OVC080 BECMG 1503/1504 21010G20KT 6000 BECMG 1512/1513 22010KT 4000 BR/DZ VOCI 141700Z 1418/1524 27010KT 3000 .RA BR SCT008 SCT012 OVC080 TEMPO 1422/1503 00000KT 1500 RA BR BECMG 1503/1504 25010KT 3000 .RA BR FEW008 SCT012 FEW025CB OVC080 BECMG 1507/1508 4000 .RA DZ TEMPO 1510/1515 2500 SHRA RA SCT008 SCT012 OVC080 BECMG 1515/1516 00000KT 4000 .RA HZ FEW008 SCT012 BKN080 BECMG 1519/1520 3000 .RA BR VOCL 141700Z 1418/1524 28010KT 3000 –RA BR SCT004 SCT012 FEW025CB OVC080 TEMPO 1422/1503 1500 RA BR BECMG 1503/1504 3000 –RA BR BECMG 1506/1507 4000 –RA HZ FEW006 SCT012 FEW025CB OVC080 TEMPO 1510/1514 2000 SHRA RA BECMG 1514/1515 28010KT 4000 –RA DZ SCT012 BKN080 BECMG 1519/1520 3000 –RA BR SCT006 SCT012 BKN080 VOHS 141700Z 1418/1524 30008KT 6000 FEW010 SCT015 BKN080 BECMG 1503/1505 29010G20KT TEMPO 1509/1518 3000 .TSRA .RA SCT010 FEW030CB OVC080 BECMG 1516/1518 30008KT 5000 HZ VOMD 141100Z 1412/1518 29015G25KT 6000 FEW018 SCT100 TEMPO 1412/1418 SCT018 FEW025TCU/CB BKN100 BECMG 1421/1422 29010KT BECMG 1503/1504 29015G25KT VOML 141700Z 1418/1524 27010KT 5000 DZ BR SCT006 SCT012 BKN080 TEMPO 1421/1503 3000 RA DZ BR SCT004 SCT012 BKN080 TEMPO 1509/1518 3000 RA DZ SCT004 SCT012 FEW025CB BKN080 VOMM 141700Z 1418/1524 24010KT 4000 BR SCT016 OVC080 TEMPO 1418/1424 3000 TSRA/RA SCT015 FEW025CB OVC080 BECMG 1503/1504 25010G20KT 6000 BECMG 1512/1513 20010KT TEMPO 1512/1518 4000 -TSRA/RA SCT015 FEW020CB OVC080 BECMG 1518/1519 4000 BR VOTR 141700Z 1418/1524 27010G20KT 6000 SCT015 BKN100 VOTV 141700Z 1418/1524 34015KT 3000 -RA BR SCT008 SCT012 OVC080 TEMPO 1422/1503 1500 RA BR BECMG 1503/1504 34010KT 3000 .RA BR FEW008 SCT012 BKN080 BECMG 1506/1507 35010G20KT 5000 HZ TEMPO 1508/1513 2000 SHRA RA SCT008 SCT012 FEW025CB OVC080 BECMG 1513/1514 35010KT 4000 .RA HZ FEW008 SCT012 BKN080 BECMG 1518/1519 VRB03KT 3000 .RA BR VRMG 141700Z 1418/1524 18013KT 9999 FEW018 SCT120 1420/1503 20018G35KT 4000 TSRA SCT017CB VRMM 141700Z 1418/1524 25014KT 9999 FEW018TCU TEMPO 1420/1502 5000 -TSRA FEW017CB VTBD 141700Z 1418/1524 20008KT 9999 FEW020 SCT100 TEMPO 1506/1512 19010G25KT 5000 TSRA FEW018CB SCT030 BKN100 BECMG 1518/1520 26008KT VTBO 141700Z 1418/1518 00000KT 4000 BR FEW020 BKN100 TEMPO 1418/1422 VRB12KT 3000 TSRA FEW018CB SCT020 BKN100 BECMG 1503/1505 22008KT 6000 NSW TEMPO 1506/1512 4000 TSRA FEW018CB SCT020 BKN100 BECMG 1511/1513 00000KT 5000 BR VTBS 141700Z 1418/1524 20008KT 9999 FEW020 SCT100 TEMPO 1506/1512 19010G25KT 5000 TSRA FEW018CB SCT030 BKN100 BECMG 1518/1520 26008KT VTBU 141700Z 1418/1518 23008KT 5000 BR FEW020 SCT100 BECMG 1420/1422 21004KT TEMPO 1502/1507 VRB10KT 4000 RA BR FEW018CB SCT035 BKN100 VTCC 141700Z 1418/1524 24005KT 9999 BKN030 TEMPO 1508/1515 VRB15G25KT 5000 TSRA FEW025CB BKN030 VTCH 141700Z 1418/1518 24005KT 9999 BKN030 TEMPO 1508/1515 VRB15G25KT 5000 TSRA FEW025CB BKN030 VTCL 141700Z 1418/1518 22005KT 9999 BKN030 TEMPO 1508/1515 VRB15G25KT 5000 TSRA FEW025CB BKN030 VTCN 141700Z 1418/1518 22005KT 9999 BKN030 TEMPO 1508/1515 VRB15G25KT 5000 TSRA FEW025CB BKN030 VTCP 141700Z 1418/1518 22005KT 9999 BKN030 TEMPO 1508/1515 VRB15G25KT 5000 TSRA FEW025CB BKN030 VTCT 141700Z 1418/1524 22005KT 9999 BKN030 TEMPO 1508/1515 VRB15G25KT 5000 TSRA FEW025CB BKN030 VTPB 141700Z 1418/1518 22005KT 9999 BKN030 TEMPO 1508/1515 VRB15G25KT 5000 TSRA FEW025CB BKN030 VTPH 141700Z 1418/1518 00000KT 9999 SCT030 BECMG 1501/1503 23005KT TEMPO 1507/1512 VRB12KT 6000 TSRA FEW018CB SCT030 BKN100 BECMG 1512/1514 00000KT VTPM 141700Z 1418/1518 24005KT 9999 BKN030 TEMPO 1508/1515 VRB15G25KT 5000 TSRA FEW025CB BKN030 VTPO 141700Z 1418/1518 22005KT 9999 BKN030 TEMPO 1508/1515 VRB15G25KT 5000 TSRA FEW025CB BKN030 VTPP 141700Z 1418/1518 22005KT 9999 BKN030 TEMPO 1508/1515 VRB15G25KT 5000 TSRA FEW025CB BKN030 VTPT 141700Z 1418/1518 24005KT 9999 BKN030 TEMPO 1508/1515 VRB15G25KT 5000 TSRA FEW025CB BKN030 VTSB 141700Z 1418/1518 21005KT 8000 FEW020 SCT100 TEMPO 1505/1511 21010G20KT 6000 -RA SCT015 BKN100 VTSC 141700Z 1418/1518 20003KT 9999 FEW020 BECMG 1503/1505 06010KT BECMG 1513/1515 20003KT VTSE 141700Z 1418/1518 24005KT 5000 BR FEW020 BKN100 BECMG 1501/1503 8000 NSW TEMPO 1505/1511 24010G20KT 6000 -RA SCT015 BKN100 TEMPO 1511/1517 4000 -RA BR SCT015 BKN100 VTSF 141700Z 1418/1518 VRB02KT 9999 FEW020 BECMG 1503/1505 23010KT BECMG 1513/1515 VRB02KT VTSG 141700Z 1418/1518 00000KT 8000 FEW020 TEMPO 1420/1424 24010G25KT 5000 RA FEW018TCU SCT020 BKN100 BECMG 1500/1502 24008KT 9999 BECMG 1516/1518 00000KT 8000 VTSH 141700Z 1418/1518 21005KT 8000 FEW020 VTSK 141700Z 1418/1518 18003KT 9999 FEW020 BECMG 1504/1506 24010KT BECMG 1513/1515 VRB02KT VTSM 141700Z 1418/1518 26005KT 9000 FEW020 SCT100 TEMPO 1506/1512 26015G25KT 6000 -RA SCT015 BKN100 VTSP 141700Z 1418/1524 00000KT 8000 FEW020 SCT100 BECMG 1500/1502 26010KT 9999 BECMG 1514/1516 00000KT 8000 VTSR 141700Z 1418/1518 13003KT 9999 SCT025 TEMPO 1420/1424 22010G25KT 7000 -RA BKN020 BECMG 1502/1504 22010KT BECMG 1516/1518 VRB03KT 8000 VTSS 141700Z 1418/1518 VRB02KT 8000 FEW020 BECMG 1504/1506 24010KT BECMG 1513/1515 VRB02KT VTST 141700Z 1418/1518 00000KT 9999 FEW020 TEMPO 1420/1424 20010G25KT 5000 RA FEW018TCU SCT020 BKN100 BECMG 1501/1503 20008KT 9999 NSW BECMG 1514/1516 00000KT 8000 VTUD 141700Z 1418/1518 22005KT 8000 SCT020 BKN100 TEMPO 1418/1422 26010KT 7000 -RA SCT020 BKN080 TEMPO 1506/1513 VRB15KT 5000 TSRA FEW018CB SCT025 BKN100 VTUI 141700Z 1418/1518 26005KT 9000 SCT025 BKN100 TEMPO 1420/1423 27010KT 6000 -RA BKN020 BKN080 TEMPO 1506/1514 VRB15KT 5000 TSRA FEW018CB SCT025 BKN080 VTUJ 141700Z 1418/1518 23008KT 8000 SCT025 BKN100 TEMPO 1502/1505 VRB15KT 5000 TSRA FEW018CB BKN020 OVC100 VTUK 141700Z 1418/1518 22005KT 8000 SCT030 BKN100 TEMPO 1506/1513 VRB15KT 5000 TSRA FEW018CB SCT025 BKN100 VTUL 141700Z 1418/1518 26005KT 8000 SCT030 BKN080 TEMPO 1418/1422 26010KT 7000 -RA SCT025 BKN080 TEMPO 1508/1514 VRB15KT 5000 TSRA FEW018CB SCT025 BKN080 VTUO 141700Z 1418/1518 23008KT 8000 SCT025 BKN100 BECMG 1420/1422 4000 BR BECMG 1500/1502 8000 NSW TEMPO 1503/1506 VRB15KT 5000 TSRA FEW018CB BKN020 OVC100 VTUQ 141700Z 1418/1518 23007KT 8000 SCT025 BKN100 BECMG 1420/1422 5000 BR BECMG 1500/1502 8000 NSW TEMPO 1508/1512 VRB15KT 5000 TSRA FEW018CB BKN020 OVC100 VTUU 141700Z 1418/1518 22008KT 8000 SCT025 BKN100 TEMPO 1418/1422 VRB15KT 5000 TSRA FEW018CB BKN020 OVC100 BECMG 1505/1507 28010KT FEW020 SCT030 VTUV 141700Z 1418/1518 24009KT 8000 SCT020 BKN080 TEMPO 1420/1423 VRB15KT 5000 TSRA FEW018CB BKN020 OVC100 VTUW 141700Z 1418/1518 26005KT 9000 BKN020 BKN060 TEMPO 1418/1423 27010KT 6000 -RA BKN020 BKN060 TEMPO 1506/1514 VRB15KT 5000 TSRA FEW018CB SCT020 BKN080 VVCI 141700Z 1418/1518 23006KT 9999 FEW025 TEMPO 1418/1424 4000 TSRA SCT017 FEW030CB TEMPO 1508/1514 4000 TSRA SCT013 FEW027CB VVCR 141700Z 1418/1518 24010KT 9999 SCT015 TEMPO 1501/1510 24020KT VVCT 141700Z 1418/1518 23005KT 9999 SCT013 BECMG 1500/1502 23010KT TEMPO 1502/1508 23016G28KT 3000 SHRA BKN013 SCT015CB TEMPO 1508/1510 25016G28KT 1500 +TSRA BKN010 SCT013CB VVDN 141700Z 1418/1518 25006KT 9999 SCT013 BKN060 TEMPO 1500/1503 4500 RA VVNB 141700Z 1418/1518 26005KT 6000 FEW025 TEMPO 1418/1421 04015G25KT 3000 +TSRA SCT015 FEW027CB TEMPO 1510/1514 4000 TSRA SCT015 FEW027CB VVPB 141700Z 1418/1518 25005KT 9999 SCT020 BKN050 TEMPO 1422/1503 4500 RA VVPQ 141700Z 1418/1518 24010KT 9999 SCT015 TEMPO 1418/1424 5000 SHRA SCT015 FEW017CB BKN040 TEMPO 1500/1506 24016G30KT 1500 +TSRA BKN013 SCT015CB TEMPO 1506/1515 26016G30KT 3000 SHRA BKN013 SCT015CB BKN040 VVTS 141700Z 1418/1524 24010KT 9999 SCT015 TEMPO 1503/1507 24016G28KT 3000 SHRA BKN013 SCT015CB TEMPO 1507/1510 26018G36KT 1000 +TSRA BKN010 SCT015CB TEMPO 1510/1516 5000 TSRA SCT013 FEW015CB BKN040 VYMD 141100Z 1412/1512 17008KT 6000 BKN020 FEW025CB BKN120 TEMPO 1412/1418 15007G18KT 6000 BKN018 FEW020CB BKN110 VYNT 141700Z 1418/1518 17008KT 5000 SCT014 FEW020CB BKN100 TEMPO 1418/1500 18010KT 5000 BKN013 FEW018CB BKN100 VYYY 141700Z 1418/1518 20007KT 7000 BKN015 FEW020CB BKN100 TEMPO 1506/1512 22010KT 5000 -TSRA TEMPO 1512/1518 20010KT 5000 TSRA WALL 141700Z 1418/1524 22005KT 9000 FEW018= WALS 141700Z 1418/1506 19006KT 8000 SCT017 WALS 141100Z 1412/1424 17006KT 9999 SCT017 BECMG 1416/1418 8000 WAQA 141700Z 1418/1506 15005KT 8000 FEW012 WAQD 141700Z 1418/1506 00000KT 8000 SCT015 WAQJ 141700Z 1418/1506 00000KT 6000 BKN010 WAQQ 141700Z 1418/1506 15004KT 8000 SCT015 WAQT 141700Z 1418/1506 00000KT 8000 SCT017 WBGG 141700Z 1418/1518 VRB03KT 6000 SCT020 WBKK 141700Z 1418/1518 11005KT 9999 FEW014 WIDD 141100Z 1412/1512 14005KT 9000 SCT014= WIMM 141700Z 1418/1518 VRB03KT 4000 BR SCT018 TEMPO 1423/1500 00000KT 0700 FG BECMG 1504/1506 05010KT 9999 WIPP 141100Z 1412/1512 12008KT 9999 SCT012 WITT 141100Z 1412/1512 19010KT 9000 SCT018 BECMG 1417/1419 00000KT FEW019 BECMG 1504/1506 20010G20KT FEW019 WMKK 141700Z 1418/1600 VRB02KT 9999 FEW030 BECMG 1420/1422 5000 HZ FEW008 BECMG 1500/1502 9999 FEW018 BECMG 1502/1503 16008KT YAMB 141602Z 1418/1512 31005KT 9999 MIFG NSC FM142200 VRB05KT CAVOK FM150200 31010KT CAVOK PROB30 1418/1422 0500 FG NSC YBAS 141717Z 1418/1518 30005KT CAVOK FM150500 14006KT CAVOK FM151400 30005KT CAVOK YBBN 141701Z 1418/1524 25003KT 9999 MIFG NSC FM142200 33008KT CAVOK FM150200 01014KT CAVOK FM151000 33007KT CAVOK YBCG 141701Z 1418/1518 33008KT CAVOK FM142200 33012KT CAVOK FM150200 35018KT CAVOK FM150900 32008KT CAVOK YBCS 142035Z 1421/1518 17009KT 9999 -SHRA FEW025 BKN040 FM150000 12016KT 9999 FEW030 SCT045 FM150800 15008KT 9999 SCT025 SCT040 INTER 1421/1424 5000 SHRA BKN015 YBMA 141708Z 1418/1506 VRB03KT CAVOK FM142300 05008KT CAVOK YBRK 141701Z 1418/1518 VRB03KT 9000 FU MIFG FEW005 FM142100 18005KT 9000 FU NSC FM142300 15005KT CAVOK FM150100 07007KT CAVOK FM151000 VRB03KT CAVOK FM151600 VRB03KT 9999 MIFG FEW005 YBRM 141709Z 1418/1518 12008KT CAVOK FM150700 20008KT CAVOK YBTL 141711Z 1418/1518 VRB05KT 9999 SCT025 FM142300 15007KT 9999 SCT030 FM150200 06016KT 9999 SCT035 FM150800 10008KT 9999 SCT030 FM151200 15007KT 9999 SCT025 YCFS 141614Z 1416/1518 33007KT CAVOK FM150200 04012KT CAVOK FM150900 33006KT CAVOK PROB30 1416/1422 0500 FG YCIN 141906Z 1420/1508 14006KT CAVOK FM150100 06008KT CAVOK YFRT 141916Z 1419/1508 19008KT 9999 -SHRA BKN015 FM150100 19010KT 9999 -SHRA SCT015 BKN030 FM150600 23008KT 9999 BKN050 TEMPO 1421/1504 5000 SHRA BKN010 YGEL 141703Z 1418/1512 10008KT 9999 SCT045 FM150300 18010KT 9999 -SHRA SCT030 BKN045 YGLA 141607Z 1418/1506 21005KT 9999 MIFG NSC FM142300 14005KT CAVOK FM150300 06011KT CAVOK YHID 141713Z 1418/1518 12015KT 9999 SCT025 FM142300 11020KT 9999 SCT030 FM150800 12014KT 9999 SCT025 YLHI 141720Z 1418/1518 25013KT 9999 FEW030 FM142000 30014KT 9999 FEW030 FM150200 31015G25KT 9999 FEW030 YMAV 141700Z 1418/1518 32020G32KT 9999 -SHRA SCT040 FM142200 29025G40KT 9999 -SHRA SCT030 SCT045 FM150800 28014KT 9999 -SHRA SCT030 YMHB 141712Z 1418/1518 31020G30KT 9999 -SHRA SCT030 BKN040 FM150000 29025G45KT 9999 -SHRA SCT035 FM150600 30020G30KT 9999 -SHRA SCT035 FM151000 30015KT 9999 SCT035 INTER 1419/1502 4000 SHRA SCT020 BKN030 YMLT 141720Z 1418/1518 32025G45KT 9999 -SHRA SCT020 BKN040 FM142000 32025G45KT 9999 -SHRA SCT020 FM150100 30020G35KT 9999 -SHRA SCT030 FM150600 32015G25KT 9999 -SHRA SCT035 FM151400 34015KT 9999 SCT025 INTER 1418/1422 4000 SHRA SCT015 BKN030 YMML 141857Z 1419/1524 32022G34KT 9999 -SHRA SCT040 FM150000 29020G34KT 9999 -SHRA SCT030 SCT045 FM150800 31012KT 9999 SCT045 YPAD 141707Z 1418/1524 30014KT 9999 -SHRA SCT020 BKN030 FM150000 28018KT 9999 -SHRA SCT025 BKN035 FM150900 26012KT 9999 -SHRA SCT030 SCT040 INTER 1418/1506 28018G32KT 5000 SHRA SCT012 BKN020 YPCC 141709Z 1417/1518 13018KT 9999 -SHRA SCT020 BKN030 INTER 1417/1503 13020G30KT 3000 SHRA SCT010 YPDN 141712Z 1418/1524 22006KT CAVOK FM150000 10012KT CAVOK FM150500 32008KT CAVOK FM151200 07005KT CAVOK YPEA 141708Z 1417/1512 12005KT 9999 BKN040 FM150400 21008KT 9999 SCT040 YPJT 141708Z 1418/1512 14006KT 9999 BKN040 FM150200 22005KT 9999 SCT040 YPKG 141717Z 1418/1518 21005KT 9999 BKN045 FM141900 VRB03KT 9999 BKN008 FM150100 18007KT 9999 SCT040 FM150300 VRB03KT CAVOK YPKU 141906Z 1420/1508 VRB03KT CAVOK FM150100 10010KT CAVOK YPLM 141712Z 1418/1518 18005KT 9999 BKN005 FM150100 14010KT CAVOK FM150500 04008KT CAVOK FM150800 21012KT CAVOK PROB30 1418/1501 0300 FG BKN001 YPPD 141710Z 1418/1518 17008KT CAVOK FM150000 12010KT CAVOK FM150600 34014KT CAVOK YPPH 141711Z 1418/1524 08005KT 9999 BKN040 FM150200 22005KT 9999 SCT040 FM151300 06008KT 9999 -SHRA SCT025 BKN045 FM152000 03006KT 9999 -SHRA BKN025 INTER 1520/1524 4000 SHRA BKN015 YPTN 141715Z 1418/1518 11008KT CAVOK YPWR 141645Z 1418/1512 34012KT CAVOK FM142200 30008KT CAVOK FM150000 25010KT CAVOK FM150500 22014KT 9999 SCT035 YPXM 141709Z 1418/1518 11012KT 9999 -SHRA BKN010 YSCB 141719Z 1418/1518 35014KT 9999 FEW020 BECMG 1422/1423 31018G28KT CAVOK BECMG 1503/1504 30022G35KT CAVOK BECMG 1508/1510 28014KT 9999 -SHRA SCT050 YSDU 141659Z 1418/1512 VRB03KT CAVOK FM142300 32014KT CAVOK FM150200 31015G25KT CAVOK FM150800 33010KT CAVOK YSNF 141719Z 1418/1518 23013KT 9999 -SHRA SCT030 FM150200 23010KT 9999 SCT030 FM150800 24007KT 9999 SCT030 YSRI 141735Z 1418/1518 VRB03KT CAVOK FM142200 34013KT CAVOK FM150100 31020G35KT CAVOK FM150800 31010KT CAVOK YSSY 141634Z 1418/1524 32008KT CAVOK FM142300 31020G30KT CAVOK FM150300 29020G30KT CAVOK FM150700 29018KT CAVOK FM150900 32010KT CAVOK FM151800 24010KT CAVOK YSTW 141658Z 1418/1512 VRB03KT CAVOK FM142300 32007KT CAVOK FM150200 30014KT CAVOK FM150800 33008KT CAVOK YTNK 141903Z 1420/1508 12012KT CAVOK FM150500 09006KT CAVOK YTRE 141303Z 1414/1502 VRB03KT CAVOK FM142200 30010KT CAVOK YWGT 141816Z 1420/1508 34010KT CAVOK FM142300 33010KT 9999 -SHRA SCT015 BKN030 INTER 1500/1503 4000 SHRA BKN015 INTER 1505/1508 4000 SHRA BKN015 YWLM 141735Z 1418/1518 30020KT CAVOK FM142200 30022G35KT CAVOK FM150000 29025G42KT CAVOK FM150800 30018KT CAVOK FM151200 30010KT CAVOK ZMUB 141050Z 1412/1518 15008MPS 9999 FEW030CB BKN033 TN17/1421Z TX23/1507Z TEMPO 1418/1503 VRB09MPS TS SHRA SCT030CB BKN033 BECMG 1419/1422 VRB02MPS TEMPO 1503/1518 VRB08G13MPS TS SHRA SCT027CB BKN030 ZSAM 141714Z 1412/1512 12004G09MPS 6000 BKN025 TX33/1506Z TN26/1422Z TEMPO 1416/1420 VRB08MPS 3200 TSRA SCT010 SCT023CB OVC025 TEMPO 1505/1511 VRB07G12MPS 2500 +TSRA BR BKN007 SCT020CB OVC023 ZSQD 141347Z 1412/1512 16006MPS 9999 BKN020 TX33/1506Z TN25/1421Z PROB40 TEMPO 1415/1421 -TSRA BKN020 FEW023CB ZYCC 141731Z 1418/1518 03004MPS 5000 BR BKN023 TX26/1506Z TN21/1421Z TEMPO 1418/1424 0800 FG